ENHM 271020Z 19026KT 9999 VCSH FEW025 SCT030 05/01 Q0984 W08/S5 UUOK 271030Z 27006MPS 6000 OVC005 02/01 Q1010 R30/410065 NOSIG RMK QFE738/0985 KIWI 271053Z AUTO 23006KT 10SM CLR M01/M08 A3020 RMK AO2 SLP226 T10111078 KJMR 271056Z AUTO 00000KT 10SM OVC030 M07/M08 A2995 RMK AO2 KIXA 271100Z AUTO 00000KT 10SM CLR M01/M01 A3039 RMK AO2 KJMS 271056Z AUTO 00000KT 10SM FEW010 OVC015 M07/M08 A2984 RMK AO2 SLP132 T10671078 PPIT 271056Z AUTO 26011KT 9SM BKN055 M06/M07 A3030 RMK AO2 SLP261 T10561067 FZRANO UUOO 271030Z 25007MPS 9999 -SN OVC008 02/00 Q1008 R30/290246 NOSIG RMK QFE743 KIXD 271053Z AUTO 09003KT 3/4SM BR VV001 M02/M02 A3002 RMK AO2 SLP169 I1000 T10171017 ENHV 270950Z 09013KT 9999 -SN SCT013 BKN018 00/M01 Q1000 KM63 270958Z AUTO 22003KT 8SM CLR 10/M09 A2995 RMK AO2 SLP099 T00961090 PPIZ 271056Z AUTO 18004KT 6SM -SN BR FEW039 SCT048 BKN090 M18/M21 A3007 RMK AO2 SLP187 P0000 T11831206 FZRANO TSNO KIYA 271034Z AUTO 17007KT 7SM OVC008 19/19 A3001 RMK AO2 ENKB 271050Z 06003KT 030V100 9999 FEW019TCU SCT037 BKN060 04/01 Q0986 RMK WIND 745FT 18007KT FDSK 271000Z 17007KT 9999 SCT030 BKN040 25/18 Q1019 NOSIG KJNX 271110Z AUTO 00000KT 10SM CLR M01/M01 A3037 RMK AO2 VLPS 271000Z 22004KT 9999 SCT020 FEW023TCU 33/18 Q1011 TCU.E NOSIG KIZA 271055Z AUTO 31005KT 10SM OVC028 07/06 A2990 RMK AO2 ENLA 271050Z AUTO 18022KT 9999NDV BKN007/// 06/05 Q0987 W///S/ KJOT 271035Z AUTO 00000KT 10SM OVC095 01/M02 A3012 RMK AO2 T00061020 FDST 271000Z AUTO 28002KT //// // ////// 23/17 Q1019 KJQF 271100Z AUTO 00000KT 10SM SCT120 02/M01 A3036 RMK AO2 LBGO 271030Z AUTO VRB02KT 9999 NCD 16/06 Q1018 NOSIG KIZG 271054Z AUTO 23007G16KT 10SM CLR M02/M09 A3015 RMK AO2 SLP215 T10171094 ENKR 271050Z 33004KT 6000 -RASN FEW002 BKN005 M02/M02 Q0997 RMK WIND 731FT 34006KT KJRB 271056Z AUTO 23007KT 10SM CLR 02/M05 A3040 RMK AO2 SLP294 T00171050 FZRANO ENLK 271050Z 09012KT 9999 FEW030 M02/M10 Q0992 KM91 271055Z AUTO 20003KT 9SM FEW031 FEW042 OVC050 08/06 A3017 RMK A01 P0002 KN03 271055Z AUTO 00000KT 10SM CLR M01/M07 A3019 RMK AO2 VLSK 271000Z 09006KT 7000 FEW020 29/17 Q1014 NOSIG ENMH 270850Z 07015KT 9999 5000S SHSN VV015 00/M02 Q0999 KLAA 271053Z AUTO 09009KT 10SM CLR M08/M13 A2977 RMK AO2 SLP089 T10831128 FDUS 271000Z AUTO 10003KT //// // ////// 22/16 Q1020 ENNA 271050Z VRB01KT 9999 FEW007 BKN062 M03/M07 Q0999 RMK WIND 1800FT 06007KT ENML 271050Z 08007KT 9999 FEW045 06/01 Q0987 ENNE 271050Z 05026KT 9999 VCSH SCT025 02/M03 Q0988 W///S5 KLAF 271054Z AUTO 05003KT 10SM BKN035 OVC095 M01/M03 A3016 RMK AO2 SLP218 T10111033 ENMS 271050Z VRB01KT 9999 BKN035 M02/M05 Q0990 RMK WIND 412FT VRB01KT KLBB 271053Z 30005KT 10SM CLR 02/M06 A2990 RMK AO2 SLP109 T00171056 ENOA 271050Z 20035KT 9999 VCSH FEW015CB SCT030 06/01 Q0984 W///S6 KJSL 271040Z AUTO 14013G20KT 6SM BR FEW017 BKN024 23/21 A3001 RMK A01 ENNK 271050Z 09004KT 030V180 CAVOK M04/M13 Q0995 KLAL 271050Z 09005KT 10SM SKC 16/13 A3021 RMK FIRST KJTC 271055Z AUTO 00000G15KT 10SM CLR 02/M08 A2988 RMK AO2 KLAM 271055Z AUTO 18008G15KT 10SM OVC046 01/M07 A2990 RMK AO2 T00061068 ENNM 271050Z 07012KT 7000 -SHSN SCT013 BKN035 M00/M02 Q0988 KLAN 271053Z 23005KT 10SM CLR 00/M06 A3012 RMK AO2 SLP208 T00001056 $ KLBE 271055Z AUTO 00000KT 10SM FEW070 SCT100 00/M08 A3028 RMK AO2 KLBF 271053Z AUTO 00000KT 10SM CLR M09/M12 A2986 RMK AO2 SLP138 T10891122 KJSO 271055Z AUTO 00000KT 5SM -RA OVC007 17/17 A2998 RMK AO2 T01730170 ENNO 270950Z VRB01KT 9999 FEW006 SCT011 BKN014 03/02 Q0992 LATI 271050Z VRB02KT CAVOK 20/06 Q1018 NOSIG KLAR 271053Z AUTO 22012KT 10SM CLR M07/M14 A2960 RMK AO2 SLP057 T10721139 VMMC 271030Z 10009KT 9999 FEW045 17/10 Q1021 NOSIG KLAS 271056Z 19013G25KT 10SM FEW050 BKN240 10/M01 A2972 RMK AO2 PK WND 19027/1032 SLP056 T01001011 KJST 271054Z AUTO 21006KT 10SM FEW070 BKN090 01/M12 A3023 RMK AO2 SLP260 T00061117 KLBL 271055Z 15008KT 10SM CLR M03/M08 A2982 RMK AO1 ENOL 271050Z 15005KT 9999 FEW025 SCT040 BKN090 04/M00 Q0987 NOSIG KJSV 271055Z AUTO 07003KT 10SM CLR 05/00 A3000 RMK AO2 LTG DSNT S KLAW 262353Z 30003KT 10SM CLR 16/03 A2988 KLAX 271053Z 08005KT 10SM BKN043 BKN060 09/07 A2993 RMK AO2 SLP133 T00890067 KLCG 271035Z AUTO 17005KT 10SM CLR M08/M10 A2993 RMK AO2 T10821096 KLCH 271053Z AUTO 14005KT 6SM BR OVC006 19/19 A2997 RMK AO2 SLP157 T01940189 $ KLCI 271056Z AUTO 10SM FEW080 M03/M08 A3018 RMK AO2 SLP240 T10281078 FZRANO $ KN38 271055Z AUTO 21004KT 10SM CLR M04/M09 A3020 RMK AO2 ENQA 271050Z AUTO 18033KT //// BKN033/// BKN080/// 07/01 Q0985 W04/S6 KLBT 271054Z AUTO 00000KT 10SM CLR 01/00 A3034 RMK AO2 SLP274 T00110000 $ KLCK 271035Z AUTO 19003KT 10SM OVC065 04/M06 A3023 RMK AO2 T00391056 ENQC 271050Z AUTO 18031KT 7000NDV RA BKN032/// 07/02 Q0984 W///S6 ENOV 271050Z VRB03KT 9999 VCSH SCT025 BKN046 06/M00 Q0986 RMK WIND 2175FT 17017KT KLBX 271053Z AUTO 17010KT 9SM BKN010 BKN017 OVC021 22/21 A2994 RMK AO2 CIG 008V014 SLP138 T02170206 KLCQ 271035Z AUTO 10005KT 10SM CLR 10/07 A3023 RMK AO2 VLVT 271030Z 12004KT 8000 NSC 28/16 Q1013 NOSIG KKLS 271056Z AUTO 16003KT 9SM SCT006 OVC011 03/02 A2981 RMK AO2 SLP099 T00280017 KLEB 271053Z 19008KT 10SM OVC080 M02/M07 A3017 RMK AO2 SLP224 T10171072 ENRA 271050Z 07014KT 9999 BKN040 M02/M09 Q0991 KJVL 271035Z AUTO 00000KT 10SM CLR M04/M04 A3009 RMK AO2 KLDM 271054Z AUTO 00000KT 10SM CLR M03/M04 A3010 RMK AO2 T10291040 KLEE 271053Z AUTO 10006KT 10SM CLR 14/12 A3023 RMK AO2 SLP234 T01440117 KJWG 271055Z AUTO 00000KT 10SM SCT120 00/00 A2992 RMK AO2 T00020002 ENQR 271050Z AUTO 19045KT 9999NDV SCT030/// SCT038/// BKN072/// 04/01 Q0982 W///S6 KN60 271052Z AUTO 00000KT M13/M14 A2979 RMK AO1 SLP127 T11331144 ENSB 271050Z 11006KT 9999 FEW025 M12/M15 Q1019 NOSIG RMK WIND 1400FT 11013KT UUWW 271030Z 27006MPS 9999 BKN008 BKN020CB 02/01 Q1001 R24/290045 TEMPO 1000 SHSN SCT003 BKN010CB ENRM 271020Z 10009KT 8000 -SHSN FEW012 BKN020 00/M01 Q0987 UWGG 271030Z 07001MPS 9999 BKN016 M00/M04 Q1002 R18R/290040 NOSIG RMK QFE744 ENSD 271050Z 19014KT 150V240 9999 SCT036 SCT042 07/M01 Q0987 RMK WIND 1138FT VRB11G22KT KJWN 271055Z AUTO 11004KT 10SM FEW028 SCT035 BKN041 07/05 A3018 RMK LCEN 271020Z 10009KT 9999 FEW025 BKN200 18/05 Q1016 NOSIG ENSE 271050Z AUTO 20043KT 9000NDV -RA FEW024/// SCT037/// BKN051/// 04/00 Q0982 W///S6 ENSF 271050Z AUTO 19029KT 9999NDV -SHRA BKN029/// BKN058/// 06/01 Q0982 W///S6 ENRO 271020Z 20011KT 160V240 9999 SCT022 BKN074 01/M03 Q0987 ENSG 271050Z 24009KT 9999 SCT048 02/M03 Q0988 RMK WIND 3806FT 19027KT ENSH 271050Z 07021KT 9999 FEW035 M02/M09 Q0992 KJXI 271055Z AUTO 12005KT 7SM 12/12 A2998 RMK AO2 P0003 T01230121 KLFI 271058Z AUTO 21004KT 10SM BKN130 06/04 A3040 RMK AO2 SLP301 T00560041 $ KLGA 271051Z 22007KT 10SM CLR 03/M08 A3037 RMK AO2 SLP283 T00331078 $ ENRS 270750Z 07017KT 9999 FEW035 M01/M07 Q0992 KLGB 271053Z AUTO 07004KT 10SM FEW040 BKN049 OVC060 10/07 A2993 RMK AO2 SLP133 T01000067 TSNO KLFK 271053Z AUTO 12004KT 7SM OVC008 18/17 A2997 RMK AO2 SLP144 T01780167 ENSK 270950Z 05013KT CAVOK M03/M13 Q0993 KLGC 271035Z AUTO 00000KT 10SM CLR 06/04 A3021 RMK AO2 T00620044 ENSL 271050Z 19025KT 9999 -SHRA SCT020 BKN050 05/02 Q0985 W05/S5 ENTC 271050Z VRB03KT CAVOK M04/M07 Q0997 NOSIG RMK WIND 2600FT 13014KT KLGD 271055Z AUTO 25005KT 10SM FEW025 SCT060 BKN070 M01/M04 A2963 RMK AO1 LBPD 271030Z AUTO 10004KT 060V170 9999 NCD 12/06 Q1019 NOSIG KLEW 271056Z AUTO 16005KT 10SM CLR M04/M09 A3016 RMK AO2 SLP231 T10391089 FZRANO KJXN 271056Z 23008KT 10SM FEW080 02/M05 A3013 RMK AO2 SLP212 T00171050 KLEX 271054Z 20003KT 10SM -RA BKN044 OVC050 06/03 A3026 RMK AO2 SLP248 P0002 T00610028 $ ENSO 271050Z 17009KT 140V200 9999 FEW015TCU SCT025 05/02 Q0989 KJYG 271055Z AUTO 18010KT 10SM CLR M04/M06 A2993 RMK AO2 KJWY 271055Z AUTO 00000KT 5SM BR OVC010 15/15 A2993 RMK AO2 T01450145 ENRY 271050Z 17006KT 0300 R12/0650 R30/0600V0800U FG VV001 04/04 Q0993 TEMPO 0500 FG ENSR 271050Z 16013KT 9999 VCSH SCT035 BKN046 M04/M10 Q0999 WIND 1119FT 12015KT ENSS 271050Z 36021KT 9999 FEW020 SCT042 01/M04 Q0997 RMK WIND 500FT 02019KT KLFT 271053Z AUTO 18003KT 10SM OVC008 21/19 A3001 RMK AO2 CIG 007V012 SLP160 T02060189 KLHB 271055Z AUTO 13003KT 7SM SCT008 SCT022 OVC031 18/18 A2995 RMK AO2 T01800180 KJYL 271035Z AUTO 00000KT 10SM CLR A3029 RMK AO2 ENST 271050Z VRB06KT 9999 FEW032 BKN060 01/M07 Q0988 RMK WIND 300FT 13011KT KJYM 271055Z AUTO 22005KT 10SM CLR 00/M05 A3013 RMK AO2 UUYY 271030Z 19002MPS CAVOK M10/M13 Q0998 R19/450240 NOSIG RMK QFE740/0987 EPCE 271030Z 21007KT 160V230 9999 OVC057 09/06 Q1007 RMK 085 083 8/8 = KJYO 271035Z AUTO 10SM BKN095 M02/M04 A3037 RMK AO2 ENTO 271050Z VRB03KT 0550 R18/P2000N R36/P2000D PRFG OVC002 05/05 Q0993 ENUG 271050Z AUTO 10035G52KT 310V110 3900NDV -SN OVC005/// 01/00 Q0999 RESN W06/S6 KJZI 271055Z AUTO 09004KT 10SM CLR 09/06 A3032 RMK AO2 KJYR 271035Z AUTO 15005KT 10SM CLR M02/M07 A2992 RMK AO2 EPDA 271030Z 21010KT 9999 OVC061 10/05 Q1006 RMK 101 072 8/8= ENVA 271050Z VRB03KT 9999 FEW045 BKN060 06/M02 Q0987 RMK WIND 670FT VRB03KT FGBT 271000Z 22004KT 170V270 9999 SCT010 31/25 Q1010 KLGU 271051Z AUTO 10005KT 3/4SM -SN BR VV007 M01/M02 A2962 RMK AO2 SLP035 P0000 T10061017 KLIC 271055Z AUTO 00000KT 10SM CLR M16/M18 A2973 RMK AO2 SLP098 T11561178 KLHM 271055Z AUTO 15005KT 10SM OVC080 06/02 A2988 RMK AO1 ENVD 271050Z 01008KT 9999 VCSH BKN015 M01/M02 Q0997 KJZP 271035Z AUTO 13005KT 10SM CLR 10/M29 A3028 RMK AO2 T01021291 KLHQ 271053Z AUTO 14006KT 10SM OVC070 04/M05 A3025 RMK AO2 SLP247 T00441050 EPBY 271030Z 20008KT 170V230 CAVOK 11/03 Q1009 UWKD 271030Z 20004MPS 9999 -SN OVC014 M03/M05 Q1003 R11/710050 NOSIG RMK QFE742/0990 UWKE 271030Z 20007G12MPS 0800 +SHSN BLSN VV007 M05/M07 Q1005 R21/410560 NOSIG RMK OBST OBSC QFE737/0982 VOBG 271030Z 11012KT CAVOK 29/03 Q1014 KMAE 271053Z AUTO 34003KT 10SM -RA SCT049 OVC070 08/06 A2991 RMK AO2 RAB41 SLP129 P0000 T00830056 KLHW 271058Z AUTO 00000KT 10SM SCT200 06/04 A3025 RMK AO2 SLP247 T00550042 $ KLHX 271053Z AUTO 28003KT 10SM CLR M05/M16 A2975 RMK AO2 SLP073 T10501156 KLJF 271053Z AUTO 00000KT 10SM CLR M04/M05 A2990 RMK AO2 KMAF 271053Z AUTO 18004KT 10SM CLR 10/M01 A2990 RMK AO2 SLP095 T01001011 LBSF 271030Z 30003KT 220V010 2500 BR OVC005 06/06 Q1020 NOSIG DXNG 271000Z 02004KT 330V080 CAVOK 32/M05 Q1014 NOSIG KLHZ 271050Z AUTO 00000KT 10SM BKN120 M01/M02 A3040 RMK AO2 VOCB 271030Z 07007KT 6000 FEW015 SCT080 32/12 Q1011 NOSIG KMAI 271053Z AUTO 13003KT 10SM CLR 12/M01 A3018 RMK AO2 SLP218 T01171011 $ ENVR 270650Z 07018KT CAVOK M02/M07 Q0993 VOBL 271030Z 10013KT 060V120 CAVOK 30/02 Q1015 NOSIG VOBM 271000Z 11010KT CAVOK 34/00 Q1014 KLIT 271053Z 06003KT 10SM FEW005 BKN017 OVC030 08/08 A3006 RMK AO2 SLP182 T00780078 KO22 271055Z AUTO 00000KT 10SM OVC020 02/02 A2990 RMK AO1 P0005 KMAN 271055Z AUTO 00000KT 10SM BKN033 BKN045 OVC055 M01/M01 A2966 RMK A01 KMAO 271055Z AUTO 12003KT 10SM CLR 04/02 A3034 RMK AO2 VOCI 271030Z 25009KT 5000 HZ FEW015 34/19 Q1006 NOSIG KMBG 271052Z AUTO 08007KT 10SM BKN090 OVC100 M04/M08 A2977 RMK AO2 SLP101 T10441078 UWKS 271030Z 24005MPS 9999 OVC014CB M03/M05 Q1002 R24/810550 NOSIG RMK QFE737 VNKT 271050Z 22012KT 7000 FEW020 SCT030 19/07 Q1016 NOSIG VOCL 271030Z 27006KT 7000 FEW015 33/25 Q1007 NOSIG KMCB 271053Z AUTO 16007KT 10SM SCT027 BKN035 OVC060 16/13 A3004 RMK AO2 SLP171 T01560133 KMBL 271056Z AUTO 00000KT 10SM FEW026 M03/M06 A3010 RMK AO2 SLP216 T10331061 FZRANO KMCC 271055Z AUTO 18006KT 10SM CLR 07/04 A2991 RMK AO2 KMCD 271056Z AUTO 28006KT 10SM CLR M06/M09 A3007 RMK AO2 T10631090 ENWV 271050Z AUTO 19021KT 9999NDV FEW006/// 07/07 Q0988 W///S4 KMAW 271055Z AUTO 10004KT 10SM OVC044 09/06 A3009 RMK AO2 KMCE 271053Z AUTO 34005KT 10SM BKN044 OVC060 08/05 A2991 RMK AO2 SLP127 T00830050 TSNO EPGD 271030Z 20006KT CAVOK 09/05 Q1007 VOBZ 271030Z 11005KT 5000 HZ SCT020 SCT100 33/21 Q1010 NOSIG KMBO 271055Z AUTO 18005KT 10SM BKN026 BKN034 BKN039 A3003 RMK AO2 LTG DSNT N AND NW PWINO KMCF 271058Z AUTO 11009KT 10SM CLR 17/15 A3019 RMK AO2 SLP226 T01740150 $ KLKR 271055Z AUTO 00000KT 10SM CLR 03/M03 A3033 RMK AO2 PWINO KMCI 271053Z 16007KT 5SM BCFG CLR M02/M02 A3002 RMK AO2 SLP169 I1000 T10221022 KMBS 271053Z 25008KT 10SM CLR 00/M03 A3012 RMK AO2 SLP205 T00001028 KLLJ 271055Z AUTO 00000KT 10SM CLR M11/M14 A2957 RMK AO2 SLP053 T11061139 KMCJ 271035Z AUTO 15006KT 5SM BKN012 BKN020 OVC032 21/20 A2991 RMK AO1 LCLK 271030Z 05009KT CAVOK 19/11 Q1016 NOSIG KMCK 271053Z AUTO 00000KT 10SM CLR M09/M12 A2987 RMK AO2 SLP138 T10891122 UWLW 271000Z 21006MPS 4000 -SN OVC011 M02/M04 Q1006 R20/590445 TEMPO 20010MPS 0500 +SN BLSN VV002 RMK QFE749 KLKU 271035Z AUTO 00000KT 10SM CLR M02/M05 A3035 RMK AO2 KLKV 271055Z AUTO 19006KT 10SM OVC039 M05/M08 A2970 RMK AO1 KMDD 271035Z AUTO 00000KT 10SM CLR 12/M01 A2991 RMK AO2 T01201012 KMCN 271053Z AUTO 13005KT 10SM CLR 07/02 A3024 RMK AO2 SLP240 T00720017 KMCO 271053Z 06004KT 10SM CLR 15/12 A3022 RMK AO2 SLP231 T01500122 $ KMDH 271052Z AUTO 11005KT 10SM BKN043 OVC085 06/03 A3011 RMK AO2 SLP197 T00560033 KLLQ 271053Z AUTO VRB03KT 10SM BKN003 OVC085 09/09 A3004 RMK AO2 RAE49 SLP172 P0001 T00940089 KMDJ 271055Z AUTO 15021KT 6SM HZ OVC065 22/20 A3006 RMK A01 KMEB 271052Z AUTO 00000KT 10SM CLR 00/M02 A3035 RMK AO2 SLP277 T00001017 TSNO KLNC 271055Z AUTO 14004KT 4SM BR BKN012 13/13 A2993 RMK AO2 T01340128 KLND 271053Z AUTO 33006KT 10SM BKN050 OVC075 M12/M16 A2955 RMK AO2 SLP059 T11221161 KMCW 271053Z AUTO 19004KT 6SM BR CLR M10/M12 A3001 RMK AO2 SLP175 I1000 T11001117 KLMO 262318Z AUTO 29004KT 10SM CLR 07/M18 A2975 RMK AO2 T00701182 KO54 271055Z AUTO 06003KT 10SM CLR M01/M04 A2983 RMK AO1 KMCX 271055Z AUTO 17003KT 10SM SCT022 01/M04 A3016 RMK AO2 T00081040 KMEH 271056Z AUTO VRB03KT 2 1/2SM -SN BR OVC004 M03/M06 A2961 RMK AO2 SLP051 P0003 T10331056 KMDQ 271035Z AUTO 14005KT 10SM CLR 11/M05 A3017 RMK AO2 KMEI 271048Z AUTO 17007KT 10SM VCTS -RA SCT044 OVC050 13/09 A3006 RMK AO2 LTG DSNT W RAB23 P0001 T01330094 $ KMDS 271055Z AUTO 22006KT 10SM CLR M06/M07 A2987 RMK AO2 KLMT 271053Z AUTO 24004KT 10SM BKN025 BKN032 OVC040 M05/M06 A2972 RMK AO2 SLP079 T10501061 KLNK 271054Z AUTO 00000KT 10SM CLR M07/M09 A2997 RMK AO2 SLP160 T10721089 KMDT 271056Z 08004KT 10SM OVC120 00/M04 A3034 RMK AO2 SLP278 T00001044 KLNL 271055Z AUTO 00000KT 10SM OVC060 M18/M20 A2999 RMK AO2 T11821202 LDDU 271030Z 19005KT 140V250 9999 FEW040 17/09 Q1018 NOSIG UWOO 271030Z 23008MPS 9999 SCT020 M03/M08 Q1020 R26/720250 NOSIG RMK QFE754/1006 KMFD 271052Z AUTO 19006KT 10SM OVC080 02/M06 A3021 RMK AO2 SLP238 T00171061 $ KMEM 271054Z 13011KT 10SM FEW080 BKN120 OVC130 09/07 A3006 RMK AO2 RAE30 SLP177 P0001 T00890072 ENZV 271050Z 16013KT 9999 SCT022 07/03 Q0990 KMDW 271053Z 20004KT 10SM BKN090 01/M04 A3012 RMK AO2 SLP206 T00111039 $ KMFE 271053Z AUTO 15010KT 10SM BKN010 22/19 A2986 RMK AO2 SLP109 T02170194 KLNN 271035Z AUTO 19008KT 10SM OVC065 03/M08 A3020 RMK AO1 T00251076 LBWN 271030Z 14004KT 100V200 CAVOK 13/06 Q1019 NOSIG UWOR 271000Z 26010MPS 9999 SCT026CB M02/M06 Q1020 R25/810250 NOSIG RMK QFE741/0988 KLNP 271035Z AUTO 00000KT 10SM SCT085 OVC100 05/M11 A3026 RMK AO2 KMDZ 271035Z AUTO 15003KT 10SM OVC023 M06/M09 A2998 RMK AO2 T10561090 KMER 271035Z AUTO 01003KT 10SM OVC044 08/M46 A2992 RMK AO1 KMFI 271054Z AUTO 17008KT 7SM OVC065 M05/M07 A2999 RMK AO2 SLP172 T10501072 $ KLNR 271056Z AUTO 00000KT 7SM CLR M06/M08 A3007 RMK AO2 SLP186 I1000 T10561078 KLNS 271053Z 10003KT 9SM OVC120 M03/M05 A3035 RMK AO2 SLP281 T10331050 KO69 271055Z AUTO 34004KT 10SM OVC039 03/03 A2994 RMK AO1 P0001 DXSK 270900Z 00000KT CAVOK 29/23 Q//// KLOL 271053Z AUTO 29010KT 9SM FEW038 BKN110 M01/M04 A2970 RMK AO2 SNB41E51 SLP065 P0000 T10111044 KLPC 271056Z AUTO 16003KT 10SM BKN023 BKN030 OVC049 08/07 A2990 RMK AO2 SLP130 T00830067 KMGC 271055Z AUTO 22006KT 10SM SCT080 00/M02 A3015 RMK AO2 VOGO 270930Z 28008KT 6000 FEW090 34/23 Q1008 NOSIG KMEV 271055Z AUTO 27011KT 10SM FEW037 SCT050 00/M07 A2969 RMK AO2 KLOM 271035Z AUTO 00000KT 10SM CLR M03/M05 A3036 RMK AO1 KMGE 271058Z AUTO 05003KT 10SM OVC150 07/M03 A3024 RMK AO2 SLP242 T00741034 $ KMGG 271052Z AUTO 00000KT 10SM CLR M04/M05 A2991 RMK AO2 T10371050 LCPH 271030Z 16005KT 120V200 CAVOK 19/11 Q1016 KMEZ 271055Z AUTO 00000KT 10SM OVC010 09/08 A3001 RMK AO2 LTG DSNT S KMFR 271053Z AUTO 00000KT 10SM FEW036 OVC050 02/01 A2984 RMK AO2 UPB31E40RAB40E41 SLP110 P0000 T00170011 KLOR 271058Z AUTO 00000KT 10SM SCT160 BKN180 12/M02 A3018 RMK AO2 SLP202 T01171020 $ KMGJ 271054Z AUTO 23006KT 10SM CLR M03/M08 A3031 RMK AO2 SLP269 T10331078 TSNO KLOT 271035Z AUTO 19005KT 10SM OVC090 00/M01 A3011 RMK AO2 T10011010 KLOU 271053Z AUTO 16003KT 9SM -RA BKN034 OVC043 08/03 A3024 RMK AO2 SLP241 P0001 T00780033 EPLB 271030Z 21008KT 180V240 CAVOK 09/01 Q1014 EPKK 271030Z VRB03KT CAVOK 12/M06 Q1013 KMGM 271053Z AUTO 11005KT 10SM CLR 09/02 A3018 RMK AO2 SLP218 T00940022 KMFV 271055Z AUTO 14005KT 10SM CLR 04/02 A3041 RMK AO2 T00380022 KMHE 271053Z AUTO 18005KT 10SM CLR M06/M08 A2988 RMK AO2 SLP132 T10611083 KMGN 271054Z AUTO 00000KT 10SM CLR M07/M11 A3008 RMK AO2 T10801108 FHAW 271050Z 15017KT 9999 SCT017 29/22 Q1012 WHT TEMPO FEW016 WHT VOHS 271030Z 06012KT 6000 NSC 33/05 Q1014 NOSIG KLOZ 271053Z AUTO 00000KT 10SM FEW080 OVC100 07/M01 A3026 RMK AO2 SLP251 T00671011 $ KO86 271055Z AUTO 00000KT 10SM OVC014 M02/M04 A2984 RMK AO1 KLPR 271053Z AUTO 22006KT 10SM CLR 00/M07 A3022 RMK AO2 SLP240 T00001072 KMGR 271055Z AUTO 00000KT 10SM CLR 08/03 A3023 RMK AO2 KMIA 271053Z 11010KT 10SM FEW023 FEW040 SCT060 24/18 A3016 RMK AO2 SLP213 T02390183 LCRA 271050Z 10012KT CAVOK 19/10 Q1015 NOSIG KMHK 271052Z AUTO 00000KT 10SM CLR M05/M07 A2997 RMK AO2 SLP157 T10501072 KLQK 271055Z AUTO 00000KT 10SM CLR 01/M01 A3030 RMK AO2 T00051010 KMIB 271058Z AUTO 30007KT 10SM CLR M12/M14 A2980 RMK AO2 SLP128 T11201144 EPMB 271030Z 19008KT 9999 BKN050 08/04 Q1008 RMK 084 075 7/7= KMHL 271115Z AUTO 10006KT 1/4SM FG OVC001 00/00 A3006 RMK AO2 KMIC 271053Z 16005KT 10SM CLR M04/M07 A2992 RMK AO2 SLP145 T10441072 EPKT 271030Z 22015KT CAVOK 12/M06 Q1012 KLRD 271056Z AUTO 15009KT 8SM FEW009 19/18 A2984 RMK AO2 SLP107 T01940183 $ EPLL 271030Z 18004KT 130V220 CAVOK 11/00 Q1011 VOHY 271030Z 14007KT 6000 NSC 33/08 Q1015 NOSIG KMGW 271053Z AUTO 00000KT 10SM OVC085 02/M07 A3029 RMK AO2 SLP267 T00171067 KMIE 271053Z AUTO 23003KT 10SM BKN036 OVC044 06/00 A3018 RMK AO2 SLP221 T00560000 KLRF 271058Z AUTO 00000KT 10SM SCT016 BKN190 08/08 A3005 RMK AO2 SLP179 T00780077 KMGY 271053Z AUTO 00000KT 10SM OVC055 05/M06 A3021 RMK AO2 SLP235 T00501056 KMHR 270445Z 21012KT 10SM FEW085 08/04 A2990 KLRJ 271055Z AUTO 17006KT 10SM CLR M06/M07 A2995 RMK AO2 KMHS 271056Z AUTO 00000KT 10SM CLR M08/M10 A2976 RMK AO2 SLP123 I1000 T10831100 KP08 271055Z AUTO RMK AO2 PNO PWINO TSNO LEAB 271000Z 30017KT 9999 BKN027 11/05 Q1019 NOSIG KMHT 271053Z 18006KT 10SM CLR M02/M08 A3023 RMK AO2 SLP257 T10221083 $ KMHV 271040Z AUTO 22011KT 10SM CLR 05/01 A2984 RMK A01 KLSE 271053Z 14006KT 10SM CLR M03/M06 A3004 RMK AO2 SLP182 T10331056 KLSF 271058Z AUTO 33005KT 10SM BKN150 OVC200 05/04 A3023 RMK AO2 SLP240 T00460035 KLRO 271035Z AUTO 00000KT 10SM -RA CLR 05/04 A3033 RMK AO2 LEAG 271030Z AUTO 28008KT 240V320 9999 OVC038 15/09 Q1022 EPMO 271030Z 18008KT CAVOK 09/02 Q1011 EPLY 271030Z 20006KT CAVOK 11/03 Q1011 RMK 110 056 4/2= UWSS 271030Z 22006G11MPS 9999 BKN016 OVC040 01/M04 Q1011 R12/190050 NOSIG RMK QFE746 LEBA 271030Z 00000KT 4000 BR SCT006 OVC042 11/10 Q1022 KMIS 271055Z AUTO 18010KT 10SM SCT020 BKN040 OVC065 24/18 A3009 RMK A01 LEBB 271030Z 22017G35KT 170V280 9999 FEW025 17/04 Q1011 NOSIG KNAK 271054Z AUTO 00000KT 10SM CLR 02/01 A3038 RMK AO2 SLP288 T00220006 LEAL 271030Z 21006KT 170V240 9000 NSC 16/10 Q1017 NOSIG KMKC 271054Z 00000KT 1/4SM FZFG VV001 M01/M02 A3003 RMK AO2 SLP175 I1001 T10111017 KNBC 271056Z AUTO 12007KT 10SM CLR 12/08 A3029 RMK AO2 SLP258 T01170078 KLRU 271055Z AUTO 27008KT 10SM CLR 03/M04 A2997 RMK AO2 T00341040 LEAM 271030Z 18005KT 140V230 9999 FEW014 16/12 Q1018 KMIV 271054Z AUTO 00000KT 10SM CLR M05/M06 A3039 RMK AO2 SLP292 I1000 T10501061 KMKE 271052Z 00000KT 10SM CLR M03/M07 A3010 RMK AO2 SLP201 T10331072 KMIW 271053Z AUTO 10005KT 8SM CLR M07/M08 A3002 RMK AO2 SLP177 I1000 T10671078 $ LEAO 271000Z 26008KT 9999 SCT015 BKN025 10/07 Q1020 LEBG 271030Z 21016KT 9999 BKN024 OVC030 07/03 Q1015 KLRY 271055Z AUTO 00000KT 1 1/2SM BR VV007 00/M01 A3006 RMK AO2 KNBG 271055Z AUTO 14006KT 10SM FEW080 OVC095 18/17 A3004 RMK AO2 SLP170 T01830172 PWINO $ KMKG 271055Z VRB03KT 10SM CLR 01/M03 A3012 RMK AO2 SLP204 T00061033 KMJQ 271054Z AUTO 21008KT 10SM CLR M05/M07 A2993 RMK AO2 KNCA 271056Z AUTO 00000KT 10SM CLR 02/01 A3040 RMK AO2 SLP297 T00170011 LEAS 271030Z 25016G26KT 210V280 9999 BKN052 16/07 Q1009 NOSIG KP28 271056Z AUTO 14003KT M01/M03 A2991 RMK AO1 SLP135 T10061033 KLUA 271055Z AUTO 00000KT 10SM OVC080 00/M03 A3034 RMK AO2 KMKJ 271035Z AUTO 00000KT 10SM OVC110 00/M05 A3033 RMK AO2 T00021047 VOMD 271030Z 05008KT 6000 FEW020 SCT100 33/18 Q1009 NOSIG KMLB 271053Z 09010KT 10SM CLR 21/17 A3021 RMK AO2 SLP229 T02110172 EPOK 271030Z 20007KT 9999 OVC062 10/06 Q1007 RMK 103 075 8/8= LEBL 271030Z 20008KT 170V230 9000 FEW015 15/10 Q1015 NOSIG KMKL 271053Z AUTO 15009KT 8SM RA OVC060 09/07 A3012 RMK AO2 SLP198 P0007 T00890072 KMLC 271053Z AUTO 11006KT 9SM OVC026 11/03 A2996 RMK AO2 SLP142 T01060033 KLUD 271055Z AUTO 11003KT 1/4SM FG OVC001 14/14 A2992 RMK AO2 T01420138 KLSV 270958Z AUTO 18022G26KT 10SM CLR 11/01 A2974 RMK AO2 PK WND 17026/51 SLP064 T01060009 $ KMKN 271055Z AUTO 11004KT 2 1/2SM BR OVC006 15/15 A2992 RMK AO2 T01540154 KMLE 271035Z AUTO 00000KT 10SM CLR M04/M05 A2998 RMK AO2 T10411051 KMLF 271052Z AUTO 18008KT 10SM OVC036 03/M03 A2965 RMK AO2 SLP027 T00281028 KMKO 271053Z AUTO 14007KT CLR 07/02 A2999 RMK AO2 SLP153 T00720022 $ KMJX 271056Z AUTO 00000KT 10SM FEW120 M07/M08 A3041 RMK AO2 SLP303 T10671078 FZRANO KLUF 271048Z AUTO 24004KT 10SM BKN070 10/03 A2992 RMK AO2 $ LECH 271030Z 00000KT 2500 BR OVC005 10/10 Q1016 KMLI 271052Z AUTO 00000KT 10SM SCT085 M02/M04 A3008 RMK AO2 SLP190 T10171039 LEDA 261630Z VRB01KT CAVOK 15/05 Q1018 UWUU 271030Z 20009MPS 9999 DRSN BKN020 M04/M07 Q1011 R14R/421050 NOSIG RMK QFE748/0998 KMKS 271055Z AUTO 00000KT 7SM CLR 03/01 A3032 RMK AO2 KMLJ 271035Z AUTO 00000KT 10SM CLR 07/03 A3026 RMK AO2 KLTS 271058Z AUTO 10004KT 10SM OVC004 07/04 A2987 RMK AO2 CIG 004V006 OVC V BKN SLP113 T00740039 VOML 271030Z 27008KT 6000 FEW020 32/23 Q1007 NOSIG VOND 270300Z 00000KT 3500 HZ NSC 20/05 Q1016 KMKT 271056Z AUTO 17009KT 10SM M07/M09 A2995 RMK AO2 SLP158 T10721089 FZRANO $ LEBT 271000Z AUTO 27011KT 230V340 9999 // NCD 17/07 Q1016 KLUK 271053Z AUTO 00000KT 10SM SCT044 BKN060 OVC070 06/M02 A3025 RMK AO2 SLP245 T00561022 KNBT 271056Z AUTO 08006KT 10SM CLR A3040 RMK AO2 SLP300 $ VOMM 271030Z 08008KT 7000 FEW020 29/22 Q1011 NOSIG KLUL 271055Z AUTO 14004KT 10SM SCT050 SCT095 OVC110 14/10 A3007 RMK AO2 T01400101 KLUM 271055Z AUTO 11005KT 7SM CLR M07/M08 A2998 RMK AO2 T10711080 LDLO 270900Z 18003KT CAVOK 12/05 Q1018 LECO 271030Z 27009G23KT 230V330 9999 FEW030 BKN038 12/06 Q1014 TEMPO SHRA SCT025TCU DXXX 271000Z 21008KT 180V240 9999 FEW014 30/24 Q1011 NOSIG KMLP 271053Z AUTO 22003KT 7SM -SN OVC019 M09/M11 A2945 RMK AO2 SLP031 P0001 T10891111 $ KMKY 271055Z AUTO 04006KT 10SM CLR 18/16 A3017 RMK AO1 EPPO 271030Z 22010KT CAVOK 12/02 Q1009 LEBZ 271000Z 25004KT 9999 FEW008 BKN040 13/10 Q1022 KMMH 271055Z AUTO 23026G34KT 5SM -SN SCT014 BKN024 OVC033 M02/M10 A2963 RMK AO2 T10251098 KMMI 271055Z AUTO 00000KT 10SM CLR 01/M02 A3024 RMK KLVJ 271057Z AUTO 17005KT 7SM SCT007 BKN020 OVC037 22/20 A2996 RMK AO2 T02170200 KMLS 271053Z AUTO 05012KT 10SM FEW100 M04/M07 A2963 RMK AO2 SLP058 T10441072 KLWA 271057Z AUTO 24004KT 10SM CLR 02/M01 A3012 RMK AO2 T00201007 KLVK 271053Z AUTO 30006KT 9SM -RA FEW019 BKN023 OVC032 06/03 A2991 RMK AO2 RAB47 SLP129 P0000 T00610033 TSNO KMLT 271053Z AUTO VRB05KT 10SM BKN042 BKN085 M07/M12 A3007 RMK AO2 SLP195 T10671122 KMMK 271053Z AUTO 19006KT 10SM CLR 00/M08 A3035 RMK AO2 SLP279 T00001083 TSNO KLWB 271035Z AUTO 00000KT 10SM BKN060 OVC075 M02/M07 A3031 RMK AO2 T10181072 EPRA 271030Z 21007KT CAVOK 11/M01 Q1013 LEEC 271000Z 00000KT 9000 BKN042 12/11 Q1022 KLWC 271052Z AUTO 00000KT 1/4SM FZFG VV002 M04/M04 A3003 RMK AO2 SLP173 I1000 T10441044 $ KMLU 271053Z AUTO 07007KT 3SM +RA BR FEW006 BKN029 OVC033 12/12 A3007 RMK AO2 LTG DSNT E SLP182 P0038 T01220117 KMML 271056Z AUTO 23011KT 10SM CLR M02/M07 A2987 RMK AO2 SLP132 T10171067 FZRANO KLVL 271035Z AUTO 00000KT 10SM CLR 00/M02 A3037 RMK AO1 T00041020 LECV 271000Z 16004KT 8000 SCT003 SCT015 06/06 Q1018 KLVM 271053Z AUTO VRB06KT 10SM BKN060 M07/M11 A2952 RMK AO2 SLP035 T10671106 KLWD 271053Z AUTO 17006KT 4SM BR CLR M01/M02 A3001 RMK AO2 SLP169 T10111022 VOMY 270730Z 09012KT CAVOK 30/12 Q1016 KLVN 271054Z AUTO 00000KT 10SM SCT080 BKN090 M05/M07 A2995 RMK AO2 KP53 271056Z AUTO 17007KT M12/M14 A3006 RMK AO1 SLP190 T11221144 KMNE 271055Z AUTO 10004KT 10SM -RA OVC015 13/12 A3002 RMK AO2 LTG DSNT NE AND NW T01300120 EPPW 271030Z 19010KT 9999 SCT060 BKN200 10/01 Q1010 RMK 101 052 5/4 = KLUX 271055Z AUTO 01003KT 10SM CLR 01/M01 A3031 RMK AO2 KMNH 271054Z AUTO 28006G17KT 10SM CLR M03/M15 A2969 RMK AO2 KMNI 271055Z AUTO 10SM CLR 02/01 A3031 RMK AO2 KP58 271051Z AUTO 29004KT 02/M03 A3008 RMK AO1 SLP195 T00171028 $ KLVS 271053Z AUTO 20016KT 10SM CLR M01/M08 A2979 RMK AO2 SLP059 T10111083 KP60 270956Z AUTO 00000KT M12/M13 A2950 RMK AO1 SLP041 P0001 T11221133 $ KP59 271051Z AUTO 23006KT M11/M15 A3001 RMK AO1 SLP179 T11061150 KMOB 271056Z AUTO 14010KT 10SM CLR 15/12 A3009 RMK AO2 SLP186 T01500117 KMMT 270958Z AUTO 00000KT 10SM CLR 04/02 A3030 RMK AO2 SLP264 T00420021 $ KNEL 271000Z AUTO 00000KT 10SM CLR M02/M08 A3038 RMK AO2 SLP284 T10171078 $ UWWW 271030Z 22009MPS 1900 R23/1800U SHSN BLSN BKN010 OVC020CB M03/M04 Q1008 R23/590534 NOSIG RMK QFE745/0994 KMMU 271035Z AUTO 24004KT 10SM CLR M02/M06 A3036 RMK AO2 KMMV 271053Z AUTO 23004KT 10SM BKN016 OVC023 03/01 A2982 RMK AO2 SLP099 T00280011 KMOD 271053Z AUTO 33003KT 10SM SCT065 OVC080 08/03 A2991 RMK AO2 SLP128 T00830033 KLWM 271054Z AUTO 20005KT 10SM CLR M03/M08 A3027 RMK AO2 SLP253 T10281078 KMNM 271056Z AUTO 00000KT 10SM BKN055 M09/M12 A3010 RMK AO2 SLP215 T10891117 FZRANO EPSC 271030Z 18007KT 140V220 CAVOK 11/05 Q1006 KNFE 271056Z AUTO 00000KT 10SM CLR 02/M01 A3041 RMK AO2 SLP301 T00221006 KMNN 271053Z AUTO 21006KT 10SM OVC060 04/M05 A3022 RMK AO2 SLP241 T00391050 KNFG 271056Z AUTO 04005KT 1 1/2SM -RA BR FEW013 BKN024 OVC036 09/09 A2993 RMK AO2 RAB12 SLP134 P0002 T00890089 KNDZ 270956Z AUTO 15003KT 10SM CLR 12/06 A3014 RMK AO2 SLP194 T01170061 $ LEGA 271000Z 30005KT 9999 BKN015 10/05 Q1020 KP68 271053Z AUTO 00000KT M03/M06 A2962 RMK AO1 SLP018 P0002 T10331056 KLWS 271056Z AUTO 25003KT 3/4SM -SN BR VV004 M01/M01 A2967 RMK AO2 SLP060 P0004 T10061011 KP69 271052Z AUTO 00000KT 00/M02 A2967 RMK AO1 SLP068 T00001017 KLWT 271054Z AUTO 11005KT 1 3/4SM -SN BR OVC017 M09/M11 A2960 RMK AO2 SLP069 P0000 T10941111 KLXL 271052Z AUTO 08003KT 10SM SCT024 SCT039 OVC070 M06/M08 A2990 RMK AO2 KNFL 271056Z AUTO 30010G19KT 10SM SCT070 BKN090 OVC100 02/M08 A2969 RMK AO2 SLP035 T00221083 FGSL 271000Z 26009KT 230V290 9999 FEW010 33/21 Q1010 NOSIG KLWV 271053Z AUTO 14005KT 10SM OVC041 06/01 A3017 RMK AO2 SLP217 T00610011 $ KMNV 271055Z AUTO 07004KT 10SM CLR 03/M02 A3025 RMK A01 LEGE 271030Z 22013KT 190V280 9999 FEW030 14/08 Q1013 KNEW 271053Z AUTO 14011KT 10SM OVC080 20/17 A3005 RMK AO2 SLP169 T02000172 KLXN 271055Z AUTO 00000KT 10SM CLR M08/M10 A2989 RMK AO2 T10821102 EPSN 271030Z 18008KT 9999 BKN050 11/04 Q1006 RMK 107 064 5/5 = KMOP 271055Z AUTO 23003KT 10SM CLR M01/M04 A3010 RMK AO2 T10081039 KLYH 271054Z AUTO 00000KT 10SM BKN120 M01/M07 A3036 RMK AO2 SLP284 T10111067 KMNZ 271055Z AUTO 17006KT 3SM BR OVC003 17/17 A2992 RMK AO2 T01710171 KMOR 271055Z AUTO 08004KT 10SM BKN100 03/M05 A3025 RMK A01 EPRZ 271030Z 20015KT CAVOK 10/M03 Q1015 LDOS 271030Z 12007KT CAVOK 12/06 Q1017 KLXT 271053Z AUTO 00000KT 1 1/2SM BR FEW002 M02/M02 A3003 RMK AO2 SLP176 I1000 T10171022 KMOT 271054Z AUTO 30007KT 10SM BKN100 M10/M13 A2980 RMK AO2 SLP124 T11001128 $ KMQB 271055Z AUTO 00000KT 10SM CLR M03/M04 A3011 RMK AO2 T10351037 LDPL 271030Z 20005KT 130V260 CAVOK 13/04 Q1018 LEHC 271030Z 26005KT 210V320 CAVOK 11/05 Q1015 KLXV 271053Z AUTO 05004KT 10SM CLR M19/M22 A2968 RMK AO2 SLP088 T11891222 KMQE 271054Z AUTO 21011KT M03/M09 A3026 RMK AO1 SLP266 T10331089 KNFW 271052Z AUTO 18007KT 9SM OVC007 17/16 A2991 RMK AO2 SLP113 T01720161 $ KMPO 271053Z AUTO 27006KT 10SM CLR M03/M10 A3025 RMK AO2 SLP268 T10281100 KMOX 271053Z AUTO 08006KT 10SM CLR M07/M09 A2987 RMK AO2 KLXY 271055Z AUTO 16003KT 10SM SCT014 BKN023 OVC036 17/17 A2993 RMK AO2 T01700165 KNGP 271056Z AUTO 18010KT 8SM FEW023 21/21 A2987 RMK AO2 SLP116 T02060206 EPSY 271030Z 20008KT CAVOK 08/05 Q1010 LEGR 271030Z VRB01KT 9999 FEW030 13/06 Q1021 KMQI 271055Z AUTO 00000KT 10SM CLR 02/02 A3043 RMK AO2 T00210020 KMQJ 271057Z AUTO 00000KT 10SM OVC048 04/00 A3019 RMK AO1 LEGT 271000Z 25010KT 9999 FEW013 BKN025 09/06 Q1019 LEIB 271030Z 22010KT 9999 SCT015 BKN018 16/13 Q1017 NOSIG KNHK 271052Z 15003KT 10SM SCT110 M01/M01 A3038 RMK AO2 SLP288 T10061006 $ KMRB 271053Z AUTO 00000KT 10SM BKN090 M02/M08 A3034 RMK AO2 SLP278 T10221083 TSNO KNGU 270959Z 17005KT 10SM SCT250 05/02 A3040 RMK AO2 SLP295 T00500022 KMRC 271055Z AUTO 14003KT 10SM SCT100 08/M01 A3018 RMK KMPV 271051Z AUTO 20011G16KT 10SM CLR M02/M08 A3011 RMK AO2 SLP214 T10171083 TSNO KP92 271053Z AUTO 15003KT 19/18 A3001 RMK AO1 SLP161 T01890183 $ KNID 271056Z AUTO 19018G25KT 10SM CLR 07/M01 A2975 RMK AO2 SLP073 T00721011 $ KLYV 271058Z AUTO 18005KT 10SM CLR M05/M07 A2991 RMK AO2 KMRF 271056Z AUTO 00000KT 10SM CLR 03/M08 A3000 RMK AO2 SLP131 T00281083 KMRH 270958Z AUTO 04004KT 10SM CLR 06/03 A3038 RMK AO2 SLP286 T00560028 TSNO LDRI 271030Z VRB02KT 9999 SCT050 11/03 Q1018 KMQS 271035Z AUTO 00000KT 10SM OVC110 00/M06 A3036 RMK AO2 KMRJ 271035Z AUTO 12003KT 10SM CLR M03/M03 A3004 RMK AO2 EPWA 271030Z 18006KT CAVOK 10/02 Q1012 NOSIG KLZU 270145Z 00000KT 10SM CLR 07/M03 A3023 RMK CLOSING FORECAST; OO KMRN 271050Z AUTO 34003KT 10SM CLR M01/M04 A3038 RMK AO2 T10151040 KMQY 271056Z AUTO 12003KT 10SM BKN110 08/M01 A3022 RMK AO2 SLP198 T00781011 KNIP 271053Z 07003KT 10SM CLR 15/11 A3025 RMK AO2 SLP238 T01500111 $ KLZZ 271055Z AUTO 00000KT 1 3/4SM BR OVC003 16/16 A2991 RMK AO2 T01580155 VOTK 271030Z 07010KT 8000 FEW020 FEW030TCU SCT100 32/19 Q1009 LFBA 271030Z AUTO 10009KT 9999 FEW002 09/08 Q1011 BECMG 22012KT KOAJ 271056Z AUTO 00000KT 10SM CLR M02/M03 A3040 RMK AO2 SLP301 T10171028 FZRANO KOAK 271053Z 08003KT 10SM BKN050 BKN090 08/07 A2992 RMK AO2 RAE0959B13E48 SLP132 P0001 T00780067 KMRT 271052Z AUTO 22005KT 10SM OVC060 03/M02 A3022 RMK AO2 T00321023 KNJK 271056Z AUTO 12008KT 10SM BKN070 OVC080 12/02 A2988 RMK AO2 SLP134 T01220017 $ LFBC 271030Z AUTO 23017KT 9999 SCT045 SCT240 15/09 Q1009 TEMPO 4000 SHRA SCT020TCU BKN040 BECMG 22015G25KT KMSL 271053Z AUTO 04004KT 10SM OVC090 11/01 A3018 RMK AO2 SLP217 T01060006 KMTC 271058Z AUTO 22008KT 10SM CLR 01/M05 A3013 RMK AO2 SLP212 T00101049 KNJM 271057Z AUTO 01003KT 10SM 06/00 A3041 RMK AO2 SLP300 T00560000 $ LFBD 271030Z AUTO 22013KT 9999 OVC046 15/08 Q1009 BECMG 24015G25KT LFBE 271030Z AUTO 17010KT 140V200 CAVOK 14/08 Q1010 NOSIG VOTP 271030Z 06012KT 6000 FEW020 32/20 Q1010 KMSN 271053Z 00000KT 10SM CLR M06/M07 A3007 RMK AO2 SLP193 I1000 T10561072 KOBE 271055Z AUTO 00000KT 10SM SCT022 15/13 A3020 RMK AO2 KMSO 271053Z AUTO 17003KT 4SM -SN BR BKN005 BKN014 OVC046 M04/M04 A2959 RMK AO2 SNE12B30 SLP053 P0001 T10441044 LFBG 271030Z AUTO 18018KT 9999 OVC044 13/08 Q1007 TEMPO 24020G35KT RA VOTR 271030Z 07011KT 5000 HZ FEW018 SCT100 32/19 Q1010 NOSIG KMSP 271053Z 14006KT 10SM FEW090 M05/M07 A2995 RMK AO2 SLP151 T10501072 KMRY 271054Z AUTO 11003KT 10SM FEW027 SCT034 OVC047 07/06 A2992 RMK AO2 SLP144 T00720061 LDSP 271030Z VRB02KT 9999 FEW012 SCT020 BKN028 14/11 Q1018 NOSIG LFBH 271030Z AUTO 20022G35KT 9999 FEW017 BKN026 BKN044 12/10 Q1004 TEMPO 2000 RA BKN013 OVC040 LFAQ 271030Z AUTO 19021KT 9000 RA BKN022/// BKN041/// OVC048/// ///CB 10/07 Q0997 TEMPO 24030G50KT 2000 SHRAGS OVC008 KMTH 271053Z AUTO 10008KT 10SM CLR 24/21 A3013 RMK AO2 SLP203 T02440211 LFBI 271030Z AUTO 19024KT 9999 BKN016 OVC040 12/08 Q1004 TEMPO 4000 RA BKN008 BECMG 21015G25KT LEJR 271100Z 29006KT 250V330 6000 OVC035 14/12 Q1022 KMSS 271053Z AUTO 21015G23KT 10SM OVC100 02/M06 A3004 RMK AO2 SLP179 T00171056 KMTJ 271053Z AUTO 02007KT 10SM BKN060 OVC080 02/M10 A2978 RMK AO2 SLP067 T00171100 EPWR 271030Z 23011KT 190V250 CAVOK 12/M00 Q1010 LFAT 271030Z AUTO 18012KT 150V210 9999 SCT044/// BKN064/// BKN074/// 10/07 Q0994 TEMPO 2000 SHRAGS BKN008 BKN020CB BECMG 21020G30KT VOTV 271030Z 23007KT 5000 HZ SCT015 32/24 Q1007 NOSIG LELC 271000Z 25007KT 180V270 8000 NSC 17/12 Q1018 NOSIG LFBL 271030Z AUTO 18018KT 9999 BKN014 BKN022 OVC029 10/07 Q1007 BECMG 22015G25KT SCT030 KNLC 271056Z AUTO 32009KT 10SM FEW060 OVC085 07/05 A2990 RMK AO2 SLP126 T00720050 LFBM 271030Z AUTO 24010KT 190V270 CAVOK 16/06 Q1011 BECMG 11003KT KMSV 271055Z AUTO 00000KT 10SM CLR A3027 RMK AO1 KMTN 271045Z 00000KT 10SM SCT100 M02/M02 A3040 RMK FIRST LFBO 271030Z AUTO 15006KT 120V180 CAVOK 13/06 Q1012 NOSIG KMTO 271053Z AUTO 11003KT 10SM OVC050 04/01 A3013 RMK AO2 SLP206 T00440011 KOCF 271055Z AUTO 06003KT 10SM CLR 09/06 A3022 RMK AO1 KMTP 271054Z AUTO 23004KT 03/M04 A3037 RMK AO1 SLP282 T00281039 $ LFBP 271030Z AUTO VRB02KT CAVOK 14/07 Q1011 NOSIG KMSY 271053Z 20007KT 10SM -RA FEW013 BKN029 OVC070 19/17 A3004 RMK AO2 RAB12 SLP176 P0005 T01940172 KOCH 271055Z 13005KT OVC009 18/16 A2996 RMK AO1 KMUI 271058Z AUTO 00000KT 10SM SCT120 M05/M05 A3035 RMK AO2 SLP286 T10521053 $ KNKT 271055Z 00000KT 7SM CLR 01/M02 A3041 RMK SLP293 T00061017 LFCK 271030Z AUTO 11013KT CAVOK 16/05 Q1011 BECMG VRB02KT LFBT 271030Z AUTO VRB02KT CAVOK 17/06 Q1011 NOSIG LELL 271030Z 24008KT 210V300 CAVOK 15/09 Q1014 LFBU 271030Z AUTO 18016KT 140V200 9999 SCT022 BKN037 BKN048 12/08 Q1007 BECMG 21015G25KT LEMD 271030Z 22006KT 200V260 9999 FEW020 BKN025 11/06 Q1018 NOSIG KMTV 271035Z AUTO 00000KT 10SM SCT120 M01/M04 A3037 RMK AO2 T10121044 LELN 271000Z 22007KT 190V270 9999 SCT008 OVC029 06/04 Q1014 KMVE 271052Z AUTO 24005KT 10SM CLR M03/M06 A2990 RMK AO2 KMTW 271056Z AUTO 00000KT 10SM CLR M06/M07 A3010 RMK AO2 SLP214 T10561072 FZRANO LELO 271000Z 00000KT 9999 FEW030 11/05 Q1015 KMUO 271058Z AUTO 13006KT 10SM FEW080 M03/M03 A2964 RMK AO2 SLP055 T10291029 KNKX 270955Z 08006KT 3SM -RA BKN020 OVC040 12/10 A2993 RMK AO2 RAB37 SLP132 P0002 T01220100 $ LEMG 271030Z 30014KT CAVOK 16/08 Q1020 NOSIG LFBY 271000Z 22010KT 180V250 CAVOK 16/07 Q1011 LEMH 271030Z 20014KT 170V230 9999 FEW016 BKN028 14/10 Q1018 LFBZ 271030Z AUTO 21007KT 130V270 CAVOK 17/05 Q1011 NOSIG KOCQ 271055Z AUTO 00000KT 10SM SCT065 M09/M12 A3009 RMK AO1 T10911118 KMVH 271055Z AUTO 06003KT 2SM -SN BKN004 OVC015 M11/M13 A2961 RMK AO2 EPZG 271030Z 20011KT 160V230 9999 BKN045 12/02 Q1009 LFCR 271030Z AUTO 18009KT 140V220 CAVOK 14/03 Q1011 NOSIG KMWA 271055Z AUTO 12006KT 10SM BKN045 OVC060 06/05 A3012 RMK AO2 KOEB 271055Z AUTO 21006KT 10SM CLR 00/M05 A3015 RMK AO2 T00041046 KMUT 271055Z AUTO 09003KT 10SM FEW049 SCT085 M04/M05 A3008 RMK AO2 KMVL 271054Z AUTO 20008KT 10SM SCT055 M02/M08 A3009 RMK AO2 SLP199 T10171083 KMWC 271055Z AUTO 00000KT 10SM CLR M04/M06 A3011 RMK AO2 KNMM 271056Z AUTO 10005KT 10SM OVC055 11/07 A3007 RMK AO2 RAB23E36 SLP193 P0001 T01060067 $ KOCW 271050Z AUTO 00000KT 10SM CLR 01/M01 A3041 RMK AO2 T00101009 KMVN 271056Z AUTO 00000KT 10SM SCT041 OVC050 07/02 A3013 RMK AO2 SLP203 T00670017 VOVZ 271000Z 19007KT 5000 HZ FEW018 31/22 Q1011 NOSIG KODO 271053Z AUTO 26003KT 10SM CLR 11/M04 A2991 RMK AO2 SLP098 T01061039 $ LEMO 271100Z 26006KT 230V300 8000 SCT009 BKN036 13/11 Q1022 NOSIG KMWH 271052Z 00000KT 10SM FEW100 M06/M08 A2970 RMK AO2 SLP071 T10561078 $ KMWK 271050Z AUTO 00000KT 10SM CLR 02/M03 A3035 RMK AO2 T00181027 KMWL 271053Z AUTO 13005KT 4SM BR OVC009 14/14 A2990 RMK AO2 CIG 005V012 SLP116 T01390139 KMWM 271055Z AUTO 20009KT 10SM CLR M03/M06 A2991 RMK AO2 KMWN 271053Z 27051G57KT 0SM FZFG VV000 M13/M13 RMK VRY LGT ICG KODX 271053Z AUTO 00000KT 10SM CLR M10/M12 A2988 RMK AO2 SLP143 I1000 T11001122 KMWO 271035Z AUTO 10SM OVC065 04/M02 A3024 RMK AO2 T00401017 KOEO 271035Z AUTO 14006KT 10SM OVC075 M02/M05 A2996 RMK AO2 T10251054 KMXF 270958Z AUTO 11003KT 10SM BKN170 BKN190 10/M01 A3016 RMK AO2 SLP216 T00981006 KOFF 271058Z AUTO 00000KT 10SM CLR M06/M08 A2997 RMK AO2 SLP163 T10601080 $ KMVY 271053Z AUTO A3034 RMK AO2 SLPNO PWINO FZRANO TSNO PNO $ KNOG 271039Z AUTO 18010KT 9SM BKN010 OVC015 21/21 A2988 RMK AO2 CIG 008V012 T02060206 PNO $ LEPA 271030Z 22011KT 9999 FEW018 OVC028 15/12 Q1017 NOSIG LFGA 271030Z AUTO 16005KT 130V200 CAVOK 12/03 Q1007 PTKK 271050Z VRB04KT 15SM SCT013CB OVC120 29/25 A2981 RMK CB ALQDS SLP098 T02860248 KNPA 271056Z AUTO 12007KT CLR 18/14 A3013 RMK AO2 SLP206 T01830139 $ KOGA 271035Z AUTO 00000KT 10SM CLR M09/M12 A2983 RMK AO2 T10881123 KMWT 271053Z AUTO 00000KT 10SM OVC013 09/08 A3000 RMK AO2 SLP159 T00890078 KOGB 271053Z AUTO 03003KT 10SM CLR 04/02 A3031 RMK AO2 SLP264 T00390022 TSNO KOFK 271056Z AUTO 00000KT 10SM CLR M07/M09 A2991 RMK AO2 SLP148 T10721089 KOGD 271053Z AUTO 35009KT 7SM -SN BKN005 OVC018 M01/M02 A2962 RMK AO2 SNB51 CIG 004V009 SLP033 P0000 T10111017 KMYF 271053Z AUTO 06003KT 1 1/2SM RA BR OVC012 11/09 A2991 RMK AO2 SLP127 P0006 T01060094 KMXO 271055Z AUTO 00000KT 10SM CLR M05/M06 A3005 RMK AO2 KOFP 271054Z AUTO 00000KT 10SM CLR M03/M05 A3039 RMK AO2 SLP292 T10281050 GABG 270900Z 00000KT CAVOK 29/12 Q//// PTKR 271052Z 05006KT 15SM FEW017 FEW110 OVC300 27/25 A2984 RMK SLP106 T02720250 KNQA 271055Z AUTO 13007KT 10SM CLR 09/08 A3007 RMK LFGJ 271030Z AUTO 19017KT CAVOK 11/05 Q1009 BECMG 20020G35KT KMYJ 271055Z AUTO 00000KT 4SM CLR M03/M03 A3006 RMK AO2 PWINO LDZA 271030Z VRB02KT 9999 FEW048 11/03 Q1016 BECMG 23006KT KMYL 271051Z AUTO 15003KT 1SM -SN BR VV011 M06/M08 A2950 RMK AO2 SLP027 P0003 T10561078 LDZD 271030Z 14006KT 090V160 9999 FEW025 BKN050 13/06 Q1018 NOSIG KNOW 271035Z AUTO 20004KT 10SM CLR 02/00 A2976 RMK AO2 T00190000 ESCF 271050Z 19011KT CAVOK 08/08 Q0998 LEPP 271030Z 17009KT 9999 FEW030 13/05 Q1014 KMYP 271051Z AUTO 22023KT M15/M17 A2980 RMK AO2 PWINO KMZG 271055Z AUTO 16017KT 4SM BR SCT019 SCT024 BKN031 24/21 A2987 RMK A01 KMZH 271053Z AUTO 00000KT 10SM OVC032 M08/M12 A2992 RMK AO2 KNQI 271056Z AUTO 16007KT 8SM SCT021 20/20 A2987 RMK AO2 SLP111 T02000200 $ KMYR 270956Z AUTO 12007KT 10SM CLR 08/03 A3035 RMK AO2 SLP277 T00830028 KOGS 271015Z AUTO 21009KT 10SM CLR 01/M03 A3004 RMK AO2 T00101035 TSNO KNRB 271052Z 10009KT 10SM FEW250 18/14 A3024 RMK AO2 SLP239 T01780139 GABS 271030Z 08010KT 6000 NSC 33/M02 Q1013 NOSIG KMYV 271053Z AUTO 16009KT 10SM OVC100 06/03 A2989 RMK AO2 SLP124 T00610028 ESDF 271050Z 21007KT 190V250 7000 BR BKN006 06/06 Q1002 FJDG 271055Z 32012KT 8000 -SHRA SCT015 BKN040 OVC090 24/24 A2974 RMK SLP068 T2 SET P0015 T02430241 KMYZ 271035Z AUTO 00000KT 10SM CLR M03/M06 A2997 RMK AO2 LERI 271000Z VRB01KT CAVOK 17/09 Q1018 NOSIG WIBB 271030Z 34006KT 7000 SCT015 FEW017CB 25/24 Q1006 LESA 271030Z 26013KT 220V280 9999 BKN030 10/04 Q1018 KOJA 271055Z AUTO 00000KT 10SM BKN005 BKN011 02/00 A2990 RMK AO2 KOJC 271056Z AUTO 12004KT 1 3/4SM BR SCT001 M03/M03 A3002 RMK AO2 T10281028 $ LGAD 271050Z 00000KT 9999 FEW025 BKN080 18/08 Q1017 KPAE 271053Z AUTO 00000KT 10SM SCT065 OVC080 02/M05 A2974 RMK AO2 SLP076 T00221050 KNSE 271056Z AUTO 04004KT 10SM -RA CLR 07/06 A3016 RMK AO2 SLP202 P0000 T00670061 $ KNQX 271053Z AUTO 09010KT 10SM CLR 23/20 A3013 RMK AO2 SLP201 T02280200 $ KPAH 271053Z AUTO 08004KT 10SM OVC047 07/05 A3011 RMK AO2 RAB0957E07B24E35 SLP198 P0000 T00720050 KMZZ 271035Z AUTO 22004KT 10SM OVC085 02/M01 A3017 RMK AO2 T00191015 FIMP 271000Z 08010KT 9999 VCSH FEW016TCU FEW017 31/23 Q1011 KNSI 271057Z AUTO 21004KT 10SM OVC033 A2989 RMK AO2 SLPNO PWINO $ FIMR 271000Z 19003KT 9999 BKN017 29/25 Q1011 LERS 271030Z VRB02KT 9999 FEW025 15/10 Q1015 KNRS 271056Z AUTO 12005KT 1 1/2SM RA BKN007 OVC010 A2991 RMK AO2 SLP129 PNO $ LERT 271000Z 29006KT 250V320 7000 SCT035 14/11 Q1022 NOSIG LFKB 271030Z 14010KT 9999 FEW030 15/07 Q1018 NOSIG KOKB 271052Z AUTO 06006KT 3SM -RA BR FEW018 BKN030 OVC041 09/09 A2992 RMK AO2 RAE0955B15 SLP131 P0001 T00940089 LFKC 271030Z 25007KT 190V290 9999 FEW041 16/04 Q1017 NOSIG LFJL 271030Z AUTO 22019KT 9999 FEW034 BKN041 OVC047 11/05 Q1006 BECMG 22015G25KT FEW030TCU LGAL 271020Z 10008KT 9999 FEW018 SCT025 12/08 Q1020 KOKC 271052Z 13007KT 10SM OVC006 08/04 A2990 RMK AO2 SLP123 T00780039 RCFN 271030Z 35008KT 310V030 9999 FEW020 BKN045 BKN060 18/12 Q1022 NOSIG RMK A3019 KNTD 271056Z AUTO 03004KT 10SM BKN042 OVC070 11/07 A2992 RMK AO2 SLP132 T01110072 $ KPAM 271056Z 11006KT 10SM CLR 14/10 A3016 RMK AO2A SLP216 T01390103 KPAN 271055Z AUTO 00000KT 10SM BKN040 OVC048 03/M02 A2997 RMK AO2 LESO 271030Z 19011KT 150V230 CAVOK 18/04 Q1011 LFKF 271030Z AUTO 25012KT 9999 FEW029/// SCT036/// BKN047/// 15/09 Q1018 NOSIG KPBF 271053Z AUTO 24003KT 10SM BKN009 OVC110 09/09 A3008 RMK AO2 RAB07E18 SLP184 P0000 T00940089 KPAO 270447Z 00000KT 10SM SCT050 10/06 A2993 RMK LAST KPBG 271053Z AUTO 16011G21KT 10SM CLR M01/M06 A3008 RMK AO2 SLP189 T10111056 TSNO KPBH 271055Z AUTO 14003KT 10SM -SN BKN029 OVC036 M08/M11 A2996 RMK AO2 T10831115 LFJR 271030Z AUTO 20018KT 9999 BKN010/// OVC014/// ///CB 11/09 Q0999 TEMPO 24020G40KT 4000 SHRA BKN020CB KPBI 271053Z 10014KT 10SM FEW022 FEW028 SCT038 23/18 A3018 RMK AO2 SLP219 T02330183 LFKJ 271030Z VRB02KT 9999 BKN042 SCT048 12/06 Q1019 NOSIG WIDD 271030Z 04014KT 9999 SCT013 29/24 Q1009 NOSIG LEST 271030Z 24006G16KT 170V320 9999 FEW021 BKN039 10/06 Q1015 NOSIG LFLB 271030Z AUTO 33004KT CAVOK 10/03 Q1012 NOSIG KOKK 271056Z AUTO 18003KT 10SM FEW032 BKN090 01/M03 A3018 RMK AO2 SLP226 T00111033 FZRANO LESU 271030Z 11003KT 060V190 CAVOK 09/01 Q1014 LETL 271030Z AUTO 01004KT 330V050 9999 NCD 08/02 Q1017 LFLC 271030Z AUTO 20011KT 9999 BKN058 13/03 Q1009 BECMG 20015G25KT LGBL 271050Z 10004KT 9000 FEW015 SCT030 BKN060 14/11 Q1019 PTPN 270150Z 07015KT 15SM BKN017TCU BKN120 OVC300 31/25 A2978 RMK TCU SE-SW LGAV 271050Z 05008KT 9999 FEW015 BKN020 BKN070 14/10 Q1019 NOSIG KOKM 271035Z AUTO 07004KT 10SM CLR 02/01 A2997 RMK AO2 T00230005 KOLE 271055Z AUTO 22007KT 10SM CLR M02/M10 A3015 RMK AO2 LETO 271000Z 26007KT 230V290 9999 SCT019 BKN028 10/06 Q1019 NOSIG KOLF 271049Z AUTO 05008KT 2 1/2SM -SN OVC031 M08/M11 A2980 RMK AO2 SLP123 P0000 T10831111 KOLG 271035Z AUTO 00000KT 10SM OVC039 M09/M12 A2995 RMK AO1 ESGG 271050Z 20014KT 9000 OVC004 05/05 Q0997 R21/29//95 KNUI 271053Z AUTO 15004KT 10SM SCT110 02/01 A3038 RMK AO2 SLP288 T00170011 $ LFKS 271030Z AUTO 08004KT 040V130 9999 NCD 15/07 Q1018 KOMA 271052Z 00000KT 10SM CLR M04/M08 A2998 RMK AO2 SLP161 T10391078 ESGJ 271050Z 21011KT 3800 BR BKN003 06/05 Q0997 R19/29//70 WIEE 271030Z 02005KT 9999 BKN019 27/25 Q1007 NOSIG LEVC 271030Z 26016KT 9999 FEW030 18/07 Q1015 NOSIG LFLL 271030Z 19028G40KT 9999 FEW026 SCT230 13/05 Q1011 TEMPO 20035G45KT LFMC 271000Z 00000KT 9999 FEW013 BKN033 10/06 Q1018 KNTU 271056Z 00000KT 10SM CLR 01/M01 A3040 RMK AO2 SLP297 T00111011 KPDC 271055Z AUTO 00000KT 7SM CLR M05/M06 A3006 RMK AO2 T10501058 LEVD 271030Z 24016KT 9999 SCT020 BKN030 09/04 Q1016 LFMD 271030Z AUTO 17004KT 120V200 9999 FEW026 OVC050 14/09 Q1017 NOSIG KOLM 271054Z AUTO 24003KT 7SM BKN007 OVC075 02/02 A2978 RMK AO2 SLP086 T00220017 KOKV 271055Z AUTO 25005KT 10SM OVC090 00/M08 A3033 RMK AO2 KPCM 271055Z AUTO 10003KT 10SM CLR 17/14 A3022 RMK AO2 LFLN 271030Z AUTO 17007KT 9999 FEW044 13/05 Q1009 BECMG 20015G25KT KPBX 271035Z AUTO 18003KT 10SM OVC090 06/M05 A3028 RMK AO2 T00561052 LFLP 271030Z AUTO 20011KT CAVOK 12/01 Q1011 NOSIG LFMH 271030Z AUTO 20010KT 180V240 CAVOK 15/04 Q1009 NOSIG KNUQ 271056Z 32007KT 10SM -RA SCT032 OVC043 08/07 A2993 RMK AO2 RAE09B56 SLP138 P0000 T00830067 KOKZ 271055Z AUTO 16005KT 10SM CLR 11/05 A3026 RMK AO2 T01090050 KOMH 271035Z AUTO 00000KT 10SM CLR M02/M05 A3038 RMK AO2 PTSA 272350Z 09006KT 10SM -RA BKN014 BKN120 OVC290 26/24 A2980 LFMI 271030Z AUTO 14011KT 9999 FEW021 OVC034 13/10 Q1015 TEMPO 12015G25KT RA LFLS 271030Z AUTO 23013G26KT 190V270 9999 0200 R09/0200D R27/P2400 // FEW014 13/02 Q1012 ESGR 271050Z AUTO 20009KT 9999 SCT007/// OVC012/// 07/05 Q0997 REDZ KONA 271053Z AUTO 00000KT 10SM CLR M08/M09 A3003 RMK AO2 KPEA 271055Z AUTO 16004KT 10SM SCT047 SCT070 M01/M03 A3004 RMK AO2 T10091035 KOLS 271054Z AUTO 17006KT 10SM CLR 03/M03 A3000 RMK AO2 SLP132 T00281033 LFMK 271030Z AUTO 11011KT 080V150 9999 BKN013 11/07 Q1013 BECMG NSC KPDK 271053Z AUTO 07004KT 10SM CLR 08/M04 A3025 RMK AO2 SLP245 T00831039 KOMK 271053Z AUTO 33007KT 10SM OVC100 M02/M09 A2970 RMK AO2 SLP071 T10221089 LFLU 271030Z AUTO 20017KT 9999 OVC040 12/04 Q1013 LFML 271030Z AUTO 13010KT 9999 FEW017 BKN033 OVC040 13/08 Q1016 TEMPO 12015G25KT RA BKN014 ESIB 271050Z 22016KT 9999 SCT010 BKN025 07/07 Q0995 KOLU 271055Z AUTO 00000KT 10SM CLR M07/M09 A2994 RMK AO2 RVRNO ESGT 271050Z 21013KT 9999 BKN008 BKN015 07/06 Q0996 KOLV 270150Z 00000KT 10SM BKN095 BKN150 A3004 KOMN 262350Z 03003KT 10SM SKC 15/07 A3023 RMK LAST PTRO 271050Z 00000KT 15SM SCT016 SCT120 BKN300 26/25 A2983 LFLW 271030Z AUTO 19008KT 150V230 9999 BKN049 BKN060 12/03 Q1011 BECMG 20015G25KT LFMN 271030Z 16003KT 9999 FEW025 15/08 Q1017 NOSIG KPCW 271054Z AUTO 21009KT 10SM CLR 03/M04 A3018 RMK AO2 T00271038 $ KNUW 271056Z 36004KT 10SM FEW030 FEW060 SCT220 02/M06 A2979 RMK AO2 SLP086 T00171056 $ LFLX 271030Z AUTO 22020KT 9999 OVC026 12/07 Q1005 TEMPO 23020G40KT 2500 -TSRAGR BKN020CB LFMO 271030Z AUTO 30002KT 9999 BKN029 OVC041 09/05 Q1015 BECMG 16015G25KT LFMP 271030Z AUTO 07005KT 040V110 9999 BKN007/// OVC021/// 09/07 Q1013 TEMPO BKN025 LFLY 271030Z AUTO 18023G34KT CAVOK 14/06 Q1010 TEMPO 18025G45KT KOLY 271035Z AUTO 12003KT 10SM OVC038 05/02 A3015 RMK AO2 KOLZ 271055Z AUTO 16005KT 10SM CLR M05/M05 A3004 RMK AO2 KPCZ 271055Z AUTO 00000KT 10SM SCT060 M06/M07 A3007 RMK AO2 T10611075 LEVS 271030Z 25009KT 9999 FEW020 10/06 Q1019 LFOA 271030Z AUTO 18018G28KT 9999 SCT047 BKN058 13/06 Q1005 TEMPO 4000 SHRA SCT012 BKN020TCU LEVT 271030Z 22015G27KT 170V250 9999 SCT037 13/03 Q1014 LFOB 271030Z AUTO 18018KT 9000 -RA OVC019/// ///CB 10/08 Q0997 TEMPO 20025G45KT 2000 TSRAGS OVC007 LFMT 271030Z 03010KT 9999 BKN014 OVC029 12/09 Q1014 NOSIG KPDT 271053Z AUTO 28004KT 1/4SM R25/1000V1200FT FG VV001 00/00 A2970 RMK AO2 UPB25E34SNE20 SLP063 P0000 I1001 T00000000 TSNO $ LFOC 271030Z AUTO 20024KT 8000 -RA BKN021/// OVC027/// ///CB 11/08 Q1000 TEMPO VRB25G45KT 2000 -TSRAGS BKN008 BKN015CB LFMU 271030Z AUTO 03007KT 9999 OVC013 13/09 Q1013 BECMG 12010KT BKN015 LGEL 271050Z 18005KT 9999 BKN030 BKN070 OVC180 16/10 Q1019 KONL 271055Z AUTO 21006KT 10SM CLR M09/M12 A2987 RMK AO2 T10941122 LFMV 271030Z AUTO 13006KT 100V160 9999 -RA OVC025 12/07 Q1015 TEMPO 12015G25KT RA BKN014 KONM 271055Z AUTO 01004KT 10SM CLR M01/M05 A2993 RMK AO2 T10121050 ETAD 271058Z AUTO 20015KT 9999 BKN028 OVC034 09/04 A2962 RMK AO2 BKN V OVC SLPNO TSNO $ LFOE 271030Z AUTO 18019KT 9999 -RA FEW013/// BKN020/// BKN032/// ///CB 10/08 Q0996 LEVX 271030Z 21005KT 160V260 8000 VCFG SCT008 BKN015 BKN028 11/10 Q1017 TEMPO 3000 -RA BKN005 KPDX 271053Z 20004KT 10SM SCT028 OVC040 03/02 A2981 RMK AO2 SLP095 RAB28 P0000 T00280017 KPEO 271053Z AUTO 20011KT 10SM CLR 01/M09 A3017 RMK AO2 SLP225 T00111094 KONO 271053Z AUTO 00000KT 7SM OVC008 M02/M03 A2969 RMK AO2 CIG 006V011 SLP071 T10171028 $ KNXF 270956Z AUTO 07007KT 9SM FEW028 OVC060 RMK AO2 SLPNO PNO $ RCKH 271030Z 33007KT 7000 FEW016 SCT040 BKN070 21/13 Q1020 NOSIG RMK A3013 LFMY 271030Z AUTO 11008KT 9999 BKN022 OVC035 12/08 Q1016 BECMG 16018KT OVC014 KONP 271055Z AUTO 10003KT 10SM SCT025 00/00 A2985 RMK AO2 LFOH 271030Z AUTO 19015KT 9999 BKN024 OVC035 09/07 Q0994 TEMPO 24030G45KT 2000 SHRAGS BKN008 BKN020CB KPEQ 271055Z AUTO 27005KT 10SM CLR 08/M05 A2991 RMK AO2 T00801050 LEXJ 271030Z 20014KT 140V240 9999 FEW056 17/05 Q1009 LFOJ 271030Z AUTO /////KT 9999 BKN028 BKN062 BKN092 12/07 Q1001 KPGA 271053Z AUTO 17008KT 10SM OVC070 07/M07 A2976 RMK AO2 SLP056 T00671067 TSNO GAKA 270900Z 00000KT 7000 NSC 27/10 Q1010 LFPB 271030Z AUTO 19020KT 9999 OVC027 12/06 Q0999 TEMPO 19020G40KT 4000 -TSRAGS BKN015 SCT020CB LFOK 271030Z AUTO 19022KT 9999 3900 NSC 12/06 Q1003 BECMG 18020G30KT KONT 271053Z 09003KT 10SM FEW042 BKN060 BKN075 07/05 A2993 RMK AO2 SLP136 T00720050 KNYC 271051Z AUTO VRB05KT 10SM CLR 02/M07 A3039 RMK AO2 SLP282 T00171072 $ KPGD 271053Z AUTO 08006KT 10SM CLR 14/13 A3020 RMK AO2 SLP226 T01440128 GAKD 270900Z 14004KT 6000 NSC 28/07 Q1012 WIHH 271030Z 20004KT 6000 SCT020 26/24 Q1007 NOSIG KPEX 271053Z AUTO 06003KT 10SM SCT090 M05/M07 A2989 RMK AO2 T10511074 KOPF 271053Z AUTO 11009KT 10SM CLR 23/18 A3017 RMK AO2 SLP216 T02330183 PTTP 272357Z 04015KT 15SM SCT018TCU BKN130 OVC300 29/24 A2985 RMK TCU E-S SLP107 8/271 T02900237 10290 20278 50007 KONX 271100Z AUTO 00000KT 10SM CLR 03/03 A3042 RMK AO2 T00330033 LFPG 271030Z 20021KT 9999 BKN024 11/06 Q0999 BECMG 19020G40 4000 SHRA BKN012 SCT020TCU LFOP 271030Z AUTO 19017KT 6000 -RA BKN009/// OVC013/// ///CB 09/08 Q0995 BECMG 22018G30KT OVC020 KNYG 271056Z AUTO 31007KT 10SM SCT095 00/M01 A3039 RMK AO2 SLP292 T00001011 $ KNXP 271056Z AUTO 27005KT 10SM CLR 06/01 A2988 RMK AO2 SLP102 T00610011 $ KONZ 271053Z AUTO 22006KT 10SM CLR 01/M05 A3017 RMK AO2 T00111046 KPEZ 271055Z AUTO 00000KT 5SM BR OVC015 19/18 A2991 RMK AO2 T01910183 LFQA 271030Z AUTO 19012G23KT 160V230 9999 BKN032 BKN038 OVC050 12/06 Q1002 ETAR 270958Z 22011G16KT 9999 SCT047 12/06 A2971 RMK AO2A SLP065 T01210055 $ LFOT 271030Z AUTO 19019KT 160V220 9999 -RA BKN021/// OVC031/// ///TCU 11/08 Q1002 TEMPO 22025G45KT 2500 -TSRAGR BKN020CB LFQB 271030Z AUTO 17014KT 9999 FEW036 OVC052 12/06 Q1004 KNYL 271057Z AUTO 13007KT 10SM SCT065 OVC080 12/04 A2990 RMK AO2 SLP124 T01170039 KOPL 271035Z AUTO 10SM SCT009 OVC014 17/16 A3000 RMK AO2 P0012 T01660158 PWINO LFOV 271030Z AUTO 22015G30KT 9999 -RA FEW018/// OVC056/// ///CB 08/07 Q0997 LFPM 271030Z AUTO 21022KT 9999 SCT030 BKN037 OVC054 12/07 Q1001 KPHD 271053Z AUTO 13005KT 10SM OVC095 01/M05 A3027 RMK AO2 SLP256 T00111050 LFPN 271030Z AUTO 20020G34KT 9999 BKN022 OVC030 11/07 Q0999 TEMPO 21020G45KT 1500 TSRAGS BKN007 BKN020CB ESKM 271050Z AUTO 10009KT 2300 -PL FEW008/// BKN010/// BKN013/// M01/M02 Q0993 RESG KOPN 271035Z AUTO 15004KT 10SM CLR 08/M02 A3024 RMK AO2 LFPO 271030Z 20019G39KT 9999 BKN025 BKN033 12/06 Q1000 TEMPO 21020G40KT RA BKN012 SCT025CB ESKN 271050Z 15005KT 1800 BR OVC002 03/03 Q0998 R26/290195 KPHF 271054Z 00000KT 1 1/4SM BR CLR 01/00 A3040 RMK AO2 VIS 3/4V4 SLP296 T00060000 GAKO 270900Z 18006KT 8000 NSC 30/06 Q//// LFQG 271030Z AUTO 15011KT 9999 OVC047 11/06 Q1006 LEZG 271030Z VRB05KT 9999 FEW030 13/08 Q1015 WIII 271030Z 26010KT 9000 FEW020CB BKN022 28/24 Q1008 NOSIG RMK CB TO W LGHI 271050Z 03005KT 9999 FEW020 15/13 Q1017 KPIA 271054Z 00000KT 10SM CLR M01/M03 A3011 RMK AO2 SLP202 T10111028 LFRB 271030Z AUTO 23013KT 9999 FEW015 BKN120 BKN140 06/05 Q0993 TEMPO 21025G40KT 4000 SHRAGS BKN020CB KORB 271053Z AUTO 00000KT 10SM CLR M16/M20 A2989 RMK AO2 KPIB 271055Z AUTO 16006KT 10SM CLR 14/09 A3008 RMK AO1 GAKT 270900Z 00000KT CAVOK 29/06 Q//// GAMB 270900Z VRB02KT 3000 DU NSC 27/06 Q1011 KORC 271035Z AUTO 20007KT 10SM CLR M06/M07 A2993 RMK AO2 LEZL 271030Z 00000KT 9999 OVC043 12/09 Q1022 NOSIG LFRC 271030Z AUTO 21023G43KT 190V260 2600 R28/1400D RA BR FEW007/// BKN012/// OVC031/// ///TCU 05/03 Q0991 TEMPO 3000 TSRAGR BKN015CB KPHL 271054Z 21003KT 10SM BKN120 01/M04 A3039 RMK AO2 SLP291 T00111039 LFRD 271030Z AUTO 23015KT 9999 FEW027 SCT038 08/05 Q0994 TEMPO 22025G45KT 3000 TSRAGR BKN015CB LFPV 271030Z AUTO 19017G29KT 170V230 9999 BKN021 OVC029 11/06 Q0999 TEMPO 20020G45KT 3000 -TSRAGS BKN018CB KORD 271051Z 00000KT 10SM SCT090 M02/M05 A3011 RMK AO2 SLP202 T10171050 KPGV 271050Z AUTO 00000KT 10SM CLR 00/00 A3040 RMK AO2 KORE 271052Z AUTO 18006KT 10SM CLR M03/M08 A3025 RMK AO2 SLP253 T10331078 KPIE 271053Z AUTO 08007KT 10SM CLR 18/14 A3019 RMK AO2 SLP224 T01830139 KPHN 271057Z AUTO 21006KT 10SM CLR 01/M05 A3014 RMK AO2 KORF 271051Z 20004KT 10SM CLR 04/02 A3040 RMK AO2 SLP294 T00440022 RCMQ 271030Z 03014KT 9000 FEW010 BKN020 BKN050 14/10 Q1020 NOSIG RMK A3013 LFRG 271030Z AUTO 23014G25KT 9999 BKN018 BKN027 BKN038 09/07 Q0994 TEMPO 22025G45KT 3000 TSRAGR BKN015CB KPHP 271055Z AUTO 10004KT 10SM OVC100 M07/M09 A2974 RMK AO2 SLP088 T10671089 KORG 271055Z AUTO 00000KT 5SM BR OVC004 20/20 A2999 RMK AO2 T02000196 LFRH 271030Z AUTO 27026G39KT 240V300 7000 -RA FEW017/// BKN034/// BKN044/// ///TCU 07/05 Q0997 TEMPO 30020G50KT 2000 TSRAGS BKN012CB LFQQ 271030Z AUTO 21017KT 9999 -RA OVC021/// ///CB 10/07 Q0997 TEMPO 24030G40KT 2000 SHRAGS OVC013 KPIH 271053Z AUTO 36004KT 10SM OVC017 M04/M06 A2961 RMK AO2 SLP049 T10441056 KORH 271054Z AUTO 24007KT 10SM CLR M04/M10 A3024 RMK AO2 SLP256 T10391100 LFRI 271030Z AUTO 22021G35KT 190V250 9999 BKN009/// BKN019/// BKN026/// ///TCU 11/09 Q1002 TEMPO 22030G45KT 4000 SHRA BKN020CB LFRJ 271030Z AUTO 23011KT 9999 FEW013 BKN110 OVC240 05/04 Q0993 TEMPO 22030G50KT 2000 TSRAGR BKN015CB KOSA 271035Z AUTO 13005KT 10SM OVC012 13/13 A2999 RMK AO1 T01270127 LFSB 271030Z 13004KT 090V180 9999 FEW031 SCT260 11/02 Q1009 NOSIG LFRK 271030Z AUTO 21020KT 9999 FEW029 SCT062 BKN170 10/07 Q0993 TEMPO 22025G45KT 3000 TSRAGR BKN015CB KOQT 271053Z AUTO 00000KT 10SM FEW110 03/M02 A3027 RMK AO2 SLP258 T00331022 KPHT 271055Z AUTO 14011KT 10SM FEW015 07/06 A3010 RMK KOQU 262250Z 32020KT 15SM SKC 03/M12 A3004 RMK LAST LFRL 271030Z AUTO 23014KT 9999 BKN044 BKN100 BKN130 07/04 Q0994 TEMPO 22030G50KT 1000 TSRAGS BKN010CB ESMK 271050Z 20010KT 6000 BR FEW006 SCT009 BKN012 08/08 Q1001 KPIL 271053Z AUTO 16006KT 6SM BR FEW018 SCT024 21/21 A2987 RMK AO2 SLP113 T02110206 KORL 271053Z AUTO 36004KT 10SM CLR 14/12 A3022 RMK AO2 SLP237 T01440117 KOSC 271054Z AUTO 35003KT 10SM SCT041 M02/M06 A3009 RMK AO2 T10171058 ETEB 270958Z AUTO 18005KT 9999 CLR 09/00 A2979 RMK AO2 SLP110 T00880000 RCNN 271030Z 34012KT 9999 FEW012 BKN060 18/11 Q1019 NOSIG RMK A3011 LFRM 271030Z AUTO 20016G27KT 160V220 9999 -RA OVC011/// ///CB 12/10 Q0999 TEMPO 21020G40KT 4000 SHRA SCT015 LFSD 271030Z AUTO 18011KT CAVOK 11/03 Q1008 KPIM 271055Z AUTO 16005KT 10SM CLR 13/M02 A3023 RMK AO2 T01251019 ESND 271050Z AUTO 12004KT 050V170 9999 FEW009/// OVC017/// M01/M02 Q0992 LFRN 271030Z AUTO 23020G35KT 190V250 9999 -RA FEW027/// SCT034/// BKN040/// ///CB 09/05 Q0996 TEMPO 22025G45KT 3000 TSRAGR LFRO 271030Z AUTO 24024G40KT 220V280 3400 RA BR SCT009/// BKN015/// BKN029/// ///TCU 05/03 Q0994 TEMPO TSRA BKN020CB LGIO 271050Z /////KT 9999 FEW030 SCT080 17/09 Q1017 KPHX 271051Z 10004KT 10SM SCT120 11/03 A2993 RMK AO2 SLP127 T01060028 LFSG 271030Z AUTO 19015KT CAVOK 10/04 Q1007 KNZY 270552Z 21007KT 10SM SCT035 BKN055 13/10 A2998 RMK SLPP153 T01280100 10139 20122 50000 KQC5 271056Z AUTO 02006KT 9999 CLR 35/M04 A2983 RMK AO2 SLPNO T03511041 LFRQ 271030Z AUTO 25013KT CAVOK 07/05 Q0995 TEMPO 23025G40KT 4000 SHRAGR BKN010TCU ESNG 271050Z 00000KT CAVOK M13/M15 Q0998 KOSH 271053Z AUTO 19005KT 10SM CLR M06/M08 A3007 RMK AO2 SLP196 T10561078 LFSI 271030Z AUTO 18009KT 9999 OVC047 12/04 Q1005 PTYA 271050Z 07008KT 12SM FEW016 SCT130 BKN300 27/24 A2984 RMK SLP107 T02730235 ESMQ 271050Z 24012KT 9999 FEW008 OVC010 09/07 Q1001 KPIR 271053Z AUTO 11003KT 10SM BKN095 M07/M10 A2978 RMK AO2 SLP100 T10721100 LGIR 271050Z 04005KT 9999 SCT020 17/14 Q1017 NOSIG LFRS 271030Z AUTO 24017G37KT 210V270 9999 BKN019 OVC029 11/09 Q1000 TEMPO 22030G45KT 4000 SHRA BKN020CB KORS 271055Z AUTO 05003KT 10SM CLR 03/M08 A2974 RMK AO2 LFRT 271030Z AUTO 25012KT 220V280 9999 -RA BKN018 BKN031 BKN041 07/05 Q0993 KPIT 271051Z 18004KT 10SM OVC100 01/M09 A3025 RMK AO2 SLP262 T00111089 ESMS 271050Z 21012KT 9999 FEW006 OVC015 07/06 Q1001 R17/29//95 KPKB 271053Z AUTO 16004KT 10SM OVC090 02/M06 A3031 RMK AO2 SLP270 T00171056 GANK 270900Z VRB02KT 7000 NSC 26/00 Q//// LFRU 271030Z AUTO 26018KT 230V290 9999 -RA BKN015/// BKN026/// BKN034/// ///CB 05/03 Q0994 LGKC 271050Z /////KT 1500 0500NE FG VV002 12/12 Q1019 LFSL 271030Z AUTO 17009KT 130V220 9999 FEW049 13/05 Q1010 NOSIG ESNK 271050Z AUTO 16013KT 1600 -SN BKN002/// BKN025/// OVC041/// M01/M01 Q0997 ESMT 271050Z 21015KT 3500 BR FEW003 BKN006 07/06 Q0999 LHBC 270845Z 00000KT CAVOK 08/04 Q1019 LFRV 271030Z AUTO 24014G28KT 200V280 7000 -RA FEW012/// BKN017/// BKN026/// ///CB 08/06 Q0997 ESNL 271050Z AUTO 12010KT 4700 -SN FEW006/// SCT011/// BKN020/// M07/M09 Q0997 KPKD 271053Z AUTO 00000KT 10SM BKN036 OVC060 M08/M13 A2988 RMK AO2 SLP143 T10781128 KQBD 271055Z AUTO 35008KT 2 1/2SM -SHSN FEW004 SCT006 BKN013 BKN020 M01/M01 A2964 RMK AO2 SHRAB1028E1034SHSNB1034 SLP043 WND DATA ESTMD P0000 T10061014 LFSN 271030Z AUTO 18011KT 160V230 9999 BKN035 BKN041 12/05 Q1006 KQD3 271056Z AUTO 01013G18KT 9999 CLR 30/20 A2982 RMK AO2 SLP096 T02950196 LGKF 271050Z 12009KT 9999 FEW018 BKN180 19/10 Q1018 LFSO 271030Z AUTO 21017G27KT 9999 FEW030 OVC042 11/05 Q1006 BECMG 21010KT ESOE 271050Z 20007KT 5000 BR OVC006 04/04 Q0996 ESNN 271050Z 14014KT 1500 -SN VV009 M01/M01 Q0997 R16/79//26 KQBF 271056Z AUTO 08003G12KT 9999 CLR 34/M10 A2980 RMK AO2 SLPNO T03421100 ESNO 271050Z AUTO 10009KT 1800 -SN OVC007/// M05/M06 Q0998 ESMX 271050Z 21013KT 5000 BR OVC003 07/06 Q1000 KOTG 271056Z AUTO 20010KT 10SM CLR M04/M06 A2991 RMK AO2 SLP150 T10391061 FZRANO KS25 271035Z AUTO 03008KT 7SM -SN OVC028 M09/M10 A2979 RMK AO2 LFTH 271030Z AUTO 10008KT 9999 BKN034 OVC046 13/09 Q1017 BECMG 17012KT LFRZ 271030Z AUTO 23018KT 200V260 9999 FEW018/// BKN025/// BKN030/// ///CB 11/09 Q0999 TEMPO 22030G50KT 4000 SHRA KOTH 271055Z 15007KT 10SM SCT024 OVC037 03/03 A2987 RMK AO1 ESNQ 271050Z 21004KT 6000 BR FEW028 M16/M17 Q0996 GANR 270900Z 08004KT 8000 NSC 27/M00 Q1012 LFST 271030Z AUTO 16009KT 130V190 CAVOK 13/03 Q1007 NOSIG ESPA 271050Z 12002KT CAVOK M10/M14 Q1002 ESNS 271050Z 16007KT 140V200 9999 BKN010 OVC098 M07/M09 Q1001 KQBL 261756Z AUTO 15003KT 10SM CLR 18/01 A3023 RMK AO2 SLP239 WND DATA ESTMD T01830011 10184 20065 58007 LGKL 271050Z 34004KT 9999 SCT035 BKN080 BKN180 20/07 Q1016 ESOK 271050Z 18010KT 2500 BR OVC002 04/04 Q0994 KOSU 271053Z AUTO 19004KT 10SM OVC065 04/M04 A3023 RMK AO2 SLP243 T00441044 KS32 271055Z AUTO 18003KT 10SM CLR M15/M17 A2987 RMK AO2 ESNU 271050Z 13009KT 9999 FEW010 OVC030 M06/M09 Q1001 R14/71//65 KOTM 271053Z AUTO 18009KT 10SM SCT080 M01/M02 A3003 RMK AO2 SLP175 T10061017 ESNV 271050Z AUTO 13009KT 1000 R10/1200N R28/1100U -SN VV005 M06/M07 Q0992 LFSX 271030Z AUTO 22006KT 110V280 9999 BKN036 OVC045 12/03 Q1008 NOSIG LGKO 271020Z 36009KT 9999 FEW018 17/12 Q1017 ESPE 271050Z AUTO 11003KT 9999 OVC046/// M12/M15 Q0999 ESNX 271050Z 11006KT 2500 SN VV008 M09/M11 Q0996 LGKP 271050Z 28006KT 9999 BKN020 17/12 Q1016 LHBP 271030Z 12008KT CAVOK 10/00 Q1017 NOSIG ETGG 271020Z 19012KT 8000 FEW010 BKN021 10/07 Q0998 WHT LGKR 271050Z 15006KT 9999 FEW030 20/12 Q1017 NOSIG ESNZ 271050Z 16014KT 9999 5000NE -SN SCT009 BKN014 BKN021 M03/M05 Q0989 ETHA 271020Z VRB02KT 9999 FEW110 SCT150 08/00 Q1009 BLACKBLU+BLU+ VRMM 271000Z 05012KT 9999 FEW018TCU BKN280 32/22 Q1007 NOSIG WIMM 271030Z VRB02KT 4500 HZ SCT018 BKN050 28/25 Q1007 NOSIG KS39 271055Z AUTO 00000KT 10SM SCT024 BKN055 OVC065 M03/M05 A2968 RMK AO2 ETHB 271020Z 20013KT 9999 FEW035 BKN044 12/05 Q1001 BLU BLU LHDC 271015Z 14006KT CAVOK 11/01 Q1018 NOSIG ETHC 271020Z 16011KT 9999 FEW028 BKN046 11/04 Q1003 BLU BLU LGLM 271020Z 36005KT 9999 SCT020 12/08 Q1020 LGKV 271050Z 22006KT 9999 FEW015 14/11 Q1019 KPMD 271053Z AUTO 23015G19KT 10SM OVC070 07/01 A2985 RMK AO2 SLP102 T00670011 KPKV 271055Z AUTO 00000KT 2SM BR SCT014 BKN024 OVC031 19/19 A2992 RMK AO2 T01860186 LFTW 271030Z AUTO 10008KT 7000 -RADZ FEW011 BKN017 OVC029 10/09 Q1015 NOSIG KOVE 271053Z AUTO 12006KT 10SM CLR 06/02 A2989 RMK AO2 SLP123 T00560022 $ KPLN 271054Z AUTO 00000KT 10SM FEW030 M11/M13 A3009 RMK AO2 SLP201 T11061133 KOUN 271055Z AUTO 14005KT 10SM OVC006 07/04 A2993 RMK AO2 ETHE 271020Z AUTO 20008KT //// // ////// 11/05 Q1000 /// ESOW 271050Z 15008KT 9999 5000W OVC003 02/01 Q0998 R19/610173 ETHF 271020Z 18013G24KT 9999 BKN034 11/04 Q1004 BLU BLU KQDG 271056Z AUTO 19003KT 9999 CLR M06/M07 A3042 RMK AO2 SLP303 T10601073 PWINO FZRANO $ LGKZ 271050Z 00000KT 9999 SCT020 SCT070 14/10 Q1019 KPLR 271055Z AUTO 00000KT 10SM CLR 02/02 A3019 RMK A01 KOWA 271054Z AUTO 16012KT 10SM CLR M07/M09 A2995 RMK AO2 KPNA 271035Z AUTO 00000KT 1SM -SN OVC004 M11/M12 A2956 RMK AO2 LGMK 271050Z 01016KT 9999 SCT008 16/12 Q1018 KOWB 271056Z AUTO 11007KT 10SM -RA BKN041 OVC055 07/05 A3019 RMK AO2 SLP236 P0002 T00670050 KPNC 271053Z AUTO 02004KT 10SM CLR 01/M01 A2995 RMK AO2 SLP141 T00111011 KOVL 271053Z AUTO 17003KT 10SM CLR M05/M06 A2989 RMK AO2 KPLU 271035Z AUTO 00000KT 8SM 01/01 A2976 RMK AO2 ETHL 271020Z 20004KT 9999 FEW080 SCT110 09/M00 Q1009 BLU+BLU+ KOWD 271053Z AUTO 17003KT 10SM CLR M03/M07 A3031 RMK AO2 SLP264 T10331072 ETIC 270958Z AUTO VRB06KT 9999 SCT031 09/00 A2980 RMK AO2 SLP106 KPNE 271054Z 00000KT 10SM FEW120 M01/M06 A3040 RMK AO2 SLP294 T10111056 ETHN 271020Z 20011KT 9999 FEW035 10/02 Q1007 BLU+BLU TEMPO BLU+ LFVP 262200Z 25009KT 1100 R26/1300U BR OVC003 03/02 Q0997 NOSIG KPMP 271053Z AUTO 11014KT 9SM SCT029 SCT037 24/18 A3017 RMK AO2 SLP216 T02440183 KQEI 270000Z AUTO 10001KT 9999 CLR M02/M07 A3036 RMK A02 TSNO KOWI 271055Z AUTO 17003KT 1/4SM FZFG OVC002 M04/M04 A3001 RMK AO2 ETIH 270958Z AUTO 13006KT 9999 CLR 07/00 A2982 RMK AO2 SLP117 KQEJ 271050Z AUTO 22001KT 9999 CLR 01/M07 A3025 RMK A02 TSNO KOVS 271053Z AUTO 00000KT 7SM SCT003 M07/M09 A3007 RMK AO2 SLP191 I1000 T10721089 PWAK 271058Z AUTO 04013KT 9999 CLR 25/21 A2997 RMK AO2 SLP155 T02500209 $ ETHS 271020Z 21013KT 9999 BKN047 11/04 Q1002 BLU BLU LGMT 271050Z 34006KT 9999 SCT020 14/11 Q1019 ESSA 271050Z 14012KT 7000 -DZ OVC004 01/01 Q0998 R01L/29//95 R08/29//95 R01R/29//95 BECMG BKN004 KQFB 271050Z AUTO 10003KT 9999 BKN039 07/02 A3035 RMK A02 TSNO KOXB 271053Z AUTO 00000KT 10SM CLR M02/M04 A3042 RMK AO2 SLP300 T10171039 KPOB 271058Z AUTO 00000KT 10SM CLR M01/M02 A3034 RMK AO2 SLP278 T10111024 $ KPOC 262347Z 09010KT 10SM OVC035 10/07 A2997 ESSB 271050Z 14010KT 4400 -RA OVC003 02/01 Q0999 R12/29//71 KQEL 271050Z AUTO 02001KT 9999 CLR 01/M07 A3037 RMK A02 TSNO KOXC 271055Z AUTO 23005KT 10SM CLR M02/M10 A3033 RMK AO1 KPMU 271055Z AUTO 09005KT 2SM UP SCT006 OVC013 08/07 A3013 RMK AO2 LTG DSNT S AND SW P0215 T00770071 ETIK 270958Z AUTO VRB05KT 9999 FEW038 11/02 A2980 RMK AO2 SLP098 T01110019 WIOO 271030Z 02005KT 9999 FEW011CB BKN012 26/25 Q1007 RMK CB TO E KPNM 271055Z AUTO 00000KT 10SM BKN080 M04/M07 A2992 RMK AO2 KPMV 271035Z AUTO 15006KT 10SM CLR M02/M07 A2997 RMK AO2 T10211075 ESSD 271050Z 12006KT 070V170 9999 OVC005 M00/M01 Q0995 KQEN 271050Z AUTO 31002KT 9999 CLR M02/M03 A3020 RMK A02 TSNO KPOE 270958Z AUTO 12006KT 10SM OVC009 17/16 A2996 RMK AO2 SLP146 T01720159 $ KPOF 271053Z AUTO 00000KT 10SM OVC050 08/06 A3008 RMK AO2 SLP190 T00830061 TSNO KQEP 270340Z AUTO 19005KT 9999 CLR 08/M11 A3035 RMK A02 TSNO KOWP 271055Z AUTO 10003KT 10SM CLR 06/01 A2996 RMK AO2 T00550005 GASG 270900Z 04004KT CAVOK 26/08 Q//// KQEQ 271050Z AUTO 34001KT 9999 CLR 03/M08 A3034 RMK A02 TSNO RCSS 271030Z 11009KT 6000 FEW016 BKN028 BKN040 15/09 Q1024 NOSIG RMK A3025 KOXI 271055Z AUTO 20006KT 10SM CLR M02/M14 A3016 RMK AO1 LGPA 271050Z AUTO 02015KT //// -RA ////// 16/11 Q1018 RE// KQES 271050Z AUTO 29005KT 9999 CLR 04/M05 A3036 RMK A02 TSNO KPNS 271053Z AUTO 05006KT 10SM CLR 14/11 A3015 RMK AO2 SLP210 T01390106 KPPA 271035Z AUTO 17007KT 10SM CLR 01/00 A2986 RMK AO2 T00121005 ESTA 271020Z 17010KT 3800 BR BKN005 OVC008 08/07 Q1000 KPNT 271035Z AUTO 00000KT 10SM CLR M02/M03 A3013 RMK AO2 T10251026 GASK 270900Z 20010KT 8000 NSC 29/19 Q//// ESSL 271050Z 21006KT 160V240 9999 BKN011 OVC015 08/07 Q0998 R29/29//95 KQEV 271050Z AUTO 34001KT 8000 HZ CLR 04/M05 A3027 RMK A02 TSNO KQEW 270000Z AUTO 13001KT 6000 HZ CLR M00/M04 A3036 RMK A02 TSNO WIPP 271030Z 01007KT 9999 FEW012 FEWCB015 25/23 Q1007 FKKD 271000Z 23003KT 7000 BKN016 FEW020CB 31/24 Q1009 NOSIG KQGE 271056Z AUTO 15005KT 10SM CLR 18/14 A3014 RMK AO2 SLP211 T01790138 GASN 270900Z 00000KT 8000 NSC 26/10 Q//// LGNX 271050Z 36013KT 9999 FEW018 17/10 Q1018 RCTP 271030Z 07013KT 8000 FEW030 OVC045 15/10 Q1023 NOSIG RMK A3023 KPPF 271052Z AUTO VRB04KT 8SM CLR 00/M01 A3000 RMK AO2 SLP162 T00001011 KQEX 271050Z AUTO 07001KT 9999 SCT075 07/01 A3021 RMK A02 TSNO KOWX 271055Z AUTO 22005KT 10SM CLR 00/M04 A3021 RMK AO1 KQEY 271050Z AUTO 01003KT 9999 CLR 06/M06 A2999 RMK A02 TSNO ESSP 271050Z AUTO 19007KT 9999 BKN016/// BKN021/// OVC049/// 07/06 Q0998 KOXR 271051Z AUTO 05005KT 10SM SCT070 OVC085 12/07 A2991 RMK AO2 SLP129 T01170072 KOZA 271035Z AUTO 10SM SCT003 08/06 A2993 RMK AO2 KQFT 271050Z AUTO 21001KT 9999 CLR 03/M08 A3028 RMK A02 TSNO ESST 271050Z AUTO 17008KT 4000 BR OVC002/// 03/03 Q0993 KQFU 271050Z AUTO 21002KT 9999 CLR 05/M07 A3033 RMK A02 TSNO KPOU 271053Z AUTO 00000KT 10SM CLR M04/M07 A3033 RMK AO2 SLP269 T10441072 KQFV 271050Z AUTO 30002KT 9999 CLR 00/M08 A3029 RMK A02 TSNO ESTL 271050Z AUTO 21011KT 180V240 8000NDV BR OVC004/// 08/07 Q1001 KPOV 271053Z AUTO 00000KT 10SM BKN065 00/M08 A3022 RMK AO2 T00021085 KOXV 271055Z AUTO 19006KT 10SM FEW065 M01/M04 A3000 RMK AO2 KQFW 270040Z AUTO 02001KT 9999 CLR M01/M07 A3038 RMK A02 TSNO ESSV 271050Z 19011KT 2500 BR OVC004 05/05 Q1001 R21/29//82 ESUD 271050Z AUTO 12007KT 2200 -SN FEW000/// M07/M09 Q0995 FKKN 271000Z 36006KT CAVOK 31/04 Q1016 KPPO 271055Z AUTO 20003KT 10SM SCT110 M02/M05 A3015 RMK AO2 T10201046 KPOY 271035Z AUTO 13010KT 10SM CLR M07/M12 A2952 RMK AO2 KPPQ 271055Z AUTO 00000KT 7SM BKN065 00/00 A3010 RMK AO2 T00030000 LFYR 271030Z AUTO 19016KT 170V230 9999 BKN027 BKN037 BKN047 12/07 Q1004 TEMPO VRB25G40KT 2000 TSRAGS BKN008 BKN020CB KPQI 271056Z AUTO 16006KT 10SM SCT032 M06/M11 A2998 RMK AO2 SLP197 T10561106 FZRANO FKKR 271000Z VRB04KT CAVOK 32/04 Q1010 NOSIG KPRB 271053Z AUTO 16003KT 10SM -RA OVC043 07/06 A2990 RMK AO2 SLP123 P0001 T00670056 TSNO KPQL 271053Z AUTO 14009KT 10SM CLR 18/14 A3008 RMK AO2 SLP186 T01780139 TSNO KPRC 271053Z AUTO 18011G18KT 10SM BKN034 OVC042 04/M01 A2991 RMK AO2 SLP097 T00441011 KPQN 271054Z AUTO 20007KT 10SM CLR M04/M08 A2988 RMK AO2 KPRG 271035Z AUTO 10005KT 10SM BKN043 OVC049 04/02 A3016 RMK AO2 T00410015 ESUP 271050Z AUTO 25002KT 9999 NCD M16/M17 Q1000 LGPZ 271050Z 00000KT 9999 FEW025 SCT080 18/10 Q1017 KOZR 271056Z AUTO 13006KT 10SM OVC170 13/00 A3019 RMK AO2 SLP225 T01281005 LGSA 271050Z 10007KT 9999 SCT015 BKN035 16/13 Q1017 KOZS 271055Z AUTO 12005KT 10SM CLR 00/00 A3004 RMK AO2 VTBD 271030Z 05005KT 020V080 9999 FEW025 33/21 Q1010 NOSIG KQJB 271056Z AUTO 08003KT 9999 FEW037 SCT065 BKN140 29/14 A2986 RMK AO2 SHRAE15 SLPNO T02900137 ESUT 271050Z AUTO 15015KT 9999 BKN021/// OVC032/// M05/M10 Q0989 KPSC 271053Z AUTO 00000KT 10SM OVC043 01/M01 A2976 RMK AO2 SLP080 T00111006 KRAC 271053Z AUTO 00000KT 10SM CLR M03/M07 A3012 RMK AO2 SLP206 T10331067 ETND 271020Z 19014KT 9999 FEW033 BKN045 11/06 Q1000 BLU KOZW 271054Z AUTO 24006KT 10SM CLR 01/M05 A3012 RMK AO2 T00071051 KPRN 271056Z AUTO 14004KT 10SM CLR 10/M02 A3017 RMK AO2 SLP213 T01001017 ETMN 271020Z 19013KT 9999 FEW030 BKN043 10/06 Q0999 BLU BLU KPRO 271055Z AUTO 10003KT 10SM CLR M05/M05 A3000 RMK AO2 T10461051 KPSF 271054Z AUTO 00000KT 10SM CLR M07/M09 A3021 RMK AO2 SLP248 T10671094 LGRP 271050Z 30004KT 250V330 9999 FEW018 17/12 Q1017 NOSIG KQHY 271056Z AUTO 16005KT 10SM CLR 18/14 A3016 RMK AO2 SLP220 T01770141 $ ETNG 271050Z 22014G32KT 9999 FEW033 BKN042 12/05 Q1000 ETNH 271020Z 18010KT 9000 SCT030 BKN045 10/06 Q0999 BLU BLU LIBA 270955Z 13004KT 9999 FEW015 SCT030 13/11 Q1018 VTCC 271030Z 14004KT 8000 FEW035 35/08 Q1011 A2985 NOSIG KPRS 271055Z AUTO 07006KT 10SM CLR 13/M06 A2995 RMK AO2 T01321064 LGSK 271050Z 00000KT 9999 SCT010 BKN030 13/10 Q1019 KPSK 271035Z AUTO 00000KT 10SM BKN120 00/M04 A3034 RMK AO2 T10041038 KPTB 271035Z AUTO 00000KT 10SM SCT120 M02/M03 A3040 RMK AO2 T10221031 KT20 271035Z AUTO 17003KT 10SM OVC023 21/20 A2992 RMK AO2 T02070201 KRAL 271053Z AUTO 00000KT 10SM BKN055 OVC095 07/07 A2993 RMK AO2 SLP127 T00720067 ETNL 271020Z 20008KT 9999 BKN057 11/05 Q1003 BLU BLU VTBO 271000Z 24010KT 9999 FEW023 31/23 Q1009 LIBD 271050Z 08010KT 9999 FEW015 14/11 Q1018 LGSM 271050Z 03008KT 9000 FEW016 SCT040 15/12 Q1017 KRBD 271053Z AUTO 13005KT 9SM OVC007 16/15 A2991 RMK AO2 SLP124 T01560150 KPSM 271058Z 22005KT 10SM CLR M02/M08 A3023 RMK AO2A SLP240 T10221082 LHKE 271045Z 18006KT 110V240 CAVOK 12/01 Q1017 NOSIG RMK BLU KPSN 271055Z AUTO 00000KT 10SM OVC010 18/17 A2996 RMK AO2 T01820173 LIBF 270950Z VRB03KT 9999 FEW015 12/09 Q1019 LGSO 271050Z 01007KT 9999 FEW018 16/11 Q1018 ETNN 271020Z AUTO 20011KT 9999 // ////// 12/05 Q1001 /// VTCH 270900Z 26006KT 160V340 CAVOK 36/02 Q1009 A2979 INFO KPRX 271055Z 06007KT 10SM SCT005 OVC014 10/08 A2998 RMK AO1 KPSO 271055Z AUTO 00000KT 2 1/2SM -SN OVC025 M04/M07 A2987 RMK AO2 T10451072 LGRX 271050Z 07008KT 9999 BKN080 18/11 Q1018 LIBG 270950Z VRB02KT CAVOK 17/12 Q1018 KRAP 271052Z AUTO 19009KT 10SM CLR M06/M11 A2966 RMK AO2 SLP074 T10611106 KRBG 271053Z AUTO 00000KT 7SM SCT002 BKN027 01/00 A2985 RMK AO2 SLP113 T00060000 KPSP 271053Z 00000KT 10SM OVC085 10/06 A2982 RMK AO2 SLP099 T01000056 LGTG 271050Z 00000KT 7000 FEW010 BKN030 BKN070 15/11 Q1019 WHT LIBH 270955Z 22003KT CAVOK 18/13 Q1018 RMK SKC QUK 1 QUL 1 NE VIS MAR 15 KM VIS MIN 9999 VTBS 271030Z 04006KT 020V080 9000 FEW020 SCT040 34/17 Q1010 NOSIG LGSR 271050Z 01010KT 350V050 9999 FEW014 17/13 Q1018 VTCL 271000Z 12008KT 9999 FEW025 33/20 Q1010 A2982 VTBU 271030Z 13004KT 8000 FEW020 30/21 Q1009 NOSIG LICA 270950Z 10013KT 9999 FEW020 SCT070 17/11 Q1018 KRAS 271055Z AUTO 19008KT 5SM BR SCT016 BKN022 BKN027 20/20 A2988 RMK AO2 T02010196 KRCA 271058Z AUTO 17009KT 10SM CLR M05/M10 A2965 RMK AO2 SLP073 T10501100 $ LICB 270950Z 06017KT 9999 SCT030 17/11 Q1015 ETNS 271020Z 19011KT 9999 SCT025 BKN043 09/06 Q0999 BLU KPTK 271053Z 20004KT 10SM CLR 01/M06 A3011 RMK AO2 SLP206 T00061056 $ KPUB 271053Z AUTO 20004KT 10SM CLR M11/M18 A2973 RMK AO2 SLP080 T11061183 ETNT 271020Z 19010KT 9999 BKN027 BKN050 10/06 Q0998 BLU VTCN 271000Z 17007KT 9999 SCT025 33/16 Q1010 A2983 LICC 271050Z 05014KT 6000 -RA SCT015 BKN050 15/12 Q1016 KPUC 271053Z AUTO 12005KT 10SM OVC080 M01/M07 A2965 RMK AO2 SLP065 T10111067 KRBL 271054Z AUTO 00000KT 10SM CLR 01/M01 A2989 RMK AO2 SLP121 T00111011 LICD 270950Z 34018KT 9999 BKN018 15/13 Q1017 KQN2 271056Z AUTO 26003KT 9999 CLR 34/13 A2984 RMK AO2 SLPNO T03440130 KRCE 271015Z AUTO 13005KT 10SM 05/04 A2992 RMK AO2 LIBN 270955Z 06005KT 9999 FEW020 18/14 Q1018 VTCP 271000Z AUTO 20006KT 140V230 9999 // SKC 33/17 Q1009 KPTN 271056Z AUTO 16009KT 10SM OVC011 21/19 A3003 RMK AO2 SLP169 T02060194 KQN3 271056Z AUTO 07008G16KT 6000 HZ FEW220 35/M11 A2988 RMK AO2 SLP107 T03481114 GAYE 270900Z 06006KT 8000 NSC 31/01 Q//// ETNW 271020Z 19014KT 9999 FEW035 BKN043 12/04 Q1002 BLU BLU LICF 270955Z 01004KT 9999 SCT026 17/10 Q1017 RMK SCT SCT080 QUK 1 QUL 0 VIS MAR 15 KM MON CIME INC NC VIS MIN 9999 KPSX 271053Z AUTO 13005KT 4SM BR FEW012 BKN022 OVC031 20/19 A2991 RMK AO2 SLP129 T02000194 KRBO 271035Z AUTO 00000KT 7SM BKN023 21/21 A2988 RMK AO2 T02050205 LICG 270955Z 33014KT 9999 SCT020 13/11 Q1018 LIBP 270950Z 04003KT 010V080 CAVOK 13/07 Q1018 KT35 271035Z AUTO 00000KT 7SM OVC029 18/17 A2993 RMK AO2 T01830174 LGSY 271050Z 02005KT 9999 FEW012 SCT020 14/12 Q1018 RMK BKN080 BLU LIBQ 270955Z 15015KT 9999 SCT005 07/03 Q1017 RMK SCT MON LIB VAL NW MAR CLD NC VIS MIN 9999 VTCT 271000Z 16008KT 9999 FEW035 32/18 Q1010 A2983 LIBR 271045Z 33006KT 9999 SCT020 16/14 Q1019 NOSIG KQKR 271056Z AUTO 05004KT 9999 CLR 34/M04 A2986 RMK AO2 SLPNO T03441041 LICJ 271050Z 02010KT 9999 SCT020 15/13 Q1019 LGTS 271050Z 32006KT 9999 FEW018 13/10 Q1019 NOSIG KPTS 271055Z AUTO 00000KT 4SM BR CLR M01/00 A3000 RMK AO2 T10061005 KPUJ 271055Z AUTO 10006KT 10SM CLR 10/00 A3022 RMK AO2 KPTT 271035Z AUTO 12007KT 10SM CLR M02/M05 A2991 RMK AO2 T10221055 KPVB 271035Z AUTO 08005KT 10SM CLR M04/M04 A3005 RMK AO1 T10361039 LICL 270955Z 06017KT 9999 SCT040 17/12 Q1015 RMK SCT QUK 3 QUL 1 E VIS MAR 14 KM VIS MIN 9999 KPVC 271056Z AUTO 24015KT 10SM CLR 01/M06 A3032 RMK AO2 SLP268 T00061056 FZRANO LIBV 270955Z 16008KT 9999 SCT020 13/08 Q1018 RMK SCT VIS MIN 9999 WIND THR32 18007KT WIND THR14 18009KT BLU KPVD 271051Z 24006KT 10SM CLR M01/M09 A3034 RMK AO2 SLP273 T10111089 $ KRCM 271055Z AUTO 00000KT 1/4SM FZFG VV002 M03/M03 A3004 RMK AO2 KRDD 271053Z AUTO 00000KT 10SM CLR 02/M01 A2986 RMK AO2 SLP112 T00221011 KPTV 271056Z AUTO 10003KT 10SM -RA CLR 08/07 A2992 RMK AO2 RAB46 SLP146 P0000 T00780067 ETOU 271058Z AUTO 20015KT 9999 OVC044 12/04 A2967 RMK AO2 SLP050 T01220038 GCGM 271030Z VRB02KT 9999 SCT035 17/10 Q1023 RMK R09/VRB02KT ARP/VRB03KT GCFV 271030Z 04011KT 9999 SCT034 19/12 Q1022 KPTW 271054Z AUTO 00000KT 9SM BKN120 M04/M07 A3038 RMK AO2 SLP288 T10441072 TSNO KRBW 271055Z AUTO 10004KT 10SM CLR 04/03 A3031 RMK AO2 KPVF 271035Z AUTO 17006KT 1/4SM OVC002 00/00 A2985 RMK AO1 P0002 LIBY 270955Z 23005KT CAVOK 17/11 Q1016 RMK SKC QUK 1 QUL 0 VIS MAR 12 KM VIS MIN 9999 KPVG 271055Z 00000KT 6SM CLR M01/M03 A3039 RMK AO1 KRDG 271054Z 33003KT 10SM FEW120 M04/M05 A3035 RMK AO2 SLP287 T10391050 LICR 270950Z 16003KT 9999 FEW050 17/10 Q1017 KRCR 271035Z AUTO 21003KT 10SM SCT080 02/M03 A3016 RMK AO2 GCHI 271030Z 04017KT 010V070 9999 FEW025 BKN035 19/12 Q1023 LIEA 271050Z 19009KT 170V230 9999 FEW025 15/09 Q1020 KPWA 271053Z AUTO 14006KT 10SM SCT006 SCT011 08/04 A2991 RMK AO2 SLP125 T00780039 KPVJ 271055Z AUTO 12004KT 10SM OVC014 10/07 A2992 RMK AO2 T01030065 LIEB 270955Z 19006KT 9999 FEW035 14/08 Q1018 RMK FEW QUK 2 QUL 0 VIS MAR 20 KM MON LIB VIS MIN 9999 LICT 270955Z 36016KT 9999 SCT015 16/14 Q1019 KRDK 271055Z AUTO 00000KT 10SM CLR M06/M07 A3000 RMK AO2 LIEC 270955Z 08004KT 9999 FEW020 15/13 Q1019 RMK FEW QUK 1 QUL 0 VIS MAR 25 KM VIS MIN 9999 KPWC 271053Z AUTO 00000KT 10SM OVC025 M09/M12 A2993 RMK AO2 LIED 270955Z 31004KT 9999 FEW040 16/10 Q1019 KRCV 271050Z AUTO 00000KT 10SM BKN060 M10/M14 A2982 RMK AO2 T10961142 KRDM 271056Z AUTO 13003KT 10SM SCT050 BKN070 M04/M07 A2968 RMK AO2 SLP068 T10391072 KQND 271056Z AUTO 10008G15KT 9999 FEW200 34/M10 A2986 RMK AO2 SLPNO T03411097 LIEE 271050Z 29005KT 240V320 CAVOK 16/05 Q1020 KPUW 271053Z AUTO 00000KT 4SM -SN BR BKN006 OVC038 M04/M04 A2964 RMK AO2 SNB02 SLP061 P0000 T10391044 FLHN 271000Z 07009KT 9999 BKN025TCU 27/19 Q1015 NOSIG KRCX 271055Z AUTO 12004KT 10SM BKN028 OVC095 M05/M10 A2998 RMK AO2 T10481099 KPWG 271056Z AUTO 16005KT 10SM OVC016 17/16 A2992 RMK AO2 SLP144 T01720161 LICZ 270855Z /////KT 6000 SCT020 BKN070 17/12 Q1016 RMK BKN VIS 6000 WIND THR28 /////KT WIND THR10 /////KT A3001 GRN KRCZ 271050Z AUTO 00000KT 10SM CLR 02/M01 A3035 RMK AO2 T00161007 KRDR 271058Z AUTO 22007KT 10SM CLR M12/M15 A2988 RMK AO2 SNB0958E01 SLP142 P0000 T11171148 ETSA 271020Z 18004KT 9999 BKN110 10/M03 Q1009 BLU KPWK 271052Z AUTO 00000KT 10SM CLR M03/M06 A3013 RMK AO2 SLP208 T10331061 $ ETSB 271020Z AUTO 21019KT 9999 // ////// 09/03 Q1003 /// KRDU 271051Z 12009KT 10SM FEW120 BKN210 06/M06 A3034 RMK AO2 SLP275 T00561056 KPVU 271056Z AUTO 22014G17KT 10SM BKN100 04/M03 A2963 RMK AO2 SLP036 T00441033 KPWM 271051Z 21009KT 10SM CLR M03/M09 A3021 RMK AO2 SLP231 T10281089 KRFD 271054Z 00000KT 10SM FEW045 M03/M05 A3011 RMK AO2 SLP203 I1000 T10331050 $ KPVW 271035Z AUTO 26008KT 10SM CLR 00/M06 A2989 RMK AO2 T00041062 TSNO KPXE 271035Z AUTO 15004KT 10SM 11/03 A3025 RMK AO2 T01100030 LIEO 271050Z 21007KT 160V230 9999 FEW030 17/05 Q1019 KREO 271052Z AUTO 24005KT M04/M07 A2963 RMK AO1 SLP057 T10441072 KT65 271035Z AUTO 18006KT 10SM OVC015 20/19 A2985 RMK AO2 T02030192 ETSH 271020Z 20008KT 9999 BKN038 11/03 Q1007 BLU BLU KRFI 271035Z AUTO 15003KT 10SM OVC008 18/17 A2997 RMK AO2 T01760165 ETSI 271020Z 36001KT 9999 FEW100 08/M01 Q1010 BLU+ LHPA 271045Z 18014KT 150V210 CAVOK 14/02 Q1014 NOSIG RMK BLU KRGA 271055Z AUTO 00000KT 10SM BKN050 OVC060 06/M03 A3026 RMK AO2 KPWT 271055Z AUTO 21003KT 10SM BKN055 OVC080 01/01 A2979 RMK AO1 KT70 270958Z AUTO 10008KT 8SM OVC018 17/17 A2979 RMK AO2 SLP078 T01720165 $ ETSL 271020Z 21006KT 9999 FEW120 10/M02 Q1009 BLU+ ETSN 271020Z 15003KT 9999 FEW025 07/00 Q1009 BLU+ LGZA 271050Z 34005KT 9999 FEW020 SCT080 BKN180 17/13 Q1017 GCLA 271030Z 35009KT 310V020 9999 BKN040 18/11 Q1024 KRGK 271056Z AUTO 12003KT 10SM CLR M06/M08 A2998 RMK AO2 FLKK 271100Z 07008KT 9999 SCT025 SCT100 BKN300 24/17 Q1017 KPYM 271052Z AUTO 19003KT 10SM CLR M02/M07 A3032 RMK AO2 SLP268 T10221072 KT82 271035Z AUTO 17005KT 7SM OVC014 18/16 A2993 RMK AO2 T01770162 LHPP 271015Z 12005KT CAVOK 12/04 Q1017 FMCH 271000Z VRB02KT 9999 -RA SCT020CB 26/25 Q1009 NOSIG KRHI 271053Z AUTO 00000KT 10SM OVC038 A2999 RMK AO2 SLPNO TSNO $ LHPR 271015Z 14010KT 110V170 CAVOK 13/02 Q1015 RMK BLU AGGH 271100Z 11002KT 30KM HZ FEW016 SCT300 25/24 Q1009 KRIC 271054Z 14005KT 10SM SCT150 M01/M02 A3038 RMK AO2 SLP294 T10061022 KQRD 271058Z AUTO 13003KT 10SM CLR 18/14 A3014 RMK AO2 SLP211 KPYX 271055Z AUTO 16009KT 10SM CLR 01/M01 A2984 RMK AO2 T00111009 KRHP 271050Z AUTO 00000KT 10SM CLR 01/M01 A3029 RMK AO2 T00051013 GCLP 271030Z 36015KT 320V030 9999 SCT038 19/08 Q1022 NOSIG KPZQ 271055Z AUTO 24003KT 10SM CLR M06/M09 A3010 RMK AO2 T10651090 KQRH 271056Z AUTO 07008G14KT 9999 CLR 29/21 A2987 RMK AO2 SLP108 T02910211 KSAA 271055Z AUTO 17011G17KT 10SM SCT070 SCT090 M03/M10 A2961 RMK AO2 KRIL 271053Z AUTO 31004KT 10SM BKN060 OVC075 M02/M07 A2971 RMK AO2 SLP064 T10171072 $ KSAC 271053Z AUTO 21007KT 10SM BKN100 07/06 A2990 RMK AO2 SLP124 T00670056 KSAD 271051Z AUTO 00000KT 10SM CLR 01/M04 A2995 RMK AO2 SLP130 T00061039 KRHV 270547Z 34004KT 8SM FEW025 BKN055 08/05 A2995 RMK LAST FMEE 271030Z 02003KT 9999 FEW023 SCT053 30/23 Q1010 NOSIG KSAF 271053Z AUTO 00000KT 10SM BKN050 M03/M08 A2990 RMK AO2 SLP113 T10331078 KQQY 271055Z AUTO 24001KT 2SM +SHRA FEW002 SCT012 BKN039 BKN046 22/21 A3003 RMK AO2 SHRAB0955 SLP148 P0044 T02160213 $ FMCZ 271030Z 05007KT 9999 FEW021 BKN210 30/23 Q1008 NOSIG KSBA 271053Z AUTO 09008KT 10SM BKN041 OVC048 12/07 A2990 RMK AO2 SLP124 T01170072 KSBD 271038Z AUTO 10003KT 10SM BKN037 OVC060 09/04 A2994 RMK AO2 T00920040 KRKD 271056Z AUTO 24007KT 10SM CLR M02/M07 A3018 RMK AO2 SLP223 T10221067 FZRANO KRIV 271058Z AUTO 00000KT 10SM BKN039 05/05 A2991 RMK AO2 SLP130 T00510051 LHSM 271015Z 17009KT CAVOK 11/04 Q1016 NOSIG ETWM 271020Z 21009KT 9999 FEW025 BKN038 11/04 Q0999 BLU LHSN 271045Z 13006KT 100V160 CAVOK 11/M00 Q1017 NOSIG RMK BLU KSAN 271051Z 07003KT 2 1/2SM -RA BR FEW006 OVC015 12/11 A2993 RMK AO2 SLP134 P0007 T01220106 $ KRIW 271053Z AUTO 32010KT 10SM BKN095 OVC110 M12/M14 A2955 RMK AO2 SLP059 T11221144 FMEP 271030Z AUTO 21005KT 180V240 9999 FEW023 BKN042 OVC049 30/23 Q1010 NOSIG KSAR 271055Z AUTO 13005KT 10SM BKN060 04/00 A3011 RMK AO2 T00410003 KSAT 271051Z 17008KT 10SM OVC014 20/17 A2992 RMK AO2 SLP116 T02000172 KSAV 271053Z 09004KT 10SM CLR 09/07 A3028 RMK AO2 SLP254 T00940067 KSBM 271053Z AUTO 25003KT 10SM CLR M04/M07 A3009 RMK AO2 SLP198 T10441072 KSCD 271055Z AUTO 00000KT 10SM CLR 12/M01 A3017 RMK AO2 T01171006 KRLD 271055Z AUTO 00000KT 10SM SCT024 OVC043 01/01 A2976 RMK AO2 T00120007 LHUD 271015Z 14005KT CAVOK 12/03 Q1018 LJCE 271030Z 25004KT 210V300 9999 FEW040 SCT220 12/M00 Q1015 RMK BLU GBYD 270900Z 34007KT CAVOK 22/13 Q1011 KSBN 271054Z 22006KT 10SM SCT075 M01/M05 A3015 RMK AO2 SLP218 T10111050 KSAW 271057Z AUTO 00000KT 10SM CLR M16/M17 A3003 RMK AO2 T11601175 KSBO 271035Z AUTO 13005KT 10SM CLR 08/05 A3027 RMK AO2 TSNO KRKP 271053Z AUTO VRB04KT 6SM BR SCT010 BKN017 OVC028 21/20 A2990 RMK AO2 SLP125 T02110200 KSBP 271056Z AUTO 00000KT 10SM OVC041 09/07 A2991 RMK AO2 SLP128 T00940067 KSCH 270153Z 21003KT 10SM CLR M02/M06 A3015 RMK LAST KSAZ 271052Z AUTO 00000KT 10SM SCT029 BKN060 OVC070 M09/M12 A2990 RMK AO2 KRKR 271055Z AUTO 00000KT 10SM CLR 04/02 A3000 RMK AO2 LTG DSNT S AND SW T00410020 LIMA 270950Z 06004KT 010V100 CAVOK 09/00 Q1017 KRKS 271054Z AUTO 21011KT 10SM SCT080 M07/M12 A2954 RMK AO2 SLP044 T10671117 KSBS 271054Z AUTO 00000KT 10SM BKN060 BKN070 OVC085 M10/M15 A2968 RMK AO1 T11051148 KSDA 271055Z AUTO 00000KT 10SM CLR M06/M06 A3001 RMK AO2 KSDB 271053Z AUTO 20014G21KT 1/4SM FG VV002 02/01 A2984 RMK AO2 PK WND 20027/0954 SLP096 T00170011 KSCK 271055Z AUTO 25006KT 10SM -RA BKN041 OVC080 08/05 A2991 RMK AO2 RAB46 SLP127 P0000 T00780050 LIMC 271050Z 11003KT 030V190 CAVOK 11/00 Q1017 NOSIG KU42 271055Z AUTO 19014KT 10SM SCT065 BKN095 OVC110 05/M01 A2961 RMK AO1 T00461007 LIME 271050Z VRB04KT CAVOK 11/01 Q1017 KRME 271053Z AUTO 00000KT 10SM FEW070 M05/M07 A3018 RMK AO2 SLP225 T10501072 KQVF 271000Z AUTO VRB05KT 9999 FEW190 32/22 A2980 RMK AO2 SLP089 WND DATA ESTMD T03150217 PWINO $ LIMF 271050Z 09003KT 010V150 CAVOK 10/01 Q1017 KSDF 271056Z 17006KT 8SM -RA OVC036 08/03 A3023 RMK AO2 SLP237 P0001 T00780028 LIMG 270950Z VRB02KT 9999 BKN045 11/06 Q1017 KRMG 271053Z AUTO 00000KT 10SM CLR 06/00 A3023 RMK AO2 SLP235 T00560000 KSBY 271054Z 00000KT 10SM CLR M03/M04 A3041 RMK AO2 SLP300 T10281039 LIMH 270955Z /////KT 9999 BKN030 M06/M11 Q1012 KSCR 271050Z AUTO 00000KT 10SM CLR 03/M05 A3036 RMK AO2 T00331052 LIMJ 271050Z 11009KT 9999 FEW016 SCT024 13/08 Q1017 KSEA 271053Z 15004KT 10SM FEW005 SCT029 OVC060 02/01 A2976 RMK AO2 SLP086 T00220011 $ FKYS 271000Z 24005KT 190V340 8000 BKN016 28/22 Q1015 NOSIG LIMK 270855Z 02003KT CAVOK 04/M02 Q1016 RMK SKC VAL FOSCHIA SKC SUP VIS MIN 9999 LIML 271050Z 15005KT 080V190 CAVOK 11/02 Q1017 NOSIG KSDL 271053Z 13003KT 10SM CLR 09/02 A2995 RMK AO2 SLP131 T00940022 KRNC 271055Z AUTO 01005KT 10SM CLR 07/M02 A3022 RMK KSDM 271053Z AUTO 13007KT 2SM -RA BR SCT005 OVC012 12/12 A2991 RMK AO2 SLP126 P0007 T01170117 TSNO KRND 271046Z AUTO 16005KT 10SM OVC015 20/20 A2992 RMK AO2 SLP126 $ LIMN 270955Z 10005KT 050V160 CAVOK 11/02 Q1017 KSEE 271035Z AUTO 00000KT 2SM BR 10/10 A2993 RMK AO2 KRMN 271055Z AUTO 00000KT 10SM SCT095 M02/M02 A3042 RMK AO2 T10231024 LIMP 270950Z 05004KT 8000 NSC 09/01 Q1018 KSEG 271053Z AUTO 00000KT 10SM CLR M07/M08 A3033 RMK AO2 SLP277 T10671083 KRNH 271055Z AUTO 16005KT 10SM SCT090 M04/M06 A2995 RMK AO2 T10451065 LIMS 270955Z 01003KT 9999 SCT040 SCT060 07/01 Q1017 KROA 271054Z 28003KT 10SM BKN075 OVC090 00/M04 A3038 RMK AO2 SLP293 T00001039 LIMT 270955Z 22004KT 9999 OVC015 03/01 Q1016 KSFB 271053Z 07004KT 10SM CLR 13/11 A3023 RMK AO2 SLP235 T01280106 LIMU 270955Z 05005KT 9999 FEW025 SCT026 12/10 Q1018 KROC 271054Z 22010KT 10SM CLR 03/M08 A3013 RMK AO2 SLP213 T00331078 LIMV 270955Z /////KT 9999 -DZ FEW007 BKN009 05/05 Q1017 KRNM 271053Z AUTO 03006KT 1 1/2SM RA BR OVC015 08/08 A2991 RMK AO2 SLP126 P0006 T00830083 KSEM 271055Z AUTO 13009G16KT 10SM FEW110 12/M01 A3009 RMK AO2 TSNO VTPH 271000Z 03007KT 350V060 8000 NSC 30/22 Q1010 KSFF 271053Z AUTO 30003KT 10SM OVC008 M02/M03 A2966 RMK AO2 SLP059 T10171028 KRNO 271055Z 30011G18KT 10SM SCT040 M01/M08 A2970 RMK AO2 SLP054 APRNT ROTOR CLD OHD T10061083 LIMY 270655Z 24004KT CAVOK 05/M02 Q1017 RMK SCT SCT100 VAL FOSCHIA VIS MIN 9999 KRMY 271053Z AUTO 21005KT 10SM CLR 01/M05 A3012 RMK AO2 T00061048 KRNP 271054Z AUTO 23004KT 10SM CLR 02/M04 A3011 RMK AO2 T00151045 KSDY 271056Z AUTO 03009KT 2 1/2SM -SN BR SCT012 M08/M10 A2978 RMK AO2 SLP121 P0000 T10831100 FZRANO KSEP 271055Z AUTO 00000KT 1 1/4SM OVC002 16/15 A2994 RMK AO2 T01630153 KROG 271058Z AUTO 12008KT 10SM CLR 03/01 A3001 RMK AO2 SLP165 T00330006 LIMZ 270950Z 01004KT 9000 NSC 08/01 Q1017 GCRR 271030Z 04009KT 9999 SCT035 18/11 Q1022 LIPA 270955Z 22003KT 9999 FEW090 11/03 Q1018 RMK BKN SCT150 VIS MIN 9999 WIND THR05 17004KT WIND THR23 VRB03KT A3006 BLU KU68 271055Z AUTO 04003KT 10SM CLR M07/M12 A2958 RMK AO2 LIPB 271050Z 00000KT 9999 SCT080 09/M03 Q1016 VTPM 271000Z 27010KT 230V320 9999 FEW025 35/14 Q1009 A2980 RMK/RWY 27 INFO J KRNT 271053Z AUTO 12003KT 10SM FEW034 SCT070 OVC085 02/02 A2977 RMK AO2 SLP087 T00220022 $ KSET 271054Z AUTO 09006KT 8SM OVC075 03/02 A3010 RMK AO2 SLP193 T00280017 FLSK 271000Z 06004KT 9999 FEW023CB BKN025 26/18 Q1017 LIPC 270955Z 31004KT 9999 FEW010 09/07 Q1018 FNBC 270800Z VRB02KT 8000 FEW010 OVC015 24/// Q//// VTPO 271000Z 12004KT 8000 FEW025 31/21 Q1009 KSFM 271056Z AUTO 19003KT 10SM CLR M03/M08 A3022 RMK AO2 SLP246 T10331078 FZRANO KRNV 271055Z AUTO 09013KT 10SM VCTS SCT004 OVC095 09/09 A3004 RMK AO2 LTG DSNT E AND SE T00870087 KRPD 271055Z AUTO 12006KT 10SM SCT015 SCT070 OVC095 M04/M09 A2996 RMK AO2 T10381092 VTPP 271000Z 25005KT 7000 FEW025 32/20 Q1010 LIPE 271050Z VRB02KT CAVOK 11/01 Q1018 LIPF 270955Z 00000KT CAVOK 12/06 Q1018 KSGF 271052Z 14008KT 10SM CLR 02/M03 A3001 RMK AO2 SLP171 T00171033 KSFO 271056Z 00000KT 9SM -RA FEW015 SCT037 OVC047 08/06 A2992 RMK AO2 SLP132 P0000 T00830056 KQWX 271055Z AUTO 12SM CLR M02/M06 A2999 RMK AO2 SLP171 WND DATA ESTMD T10251062 LIPH 271050Z VRB03KT CAVOK 11/03 Q1018 FNBG 271000Z 31010KT 9999 FEW015 BKN100 28/21 Q1010 KSGH 271056Z AUTO 20004KT 10SM OVC060 04/M05 A3021 RMK AO2 SLP240 T00441050 $ KSEZ 271035Z AUTO 16012KT 10SM SCT037 BKN043 OVC050 05/M01 A2991 RMK AO2 KSFQ 271035Z AUTO 00000KT 10SM CLR 01/00 A3041 RMK AO2 T00081001 KRPH 271034Z AUTO 18008KT 2 1/2SM BR OVC001 14/14 A2988 RMK AO2 LIPI 270955Z /////KT 9999 FEW060 11/05 Q1018 KQXS 262255Z 16004KT 7SM BKN015 OVC025 18/13 A2987 RMK SLP120 WND DATA ESTMD KROS 271055Z AUTO 00000KT 10SM BKN065 OVC085 M06/M08 A2994 RMK AO2 KRPJ 271055Z AUTO 16005KT 10SM CLR M02/M03 A3010 RMK AO2 T10191029 KSGJ 271058Z AUTO 11010KT 10SM CLR 18/14 A3024 RMK AO2 SLP241 T01830139 LIPK 271050Z VRB01KT CAVOK 11/04 Q1018 FNCA 271000Z 18005KT 9999 FEW020 SCT025 29/25 Q1009 EVLA 271050Z AUTO 21009KT 3300 -DZ OVC002/// 05/05 Q1005 KRQB 271054Z AUTO 00000KT 10SM CLR M02/M05 A3008 RMK AO2 T10211046 LIQC 270955Z 02006KT 9999 FEW026 13/11 Q1018 RMK FEW QUK 2 QUL 1 NE VIS MAR 20 KM VIS MIN 9999 LIPL 270955Z /////KT CAVOK 10/M04 Q1018 KSHD 271055Z AUTO 00000KT 10SM SCT090 M05/M07 A3037 RMK AO2 T10511075 KROW 271051Z AUTO 00000KT 10SM CLR 00/M05 RMK AO2 SLPNO T00001050 $ KRQE 271053Z AUTO 20008KT 10SM OVC035 01/M06 A2986 RMK AO2 SLP077 T00111061 TSNO LIPO 270950Z 23002KT 8000 NSC 10/M01 Q1018 KROX 271055Z AUTO 18008KT 10SM SCT026 SCT033 BKN050 M14/M17 A2987 RMK AO2 LIPQ 271050Z 19005KT 150V210 9999 SCT090 11/01 Q1018 KSFZ 271056Z AUTO 22005KT 10SM CLR M03/M07 A3031 RMK AO2 SLP286 T10331072 FZRANO VTSB 271000Z 35003KT 8000 SCT020 BKN100 26/24 Q1010 LIPR 271045Z 01004KT 7000 NSC 09/05 Q1017 KSGR 271053Z AUTO 00000KT 7SM SCT016 BKN025 OVC042 20/20 A2994 RMK AO2 SLP140 T02000200 LIPS 270955Z 12002KT 9999 BKN100 09/04 Q1018 RMK BKN VIS MIN 9999 WIND THR26 11002KT WIND THR08 10002KT BLU VTSC 270900Z 08012KT 8000 VCSH SCT020 BKN040 29/24 Q1009 RWY20 INFO J LIRA 271050Z 18009KT CAVOK 15/06 Q1018 KSGS 271054Z AUTO 15003KT 10SM SCT095 M04/M06 A2995 RMK AO2 T10381065 GCTS 271030Z 06016KT 9999 FEW037 18/10 Q1022 NOSIG KSGT 271055Z AUTO 32003KT 10SM SCT120 09/04 A3007 RMK AO1 VTSE 271000Z 09006KT 3000 -TSRA FEW018CB OVC055 25/24 Q1010 KSHL 271055Z AUTO 18006KT 10SM CLR M05/M05 A2992 RMK AO2 KSGU 271056Z AUTO 15009KT 10SM OVC070 08/M01 A2976 RMK AO2 SLP069 T00831011 VTSF 271000Z 10012KT 9999 SCT018 29/24 Q1009 KSHM 270958Z AUTO 35007KT 10SM CLR M06/M17 A2972 RMK AO2 SLP095 T10631172 $ LIQN 270950Z VRB01KT CAVOK 12/07 Q1017 VTSG 271000Z 19004KT 150V250 2000 +TSRA FEW018CB BKN020 OVC100 25/24 Q1010 LIRE 270955Z 17009KT 9999 FEW020 14/08 Q1018 KSHN 271053Z AUTO 23004KT 10SM -RA BKN031 OVC050 02/01 A2975 RMK AO2 RAB14 SLP078 P0001 T00170006 LIQO 261555Z 20002KT CAVOK 11/M02 Q1016 KRPX 271015Z AUTO 34009KT 10SM M08/M12 A2957 VTSH 271000Z 08014KT 9999 VCSH SCT020 SCT100 29/24 Q1008 NOSIG LIPX 271050Z VRB03KT CAVOK 11/00 Q1018 LIRF 271050Z 19008KT 140V230 9999 FEW020 16/09 Q1018 NOSIG KSIF 271050Z AUTO 00000KT 10SM CLR 00/M03 A3036 RMK AO2 T10041030 LIRG 270955Z 26003KT CAVOK 15/08 Q1018 LIPY 270950Z 36004KT 300V030 CAVOK 12/06 Q1017 WMBA 271000Z 04002KT 9999 -RA FEW016CB SCT028 OVC240 25/25 Q1007 LIRH 270955Z 15002KT 5000 BR FEW040 14/08 Q1018 LIPZ 271050Z 14006KT 110V180 CAVOK 10/02 Q1018 NOSIG LIRI 270950Z 18003KT CAVOK 18/09 Q1018 VTSK 271000Z 08008KT 9999 FEW020 SCT035 BKN100 27/23 Q1007 A2974 KSHR 271053Z AUTO 23008KT 10SM CLR M08/M13 A2955 RMK AO2 SLP044 T10781133 FMMI 271100Z 00000KT 9999 SCT020CB 30/19 Q1015 NOSIG LIRK 270955Z AUTO 34003KT //// 04/01 Q1018 VTSM 271030Z 13012KT 8000 FEW020 29/23 Q1010 KSIK 271055Z AUTO 11003KT 10SM OVC042 08/06 A3011 RMK AO2 LIRL 270955Z 17003KT CAVOK 16/11 Q1019 KSJC 271053Z AUTO 17003KT 10SM FEW037 BKN044 08/05 A2992 RMK AO2 RAB27E36 SLP130 P0000 T00780050 LIRM 270955Z 36005KT CAVOK 14/11 Q1018 KTAD 271054Z AUTO 20004KT 10SM CLR M08/M17 A2972 RMK AO2 SLP066 T10781167 KSHV 271056Z 04005KT 6SM -TSRA BR SCT005 OVC013CB 15/14 A2999 RMK AO2 RAB27 TSB49 SLP152 OCNL LTGICCC ALQDS TS ALQDS MOVE E P0006 T01500144 LIQW 270955Z 15004KT 9999 FEW030 11/05 Q1019 VTSP 271030Z VRB02KT 7000 FEW018CB SCT018 BKN100 25/23 25/23 Q1011 NOSIG LIRN 271050Z VRB03KT CAVOK 18/09 Q1018 NOSIG VTSR 271000Z 31007KT 250V010 8000 -RA BKN019 26/24 Q1009 RERA LIRP 271045Z VRB04KT 9999 FEW030 BKN040 13/06 Q1018 NOSIG VTSS 271030Z 08017KT 9999 -RA FEW018CB SCT020 BKN100 28/23 Q1009 NOSIG LIRQ 271050Z VRB02KT CAVOK 12/03 Q1018 VTST 271000Z 02004KT 9999 FEW018 SCT025 27/25 Q1008 WMAU 271000Z AUTO 06015KT 350V110 //// // 28/23 Q//// QFF1008 LIRS 270955Z 02004KT CAVOK 13/05 Q1018 KSKA 271052Z 00000KT 10SM SCT003 OVC041 M04/M04 A2962 RMK VIS 1 3/4 RWY05 CIG 031 RWY05 $ LIRT 270955Z 28011KT 9999 FEW010 09/05 Q1018 VTUD 271000Z 06006KT 360V100 8000 FEW045 29/16 Q1013 KRRT 271054Z AUTO 21005KT 10SM CLR M13/M16 A2988 RMK AO2 LIRU 270950Z 00000KT CAVOK 14/08 Q1019 FMMT 271000Z 06012KT 020V180 9999 FEW017 31/26 Q1008 NOSIG KRSL 271053Z AUTO 14008KT 10SM CLR M04/M07 A2989 RMK AO2 SLP135 T10441072 LIRV 270955Z 25006KT CAVOK 13/03 Q1018 FMNM 271000Z 30006KT 9999 FEW020CB 31/26 Q1009 NOSIG KTAN 271052Z AUTO 22007KT 10SM CLR 00/M08 A3031 RMK AO2 SLP265 T00001083 $ KSJN 271054Z AUTO 10SM CLR M03/M07 A2987 RMK AO2 SLP102 T10331067 TSNO KRSN 271055Z AUTO 07004KT 10SM -DZ OVC003 14/14 A3007 RMK AO2 LTG DSNT NE AND W T01440135 LIRX 270955Z 00000KT 9999 BKN017 10/08 Q1017 KSKF 271058Z AUTO 15007KT 10SM OVC012 20/18 A2989 RMK AO2 SLP116 T01960178 $ KRSP 270954Z AUTO 20006KT 10SM OVC090 A3028 RMK AO2 SLPNO $ VTUI 271000Z 12009KT CAVOK 27/16 Q1013 KSIY 271053Z AUTO 19005KT 10SM OVC055 M03/M04 A2981 RMK AO2 SLP119 T10331044 LIRZ 270950Z VRB01KT CAVOK 10/05 Q1018 VTUK 271000Z 07005KT 9999 FEW045 30/17 Q1013 NOSIG VTUL 271000Z 16005KT 110V190 CAVOK 29/17 Q1013 KSJS 271035Z AUTO 04003KT 10SM OVC075 04/M03 A3028 RMK AO2 T00371029 KSJT 271051Z 00000KT 6SM BR OVC003 12/11 A2989 RMK AO2 SLP112 T01170106 KSLB 271055Z AUTO 19007KT 10SM CLR M05/M08 A2996 RMK AO2 KRST 271054Z 19010KT 10SM CLR M11/M12 A2998 RMK AO2 SLP175 I1000 T11111122 KTCC 271053Z AUTO 22010KT 10SM CLR 01/M05 A2985 RMK AO2 SLP092 T00111050 KSLC 271054Z 01011KT 10SM BKN055 OVC060 01/M01 A2963 RMK AO2 WSHFT 0954 SLP030 T00111011 VTUO 271000Z 05006KT 010V110 8000 NSC 33/19 Q1012 A2991 INFO K RWY 04 KRSV 271055Z AUTO 12005KT 10SM SCT038 OVC065 05/01 A3017 RMK AO2 T00500008 KRSW 271053Z 06006KT 10SM CLR 17/14 A3018 RMK AO2 SLP216 T01670144 KRTN 271053Z AUTO 00000KT 10SM CLR M06/M15 A2975 RMK AO2 SLP070 T10561150 KRUE 271053Z AUTO 00000KT 10SM CLR 03/02 A3003 RMK AO2 SLP167 T00330022 KSLE 271056Z AUTO 22005KT 10SM OVC007 02/01 A2982 RMK AO2 SLP097 T00220006 KTBN 271058Z AUTO 15005KT 10SM CLR 01/M02 A3003 RMK AO2 SLP180 T00121018 $ VTUQ 271000Z 05007KT 340V090 8000 FEW035 31/17 Q1012 KSJX 271056Z AUTO 00000KT 10SM CLR M05/M10 A3008 RMK AO2 T10551097 VVCR 271030Z 03017KT 9999 FEW015 BKN050 27/21 Q1014 NOSIG GCXO 271030Z 02005KT 340V060 9999 FEW012 BKN018 12/09 Q1024 NOSIG KSLG 271055Z AUTO 10005KT 10SM CLR 03/M02 A2999 RMK AO1 KRUG 271035Z AUTO 20004KT 10SM M15/M15 A2982 RMK AO2 KSLH 271055Z AUTO 22005KT 10SM CLR M08/M11 A3008 RMK AO2 T10881107 KTAZ 271035Z AUTO 12005KT 10SM OVC043 03/02 A3012 RMK AO2 T00260015 VVCT 271030Z 12005KT 060V170 9999 SCT015 30/24 Q1009 NOSIG KTBR 271055Z AUTO 00000KT 10SM CLR 04/ A3028 RMK AO2 T0043 KSLI 270958Z AUTO 07005KT 10SM CLR 09/06 A2994 RMK AO2 SLP142 T00870060 FNGI 271000Z VRB03KT 9999 SCT009 BKN020 22/20 Q1014 VTUU 271030Z 35008KT 9999 FEW032 31/17 Q1011 NOSIG LJLJ 271030Z 06003KT 010V110 CAVOK 10/00 Q1015 NOSIG KRTS 271055Z AUTO 29013KT 10SM CLR M03/M10 A2967 RMK AO2 VTUV 271000Z 05009KT 8000 NSC 30/14 Q1012 A2990 INFO K RWY 36 LJMB 271030Z 19014KT 160V220 CAVOK 12/M02 Q1013 KSLK 271051Z AUTO 23008KT 10SM CLR M03/M07 A3002 RMK AO2 SLP190 T10331072 $ LIVC 270955Z 21017KT 9999 SCT040 02/M01 Q1015 VTUW 271000Z 12012KT 9999 FEW030 27/16 Q1014 VVDN 271030Z 01004KT 9999 FEW013 BKN050 22/19 Q1018 NOSIG KTCL 271053Z AUTO VRB04KT 10SM BKN070 BKN080 OVC100 12/M01 A3012 RMK AO2 SLP197 T01221006 LIVD 270955Z /////KT 9999 SCT040 04/M01 Q1015 KTCM 270958Z AUTO 18003KT 10SM FEW055 OVC075 01/01 A2977 RMK AO2 SLP087 T00140014 $ LIVE 270955Z 19009KT CAVOK 01/M04 Q1013 KSLN 271053Z AUTO 15005KT 10SM CLR M04/M07 A2995 RMK AO2 SLP148 T10391067 KSME 271035Z AUTO 00000KT 10SM SCT070 OVC080 05/00 A3026 RMK AO2 LIVF 270955Z 20005KT 9999 FEW034 11/04 Q1015 KSMF 271053Z 19007KT 10SM SCT110 06/04 A2988 RMK AO2 SLP118 T00610044 KSKX 271055Z AUTO 00000KT 10SM BKN043 BKN048 OVC055 M02/M12 A2990 RMK AO1 KTDF 271050Z AUTO 07003KT 10SM SCT120 00/M01 A3035 RMK AO2 KSLO 271055Z AUTO 12004KT 10SM OVC060 07/00 A3012 RMK AO2 T00650003 KTBX 271100Z AUTO 14014KT CLR M11/M14 A2955 RMK AO2 PWINO KRUQ 271050Z AUTO 00000KT 10SM CLR 02/M04 A3034 RMK AO2 T00151044 KSLR 271055Z AUTO 10003KT 7SM OVC013 14/14 A2998 RMK AO2 T01380135 KTCS 271053Z AUTO 09004KT 10SM CLR 01/M05 A2991 RMK AO2 SLP101 T00111050 KSNA 271053Z AUTO 00000KT 10SM OVC039 11/08 A2992 RMK AO2 SLP131 T01110078 $ KTEB 271051Z 20005KT 10SM CLR M01/M07 A3037 RMK AO2 SLP284 T10111067 EVRA 271050Z 16004KT 130V190 9999 OVC012 02/01 Q1007 R18/290195 BECMG OVC007 KRUT 271056Z AUTO VRB06KT 10SM FEW070 00/M08 A3017 RMK AO2 SLP239 T00001078 FZRANO $ KSNC 271055Z AUTO 23007G13KT 10SM CLR M00/M06 A3034 RMK AO2 LKCV 271000Z 13009KT CAVOK 10/M01 Q1011 NOSIG RMK BLU+ BLU KSMN 271055Z AUTO 00000KT 10SM SCT060 M05/M10 A2958 RMK AO1 LIVO 270955Z 28010KT CAVOK 07/M02 Q1014 KSMO 271051Z AUTO 00000KT 10SM SCT042 10/06 A2993 RMK AO2 SLP133 T01000061 $ KRWF 271053Z AUTO 22007KT 10SM CLR M03/M06 A2989 RMK AO2 SLP133 T10281061 LIVP 270955Z 18011KT 9999 FEW040 M02/M06 Q1013 KSMP 271031Z AUTO VRB03KT 1 3/4SM BR OVC003 A2958 RMK AO2 VIS 1V4 SNB06E28 P0000 $ KSMQ 271053Z AUTO 00000KT 10SM CLR M06/M08 A3037 RMK AO2 SLP285 I1000 T10611083 $ KSNH 271055Z AUTO 00000KT 10SM FEW028 SCT045 OVC060 09/04 A3019 RMK A01 LIVR 270955Z 13016KT CAVOK M00/M07 Q1012 KRWI 271053Z AUTO 00000KT 10SM CLR M01/M02 A3039 RMK AO2 SLP291 T10111017 KTDR 271056Z AUTO 11008KT 10SM CLR 13/10 A3016 RMK AO2 SLP217 T01300102 $ KRVS 271053Z 00000KT 10SM CLR 01/00 A2997 RMK AO2 SLP153 T00110000 KSOA 271035Z AUTO 00000KT 1/4SM FG OVC001 12/12 A2993 RMK AO2 LIVT 270955Z 00000KT CAVOK 09/03 Q1018 RMK SCT SCT160 QUK 0 QUL 0 VIS MAR 20 KM VIS MIN 9999 KSNK 271055Z AUTO 25003KT 10SM CLR 07/M01 A2989 RMK AO2 T00701015 KRWL 271053Z AUTO 20021G30KT 10SM M03/M11 A2955 RMK AO2 PK WND 19031/1039 SLP036 T10331106 TSNO $ KSNL 271035Z AUTO 13008KT 10SM SCT010 06/02 A2992 RMK AO2 T00640020 FNHU 271000Z 23008KT 9999 SCT018 24/16 Q1019 FMSD 271000Z 28004KT 9999 VCSH SCT016 BKN033 27/24 Q1011 KRXE 271053Z AUTO 26004KT 10SM OVC006 M06/M06 A2959 RMK AO2 SLP056 T10561061 KSMX 271051Z AUTO 00000KT 10SM FEW027 SCT032 BKN049 09/08 A2991 RMK AO2 SLP131 T00890078 $ KTDZ 271053Z AUTO 21007KT 10SM CLR 00/M05 A3020 RMK AO2 SLP231 T00001050 KSPA 271055Z AUTO 01004KT 10SM CLR 05/M03 A3032 RMK AO2 KSNS 271053Z 00000KT 10SM SCT032 OVC075 08/06 A2992 RMK AO2 SLP139 T00780061 KSNT 271051Z AUTO 17006KT M16/M18 A2953 RMK AO1 SLP031 T11561183 KSPB 271053Z AUTO 00000KT 10SM SCT006 BKN023 OVC039 02/02 A2980 RMK AO2 RAE0959 SLP091 P0000 T00220017 KSPD 271056Z AUTO 25003KT M08/M12 A2977 RMK AO1 SLP084 T10831122 KTEW 271054Z AUTO 24005KT 10SM CLR 01/M04 A3012 RMK AO2 T00121037 KTEX 271055Z AUTO 14009KT 10SM SCT026 SCT035 SCT060 M04/M10 A2978 RMK AO2 T10451097 KSPF 271055Z AUTO 00000KT 10SM CLR M07/M12 A2962 RMK AO2 KSNY 271053Z AUTO 18009KT 10SM CLR M08/M12 A2973 RMK AO2 SLP098 T10781122 KSPG 271053Z AUTO 12016KT 10SM CLR 19/15 A3018 RMK AO2 SLP220 T01890150 KSOP 270956Z AUTO 00000KT 10SM CLR M02/M03 A3034 RMK AO2 SLP292 T10221033 FZRANO KTFP 271055Z AUTO 18008KT 10SM BKN024 BKN029 22/20 A2988 RMK AO2 T02180202 KSPI 271052Z AUTO 07003KT 9SM BKN080 02/M01 A3012 RMK AO2 SLP204 T00171006 $ KTHA 271055Z AUTO 00000KT 10SM CLR 04/M02 A3020 RMK KRYM 271056Z AUTO 08004KT 10SM SCT032 OVC038 M06/M09 A2990 RMK AO2 SLP147 T10601090 TSNO $ KRYN 270252Z 20005KT 10SM 14/00 A2995 RMK LAST KSOW 271055Z AUTO 19018G28KT 10SM BKN031 00/M07 A2990 RMK AO2 KSQE 271055Z AUTO VRB05G12KT 7SM CLR 22/21 A3003 RMK A01 KSQI 271056Z AUTO 00000KT 10SM CLR M02/M03 A3010 RMK AO2 SLP216 T10221028 FZRANO KSPR 271055Z AUTO 16019KT 4SM BR SCT055 22/21 A3001 RMK A01 KSPS 271052Z 14005KT 6SM BR OVC008 11/10 A2987 RMK AO2 SLP111 T01110100 MBGT 271000Z 09012KT 9000 SCT015 25/19 Q1019 FNMA 271000Z 27006KT 9999 SCT007 BKN057 24/20 Q1015 KRYT 270953Z AUTO 00000KT 10SM OVC100 01/M08 A3030 RMK AO2 SLP272 T00061083 TSNO $ EVVA 271050Z AUTO 16005KT 9999 OVC006 04/04 Q1004 KSRB 271055Z AUTO 00000KT 10SM FEW050 BKN065 BKN120 06/M01 A3021 RMK A01 KSQL 271055Z AUTO 22004KT 10SM OVC036 07/05 A2993 RMK AO2 P0003 KSRC 271056Z AUTO 00000KT 10SM OVC031 08/07 A3007 RMK AO2 SLP191 T00780072 KRZL 271055Z AUTO 00000KT 10SM 00/M02 A3015 RMK AO2 KRYV 271035Z AUTO 00000KT 10SM CLR M06/M06 A3008 RMK AO2 T10641064 KSPW 271053Z AUTO 16004KT 10SM CLR M09/M11 A2995 RMK AO2 SLP160 I1000 T10891106 $ KRYW 271055Z AUTO 00000KT 7SM OVC017 19/18 A2994 RMK AO2 T01900178 KRZN 271030Z AUTO 07003KT 10SM SCT050 BKN080 OVC120 M06/M07 A2995 RMK AO2 T10571075 KTIF 271055Z AUTO 19007KT 10SM CLR M07/M12 A2983 RMK AO2 T10701116 KRYY 270347Z 00000KT 10SM SKC 06/M01 A3027 WMKA 271000Z 09005KT 9999 FEW020 SCT140 BKN280 31/24 Q1007 LJPZ 271030Z 28003KT 180V340 CAVOK 12/03 Q1018 WMKB 271000Z 21003KT 9000 FEW020 SCT140 BKN270 27/24 Q1006 KRZR 271055Z AUTO 00000KT 10SM FEW022 SCT030 BKN046 03/01 A3023 RMK A01 WMKC 271000Z 07015KT 040V110 9999 FEW008 SCT018 BKN280 28/24 Q1009 WMKD 271000Z 36006KT 9999 FEW009 SCT018 BKN280 28/26 Q1009 NOSIG KRZT 271055Z AUTO 20003KT 10SM OVC080 02/M05 A3025 RMK AO2 KTIK 271048Z 11008KT 10SM BKN008 07/03 A2990 RMK AO2A BKN V FEW SLP131 WMKE 271000Z 06007KT 010V120 9999 FEW017CB SCT018 BKN230 28/24 Q1008 KSSC 271058Z AUTO 04005KT 10SM CLR 01/M01 A3030 RMK AO2 SLP263 T00111011 $ GEML 271030Z 27006KT 210V340 9999 FEW011 SCT018 BKN024 17/12 Q1021 FNLU 271100Z 32008KT 9999 FEW022 BKN090 29/21 Q1009 KTHV 271053Z AUTO 00000KT 10SM OVC100 M03/M04 A3034 RMK AO2 SLP282 T10281044 KW13 271055Z AUTO 00000KT 10SM CLR M03/M09 A3034 RMK AO1 T10281088 KSSF 271053Z AUTO 13003KT 7SM OVC015 21/18 A2990 RMK AO2 SLP115 T02060178 FNMO 271000Z 24010KT 9999 OVC012 24/18 Q1010 WMKI 271000Z 21003KT 9999 FEW017CB BKN280 28/24 Q1007 KTIP 271035Z AUTO 00000KT 10SM SCT085 M01/M04 A3013 RMK AO2 T10131037 WMKJ 271000Z 04011KT 330V080 9999 SCT018 BKN280 30/25 Q1007 KSRQ 271053Z 08010KT 10SM CLR 17/13 A3017 RMK AO2 SLP216 T01720133 WMKK 271030Z 05005KT 9999 TS FEW017CB BKN140 BKN280 27/24 Q1008 NOSIG KSSI 271053Z AUTO 09008KT 10SM CLR 16/09 A3026 RMK AO2 SLP247 T01610089 KSRR 271035Z AUTO 29009G22KT CLR 04/M08 A2992 RMK AO2 WMKL 271000Z 04008KT 9999 FEW022 SCT140 BKN270 30/25 Q1007 WMKM 271000Z 02006KT 330V050 9999 FEW017CB SCT140 BKN270 29/25 Q1007 LKKB 271000Z 17005KT 130V210 CAVOK 10/M02 Q1010 NOSIG WMKN 271000Z 07009KT 9999 SCT018 BKN300 28/24 Q1009 KTKC 271053Z AUTO 22013KT 10SM CLR M01/M05 A2988 RMK AO2 T10151051 KSTC 271053Z AUTO 06004KT 10SM FEW090 M06/M08 A2991 RMK AO2 SLP150 T10561078 KW22 271035Z AUTO 20005KT 10SM SCT044 BKN050 OVC060 01/M08 A3030 RMK AO2 PWINO WMKP 271030Z 17004KT 080V200 7000 -TSRA FEW010 FEW017CB SCT024 BKN260 26/25 Q1008 NOSIG KTIW 271053Z AUTO 21005KT 10SM FEW008 BKN017 OVC023 03/02 A2977 RMK AO2 SLP084 T00280022 KSTE 271035Z AUTO 00000KT 10SM OVC065 M06/M07 A3003 RMK AO2 T10621066 KUBE 271035Z AUTO 11004KT 10SM OVC090 M04/M08 A2994 RMK AO2 KTIX 270147Z 36010KT 7SM SKC 17/11 A3023 RMK LAST KSTF 271055Z AUTO 13005KT 10SM SCT046 BKN080 OVC110 11/02 A3005 RMK AO2 KUAO 271053Z AUTO 19005KT 10SM FEW011 OVC033 03/01 A2982 RMK AO2 SLP100 T00280011 LLBG 271050Z 28006KT 6000 NSC 21/12 Q1014 NOSIG KTKI 271053Z AUTO 06004KT 7SM OVC011 13/13 A2994 RMK AO2 SLP143 T01330133 KSTJ 271053Z AUTO 18003KT M1/4SM FZFG VV001 M03/M04 A3003 RMK AO2 SLP173 I1000 T10331044 RVRNO KSUA 271055Z AUTO 10009G15KT 10SM SCT020 SCT027 SCT036 24/20 A3020 RMK AO2 KW29 271040Z AUTO 14006KT 7SM CLR 04/02 A3037 RMK AO2 TSNO KSTK 271050Z AUTO 21006KT 10SM CLR M09/M11 A2974 RMK AO2 KSTL 271051Z 11004KT 9SM BKN070 04/02 A3010 RMK AO2 SLP198 T00440017 KW31 271055Z AUTO 10SM SCT120 00/M03 A3035 RMK AO1 T10011028 KSUE 271056Z AUTO 08003KT 10SM CLR M07/M10 A3010 RMK AO2 SLP217 T10721100 FZRANO KSTP 271053Z AUTO 16006KT 10SM FEW090 M04/M06 A2997 RMK AO2 SLP155 T10441061 KTLH 271053Z COR 00000KT 10SM CLR 06/02 A3021 RMK AO2 SLP231 T00560022 VVNB 271030Z 01004KT CAVOK 20/08 Q1019 NOSIG KSTS 271053Z AUTO 00000KT 1 1/2SM BR CLR 02/02 A2991 RMK AO2 SLP124 T00220022 KTMA 271035Z AUTO 12004KT 10SM CLR 08/05 A3023 RMK AO2 T00800045 KTMB 271053Z AUTO 11007KT 10SM CLR 23/18 A3016 RMK AO2 SLP211 T02330183 LKKU 271002Z 21004KT 130V300 CAVOK 10/M02 Q1014 KSVC 271035Z AUTO 32007KT 10SM CLR 00/M05 A2996 RMK AO2 T10011048 KTKV 271035Z AUTO 00000KT 10SM OVC036 M09/M11 A2998 RMK AO2 T10901109 LKKV 271030Z 20005KT 140V280 9999 FEW030 09/02 Q1008 FOGM 271000Z /////KT 9999 SCT011 OVC026 28/24 Q//// LKLN 271000Z AUTO VRB02KT CAVOK 08/M00 Q1010 KSUN 271055Z AUTO 30010KT 10SM CLR M13/M15 A2962 RMK AO2 KTME 271055Z AUTO 13003KT 3SM -RA BKN016 BKN034 OVC044 20/19 A2996 RMK AO2 KW43 271035Z AUTO 21009KT 10SM CLR M03/M12 A2961 RMK AO2 KTKX 271055Z AUTO 08004KT 10SM BKN040 OVC055 09/08 A3007 RMK AO2 FOGO 271000Z 22004KT 9999 BKN013 26/21 Q//// KUCP 271056Z AUTO 22003KT 10SM BKN090 01/M09 A3025 RMK AO2 SLP269 T00061089 KUDG 271056Z AUTO 00000KT 10SM CLR 01/00 A3035 RMK AO2 SLP285 T00110000 FZRANO KSVH 271050Z AUTO 00000KT 10SM CLR 00/M03 A3033 RMK AO2 T00001033 FOGR 271000Z /////KT 9999 SCT012 BKN030 29/25 Q//// LKNA 271000Z 13007KT CAVOK 05/M01 Q1012 NOSIG RMK BLU BLU KSUS 271054Z AUTO 00000KT 2 1/2SM BR OVC070 00/00 A3009 RMK AO2 SLP195 T00000000 KSUT 271055Z AUTO 00000KT 10SM CLR 02/01 A3038 RMK AO2 T00210011 KTNB 271055Z AUTO 00000KT 10SM SCT110 M02/M06 A3029 RMK AO2 T10241064 KTMK 271035Z AUTO 00000KT 10SM SCT017 BKN040 OVC047 00/00 A2983 RMK AO2 KSUU 270958Z AUTO 24012KT 10SM CLR 06/05 A2988 RMK AO2 SLP125 T00590052 $ KSUW 271035Z AUTO 00000KT 10SM OVC055 M09/M13 A2998 RMK AO2 T10921131 KSVN 271058Z AUTO 00000KT 10SM CLR 09/08 A3025 RMK AO2 SLP247 T00850079 KSUX 271052Z 11008KT 7SM CLR M08/M10 A2996 RMK AO2 SLP159 I1000 T10831100 KSWF 271045Z 00000KT 10SM SKC M03/M07 A3033 KUCY 271055Z AUTO 15006KT 10SM FEW075 08/08 A3008 RMK VVPB 271030Z 24005KT 3000 BR SCT010 BKN035 18/18 Q1020 NOSIG KTOA 270347Z 00000KT 10SM BKN035 10/06 A2998 FNSA 271000Z 27004KT 9999 BKN040 25/21 Q1018 LKMT 271030Z 24013KT CAVOK 11/M01 Q1012 NOSIG KTOC 271036Z AUTO 34004KT 10SM CLR 07/M03 A3029 RMK AO2 KW63 271055Z AUTO 00000KT 10SM CLR 00/00 A3036 RMK AO1 KSWO 271053Z AUTO 08003KT 10SM CLR 02/00 A2994 RMK AO2 SLP137 T00220000 KTOI 271053Z AUTO 00000KT 10SM CLR 11/M01 A3020 RMK AO2 SLP225 T01111006 KTPA 271053Z 06005KT 10SM CLR 17/12 A3020 RMK AO2 SLP227 T01670122 KUES 271035Z AUTO 00000KT 10SM CLR M06/M07 A3010 RMK AO2 LLET 271050Z 05006KT CAVOK 28/M03 Q1012 KTOL 271052Z 22005KT 10SM CLR 01/M06 A3018 RMK AO2 SLP227 T00111056 KTNU 271055Z AUTO 10006KT 10SM FEW022 SCT029 M03/M06 A3002 RMK AO2 PWINO LKPD 271000Z 07005KT CAVOK 10/M03 Q1011 NOSIG RMK BLU BLU KSWW 271035Z AUTO 21008KT 10SM CLR 12/06 A2991 RMK AO2 T01180058 VVPQ 271030Z 09008KT 9999 FEW017 30/23 Q1010 NOSIG KTPF 271055Z AUTO 08006KT 10SM CLR 17/15 A3020 RMK AO2 KSYF 271039Z AUTO 00000KT 10SM CLR M10/M13 A2982 RMK AO2 KTOP 271053Z AUTO 11003KT 5SM BR BKN001 M05/M05 A3001 RMK AO2 SLP168 I1000 T10501050 $ KW75 271055Z AUTO 00000KT 10SM SCT120 03/03 A3040 RMK AO1 T00330029 KTPH 271056Z AUTO 21007KT 10SM BKN012 OVC038 00/M03 A2967 RMK AO2 SLP039 T00001028 KTOR 271053Z AUTO 10012KT 10SM CLR M12/M16 A2968 RMK AO2 SLP095 T11221156 KSYI 271055Z AUTO 00000KT 10SM CLR 08/01 A3022 RMK LLHA 271050Z 11010KT CAVOK 25/M02 Q1014 KW78 271035Z AUTO 00000KT 10SM SCT120 M02/M02 A3035 RMK AO1 T10171024 KSXS 271058Z AUTO 03004KT 7SM OVC150 11/M01 A3018 RMK AO2 SLP221 T01121009 KSXT 271056Z AUTO 22008KT 1/4SM FZFG VV002 M03/M04 A2972 RMK AO2 SLP095 I1007 T10281044 FNUB 271000Z 19006KT 9999 SCT050 BKN070 25/13 Q1020 KTPL 271051Z AUTO 15006KT 10SM OVC020 18/18 A2993 RMK AO2 SLP145 T01830178 KW81 271055Z AUTO 00000KT 10SM BKN120 M01/M01 A3036 RMK AO1 T10151015 FNSU 270800Z 32009KT 9999 FEW012 27/// Q1012 KSYM 271050Z AUTO 00000KT 10SM -RA OVC028 06/03 A3030 RMK AO2 P0001 KSYN 271054Z AUTO 18004KT 10SM CLR M06/M09 A2995 RMK AO2 T10561086 KTQE 271054Z AUTO 16006KT 8SM CLR M06/M07 A2997 RMK AO2 SLP156 I1001 T10561072 KUGN 271055Z AUTO 00000KT 2 1/2SM BR CLR M04/M05 A3011 RMK AO2 SLP206 T10391050 FNUE 270600Z 03005KT 9999 BKN020 19/15 Q1015 FNUG 271000Z 21006KT 9999 FEW020 26/20 Q1013 WMSA 271000Z 16002KT 9999 FEW018 SCT140 BKN280 28/24 Q1008 KTQH 271055Z AUTO 00000KT 10SM CLR 01/00 A2999 RMK AO2 KSYR 271054Z 23014G21KT 10SM FEW070 02/M09 A3015 RMK AO2 SLP211 T00221089 $ LKPR 271030Z 17005KT 130V200 CAVOK 11/01 Q1009 NOSIG LLIB 271050Z 12009KT CAVOK 24/M04 Q1016 KSZL 270958Z 13005KT M1/4SM R19/2800FT FZFG BKN000 M02/M02 A3003 RMK AO2A SLP178 T10161016 $ MBPV 271000Z 08008KT 9999 FEW012 24/21 Q1019 GFLL 270900Z 18007KT 8000 HZ BKN014 27/23 Q1010 KW96 271055Z AUTO 15004KT 10SM CLR M01/M01 A3039 RMK AO1 T10091009 KTRI 271053Z 00000KT 10SM BKN095 01/M04 A3029 RMK AO2 SLP253 T00061039 $ MDAB 262200Z 09008KT 9999 FEW020 29/23 Q1016 KSZT 271055Z AUTO 00000KT 10SM OVC012 M02/M03 A2964 RMK AO2 KTRK 271035Z AUTO 00000KT 2 1/2SM -SN SCT015 BKN021 OVC027 M05/M07 A2969 RMK AO2 KW99 271030Z AUTO 00000KT 10SM OVC080 M03/M05 A3035 RMK AO2 T10301048 KUIL 271053Z AUTO 08005KT 10SM CLR M01/M02 A2976 RMK AO2 SLP078 T10111017 $ KTRL 271053Z AUTO 08003KT 10SM OVC012 16/14 A2994 RMK AO2 SLP134 T01560139 KTRM 271052Z AUTO 00000KT 10SM FEW080 08/02 A2983 RMK AO2 SLP103 T00830022 KVAD 271058Z AUTO 12005KT 10SM CLR 08/04 A3023 RMK AO2 SLP239 T00800040 $ KUIN 271054Z AUTO 13005KT 10SM BKN065 01/M01 A3008 RMK AO2 SLP189 T00061006 KVAF 271055Z AUTO 17022KT 2 1/2SM BR CLR 23/23 A2990 RMK A01 KTTA 271100Z AUTO 00000KT 10SM CLR M02/M03 A3035 RMK AO2 T10251034 LKTB 271030Z 14005KT 100V180 CAVOK 08/M01 Q1013 NOSIG FOOB 271000Z /////KT 9999 SCT010 BKN030 26/22 Q1010 KTTD 271053Z AUTO 16003KT 10SM SCT013 OVC019 04/02 A2981 RMK AO2 RAE0954B16E41 SLP096 P0000 T00390022 KUKF 271050Z AUTO 00000KT 10SM CLR 00/M03 A3038 RMK AO2 KTTF 271052Z AUTO 21005KT 10SM CLR 01/M04 A3017 RMK AO2 T00081045 KTSP 271055Z AUTO 31012KT 1 3/4SM BR OVC003 02/02 A2985 RMK AO2 KVBG 271053Z AUTO 20004KT 10SM BKN021 OVC044 08/08 A2990 RMK AO2 CIG 021V044 BKN V FEW MDBH 271100Z 00000KT 9999 FEW018 21/19 Q1017 NOSIG FOOG 271000Z 22006KT 9999 SCT010 SCT026 29/26 Q1010 VVTS 271030Z 18009KT 140V210 9999 SCT020 30/22 Q1009 NOSIG KUKI 271056Z AUTO 00000KT 2SM BR OVC003 02/02 A2993 RMK AO2 SLP133 T00170017 KVCB 271053Z AUTO 19007KT 10SM CLR 06/03 A2990 RMK AO2 SLP123 T00610033 FOOK 271000Z 00000KT 9999 BKN015 28/23 Q1011 FOOL 271000Z 20005KT 160V230 9999 FEW011 FEW018CB 30/24 Q1010 NOSIG KTTN 271053Z 00000KT 10SM FEW100 M02/M06 A3037 RMK AO2 SLP280 T10221061 FOON 271000Z /////KT 9999 -TSRA SCT005 FEW016CB 22/22 Q1013 KVAY 271054Z AUTO 00000KT 10SM OVC120 M03/M07 A3039 RMK AO2 SLP292 T10331067 TSNO $ FOOR 271000Z /////KT 9999 BKN005 25/23 Q//// KTTS 271058Z AUTO 11006KT 10SM CLR 19/15 A3021 RMK AO2 SLP234 T01860153 VISNO RWY15 CHINO RWY15 KVBT 271055Z AUTO 12005KT 10SM CLR 03/M02 A3000 RMK AO1 KUKT 271055Z AUTO 00000KT 10SM BKN120 M05/M07 A3036 RMK AO1 FOOT 271000Z VRB02KT 9999 SCT011 SCT033 31/24 Q1011 KTUL 271053Z 33004KT 10SM CLR 01/M01 A2997 RMK AO2 SLP150 T00061006 KTVC 271053Z AUTO 00000KT 10SM OVC037 M02/M09 A3009 RMK AO2 SLP198 T10221094 KULM 271054Z AUTO 17007KT 10SM CLR M04/M07 A2991 RMK AO2 KVBW 271055Z AUTO 00000KT 10SM OVC085 M04/M07 A3035 RMK AO2 T10441074 KVDF 271055Z AUTO 00000KT 10SM CLR 13/11 A3021 RMK AO2 KTVF 271056Z AUTO 19006KT 10SM CLR M13/M14 A2990 RMK AO2 SLP152 T11281144 FZRANO KTUP 271053Z AUTO 36012KT 7SM BKN070 OVC080 09/03 A3016 RMK AO2 SLP210 T00890033 PWINO RJAA 271030Z 05010KT 020V080 9999 FEW020 BKN090 05/M01 Q1026 NOSIG RMK 1CU020 7AC090 A3031 KTVI 271055Z AUTO 12003KT 10SM CLR 08/04 A3023 RMK AO2 KVDI 271035Z AUTO 13003KT 10SM CLR 09/07 A3026 RMK AO2 KTUS 271053Z 13008KT 10SM CLR 08/01 A2999 RMK AO2 SLP135 T00780006 KVCT 271051Z AUTO 06003KT 1 1/2SM BR BKN011 BKN016 OVC023 19/18 A2992 RMK AO2 CIG 006V014 SLP131 T01890183 KTVK 271055Z AUTO 00000KT 1/2SM FZFG OVC001 M01/M01 A3005 RMK AO2 KTVL 271053Z AUTO 19010G18KT 3/4SM -SN BR VV013 M05/M07 A2966 RMK AO2 SLP048 P0001 T10501072 KVCV 271055Z AUTO 27003KT 10SM SCT065 02/00 A2985 RMK AO2 RJAF 270700Z 36012KT 9999 FEW070 05/M09 Q1020 LKVO 271000Z 09005KT 050V130 CAVOK 10/01 Q1010 KTWF 271053Z AUTO 20009KT 10SM CLR M03/M08 A2960 RMK AO2 SLP029 T10331083 MDCY 271100Z 00000KT 8000 -RA BKN016 21/21 Q1017 RJAH 271035Z 06010KT 9999 FEW020 BKN030 04/M03 Q1026 RMK 1CU020 5SC030 A3030 KTVR 270753Z AUTO 16012KT 10SM SCT045 SCT055 BKN120 15/10 A3002 RMK AO2 SLP171 T01500100 $ KUNI 271030Z AUTO 00000KT 10SM OVC070 01/M03 A3028 RMK AO2 T00111032 RJAK 270643Z 07016KT 9999 FEW020 SCT080 07/M01 Q1024 RMK 1CU020 3AC080 A3024 RJBB 271030Z 04017KT 9999 FEW050 06/M04 Q1025 NOSIG KX60 271055Z AUTO 00000KT 10SM CLR 08/07 A3023 RMK A01 RJBD 271000Z 32008KT 9999 FEW045 08/M02 Q1022 KVEL 271053Z AUTO 00000KT 10SM OVC075 M06/M09 A2966 RMK AO2 SLP073 T10561089 RJBE 271000Z 02008KT 9999 FEW040 06/M04 Q1025 SABE 271000Z 34007KT 300V030 CAVOK 26/22 Q1010 KTWM 271054Z AUTO 00000KT 10SM OVC060 M11/M14 A2993 RMK AO2 KUNO 271053Z AUTO 00000KT 10SM CLR 01/M03 A3006 RMK AO2 SLP182 T00061033 KTVY 271055Z AUTO 32006KT 10SM SCT055 SCT090 02/M02 A2963 RMK AO2 SAAR 271000Z 36004KT 9000 NSC 23/21 Q1009 RJCA 270706Z 23006KT 9999 -SHSN FEW008 SCT050 BKN200 M03/M09 Q1026 RMK 1ST008 4CU050 6CI200 A3032 KVER 271055Z AUTO 00000KT 1/4SM FZFG OVC001 M02/ A3006 RMK AO2 T1019 RJAT 270141Z 06001KT 9999 FEW008 SCT020 BKN025 06/M03 Q1022 RMK 1ST008 3CU020 5CU025 A3018 RJCB 271000Z VRB01KT 9999 FEW060 M06/M12 Q1026 KVES 271035Z AUTO 18004KT 10SM BKN040 OVC046 03/M02 A3020 RMK AO2 RJCC 271030Z 36002KT 9999 FEW025 M06/M12 Q1028 RMK 1CU025 A3038 EYKA 271050Z 24008KT 9999 OVC007 07/05 Q1009 R08/2///95 KTXK 271053Z AUTO 06005KT 1/2SM FG VV002 11/11 A3001 RMK AO2 RAB19E35 SLP161 P0000 T01060106 KUNU 271035Z AUTO 12004KT 10SM CLR M04/M05 A3008 RMK AO2 T10371050 RJAW 270900Z 26010KT 220V310 9999 FEW005 BKN010 BKN120 22/21 Q1014 RMK 2ST005 5CU010 7AC120 A2995 KUNV 271053Z 27005KT 10SM SKC M02/M10 A3027 RJCH 271000Z 35003KT 9999 FEW040 M03/M11 Q1028 RJCK 271000Z 23008KT 9999 FEW030 M05/M12 Q1027 RJBT 270900Z 01005KT 330V060 9999 FEW020 SCT030 BKN040 03/02 Q1026 RJDC 271000Z 36004KT 300V060 9999 FEW030 09/M01 Q1024 RJCM 271000Z VRB01KT 9999 FEW040 M08/M14 Q1027 LLOV 261550Z 02011KT CAVOK 20/M08 Q1017 RJCN 270900Z 27004KT 9999 FEW030 M09/M15 Q1026 RJCO 270733Z 14006KT 9999 FEW030 SCT050 M03/M09 Q1028 RMK 1CU030 4SC050 A3037 SACO 271000Z 32003KT 9999 FEW025 20/18 Q1011 SADF 271000Z 33003KT CAVOK 23/21 Q1009 KUOX 271055Z AUTO 08007KT 1 1/4SM +RA BKN001 OVC012 06/05 A3018 RMK AO2 LTG DSNT S AND SW P0061 KTYQ 271055Z AUTO 20005KT 10SM OVC037 03/01 A3018 RMK AO2 T00330007 KTYR 271053Z AUTO 16004KT 10SM OVC010 18/17 A2996 RMK AO2 SLP140 T01780167 FQCH 271100Z 14010KT 9999 BKN008 BKN015 FEW020CB 23/23 Q1016 RMK CB TO NE RJEB 270700Z 24009KT 9999 FEW040 BKN050 M01/M12 Q1025 KTYS 271053Z 08003KT 10SM SCT100 03/M04 A3026 RMK AO2 SLP247 T00331039 FQBR 271000Z /////KT 9999 SCT018 BKN030 BKN070 26/25 Q1011 RJEC 271000Z 15007KT 9999 FEW025 BKN050 M09/M11 Q1027 KVGT 271053Z AUTO 16015G24KT 10SM CLR 09/M01 A2972 RMK AO2 SLP075 T00941006 RJDM 270417Z 19006KT 9999 FEW020 BKN030 14/00 Q1022 RMK 1CU020 5CU030 A3019 RJCW 270900Z 23005KT 9999 BKN030 M05/M10 Q1026 KVIH 271053Z AUTO 15004KT 10SM CLR M01/M02 A3004 RMK AO2 SLP180 T10061022 $ KTZR 271035Z AUTO 19004KT 10SM OVC065 04/M04 A3024 RMK AO2 T00361040 RJDT 271000Z 08005KT 010V130 9999 FEW020 08/03 Q1025 MDJB 262300Z 00000KT 9999 BKN018 26/21 Q1016 LLSD 271050Z 28004KT 4500 HZ NSC 17/14 Q1014 RJFF 271030Z 02005KT 340V070 9999 FEW030 09/00 Q1024 RMK 1CU030 A3026 KUSE 271055Z AUTO 22007KT 10SM SCT040 00/M05 A3017 RMK AO2 RJFG 270900Z 31012KT 9999 FEW050 BKN/// 10/01 Q1022 KVJI 271055Z AUTO 09008KT 10SM BKN075 OVC120 03/M05 A3028 RMK AO2 T00281048 RJFK 271000Z 35006KT 9999 FEW030 06/M02 Q1022 RMK 1CU030 A3019 KUTA 271055Z AUTO 11014G17KT 10SM CLR 07/06 A3005 RMK AO2 P0001 TSNO KVIS 271056Z AUTO 10004KT 10SM FEW050 OVC090 07/06 A2991 RMK AO2 SLP137 T00670056 KY19 271055Z AUTO 12003KT 10SM SCT065 BKN080 OVC120 M11/M12 A2982 RMK AO2 RJFM 271000Z 07010KT 9999 FEW030 SCT035 12/04 Q1022 KWAL 271054Z AUTO 16006KT 10SM CLR 04/01 A3042 RMK AO2 SLP297 T00390011 RJFO 271000Z 31005KT 9999 FEW030 07/00 Q1024 KY23 271035Z AUTO 13005KT 10SM SCT016 BKN095 M05/M09 A2996 RMK AO2 T10511091 RJGG 271030Z 30013KT 9999 FEW025 SCT/// 07/M02 Q1023 NOSIG SAEZ 271000Z 03006KT CAVOK 24/21 Q1009 RJFR 271000Z 36013KT 9999 FEW030 09/00 Q1024 RJFS 271000Z 34007KT 9999 FEW030 08/02 Q1023 RJFT 271000Z 04007KT 9999 FEW030 SCT050 09/00 Q1022 RJFU 271000Z 33013KT 9999 FEW030 09/03 Q1023 EYPA 271050Z 21009KT 190V250 3300 BR BKN003 BKN012 05/05 Q1007 R19/2///95 KY31 271053Z AUTO 00000KT 10SM CLR M05/M06 A3007 RMK AO2 T10501061 KVLD 271053Z AUTO 12003KT 10SM CLR 08/04 A3024 RMK AO2 SLP249 T00830044 RJFY 261212Z 32005KT 9999 FEW030 BKN100 08/M02 Q1022 RMK 1CU030 6AC100 A3019 KUTS 271053Z AUTO 17006KT 7SM BKN035 BKN060 19/18 A2995 RMK AO2 SLP136 T01940178 $ KUVA 271055Z AUTO 00000KT 2 1/2SM BR OVC015 17/16 A2988 RMK AO2 T01650163 KVKS 271055Z AUTO 18008KT 10SM BKN030 OVC036 17/13 A3000 RMK A01 KVLL 271055Z AUTO 22004KT 10SM CLR 00/M06 A3016 RMK AO2 T00031057 GGOV 271000Z 22003KT 8000 NSC 25/20 Q1011 NOSIG KVKY 271055Z AUTO 00000KT 10SM BKN021 BKN037 22/16 A3009 RMK A01 KWDG 271035Z AUTO 08004KT 10SM SCT120 01/00 A2992 RMK AO2 MDLR 271100Z 00000KT 9999 FEW016 21/21 Q1018 NOSIG KY50 271056Z AUTO 00000KT 9SM CLR M09/M11 A3007 RMK AO2 SLP211 T10891106 KY49 271035Z AUTO 09003KT 10SM OVC040 M11/M13 A2990 RMK AO2 T11071135 LMML 271045Z 05014KT 5000 BR BKN008 BKN029 17/15 Q1015 TEMPO 4000 KUUU 271053Z AUTO VRB04KT 10SM CLR 01/M05 A3033 RMK AO2 SLP272 T00111050 KVNC 271055Z AUTO 07011KT 10SM CLR 17/14 A3018 RMK AO2 KY51 271055Z AUTO 14005KT 10SM CLR M05/M06 A3001 RMK AO1 T10551063 SBAF 271000Z 09003KT 9999 3500NE FEW030 BKN100 25/23 Q1012 RJKA 271000Z 36005KT 9999 FEW030 SCT040 BKN060 14/08 Q1022 KWDR 270457Z AUTO 12003KT 10SM CLR 06/M05 A3026 RMK AO1 KVOA 271055Z AUTO 14010G20KT 090V170 10SM BKN022 BKN028 23/15 A3010 RMK A01 EYSA 271050Z 21007KT 5000 BR OVC002 04/04 Q1007 R32R/29//95 R32L/29//95 AMB NOSIG SBAN 271000Z 01002KT 9999 FEW003 BKN100 18/17 Q1018 SBBE 271100Z 14004KT 9999 SCT015 BKN100 24/22 Q1011 KY63 271058Z AUTO 07005KT 10SM BKN042 M08/M10 A2989 RMK AO2 T10791096 FQIN 271000Z /////KT 9999 SCT020 SCT090 29/16 Q1017 SBBH 270900Z 09003KT 9999 FEW007 BKN070 19/17 Q1016 SBBI 271000Z 01003KT 5000 BR BKN002 18/18 Q1017 SBAR 271100Z 33005KT 9999 SCT014 28/24 Q1013 SBCA 271000Z 06008KT CAVOK 21/19 Q1015 SBAT 270300Z 00000KT CAVOK 23/23 Q1014 SBCB 271000Z 00000KT 9999 SCT020 BKN070 25/23 Q1012 SBCC 262000Z 12008KT 9999 -TSRA SCT035 FEW037CB BKN070 22/21 Q1012 KY70 271057Z AUTO 26006KT 10SM CLR 00/M02 A3011 RMK AO2 T00021021 KVOK 271058Z AUTO 00000KT 10SM CLR M07/M08 A3003 RMK AO2 SLP184 T10671077 MDPC 271100Z 07010KT 9999 SCT020 25/20 Q1018 NOSIG KVPC 271053Z AUTO 09003KT 10SM CLR 06/M02 A3024 RMK AO2 SLP236 T00611017 KUXL 271055Z AUTO 15005KT 5SM BR OVC004 20/20 A2999 RMK AO2 T02020197 SBAX 271000Z 16003KT CAVOK ///// Q1018 SBCF 271100Z 16003KT 9999 FEW030 BKN100 19/18 Q1018 KUYF 271055Z AUTO 00000KT 10SM OVC060 04/M01 A3022 RMK AO2 SBCG 271100Z 33004KT CAVOK 23/20 Q1014 SBCH 271000Z 06004KT CAVOK 22/19 Q1013 SBBQ 271000Z VRB02KT 4000 BR FEW007 SCT030 BKN080 17/16 Q1020 KVNY 271051Z AUTO 17004KT 10SM FEW030 OVC037 09/06 A2991 RMK AO2 RAE0954 SLP127 P0000 T00890061 SBCI 271000Z 01002KT CAVOK ///// Q1012 SBBR 271000Z 00000KT 9999 FEW030 BKN100 18/17 Q1018 SBCJ 271100Z 00000KT CAVOK 24/20 Q1015 KUZA 271054Z AUTO 00000KT 10SM CLR 04/M02 A3033 RMK AO2 SLP272 T00391017 SBBU 270900Z 06005KT 5000 BCFG FEW003 21/21 Q1014 SBCM 262200Z 00000KT 9999 FEW025 SCT100 27/22 Q1013 FPST 271000Z 05004KT 9999 FEW025CB BKN250 30/26 Q1011 NOSIG SBBV 271100Z 08007KT 9999 FEW020 BKN070 25/22 Q1012 SBBW 262100Z 00000KT CAVOK 25/24 Q1012 FQLC 271000Z 21010KT 9999 BKN016 FEW020CB SCT/// 24/18 Q1018 RMK CB TO S/SW/NW/N SAME 271000Z 00000KT 9999 SCT045 20/16 Q1012 SBCO 271000Z 12003KT 5000 BR NSC 21/20 Q1012 SBCP 271000Z 34004KT 9999 SCT020 BKN090 26/24 Q1012 MDPP 271100Z 00000KT 8000 VCSH BKN016 21/21 Q1018 RESH VCSH/W SBCR 271100Z 00000KT CAVOK 27/24 Q1011 SBCT 271045Z 00000KT 2000 BR SCT003 OVC006 18/18 Q1017 KVPS 270955Z 00000KT 10SM CLR 13/07 A3014 RMK AO2A SLP213 T01250073 $ FQMA 271100Z 12007KT 9999 BKN025 27/20 Q1017 NOSIG KVRB 271053Z AUTO 09010KT 10SM CLR 22/18 A3020 RMK AO2 SLP226 T02170178 SBDN 270900Z 12007KT CAVOK 22/20 Q1013 SBEG 271100Z 34002KT 9999 SCT010 SCT080 24/23 Q1011 SBCY 271000Z /////KT 9999 FEW030 SCT070 ///// Q//// KWHP 270353Z 15005KT 10SM OVC021 10/05 A2998 RMK LAST SBCZ 270645Z 00000KT 8000 SCT015 BKN100 23/22 Q1012 KVQQ 271055Z AUTO 00000KT 10SM BKN026 05/04 A3024 RMK AO2 KVPZ 271056Z AUTO 19004KT 10SM CLR M02/M05 A3015 RMK AO2 SLP215 T10171050 RJOA 271000Z 11003KT 9999 FEW025 05/M02 Q1023 RJNK 271000Z 04015KT 9999 FEW040 04/M05 Q1026 RJOB 271000Z 03010KT 9999 FEW025 03/M05 Q1025 EYVI 271050Z 26008KT 5000 BR OVC003 05/05 Q1009 R19/2///95 NOSIG RJOC 271000Z 10008KT 9999 FEW030 06/M02 Q1026 SAOC 271000Z 18005KT CAVOK 23/16 Q1010 KVQT 271055Z AUTO 16009G15KT 5SM BR SCT014 BKN022 BKN029 22/21 A3001 RMK A01 MDSD 271100Z 36004KT 9999 SCT016 SCT070 22/20 Q1018 RJOF 270617Z 17006KT 130V200 9999 FEW020 BKN030 11/01 Q1023 RMK 1CU020 5CU030 A3021 KVSF 271054Z AUTO 34003KT 10SM FEW080 M06/M09 A3019 RMK AO2 SLP234 T10611089 KWJF 271056Z 26014KT 10SM BKN025 BKN031 07/02 A2986 RMK AO2 SLP115 T00670022 RJOH 271000Z 07012KT 9999 FEW040 BKN045 06/M05 Q1026 RJOI 270955Z 28004KT 9999 FEW050 08/M01 A3025 RMK SLP244 T00781011 SBFI 271000Z 09005KT CAVOK 23/21 Q1011 SBES 271000Z 04005KT 360V080 9999 FEW025 BKN070 24/24 Q1012 RJNS 271000Z VRB02KT 9999 -RA FEW020 SCT025 BKN035 09/04 Q1022 RJOK 271000Z 36009KT 9999 FEW030 SCT060 BKN080 10/M04 Q1022 RJNT 271000Z 04006KT 9999 SCT030 BKN040 BKN050 04/M03 Q1027 SANT 271000Z 00000KT 9999 FEW040 22/21 Q1011 KVTA 271054Z AUTO 00000KT 10SM BKN070 OVC085 02/M03 A3024 RMK AO2 SLP246 T00221028 SANU 271000Z 16005KT CAVOK 22/15 Q1013 SBFL 271000Z 00000KT CAVOK 23/20 Q1012 RJOM 271000Z 11006KT 9999 FEW035 10/M03 Q1023 SBFN 271100Z 11009KT 070V140 1000 -RA BKN009 BKN015 25/24 Q1013 RJNW 271000Z 05002KT 9999 FEW040 M01/M06 Q1027 LOAN 271000Z 10007KT 40KM FEW100AC BKN300CI RJOO 271000Z 34011KT 9999 FEW040 05/M06 Q1025 RMK 1CU040 A3028 RJNY 271014Z 34004KT 300V040 9999 -SHRA FEW020 BKN030 09/04 Q1023 RMK 1CU020 6CU030 A3021 RJOR 271000Z 09006KT 9999 FEW030 SCT045 BKN060 05/M04 Q1027 FQNP 271000Z 36004KT 9999 BKN020 30/22 Q1012 SBFS 271000Z /////KT 9999 FEW015 BKN060 ///// Q//// KVTI 271055Z AUTO 06003KT 5SM BR CLR M06/M07 A3005 RMK AO2 RJOT 271000Z 10006KT 9999 FEW030 05/M03 Q1024 SAOU 270140Z 07011KT 9999 BKN035 FEW045CB 20/18 Q1013 RETSRA RMK CB OBS TO N VYMD 271030Z 32003KT 6000 NSC 31/12 Q1008 MDST 271100Z 00000KT 9999 SCT016 19/18 Q1019 SBGL 271000Z 00000KT 7000 FEW007 BKN100 24/23 Q1011 SBGM 261700Z 23005KT 9999 BKN010 BKN080 29/25 Q1013 FQPB 271000Z 16015KT 9999 SCT020 FEW025CB BKN/// 30/24 Q1009 RMK CB TO N/NE/E/SE LOAV 271000Z 12004KT 35KM FEW100AC BKN300CI 06/M01 RJOW 271000Z 02006KT 300V080 9999 FEW030 08/M02 Q1025 KWLD 271054Z AUTO 10007KT 10SM CLR 02/M01 A2996 RMK AO2 SLP147 T00221011 $ KVTN 271052Z AUTO 22007KT 10SM CLR M13/M16 A2980 RMK AO2 SLP129 T11331161 SBGO 271000Z 00000KT CAVOK 20/18 Q1016 RJOY 271000Z 36009KT 9999 FEW050 06/M06 Q1025 SBFZ 271100Z 15005KT 9999 SCT020 FEW025TCU BKN080 26/24 Q1012 KVTP 271054Z AUTO 19028G38KT 10SM CLR M08/M13 A2972 RMK AO2 KXBP 271055Z AUTO 19006KT 7SM OVC005 16/16 A2992 RMK AO2 T01610161 SBGR 271042Z 05002KT 7000 3000E FEW002 22/20 Q1017 KVUJ 271050Z AUTO 00000KT 10SM CLR 00/M03 A3039 RMK AO2 T00001028 SARC 271000Z 11003KT 8000 NSC 24/23 Q1009 SBGW 271000Z 00000KT 2000 BR BKN003 BKN015 21/19 Q1015 SARE 271000Z 08002KT 8000 NSC 25/22 Q1009 SARF 271000Z 00000KT 4000 BR NSC 24/24 Q1009 KVUO 271053Z AUTO 00000KT 10SM BKN008 BKN020 OVC024 03/03 A2981 RMK AO2 CIG 007V012 SLP093 T00330033 SBIH 271000Z 00000KT CAVOK 23/23 Q1010 KVVG 271035Z AUTO 00000KT 10SM 11/11 A3012 RMK A01 SARI 271000Z 05006KT CAVOK 21/21 Q1012 RJSA 271000Z 16003KT 9999 FEW030 BKN040 M04/M07 Q1028 SASA 271000Z 02002KT 8000 VCSH FEW010 SCT017 BKN100 20/19 Q1015 SBHT 271000Z 00000KT 9999 FEW010 BKN080 23/23 Q1011 RKJB 271000Z 35006KT 320V020 CAVOK 04/M02 Q1027 NOSIG SBIL 270900Z 28003KT 9999 VCSH SCT015 SCT020 FEW030TCU 23/23 Q1012 RJSC 271000Z 02009KT 9999 FEW050 M01/M07 Q1027 SARL 271000Z 09008KT 8000 NSC 22/21 Q1010 FQQL 271000Z 16004KT 9999 BKN020 SCT100 31/25 Q1010 SBJF 262100Z 00000KT 6000 TSRA SCT017 FEW025CB BKN080 22/20 Q1017 RJSF 271000Z 36009KT 9999 SCT030 M00/M07 Q1025 SBIP 270900Z 27001KT 9999 SCT030 21/20 Q1014 SARP 271000Z 11003KT CAVOK 25/23 Q1010 RJSH 261427Z 34007KT 300V010 5000 -SHSN FEW008 SCT015 BKN030 M02/M04 Q1021 RMK 1ST008 3CU015 7CU030 A3018 RJSI 271000Z 27003KT 230V310 9999 FEW040 M01/M10 Q1028 SASJ 271000Z 00000KT 7000 -DZ BR SCT015 SCT025 BKN080 21/21 Q1014 SCBA 271000Z AUTO 25006KT 220V320 9999 FEW110 OVC150 10/04 Q1010 RJSK 271000Z 36004KT 9999 FEW035 M02/M08 Q1028 RKJK 271058Z AUTO 32006KT 10SM CLR 03/M02 A3032 RMK AO2 SLP272 T00321020 $ RJTC 262227Z 04009KT 9999 FEW030 SCT040 BKN060 03/M06 Q1024 RMK 1CU030 3SC040 5SC060 A3025 HAAB 271000Z 12008KT 9999 BKN020 BKN070 21/11 Q1024 RJSN 271000Z 32003KT 9999 FEW025 SCT040 03/M07 Q1028 KVVV 271043Z AUTO 00000KT 10SM M07/M08 A2988 RMK AO2 RJTF 270700Z 09009KT 050V130 9999 FEW030 SCT080 09/M03 Q1022 SBKG 270900Z 17004KT 9999 SCT012 BKN018 23/21 Q1014 SCAP 271000Z AUTO /////KT ///V/// 5000 // NSC 10/09 Q1019 SBJP 271000Z 20006KT 9999 FEW020 26/24 Q1013 SBIZ 271000Z 21004KT 9999 BKN015 BKN080 24/24 Q1011 SBJR 271000Z 00000KT 9999 FEW040 BKN100 25/24 Q1011 RJTI 270700Z 07012KT 030V090 9999 FEW030 BKN080 07/M02 Q1023 RJSR 271000Z 20002KT 9999 FEW030 SCT040 M03/M08 Q1028 SCAR 271000Z 35003KT 9999 BKN083 23/18 Q1012 RJSS 271000Z 35007KT 9999 FEW020 SCT050 02/M10 Q1028 SBLB 271000Z /////KT 9999 SCT015 BKN020 29/24 Q1013 W///S3 RJTK 270541Z 07010KT 9999 FEW020 SCT040 BKN050 07/M01 Q1023 RMK 1CU020 3SC040 7SC050 A3021 SCAT 271000Z AUTO 13005KT 9999 // NCD 20/14 Q1015 SBJU 271000Z 00000KT 9999 SCT022 SCT100 24/23 Q1016 RJSU 270513Z 35009KT 9999 FEW030 SCT050 07/M08 Q1025 RMK 1CU030 3CU050 A3028 SBJV 270900Z 30004KT 9999 SCT015 22/22 Q1012 KVWU 271052Z AUTO 18003KT 10SM CLR M14/M16 A2990 RMK AO2 SBLE 261800Z 19004KT 9999 SCT040 32/18 Q1013 RJTO 270700Z 05013KT 9999 FEW025 BKN035 08/02 Q1021 SCCF 271000Z 26002KT 9999 BKN040 13/07 Q1027 RJSY 271000Z 09002KT 9999 FEW035 BKN045 00/M06 Q1028 SBKP 271100Z 05004KT CAVOK 22/// Q1016 SCCH 271000Z AUTO VRB02KT 9999 ///////// 16/15 Q1013 SCCI 271000Z 27013KT 9999 SCT043 OVC090 10/06 Q1005 NOSIG SBMA 271100Z 22003KT 9999 SCT012 24/23 Q1011 SCDA 271000Z 00000KT CAVOK 25/17 Q1013 RJTT 271030Z 06019KT 9999 SCT025 BKN080 BKN100 06/01 Q1026 NOSIG RMK 4SC025 6AC080 7AC100 A3030 RJTU 270547Z VRB03KT 9999 FEW030 SCT080 10/M05 Q1022 RMK 1CU030 3AC080 A3021 SAVC 271000Z 32002KT CAVOK 17/04 Q1008 SBMD 271000Z 00000KT 9999 SCT012 BKN015 22/21 Q1012 SBME 270900Z 07005KT 9999 FEW025 24/23 Q1011 SBLO 271000Z 00000KT 9999 FEW015 22/20 Q1012 SBMG 270900Z 06008KT CAVOK 22/19 Q1012 RJTY 271058Z AUTO 09008KT 10SM FEW029 OVC037 05/M02 A3035 RMK AO2 SLP288 T00461016 SBLS 271000Z 00000KT 9999 FEW015 SCT020 BKN080 20/18 Q1017 SBMK 270900Z 00000KT 9999 FEW025 BKN070 21/19 Q1016 KVYS 271035Z AUTO 17005KT 10SM SCT085 M01/M03 A3011 RMK AO2 T10091030 KWRB 271058Z AUTO 00000KT 10SM OVC150 07/03 A3024 RMK AO2 SLP243 T00680031 FQTT 270800Z 00000KT 9999 SCT020 BKN100 27/23 Q1013 SAWE 271000Z 25002KT CAVOK 09/09 Q1004 SBMN 271100Z 14002KT 9999 SCT006 BKN100 25/24 Q1011 SBNF 271100Z 25009KT 9999 FEW020 25/23 Q1012 SBMO 271100Z 12008KT 9999 SCT020 28/23 Q1013 SCCY 271000Z AUTO 02006KT CAVOK 11/07 Q1011 SAWG 271000Z 32005KT CAVOK 10/04 Q1007 SAWH 271000Z 36005KT 9999 SCT025 OVC100 08/07 Q1004 SBMQ 271100Z 28002KT 9999 FEW004 SCT025 BKN040 25/25 Q1011 SBMS 262100Z 04013KT 9999 FEW030 30/24 Q1009 KWRI 271058Z AUTO 22004KT 10SM FEW120 M03/M07 A3037 RMK AO2 SLP285 T10301067 SCFA 271000Z 13004KT CAVOK 22/18 Q1013 NOSIG SAVT 261225Z 05005KT 9999 FEW040TCU 21/16 Q1009 TS REC SBMT 270900Z 23003KT CAVOK 20/17 Q1015 SCEL 271000Z 17003KT CAVOK 19/15 Q1015 NOSIG KWRL 271053Z AUTO 15007KT 10SM CLR M06/M12 A2956 RMK AO2 SLP048 T10611117 FQVL 261300Z 21007KT 170V240 8000 TSRA SCT010 BKN020 FEW025CB 25/24 Q1011 RMK ZD SAVY 270920Z 00000KT 0400 BCFG FEW200 17/16 Q1007 SBOI 262000Z 12002KT 9999 SCT015 FEW025TCU 24/22 Q1011 SBPA 271000Z 07004KT CAVOK 22/22 Q1012 SBNT 271100Z 23004KT 9000 VCSH SCT018 FEW025TCU BKN100 27/25 Q1 012 SBPB 271000Z 19005KT 9999 TS BKN017 FEW025CB 25/24 Q1011 SBPC 262000Z 00000KT 9999 SCT025 OVC100 19/19 Q1018 RETS RKPC 271000Z 06001KT 9999 FEW030 08/M02 Q1027 NOSIG SCGE 262100Z 28015KT 9999 FEW027TCU 33/15 Q1012 SBPF 261700Z 21008KT 9999 BKN040 28/18 Q1015 RKNY 271000Z AUTO 16005KT 9999 NCD 06/02 Q1025 SAZA 270823Z 18005KT 4000 TSRA SCT032 OVC040 FEW050CB 21/20 Q1009 RMK CB OBS VER AD SBPJ 270900Z 00000KT 9999 FEW020 BKN100 24/22 Q1012 SAZB 261815Z 09008KT 6000 -RA SCT025 OVC050 20/20 Q1012 SBPK 271100Z 31002KT 9999 SCT025 25/23 Q1013 SCFT 271000Z AUTO 00000KT //// SKC 09/08 Q1014 LPBJ 271000Z 34004KT 300V020 9999 FEW010 BKN037 13/09 Q1022 RKPK 271000Z 05004KT 9999 FEW050 08/02 Q1026 NOSIG MGCB 262300Z 05006KT 9999 SCT018 23/16 QFE 870.2 KWST 271053Z AUTO 24005KT 10SM CLR 02/M05 A3035 RMK AO2 SLP279 T00221050 SBPL 271000Z 16007KT CAVOK 24/18 Q1014 SBPP 262200Z 00000KT 9999 FEW025 28/22 Q1012 SBPR 271000Z 16003KT CAVOK 20/18 Q1018 LPAZ 271030Z 28008KT 9999 SCT015 BKN038 15/12 Q1028 SBPS 271100Z 26005KT 9999 FEW017 SCT020 25/23 Q1014 SBRB 271100Z 34002KT CAVOK 22/20 Q1013 SCIC 271000Z AUTO 05002KT 9999 VV002 18/15 Q1013 SAZM 271000Z 00000KT 8000 BKN100 21/20 Q1009 SBPV 271100Z 19001KT 9999 FEW007 24/23 Q1012 KXLL 271055Z AUTO 00000KT 10SM CLR M02/M07 A3037 RMK AO2 SAZN 271000Z 27005KT CAVOK 21/13 Q1009 SCIE 271000Z 34001KT 1700 BR OVC002 15/15 Q1013 SBRF 271100Z 15010KT 9999 SCT020 30/25 Q1013 SAZR 270827Z 14004KT 8000 SCT040 SCT100 BKN200 19/18 Q1009 SAZS 271000Z 14003KT CAVOK 06/02 Q1014 KWVI 271053Z AUTO 31003KT 10SM BKN046 OVC060 06/06 A2993 RMK AO2 SLP134 T00610056 SBRJ 271000Z 02001KT 9999 BKN040 25/24 Q1011 SAZT 262030Z 23023G33KT 9999 SCT020 FEW040CB OVC080 29/21 Q1011 RMK CB OBS TO W LPCS 271030Z 32007KT 9999 FEW015 14/08 Q1022 KXNA 271053Z AUTO 00000KT 10SM CLR 02/M02 A3000 RMK AO2 SLP159 T00221017 SBSC 271000Z 03008KT 9999 FEW030 BKN100 25/20 Q1012 FSIA 271000Z 31009KT 9999 FEW010 FEW013CB BKN015 28/26 Q1008 RETSRA TEMPO 8000 -SHRA SBQV 271000Z 07006KT 9999 BKN010 21/17 Q1019 KWVL 271056Z AUTO 20005KT 10SM CLR M07/M11 A3011 RMK AO2 SLP238 T10671106 FZRANO KWWD 271056Z AUTO 00000KT 10SM CLR M02/M03 A3041 RMK AO2 SLP302 T10171033 FZRANO $ RKSG 270958Z AUTO 28003KT 10SM CLR 04/M06 A3031 RMK AO2 SLP268 T00411062 $ SBSG 271100Z 22004KT 170V260 3000 -RADZ SCT006 BKN015 FEW025TCU OVC070 25/24 Q1013 SBRP 271000Z 14005KT 9999 FEW004 SCT100 21/20 Q1014 SCIP 271000Z 12002KT 9999 SCT020 21/19 Q1017 NOSIG SCIR 261900Z 12018KT 9999 BKN023 21/17 Q1016 RKSI 271030Z 26006KT CAVOK 04/M11 Q1027 NOSIG SBTA 271000Z VRB02KT 0800 FG BKN003 OVC006 20/20 Q1014 SBSJ 271000Z 33001KT 5000 BR OVC005 20/19 Q1016 KXMR 271058Z AUTO 10008KT 10SM CLR 20/16 A3021 RMK AO2 SLP233 T02020155 $ SBTC 262000Z 09005KT CAVOK 29/23 Q1012 SBSL 271100Z 18005KT 9999 BKN017 25/24 Q1011 SBSM 271000Z 06003KT 030V100 8000 SCT003 OVC004 21/20 Q1011 RKSM 271000Z 27005KT 9999 SKC 07/M06 A3030 RMK SLP259 SBSN 271100Z 03004KT 9999 SCT015 BKN100 25/23 Q1012 SBTE 271000Z 11002KT 9999 FEW007 SCT090 24/22 Q1011 SBTF 262245Z 00000KT 9999 FEW020 30/24 Q1008 SCJO 262200Z VRB03KT 9999 FEW040 24/14 Q1012 RKSO 270958Z 00000KT 7SM CLR 05/M08 A3032 RMK AO2A SLPNO WND DATA ESTMD ALSTG ESTMD $ KXNO 270958Z AUTO 11006KT 10SM CLR 05/03 A3028 RMK AO2 SLP257 SBSP 271100Z 32007KT CAVOK 22/18 Q1017 SBSR 270900Z 07005KT 9999 OVC015 22/20 Q1015 SBUA 262200Z 14003KT 9999 SCT037 29/25 Q1007 RKSS 271000Z 29005KT CAVOK 04/M11 Q1026 NOSIG KWWR 271055Z AUTO 15012KT 10SM CLR 04/M02 A2988 RMK AO2 MGES 262300Z 03008KT 9999 FEW020 27/13 QFE 908.6 SBST 271000Z 03002KT CAVOK 23/22 Q1012 KXNT 271055Z AUTO VRB06G12KT 10SM CLR 01/M09 A3016 RMK AO2 LPFL 271030Z 00000KT 9999 FEW018 SCT034 16/12 Q1028 SBSV 271100Z 06013KT 6000 -RA BKN015 FEW020TCU BKN070 24/23 Q10 14 RKTN 271000Z 09003KT CAVOK 08/02 Q1025 NOSIG SBUF 261900Z 09006KT 9999 FEW022 36/14 Q1010 SBUG 271100Z 07007KT CAVOK 24/21 Q1011 SBSY 270900Z AUTO 11001KT //// R20C/P2000N BR VV001 19/// Q1015 LPFR 271030Z 24005KT 9999 FEW032 BKN044 15/11 Q1022 SBTT 271100Z 05001KT 9999 FEW003 BKN080 22/21 Q1013 SBTU 271000Z /////KT 9999 BKN006 OVC070 ///// Q1012 SBUL 270900Z 01006KT 9999 BKN007 20/18 Q1017 RKTU 271000Z 28004KT CAVOK 07/M10 Q1026 NOSIG VYYY 271030Z 29006KT 8000 NSC 34/14 Q1009 NOSIG SBVH 262300Z 24003KT 220V280 9999 FEW030 BKN070 22/22 Q1013 SBUR 270900Z 31007KT 9999 FEW010 20/19 Q1015 KWYS 271055Z AUTO 00000KT 10SM FEW017 BKN024 M16/M17 A2952 RMK AO2 MGGT 271100Z 36006KT CAVOK 13/10 Q1026 A3030 YABA 271100Z AUTO 09009KT 9999 // NCD 19/15 Q1017 LPHR 271030Z 08003KT 040V110 9999 FEW014 BKN035 16/12 Q1028 KXSA 271055Z AUTO 00000KT 10SM CLR M01/M01 A3039 RMK AO2 T10131015 SBVT 271000Z 00000KT 9999 FEW025 SCT070 25/23 Q1013 MGHT 271000Z 00000KT 9999 FEW016 11/09 QFE819.1 WSAP 271000Z 03012KT 9999 FEW017 FEW020TCU BKN300 30/24 Q1007 KYIP 271053Z AUTO 22008KT 10SM CLR 01/M04 A3016 RMK AO2 SLP217 T00061039 SCNT 262300Z 28017KT 9999 BKN030 SCT200 14/02 Q1006 MHAM 270000Z 23010KT 9999 FEW030 BKN090 29/25 SCON 271000Z AUTO VRB02KT 8000 ///003 12/11 Q1013 MHCA 271100Z 10004KT 9999 SCT026 SCT070 22/19 LPLA 271000Z 27005KT 9999 FEW022 BKN025 14/13 Q1028 LQBK 271030Z VRB02KT CAVOK 13/05 Q1016 NOSIG KYKM 271053Z AUTO 27005KT 10SM OVC065 M01/M02 A2972 RMK AO2 SLP074 T10061022 KYKN 271055Z AUTO 14005KT 10SM CLR M07/M11 A2990 RMK AO1 SCPQ 271000Z AUTO 06003KT 2200 R35/1400VP2000N FG VV002 11/10 Q1013 MHCH 270000Z 27010KT 7000 VCSH SCT030CB SCT070 30/23 CB SE TCU ALL 7 KM ALL PCPN SBYS 271000Z 33002KT 2100 0800S BCFG NSC 19/19 Q1016 LPMA 271030Z 03009KT 9999 BKN015 17/11 Q1025 SCRD 262300Z 29005KT CAVOK 22/15 Q1014 SCQP 271000Z 00000KT 6000 2000S BR SCT002 OVC005 11/11 Q1013 KXVG 271056Z AUTO 00000KT 10SM OVC040 M10/M12 A2990 RMK AO2 FSPP 271000Z 36010KT //// //// 29/24 Q1009 SCRM 271000Z 10038KT 3000 DRSN OVC016 M03/M04 Q0985 MGMM 271000Z 00000KT CAVOK 19/19 Q1016 A3000 SCSE 271000Z 14002KT CAVOK 18/15 Q1013 LOWG 271050Z VRB02KT CAVOK 09/M01 Q1013 R17/19//95 NOSIG KYNG 271051Z 17005KT 10SM FEW080 SCT250 01/M09 A3022 RMK AO2 SLP246 T00061089 $ LOWI 271050Z 26008KT 9999 FEW070 SCT150 11/M01 Q1009 R08/19//95 NOSIG SCTB 262300Z 23007KT 9999 FEW080 27/15 Q1014 MGMT 262300Z 00000KT 9999 FEW014 31/23 QFE 1008.4 FEW070 LOWK 271050Z VRB01KT 9999 FEW090 BKN140 09/01 Q1014 NOSIG SEAM 262300Z 09003KT 9999 SCT030 OVC100 14/12 Q1025 LOWL 271050Z VRB03KT 9999 FEW080 SCT140 BKN230 09/01 Q1009 NOSIG SCSN 271000Z AUTO 00000KT 9999 FEW007 15/14 Q1014 SCTE 271000Z 27002KT 0900 R17/0900 R35/1700 FG VV001 09/08 Q1014 NOSIG SECA 262300Z 28007KT 240V330 9999 VCSH OVC040 22/16 Q1017 LOWS 271050Z 32003KT 280V350 9999 FEW100 BKN110 11/M00 Q1009 NOSIG MGPB 271000Z 12004KT 9999 FEW016 21/20 Q1014 A2994 LPPD 271030Z 02005KT 340V040 8000 -SHRA BKN015 14/13 Q1028 SCTN 271000Z AUTO 09003KT 050V120 9999 OVC007 12/12 Q1013 LOWW 271050Z 11010KT CAVOK 07/02 Q1012 NOSIG LOXT 271020Z 07009KT 040V120 25KM FEW110AC SCT300CI 09/00 Q1012 NOSIG RMK SCT SCVD 271000Z AUTO 00000KT CAVOK 08/08 Q1013 SECO 262300Z 29002KT CAVOK 25/23 Q1011 LOXZ 271050Z VRB01KT 40KM FEW130AC SCT150AC 08/M02 Q1012 NOSIG LPPR 271030Z 22011KT 9999 SCT015 BKN018 13/10 Q1019 LPPS 271030Z 01006KT 9999 SCT012 SCT030 16/13 Q1025 LPPT 271030Z 28007KT 250V310 9999 SCT014 14/10 Q1022 SECU 271000Z AUTO 14002KT ////NDV FEW008 FEW011 OVC033 12/11 Q1025 SCVM 271100Z 12003KT 8000 FEW006 16/15 Q1015 YBAF 271030Z AUTO 15012KT 9999 // NCD 23/16 Q1017 RMK MGQZ 262300Z 18004KT 9999 BKN018 FEW025CB 17/12 QFE771.1 CB SW YBAS 271030Z AUTO 15007KT 9999 // NCD 27/M07 Q1014 RF00.0/000.0 MGSJ 270000Z 21004KT 8000 SCT0902 9/21 Q1011 A2985 FU MGRT 262300Z 22006KT 9999 SCT020 BKN080 30/21 Q1012 A2988 HZ VOL. STA. MARIA Y SANTIAGUITO EN ACTIVIDAD YBBN 271030Z 13008KT 9999 FEW022 23/18 Q1017 FM1200 19008KT 9999 -SHRA SCT020 BKN040 INTER 1130/1330 3000 SHRA BKN010 LRBC 271030Z 13003KT 070V190 CAVOK 14/M04 Q1018 YBCG 271030Z AUTO 20008KT 9999 // BKN110 19/18 Q1018 RF00.0/009.0 YBCK 271030Z AUTO 08007KT //// // ////// 28/14 Q1012 RMK YAMB 271030Z 16005KT 9999 FEW028 SCT040 21/16 Q1017 NOSIG RMK USE TAF FOR ARRIVALS AFTER 1100Z LRAR 271030Z 23004KT 190V280 CAVOK 12/05 Q1018 MHLC 270600Z 00000KT 9999 FEW026 SCT080 21/20 Q1014 A2995 NOSIG LRBM 271030Z 12005KT 080V150 CAVOK 11/01 Q1018 YBDG 271030Z AUTO 00000KT 9999 // NCD 23/09 Q1020 RMK MHLE 270000Z 06006KT 9999 FEW026 20/06 LRBO 271100Z 08008KT 9999 FEW100 BKN200 12/02 Q1019 BLU BLU YBCS 271030Z 18005KT 160V220 9999 FEW020 SCT030 27/23 Q1010 NOSIG SEGS 270000Z 05009KT 9999 FEW023 28/22 Q1010 A2983 LRBS 271030Z 28005KT 220V320 CAVOK 12/01 Q1018 NOSIG YBCV 271030Z AUTO 12006KT 9999 // NCD 28/09 Q1014 LRCK 271030Z 28009KT 220V310 CAVOK 11/04 Q1019 NOSIG SEGU 271000Z 28002KT 9999 FEW020 SCT100 24/23 Q1011 NOSIG RMK A2985 MGTU 262300Z 23006KT 9999 FEW018 BKN070 29/22 LRCL 271030Z 10009KT CAVOK 10/M01 Q1018 MHLM 270900Z 00000KT 9999 FEW024 21/21 Q1015 A2997 NOSIG LRCT 271100Z 14006KT 9999 BKN080 09/M03 Q1018 BLU BLU YBDV 271030Z AUTO 22007KT //// // ////// 33/M02 Q1008 SEJD 262300Z 12002KT 9999 SCT030 OVC100 24/23 Q1013 LRCV 271030Z 23005KT 180V280 CAVOK 12/03 Q1018 LQMO 271030Z VRB03KT 9999 FEW040 16/09 Q1017 ROAH 271030Z 04010KT 340V150 9000 SCT035 BKN120 17/09 Q1022 RMK 3CU035 6AC120 A3019 BGBW 271050Z 08024KT 9999 -SN VCSH FEW025 OVC070 05/M06 Q0994 SFAL 271050Z 28007KT 9999 FEW020 11/06 Q1007 GMAD 271035Z VRB02KT 5000 SCT006 BKN016 15/15 Q1021 NOSIG B3 MHNO 270000Z 330004KT 9999 FEW040 27/13 FU GMAG 271000Z 04004KT 8000 FEW010 BKN016 14/14 Q1021 NOSIG FTTA 271000Z 10012KT CAVOK 35/M02 Q1011 FTTC 270900Z 10006KT CAVOK 31/M02 Q1012 FTTD 271000Z 04010KT CAVOK 36/M02 Q1010 HDAM 270900Z 08006KT 9999 FEW023 29/22 Q1014 YBHI 271030Z AUTO 10008KT 9999 // NCD 30/07 Q1016 RMK KZPH 271055Z AUTO 02003KT 10SM CLR 10/09 A3022 RMK AO2 T01000092 MGZA 262300Z 08010KT CAVOK 32/14 QFE 985.4 SEMC 262300Z 34005KT 9999 -RA SCT010 BKN030 OVC100 18/18 Q1016 FTTJ 271000Z 09012KT 8000 NSC 33/00 Q1011 NOSIG LRFT 271100Z 30010KT 290V060 9999 BKN200 13/04 Q1019 BLU BLU YBHM 271100Z AUTO 12019KT 9999 // SCT027 27/22 Q1012 MHPL 262300Z 09005KT 9999 SCT26TCU SCT090 28/23 Q1010 TCU ALL HZ FU GMAT 271000Z 04011KT 6000 BKN016 17/11 Q1021 NOSIG YARG 271030Z AUTO 00000KT 9999 // NCD 29/22 Q1008 LRIA 271030Z VRB02KT CAVOK 12/M04 Q1018 BGGH 271050Z 04006KT 1000 SN VV005 M06/M06 Q0982 SELT 271000Z 17004KT 9999 SCT010 BKN030 OVC100 10/10 Q1028 FVBU 271000Z 10014KT 9000 -DZ BKN010 21/18 Q1020 BECMG 9999 SCT015 RODN 271058Z AUTO 04006KT 9SM R05/5500FT SCT110 13/10 A3021 RMK AO2 SLP238 T01330098 BGGN 271020Z 28006KT 9999 BKN035 M14/M22 Q0988 FTTY 271000Z 04006KT CAVOK 32/M01 Q//// YCBA 271030Z AUTO 11005KT 9999 NCD 27/07 Q1017 RMK HCMH 271000Z 12006KT 9999 SCT020 25/12 Q1017 NOSIG YCBB 271030Z AUTO 13008KT //// // ////// 20/09 Q1022 RMK LQSA 271030Z VRB02KT 8000 SCT047 12/06 Q1018 NOSIG SEMT 271000Z 00000KT 9999 OVC023 24/23 Q1011 WSSL 271000Z 02016KT 9999 FEW020 BKN300 30/23 Q1007 RMK 0930Z Q1007 SENL 262300Z 22003KT 9999 FEW013TCU BKN100 25/22 Q1011 YBKE 271030Z AUTO 10011KT //// // ////// 30/08 Q1016 RMK MHSC 271058Z AUTO 00000KT 9999 CLR 18/16 A3004 RMK AO2 SLP133 T01760155 $ HCMM 271000Z 04019KT 9999 FEW023 30/24 Q1008 NOSIG MHRO 270200Z 00000KT 9999 SCT022 25/24 Q1014 A2995 NOSIG YCAR 271100Z AUTO 20019KT 9999 // NCD 27/22 Q1010 YCAS 271030Z AUTO 21005KT //// // ////// 18/17 Q1020 RMK WSSS 271030Z 05011KT 9999 SCT018 FEW020TCU BKN300 29/24 Q1008 NOSIG FVCZ 270700Z 15010KT 5000 -DZ BKN008 OVC100 21/20 Q1020 FVFA 270900Z 05012KT 9999 BKN020 25/20 Q1016 NOSIG MHTE 270000Z 00000KT 9999 FEW028 SCT250 31/23 Q1012 HZ YCBP 271030Z AUTO 13007KT 9999 NCD 30/M06 Q1014 RMK MHTG 271100Z 00000KT 9999 SCT028 18/15 Q1019 A3009 NOSIG GMFF 271000Z 23002KT 130V320 9999 SCT013 BKN026 15/11 Q1023 NOSIG YBMA 271030Z AUTO 05009KT 9999 // NCD 29/17 Q1011 YBKT 271100Z AUTO 34005KT //// // ////// 28/26 Q1008 MHSR 270000Z 35008KT 9999 FEW030 23/12 HZ YBLN 271030Z AUTO 17010KT //// // ////// 22/15 Q1015 RMK GMFK 271000Z 12002KT CAVOK 16/02 Q1023 NOSIG GMFM 271000Z 17002KT 6000 BKN020 14/10 Q1022 NOSIG BGJN 271050Z 13004KT 080V170 9999 BKN100 BKN160 M16/M22 Q0987 GMFO 271000Z VRB03KT 8000 SCT010 12/12 Q1021 NOSIG YBNA 271030Z AUTO 25007KT 9999 // BKN100 20/19 Q1019 RMK YBLT 271030Z AUTO 11011KT 9999 // NCD 24/08 Q1022 RMK MHTR 270000Z 28002KT 9999 SCT024TCU 27/23 TCU TD HZ YBMK 271030Z AUTO 12012KT 9999 // SCT025 BKN032 27/23 Q1012 SERB 262300Z 12005KT 9999 BKN030 OVC100 14/11 Q1027 FVHA 270900Z 07007KT 320V120 9999 BKN020 SCT080 BKN300 24/16 Q1021 TEMPO 8000 -SHRA YCEE 271030Z AUTO 07005KT //// // ////// 20/10 Q1017 SEQM 271000Z 09003KT 9999 -RA SCT005 SCT016 BKN070 12/11 Q1025 NOSIG RMK A3029 YCDO 271030Z AUTO 12007KT //// // ////// 27/08 Q1018 RMK BGKK 271050Z AUTO VRB04KT 9999NDV NCD M06/M12 Q1010 YCCY 271030Z AUTO 16007KT //// // ////// 28/19 Q1010 RMK ROIG 271000Z 02015KT 9999 BKN023 BKN045 18/14 Q1021 LQTZ 271030Z 10003KT 060V150 9999 FEW040 15/04 Q1016 SESA 261800Z 29006KT CAVOK 28/24 Q1012 YCDU 271030Z AUTO 17011KT 9999 // NCD 21/15 Q1015 RMK YCEM 271030Z AUTO 14009KT //// // ////// 25/14 Q1020 RMK SESD 262300Z 00000KT 9999 BKN030 0VC100 24/22 Q1012 GLRB 271100Z 00000KT 9999 SCT015 28/24 Q1012 NOSIG SERO 270200Z 16002KT 9999 VCSH FEW040 BKN100 23/22 Q1012 SESG 271000Z 12010KT CAVOK 15/M09 Q1022 YBNS 271030Z AUTO 24004KT 9999 // NCD 15/14 Q1022 RMK YBOK 271030Z 10010KT 9999 FEW030 BKN200 21/14 Q1018 YCFL 271030Z AUTO 15012KT //// // ////// 28/24 Q1009 RMK SESM 262300Z 00000KT 5000 -RA SCT010 OVC020 19/19 Q1016 A3002 YAYE 271030Z AUTO 00000KT 9999 // NCD 28/06 Q1013 RMK LROD 271030Z 23003KT 190V300 CAVOK 11/02 Q1018 YCFS 271030Z AUTO 22008KT 9999 -SHRA SCT030 SCT045 BKN075 20/18 Q1020 SGAS 271100Z 00000KT CAVOK 27/24 Q1010 SEST 270000Z 02006KT 9999 FEW026 28/24 Q1009 RMK A2980 HEBA 271000Z 07014KT CAVOK 19/12 Q1014 NOSIG FVKB 270800Z 00000KT 9999 -RA FEW020 BKN100 24/22 Q1014 NOSIG YBPN 271030Z AUTO 12005KT 9999 // NCD 25/22 Q1012 RMK LSGC 271050Z AUTO 21010KT 190V250 9999 NCD 11/M00 Q1008 SETN 262300Z 20004KT 9999 FEW030 SCT100 BKN300 26/23 Q1010 A2982 LROP 271030Z 24005KT 210V280 CAVOK 12/03 Q1018 R88/09//95 NOSIG LSGG 271050Z 24012KT 220V280 9999 FEW090 13/01 Q1010 NOSIG YCHK 271030Z AUTO 21002KT 9999 // NCD 27/23 Q1013 RMK YAYT 271000Z 30006KT 9999 FEW030 22/M08 Q1017 HEAR 270900Z 00000KT CAVOK 19/13 Q1016 NOSIG SETU 262300Z 07004KT 9999 OVC020 12/10 Q1029 HECA 271100Z 05009KT CAVOK 24/06 Q1013 NOSIG HEAT 271000Z 08007KT CAVOK 25/06 Q1013 NOSIG HEBL 271000Z 00000KT CAVOK 26/01 Q1012 NOSIG HEAX 271000Z 10008KT CAVOK 21/09 Q1014 NOSIG MHYR 270000Z 05004KT 9999 FEW025 27/18 HZ YBRK 271030Z AUTO 10010KT 9999 // NCD 26/20 Q1014 RF00.0/000.0 YBRL 271030Z AUTO 02005KT //// // ////// 28/22 Q1008 RMK LSGS 271050Z 09004KT 060V120 9999 FEW100 SCT150 13/M02 Q1010 YBRM 271100Z AUTO 25007KT //// // NCD 30/25 Q1009 GMMB 271000Z VRB02KT 8000 BKN020 17/12 Q1023 NOSIG YCIN 271030Z AUTO 02009KT //// // SCT100 BKN120 22/22 Q1010 GMMC 271000Z 34003KT 8000 BKN016 17/10 Q1021 NOSIG FWCL 271000Z 29009KT 9999 FEW020CB SCT025 26/20 Q1015 NOSIG GMMD 271000Z 06003KT 6000 BKN016 SCT100 12/12 Q1022 NOSIG GMME 271030Z VRB02KT 6000 SCT023 SCT030 16/11 Q1022 NOSIG HEDF 271000Z 04008KT CAVOK 20/11 Q1015 GMMH 271000Z 06022KT 8000 SCT011 18/13 Q1019 NOSIG GMMI 271000Z 06008KT 6000 NSC 15/11 Q1021 NOSIG LTAB 270501Z 00000KT 0600 R24/0400D R06////// FZFG NSC M02/M02 Q1021 BECMG TL0550 9999 NSW RMK RWY06 21001KT LRSB 271030Z 12004KT CAVOK 09/M00 Q1018 LTAC 271020Z VRB03KT 9999 SCT040 13/02 Q1019 NOSIG LTAD 270714Z VRB02KT 4000 BR NSC 05/04 Q1021 BECMG 6000 RMK RWY29 31003KT 270V340 SGEN 271100Z 05005KT CAVOK 26/19 Q1010 KZZV 271053Z AUTO 15003KT 10SM OVC075 02/M06 A3025 RMK AO2 SLP251 T00221061 GMML 271000Z 04015KT 8000 SCT020 18/11 Q1021 NOSIG YBRY 271030Z AUTO 19003KT 9999 // OVC100 22/20 Q1014 RMK LTAE 270409Z 35003KT 320V040 0300 R03/0500D R21/0400N FZFG VV001 M03/M04 Q1021 TEMPO 4000 BR RMK RWY21 00000KT YBTH 271030Z AUTO 12007KT 9999 // NCD 17/10 Q1025 RMK ROMY 271000Z 02013KT 9999 -SHRA FEW023 SCT028 BKN045 18/14 Q1021 LTAF 271020Z 07005KT 020V100 9999 SCT035 BKN100 21/04 Q1017 NOSIG GMMN 271030Z 06006KT 020V110 9999 SCT016 16/10 Q1023 NOSIG LTAG 271020Z 00000KT CAVOK 22/01 Q1017 NOSIG SGES 271100Z 11003KT CAVOK 25/23 Q1011 LTAI 271020Z VRB03KT 9999 FEW030 BKN200 18/08 Q1017 NOSIG YBSU 271030Z AUTO 16014KT 9999 // BKN022 BKN028 OVC036 24/19 Q1016 YBTL 271030Z AUTO 14009KT 9999 // NCD 25/21 Q1011 LTAJ 271020Z VRB02KT CAVOK 17/M04 Q1019 NOSIG LTBA 271020Z 22004KT 190V280 9999 FEW007 BKN200 09/06 Q1020 NOSIG YBUD 271030Z AUTO 15008KT 9999 // NCD 24/18 Q1016 RMK YCKN 271100Z AUTO 23001KT 9999 // SCT029 24/23 Q1009 LTAL 270950Z 29004KT 220V350 9999 FEW030 SCT200 13/04 Q1018 LRTC 271030Z VRB01KT CAVOK 10/04 Q1019 LRSM 271030Z 20007KT 170V250 CAVOK 12/02 Q1018 LTBD 270950Z 08003KT 3800 BR SCT032 BKN080 14/10 Q1018 FVMV 271000Z 21410KT 9999 -DZ BKN008 OVC080 20/19 Q1019 LTAN 270950Z 15004KT 100V210 6000 NSC 08/03 Q1020 NOSIG LTBF 270950Z 19001KT 6000 SCT009 SCT035 BKN100 10/07 Q1020 NOSIG GMMW 271000Z VRB01KT 6000 SCT010 BKN026 15/13 Q1021 NOSIG LTAP 271020Z 00000KT 9999 SCT040 14/03 Q1018 NOSIG GMMX 271045Z VRB01KT 1200 R10/1500VP2000U BR BKN004 12/10 Q1021 BECMG 5000 SCT016 BGSF 271050Z AUTO 06004KT 3300NDV -SN VV014/// M23/M26 Q0988 LTBH 270950Z 04007KT 9999 FEW010 SCT035 BKN100 10/08 Q1020 LTBI 270813Z 00000KT 2200 BR NSC 04/04 Q1021 BECMG TL0900 4800 RMK RWY09 00000KT LTAR 270950Z 09005KT 9000 FEW035 02/00 Q1021 GMMZ 271000Z VRB01KT 6000 NSC 14/04 Q1022 NOSIG LTAS 270950Z 28008KT 9999 FEW040 12/07 Q1020 LTBJ 271020Z 01012KT 9999 SCT030 BKN100 14/09 Q1018 NOSIG LTCA 270950Z 08007KT 020V120 9999 FEW035 BKN200 12/M00 Q1020 NOSIG LTAT 271020Z 34004KT CAVOK 15/02 Q1020 NOSIG LTCB 270950Z 29006KT CAVOK 08/06 Q1020 LTBL 270509Z 27002KT 5000 -RA BR SCT040 BKN100 10/08 Q1019 NOSIG RMK RWY17 27003KT LTAU 271020Z 08004KT 9999 FEW040 14/01 Q1019 NOSIG LTCC 271020Z VRB04KT CAVOK 16/02 Q1019 NOSIG LRSV 271030Z 17004KT 110V230 CAVOK 11/M01 Q1017 LRTM 271030Z VRB02KT CAVOK 10/M00 Q1018 LTCD 270950Z 13003KT 070V210 9999 SCT045 BKN120 09/M01 Q1021 NOSIG YDBY 271030Z AUTO 12006KT //// // ////// 24/24 Q1010 RMK LTCE 271020Z VRB02KT 7000 SCT040 BKN080 00/M04 Q1021 NOSIG LTAW 270950Z VRB04KT 9999 FEW040 16/04 Q1019 BIBD 271000Z 34006KT 9999 BKN027 03/// Q0998 LTBO 270950Z 30001KT 9999 SCT040 BKN100 13/03 Q1018 LTCF 270950Z 21002KT 9999 FEW040 M05/M06 Q1022 LTCG 271020Z 06005KT 360V100 9999 FEW100 08/05 Q1020 NOSIG LTAY 270950Z 08007KT 9999 SCT035 BKN100 11/05 Q1018 LTBQ 271037Z VRB02KT 2400 BCFG VV006 08/08 Q1020 BECMG TL1100 7000 SCT030 SCT100 RMK RWY09 VRB02KT LTAZ 271020Z 05003KT 350V120 CAVOK 15/01 Q1019 LRTR 271030Z 16003KT 130V200 CAVOK 13/04 Q1018 NOSIG LTBR 271020Z 23003KT 6000 FEW013 BKN100 11/08 Q1019 NOSIG LTCI 270950Z 27005KT 9999 FEW040 01/M03 Q1022 NOSIG LSMA 271050Z 01004KT 330V050 9999 FEW110 09/02 Q1009 RMK BLU+ LTCJ 271020Z VRB02KT CAVOK 16/00 Q1019 LTBS 271020Z VRB04KT 9999 FEW030 BKN120 18/11 Q1017 NOSIG LTDA 270950Z VRB01KT CAVOK 16/05 Q1019 YCMM 271030Z AUTO 20007KT //// // ////// 20/06 Q1016 RMK LTBT 270621Z 00000KT 5000 SCT040 BKN100 09/08 Q1020 RMK RWY14 00000KT LTCK 270950Z 15003KT 120V180 1400 R29/1500U R11/1300U BR SCT004 BKN035 M05/M06 Q1024 BIAR 271000Z 00000KT 9999 -SN BKN015 OVC025 M03/M04 Q0998 R01/390040 LTBU 271020Z VRB04KT 4500 BR BKN013 BKN080 11/07 Q1019 LTCL 270950Z VRB03KT CAVOK 17/01 Q1020 LTCM 270950Z 03005KT CAVOK 10/04 Q1020 LSMD 271050Z 32003KT 270V030 9999 SCT140 10/01 Q1009 RMK BLU+ LSME 271050Z AUTO VRB02KT 9999NDV FEW120 11/02 Q1009 RMK LTCN 270950Z 28004KT 230V350 CAVOK 17/02 Q1019 NOSIG BGTL 271058Z AUTO VRB04KT 9999 FEW060 M25/M30 A2970 RMK AO2 SLP050 T12491297 HEGN 271000Z 36008KT CAVOK 25/03 Q1013 NOSIG LTCO 271035Z 12003KT 090V150 1600 BR SCT008 M06/M07 Q1023 RMK RWY34 VRB02KT LTCP 270950Z 15006KT 100V220 CAVOK 17/01 Q1019 LTBY 270950Z 09005KT 040V150 5000 BR NSC 11/06 Q1020 LRTZ 271100Z 30010KT 290V060 9999 BKN200 13/04 Q1019 BLU BLU LTBZ 270550Z 00000KT 0300 R31/0300D R13/0300D FZFG VV002 00/00 Q1020 YCMT 271030Z AUTO 15002KT //// // ////// 28/14 Q1013 RMK YCNK 271030Z AUTO 19005KT //// // ////// 20/19 Q1022 RMK LTCR 270950Z 21004KT 130V270 CAVOK 18/01 Q1019 LTCS 271020Z VRB04KT CAVOK 17/02 Q1020 LTCT 271015Z 07004KT 050V120 1500 R12/P1500U R30/P1500U BR BKN004 M06/M07 Q1025 RMK RWY30 VRB01KT YCNM 271030Z AUTO 08006KT //// // ////// 24/15 Q1018 RMK YCOE 271100Z AUTO 11006KT //// // ////// 26/21 Q1009 LTCU 270950Z 11002KT 7000 FEW035 BKN100 05/M01 Q1022 LTCV 270950Z 14005KT 110V200 CAVOK 17/00 Q1019 LSMM 271050Z VRB02KT 9999 FEW130 10/01 Q1008 RMK BLU+ YBWP 271100Z AUTO /////KT //// // ////// ///// Q//// LTCW 270950Z VRB02KT 3500 BR NSC M07/M08 Q1022 LSMP 271050Z VRB01KT CAVOK 09/01 Q1009 RMK BLU RORS 271000Z 03023KT 9999 VCSH FEW025 SCT035 BKN080 19/13 Q1021 LTFA 270611Z 01004KT 5000 BR SCT040 OVC080 11/09 Q1019 RERA RMK RWY17 01006KT LSMS 270750Z 10004KT 070V150 9999 BKN140 05/M01 Q1012 YCOM 271030Z AUTO 05009KT 9999 // NCD 13/10 Q1027 RMK YBWW 271030Z AUTO 12009KT 9999 // NCD 21/15 Q1018 RMK LTFC 271020Z 00000KT 9999 SCT040 BKN100 12/03 Q1018 YBWX 271100Z AUTO 01005KT //// // ////// 30/24 Q1009 LTFD 270950Z 00000KT 8000 FEW035 SCT100 BKN180 14/09 Q1019 YCNY 271030Z AUTO 01004KT //// // ////// 30/21 Q1009 RMK LTFE 271020Z 13003KT 090V180 8000 SCT040 BKN080 15/11 Q1017 NOSIG LTFG 270950Z 23005KT 190V260 9999 FEW035 BKN180 18/12 Q1017 LTFH 270950Z 29006KT 250V310 9999 FEW036 10/05 Q1020 NOSIG BIEG 271000Z 00000KT 0700 R04/0900D SN VV003 M04/M05 Q0995 R04/4910// RMK RWY SANDED LTFJ 271020Z VRB02KT 2400 BR BKN007 09/07 Q1020 BECMG TL1200 6000 SCT010 RPLB 271000Z 06008KT 9999 FEW020 BKN300 30/19 Q1011 NOSIG RMK A2985 RPLC 271000Z 09008KT 9999 FEW020 SCT300 29/21 Q1013 NOSIG RMK A2991 LTFK 270950Z 36004KT 330V090 8000 2400SW BCFG SCT008 SCT025 OVC090 10/08 Q1020 GMTA 271000Z 32008KT 6000 SCT016 BKN030 17/12 Q1021 NOSIG ROTM 270958Z 03007KT 9999 BKN045 15/09 A3021 RMK SLP218 T01500094 RPLI 271000Z 02012KT 9999 FEW019 SCT100 28/19 Q1012 NOSIG RMK A2988 YBYU 271100Z AUTO 22008KT 9999 // SCT019 29/24 Q1008 FWKI 270900Z 04003KT 9999 RA FEW015CB SCT018 BKN080 18/17 Q1018 NOSIG RPLL 271000Z 12007KT 080V170 9999 FEW025 29/21 Q1012 NOSIG RMK A2988 RPMD 271000Z 34003KT 9999 FEW015CB BKN090 OVC290 25/24 Q1010 RERA RMK A2983 CB NE SW AND NW W/ VCSH GMTN 271000Z 26012KT 230V300 CAVOK 17/07 Q1021 NOSIG HEMA 271000Z 01013KT CAVOK 25/09 Q1012 NOSIG GMTT 271030Z 24006KT 8000 SCT016 SCT020 BKN100 16/10 Q1023 NOSIG RPMR 270900Z 00000KT 9999 VCSH SCT018 OVC080 29/24 Q1009 RMK A2980 VCSH NNW AND NE HEMM 271000Z 12013KT 6000 NSC 19/12 Q1014 NOSIG BIHN 271100Z 01015G25KT 9999 FEW045 BKN060 04/// Q0991 HELX 271000Z 00000KT 6000 NSC 27/07 Q1013 NOSIG RPMZ 271000Z 00000KT 9999 FEW017 SCT100 BKN300 28/24 Q1010 RMK A2983 NCAI 271000Z AUTO 09008KT 040V130 //// ////// 27/25 Q1016 BIHU 270734Z 00000KT 9999 SN SCT009 BKN035 M04/// Q0994 RMK VERID AD MOKA OG SOPA BRAUT FVWN 270900Z 09003KT 9999 SCT020 ///// Q1017 MKJP 271000Z 01006KT 9999 FEW024 25/20 Q1016 MKJS 270900Z 14004KT 9999 FEW022 24/22 Q1015 YCUN 271030Z AUTO 23007KT //// // ////// 32/14 Q1012 RMK BIIS 271100Z 05010KT 9999 VCSH FEW015 BKN020 BKN025 03/// Q0999 R08/29//95 YDLQ 271030Z AUTO 14003KT //// // ////// 24/06 Q1019 RMK YCWA 271030Z AUTO 09010KT 9999 // SCT032 BKN063 BKN075 22/21 GOGG 271000Z 02006KT 8000 NSC 27/12 Q1013 BIKF 271030Z 02015KT CAVOK M00/M04 Q0996 GOGK 270900Z VRB02KT CAVOK 23/21 Q1011 HEPS 271000Z 07008KT CAVOK 19/15 Q1015 NOSIG GOGS 271000Z 36004KT CAVOK 26/15 Q1012 YCWR 271030Z AUTO 10008KT //// // ////// 24/12 Q1022 HESC 271000Z 08008KT CAVOK 20/M05 Q1019 NOSIG HESG 271000Z 09004KT CAVOK 25/05 Q1012 NOSIG HESH 271000Z 02010KT CAVOK 26/03 Q1012 NOSIG YDPO 271030Z AUTO 08007KT 9999 // NCD 17/13 Q1026 RMK HESN 271000Z 21003KT 8000 NSC 28/01 Q1013 NOSIG LSZA 271050Z 18004KT 150V210 9999 FEW040 12/01 Q1017 NOSIG LSZB 271050Z VRB02KT CAVOK 10/02 Q1009 NOSIG RPVD 270900Z 02006KT 9999 FEW015 BKN080 BKN220 27/24 Q1010 RMK A2983 LSZC 271050Z AUTO 09003KT 030V120 9999 NCD 08/03 Q1009 LSZG 271050Z 21005KT CAVOK 10/00 Q1009 NOSIG LSZH 271050Z VRB02KT CAVOK 10/02 Q1009 NOSIG HETR 271000Z 28010KT 6000 FEW025 BKN200 21/14 Q1013 LSZL 271050Z 26005KT 9999 FEW080 SCT160 09/00 Q1017 RMK BLU+ RPVM 271000Z 01012KT 9999 FEW020 BKN090 27/23 Q1012 NOSIG RMK A2988 RPVP 271000Z 09012KT 9999 FEW018TCU SCT240 28/23 Q1010 RMK A2983 TCU WNW NW LSZR 271050Z 28006KT CAVOK 06/03 Q1009 NOSIG RMK F LSZS 271050Z 22014KT CAVOK 02/M07 Q1012 RMK I MMAA 271045Z 33004KT 7SM SKC 21/18 A2990 RMK HZY FXMM 270800Z 36007KT 9999 BKN030 18/13 Q1024 NOSIG YELD 271030Z AUTO 00000KT //// // ////// 26/25 Q1008 RMK CAHR 271000Z AUTO 27007KT M05/M12 RMK AO1 SOG 25 1037 SLP178 T10501115 BIRK 271000Z 13003KT 100V170 9999 FEW030 M04/M08 Q0995 R19/920195 GOOD 270900Z 36004KT CAVOK 23/10 Q1012 MMAN 270540Z 15004KT 10SM SKC 19/15 A2991 RMK SLP/// 5//// 9// YFBS 271030Z AUTO 11010KT //// // ////// 26/09 Q1019 RMK GOOG 270900Z 36002KT CAVOK 25/09 Q//// MMAS 271040Z 16005KT 9SM SKC 09/M04 A3022 RMK HZY RTS MMCB 270041Z 18005KT 10SM SKC 27/01 A3000 RMK CI LUKK 271030Z 04003KT 360V080 CAVOK 11/M01 Q1018 R08/CLRD// NOSIG GOOK 270900Z 36008KT CAVOK 24/10 Q1012 FYGB 271000Z AUTO 10007KT //// // ////// 30/16 Q1020 YFDF 271030Z AUTO 20005KT 9999 // SCT125 26/23 Q1013 RMK MMCE 270444Z 06011KT 6SM SCT070 26/23 A2994 RMK 8/030 HZY CI CBBC 271000Z AUTO 00000KT 9SM OVC085 M02/M04 A2975 RMK SLP079 YEML 271100Z AUTO 08007KT 9999 // SCT115 26/14 Q1013 MMBT 270445Z 00000KT 7SM SKC 23/20 A2998 RMK HZY MMCL 270440Z 00000KT 10SM SKC 17/13 A2994 MMCM 270140Z 08008KT 7SM SKC 26/22 A2997 MMCN 270140Z 20003KT 10SM BKN200 20/07 A2990 RMK 8/008 HZY MMCP 270242Z 36007KT 7SM SCT080 26/23 A2991 RMK 8/030 GOOY 271100Z 02013KT 8000 NSC 22/17 Q1014 NOSIG MMCS 270340Z 27006KT 10SM SCT200 14/M03 A2987 RMK 8/004 MMCT 262047Z 13010KT 8SM BKN030 33/15 A2992 RMK 8/100 MSGTX MMMD MMCU 270347Z 23008KT 10SM SKC 17/M11 A3001 RMK ISOL AC MMCV 270140Z 12006KT 8SM SKC 25/17 A2985 RMK HZY MMDO 271046Z 19009KT 7SM SKC 07/01 A3021 RMK RTS MMCZ 271048Z 09004KT 7SM SCT015TCU 23/22 A2999 RMK 8/200 VC CB BIVM 271100Z 01017G27KT CAVOK 01/M07 Q0992 R03/820076 MMEP 270249Z 12003KT 12SM SKC 16/13 A3005 RMK SLP209 52010 960 GOSM 270900Z 36002KT CAVOK 25/09 Q1011 GOSP 270900Z 36002KT CAVOK 23/04 Q1011 GOSS 271000Z 01006KT 330V050 CAVOK 24/20 Q1012 GOTK 270900Z 28010KT 4000 HZ 28/14 Q1011 MMGL 271042Z 00000KT 10SM SKC 10/05 A3015 MMGM 270149Z 00000KT 5SM OVC120 22/07 A2990 RMK 8/02/ FYKM 271000Z 14003KT 9999 BKN030 27/21 Q1014 MMIA 270253Z 27008KT 8SM SKC 21/15 A3006 RMK SLP/// 5//// 9// 6//// YERN 271100Z AUTO 07004KT //// // ////// 26/M03 Q1016 GOTT 271000Z VRB02KT CAVOK 31/06 Q1011 FYKT 271000Z 03007KT 9999 FEW045 32/02 Q1016 MMHO 271041Z 00000KT 10SM BKN100 OVC200 15/06 A2999 RMK 8/037 HZY NCRG 271000Z 12004KT 9999 FEW021 SCT100 26/24 Q1017 NCPY 271000Z AUTO 09003KT //// ///// 27/25 Q1011 FYML 271000Z AUTO 07007KT //// // ////// 33/11 Q1017 YESP 271030Z AUTO 16010KT 9999 // OVC008 19/17 Q1016 MMIO 270340Z RTD 00000KT 10SM SKC 17/04 A3007 YGBI 271030Z AUTO 07002KT //// // ////// 29/28 Q1008 RMK FYLZ 271000Z AUTO 32007KT //// // ////// 25/13 Q1008 FYOA 271000Z 06012KT 9999 VC RA SCT020CB 27/20 Q1013 YGAY 271030Z AUTO 09006KT //// // ////// 23/16 Q1016 RMK YFLI 271030Z AUTO 08007KT 9999 // NCD 18/14 Q1025 RMK MNBL 262300Z 10004KT 9999 SCT017 28/22 Q1012 YGDH 271030Z AUTO 13007KT //// // ////// 22/15 Q1020 RMK FYOO 271000Z AUTO 00000KT //// // ////// 26/20 Q1014 MNCH 262300Z 23004KT 9999 FEW024CB 29/23 Q1009 CB/NE MMMA 270140Z 14008KT 6SM SKC 23/20 A2987 RMK HZ MMLM 270440Z 30005KT 10SM SKC 18/13 A2995 MMMD 270947Z 11005KT 7SM SKC 20/17 A2998 FYOW 271000Z AUTO 07007KT //// // ////// 26/17 Q1016 MMLO 271044Z 00000KT 8SM SKC 09/M01 A3026 MMLP 270540Z 17005KT 10SM SKC 17/10 A3000 RMK SLP158 52010 955 YGEL 271100Z AUTO 18016KT 9999 // NCD 23/18 Q1013 MMLT 270156Z 00000KT 8SM SCT240 22/16 A2991 RMK 8/001 MSGTX MMMX MMML 270840Z 00000KT 10SM SKC 11/04 A2991 RMK SLP125 57003 900 SC W MMMM 271049Z 00000KT 6SM SKC 06/00 A3023 MMMT 270141Z 36005KT 10SM SKC 25/22 A2986 MMNL 270140Z 14005KT 10SM SKC 24/13 A2979 YGFN 271030Z AUTO 26002KT 1200 // SCT009 BKN020 BKN027 18/17 Q1020 MMMV 262140Z 15006KT 10SM FEW100 32/M03 A2979 HZY MMMX 271057Z 08003KT 7SM SKC 13/00 A3030 NOSIG RMK HZY FYRN 271000Z AUTO 09013KT //// // ////// 26/18 Q1015 SKBG 271000Z 00000KT 9000 FEW005 SCT012 18/18 A3000 RMK BR MMMY 271041Z 29005KT 5SM OVC010 18/17 A2987 RMK 8/6// SKAR 270500Z 00000KT 9999 SCT020 SCT090 20/18 A3008 MMMZ 271046Z 09003KT 1/2SM FG BKN003 14/14 A2995 RMK 8/600 MMPA 270151Z 10004KT 5SM SKC 24/21 A2991 RMK HZY MSGTX MMMX MMPB 270142Z 20007KT 8SM SKC 14/M01 A3025 RMK HZY SKCC 271030Z VRB02KT 9999 BKN015 SCT090 23/20 A2994 FYRU 271000Z 09013KT 9999 BKN025 25/17 Q1015 MMPE 261505Z RTD 00000KT 10SM BKN150 BKN200 14/05 A2990 RMK 8/036 SKBO 271030Z VRB02KT 9999 SCT017 SCT070 10/09 A3030 SKCG 271000Z VRB02KT CAVOK 25/22 A2982 MMPG 262240Z 12006KT 10SM FEW250 25/14 A2982 RMK 8/500 SKBQ 271100Z 35008KT CAVOK 26/20 A2985 SKCL 271026Z VRB02KT 9999 SCT040 BKN100 19/18 A3001 MMPN 270141Z 00000KT 15SM SKC 20/04 A3015 RMK HZY MMOX 270142Z 16008KT 7SM SKC 23/09 A3013 RMK PRESRR ISOL SC MMPQ 270042Z 20008KT 4SM FEW060 29/21 A2984 RMK 8/500 HZY MSGTX MMMD MMPR 271045Z 02005KT 15SM SKC 17/16 A2994 MMPS 270041Z 24008KT 10SM SKC 26/20 A2992 RMK CU N HZY YHBA 271030Z AUTO 14005KT 9999 // SCT022 SCT030 SCT033 24/19 SKEJ 261400Z 16006KT 9999 SCT020 SCT070 26/22 A2992 YFRT 271100Z AUTO 13016KT //// // ////// 30/03 Q1014 MMQT 271045Z 00000KT 7SM SKC 07/00 A3027 BKPR 271100Z 23004KT 9999 FEW035 13/05 Q1018 NOSIG RMK 17010095 FYWB 271000Z AUTO 32010KT //// // ////// 23/15 Q1010 MMSD 270643Z 29004KT 10SM SKC 17/09 A2999 FYWE 271000Z 08013KT 9999 FEW035TCU BKN040 26/12 Q1020 MNJG 262300Z 00000KT CAVOK 24/16 Q1012 YGLA 271030Z AUTO 12009KT 9999 // NCD 26/20 Q1014 RF00.0/000.0 YGLB 271030Z AUTO 00000KT 9999 // NCD 14/10 Q1026 RMK FYWH 270800Z 10011KT 9999 SCT030 24/14 Q1021 NOSIG TAPA 271000Z 07012KT 9999 SCT017 25/20 Q1016 NOSIG GQNI 270900Z 04018KT 2000 BLA NSC 29/00 Q1013 MMSL 270443Z 00000KT 7SM SKC 19/10 A3003 MMTC 271041Z 00000KT 8SM SKC 15/M04 A3003 RMK RTS YHAY 271030Z AUTO 13005KT //// // ////// 24/08 Q1019 RMK MMRX 270140Z 11005KT 7SM SKC 22/17 A2985 RMK HZ FU YGLI 271030Z AUTO 10012KT 9999 -SHRA SCT017 SCT033 BKN040 MMSP 271041Z 00000KT 8SM SKC 09/01 A3018 MMTG 270640Z 26003KT 7SM SKC 22/17 A2997 RMK FU HZ ARND ISOLD AC CI GQNO 271030Z 04013KT 8000 NSC 24/00 Q1014 NOSIG MMTJ 271043Z 09003KT 1SM DZ BR OVC003 11/10 A2994 RMK 60055 8/7// PRESFR GQPA 261800Z 36006KT 8000 27/07 Q1014 MNJU 262300Z 09006KT 9999 FEW025 33/20 Q1011 MMTM 270440Z 16006KT 7SM FEW020 23/20 A2993 RMK 8/100 HZY FYWW 271000Z 07013G24KT 9999 BKN035TCU 28/13 Q1020 MMTO 271046Z 22004KT 6SM SKC 03/01 A3037 MMTP 271042Z 00000KT 10SM SCT100 24/22 A2988 RMK 8/030 YGLS 271030Z 06004KT CAVOK 33/04 Q1013 RMK RF00.0/000.0 SKIB 261400Z 11003KT 5000 BCFG BKN006 OVC080 21/21 A3016 REDZ RMK AD BLW MNM MET MMVA 270543Z 07007KT 4SM SKC 23/23 A2993 RMK SLP135 52009 9// HZY MMUN 271045Z 07007KT 7SM SCT015 25/21 A3002 RMK 8/500 K06D 271055Z AUTO 24006KT 10SM CLR M12/M13 A2978 RMK AO2 K04V 271055Z AUTO 33009KT 10SM SCT065 M11/M16 A2983 RMK AO2 K04W 271052Z AUTO 00000KT 10SM OVC033 M06/M07 A2994 RMK AO2 MNMG 271000Z 12008KT 9999 FEW022 24/20 Q1012 A2991 NOSIG GQPP 271000Z 02018KT 7000 NSC 18/13 Q1017 NOSIG K05U 271055Z AUTO 00000KT 2 1/2SM BR BKN003 BKN017 BKN024 M03/M05 A2964 RMK A01 SKIP 261400Z 00000KT 7000 VCFG BKN016 SCT070 10/08 A3046 GQPZ 270900Z 00000KT 8000 NSC 16/07 Q1018 MMVR 270446Z 30003KT 7SM SCT015 23/21 A2994 RMK 8/500 SLAL 271000Z 00000KT 9999 SCT017 BKN070 10/09 Q1028 K08D 271055Z AUTO 01004KT 10SM FEW042 BKN050 OVC065 M12/M12 A2980 RMK AO2 LWOH 271030Z 15003KT 9999 FEW030 SCT080 12/06 Q1019 SLCA 271000Z 00000KT 9999 SCT070 19/19 Q1015 SLCB 271100Z 00000KT 2500 -RA BR FEW010 SCT023 OVC070 12/12 Q1025 SKLC 261400Z 33006KT 9999 SCT017 29/24 A2994 LXGB 271050Z 28014G24KT 9999 SCT035 16/09 Q1021 NOSIG MNPC 262300Z 13004KT 7000 BKN016 28/26 Q1011 HZ NFFN 270500Z 25005KT 9999 SCT024TCU BKN045 29/24 Q1009 TEMPO 3000 TSRA YHID 271100Z AUTO 08006KT 9999 // SCT018 27/24 Q1008 SKMD 261400Z 00000KT 9999 FEW025 BKN200 22/15 A3022 MMZC 270643Z 18005KT 8SM SKC 08/M11 A3026 SLCO 271000Z 00000KT 9999 BKN003 22/21 Q1012 SLCP 271000Z 00000KT 9999 OVC004 21/21 Q1014 MMZH 270245Z 00000KT 7SM SKC 24/17 A2992 RMK SLP123 52020 910 HZY SKLT 271000Z 00000KT 9999 FEW010 BKN200 22/22 A2987 MMZO 270157Z RTD 29005KT 8SM SKC 25/23 A2989 SKMR 261400Z 28006KT 9999 BKN017 29/24 A2993 K11R 271055Z AUTO 00000KT 5SM BR SCT014 BKN041 OVC050 20/20 A2995 RMK AO2 T02000195 YGTE 271030Z AUTO 11004KT 9999 // NCD 28/23 Q1008 RMK YGTH 271030Z AUTO 12006KT 9999 // NCD 24/10 Q1019 RMK K12N 271054Z AUTO 00000KT M03/M08 A3034 RMK AO1 SLP286 T10331078 SKMZ 261400Z 00000KT 8000 MIFG FEW005 SCT050 16/11 A3038 YHLC 271030Z AUTO 24002KT //// // NCD 29/19 Q1010 RMK MNRS 262300Z 10004KT CAVOK 31/21 Q1009 SLET 271000Z 32008KT 9999 BKN005 23/22 Q1010 TBPB 271020Z 09022KT RA SCT016 BKN035 23/22 Q1014 NOSIG SKPC 261400Z 06011KT CAVOK 31/21 A2979 LWSK 271100Z VRB01KT 9999 FEW090 14/07 Q1019 NOSIG YGTN 271100Z AUTO 11001KT 9999 // NCD 25/21 Q1010 SKNV 261400Z 22004KT 4000 -DZ BKN006 BKN090 21/21 A3002 RMK AD OPER IMC SKPE 271000Z 12003KT 8000 SCT012 SCT070 19/16 A3006 RMK/HZ LYBE 271030Z 14004KT 110V180 CAVOK 14/06 Q1017 NOSIG MPBO 270100Z 00000KT 9999 FEW020 Q1014 SKPS 261400Z 00000KT 6000 VCFG SCT015 OVC080 16/15 A3024 RMK AD OPER IMC YHML 271030Z AUTO 14009KT 9999 // SCT100 25/10 Q1020 RMK MPDA 270300Z 03008KT 9999 FEW020 28/16 Q1010 LYBT 271030Z 10005G82KT 8000 NSC 15/06 Q1017 NOSIG SKPV 261400Z 06004KT 9999 FEW017 28/24 A//// SKRG 271000Z 00000KT 6000 VCFG BKN010 SCT080 13/13 A3027 SKRH 261400Z 09006KT 9999 BKN020 27/22 A2998 K14Y 271055Z AUTO 05005KT 10SM CLR M07/M08 A2988 RMK AO2 NFNA 271100Z 05007KT 3000 +SHRA BKN017 BKN045 OVC100 24/24 Q1013 K0A9 271055Z AUTO 08003KT 10SM BKN090 BKN120 03/M03 A3029 RMK AO2 SLJE 261800Z 00000KT 9999 BKN017 FEW030CB OVC200 27/24 Q1013 K18A 271035Z AUTO 05003KT 10SM CLR 06/00 A3029 RMK AO2 T00561005 SKSM 261400Z 19006KT 9999 FEW020 28/23 A2989 YHOO 271030Z AUTO 32003KT //// // ////// 29/18 Q1009 RMK SKSP 271000Z 05008KT 9999 FEW016 26/22 A2994 YHOT 271100Z AUTO 23001KT 9999 // ////// 13/09 Q1028 SKUC 261400Z 10003KT 9999 FEW027 30/20 A2995 TDCF 271000Z 10004KT 9999 SCT018 24/18 Q1014 SKUI 261400Z 00000KT 4000 BR OVC008 24/23 A2993 RMK AD OPR IMC NGFU 271000Z 11016KT 9999 FEW019 BKN310 29/25 Q1009 K0E0 271055Z AUTO 00000KT 10SM SCT050 M03/M06 A2992 RMK AO2 T10301064 K21D 271052Z AUTO 17008KT 10SM SCT090 M03/M05 A2996 RMK AO2 SLMG 271000Z 00000KT 9999 FEW020 BKN080 23/23 Q1011 SLLP 271100Z VRB02KT 4000E VCFG FEW003 SCT015 BKN070 06/05 Q1036 YJAB 271030Z AUTO 06008KT //// // ////// 27/24 Q1008 RMK K19S 271055Z AUTO 15008KT 10SM CLR M06/M07 A2983 RMK AO2 T10571072 K20U 271035Z AUTO RMK AO2 PWINO PNO TSNO K20V 271054Z AUTO 00000KT 10SM OVC060 M06/M11 A2973 RMK AO2 K0F2 271055Z AUTO 13003KT 4SM BR OVC004 15/15 A2990 RMK AO2 T01500147 SKVP 261400Z 08012KT 9999 FEW015 28/21 A2998 K0CO 271055Z AUTO 28034G51KT 3SM HZ CLR M15/M21 A2956 RMK AO2 YHSM 271030Z AUTO 08010KT //// NCD 24/06 Q1019 RMK SKVV 261400Z 00000KT 9999 SCT020 BKN090 24/20 A3000 K22N 271055Z AUTO 00000KT 10SM CLR M07/M08 A3036 RMK AO2 K24A 271050Z AUTO 00000KT 10SM CLR 02/M08 A3030 RMK AO2 T00211084 HKEL 271000Z 09006KT 9999 SCT024 24/08 YHUG 271030Z AUTO 12005KT //// // ////// 29/11 Q1010 RMK NFTF 271100Z 11006KT 9999 FEW008 SCT016 BKN120 26/24 Q1017 SLOR 270000Z 05007KT 9999 FEW015 SCT070 BKN200 10/07 Q1033 K24J 271055Z AUTO 06003KT 10SM OVC021 10/06 A3025 RMK A01 NFTL 270600Z 08012KT 9999 SCT008 BKN017 OVC120 25/24 Q1013 SLPO 271000Z 00000KT 9999 BKN010 BKN200 06/05 Q1037 SLPS 271000Z 00000KT 9999 NSC 23/23 Q1011 SLRB 271000Z 00000KT 9999 BKN017 24/23 Q1013 LYKV 271030Z VRB01KT CAVOK 14/06 Q1018 NOSIG NFTV 270600Z 12006KT 9999 RA SCT008 BKN035 BKN110 26/25 Q1013 MPMG 270300Z 31005KT 9999 FEW018 26/22 Q1013 NOSIG K0J4 270958Z AUTO 00000KT 10SM CLR 09/01 A3017 RMK AO2 SLP213 T00940011 $ SLRI 271000Z 00000KT 9999 SCT004 BKN080 23/23 Q1013 K1A5 271050Z AUTO 00000KT 10SM CLR M01/M03 A3030 RMK AO2 T10061035 SLSA 271000Z 35005KT 8000 VCSH SCT015 FEW023CB BKN070 23/23 Q1011 K1A6 271055Z AUTO 00000KT 10SM CLR 01/M01 A3029 RMK AO2 T00121008 K1A9 271055Z AUTO 00000KT 10SM CLR 06/02 A3017 RMK AO2 T00620024 SLRQ 271000Z 00000KT 6000 BKN004 OVC007 23/23 Q1010 SLSI 271000Z 00000KT 9999 BKN070 22/22 Q1013 LYNI 271030Z VRB01KT CAVOK 15/05 Q1018 NOSIG SLRY 271000Z 00000KT 9999 SCT012 BKN030 OVC080 23/22 Q1011 SMJP 271100Z 19001KT 9999 FEW010 23/23 Q1012 NOSIG SLTJ 271000Z 00000KT 9999 SCT033 BKN070 OVC200 18/14 Q1019 MPPA 270300Z 35007KT 9999 FEW020 ///// Q1013 K28J 271055Z AUTO 00000KT 10SM OVC024 05/05 A3024 RMK AO2 HKJK 271030Z 05015KT 9999 SCT026 27/11 Q1018 NOSIG K1AM 270958Z AUTO 00000KT 1 7/8SM -SN OVC019 M11/M12 A2963 RMK AO2 SHSNE40SNB40 CIG 019V024 SLP059 T11071118 $ K1AN 271056Z AUTO 26005KT 7SM FEW016 M15/M16 A2978 RMK AO2 SLP140 T11481165 $ LYPG 271030Z VRB01KT 9999 FEW033 BKN080 16/08 Q1018 NOSIG SLTR 271000Z 31005KT 9999 FEW005 BKN080 24/23 Q1011 HKKI 270900Z 23008KT 9999 FEW024CB SCT025 26/21 Q1017 K1BM 270958Z AUTO 00000KT 3SM -SN OVC028 M11/M12 A2962 RMK AO2 SLP109 T11071121 $ K1BN 271056Z AUTO 31006KT 10SM FEW037 FEW080 BKN085 M10/M12 A2980 RMK AO2 SLP131 T11041122 $ ZBAA 271030Z 20003MPS CAVOK 12/M08 Q1018 NOSIG LZIB 271030Z 06010KT CAVOK 08/00 Q1014 NOSIG K1F0 271055Z AUTO 14004KT 10SM OVC011 11/06 A2992 RMK AO2 K1CM 270958Z AUTO 33005KT 2 1/2SM -SN BR OVC021 M11/M12 A2960 RMK AO2 SLP104 T11111119 $ K1CN 271056Z AUTO 00000KT 3/8SM -SN FZFG VV001 M15/M16 A2981 RMK AO2 SNB54 SLP141 T11491162 $ K1BW 271058Z AUTO 21014KT 10SM CLR M10/M14 A2968 RMK AO2 SLP109 T11041140 $ SLVR 271100Z 33007KT 9999 BKN003 OVC005 23/23 Q1011 HKML 271000Z 08013KT 9999 FEW026 31/23 Q1009 K1DM 270958Z AUTO 02010G17KT 1 1/2SM -SN OVC020 M09/M10 A2962 RMK AO2 SLP100 T10941103 $ K1DN 271056Z AUTO 01003KT 7SM SCT033 BKN090 M12/M13 A2978 RMK AO2 SNB0958E01SHSNB01E26 SLP129 T11161130 $ K1CW 271058Z AUTO 22016KT 10SM CLR M07/M12 A2973 RMK AO2 SLP098 T10751124 $ HKMO 270900Z 12007KT 9999 SCT027 33/22 Q1010 NOSIG GUCY 271000Z 30006KT 5000 HZ SCT015 BKN110 29/23 Q1012 NOSIG SLYA 271000Z 21004KT 9999 SCT023 BKN070 22/22 Q1011 YJLC 271030Z AUTO 02007KT //// // ////// 26/19 Q1009 RMK NGTA 270600Z 08016KT 9999 FEW020 28/24 Q1005 TDPD 271000Z 10010KT 9999 BKN018 25/20 Q1016 MPSM 270200Z 33005KT 9999 FEW020 26/21 Q1011 K1H2 271035Z AUTO 11005KT 10SM OVC050 05/02 A3014 RMK AO2 T00500022 K1EM 271058Z AUTO 07008KT 5SM -SN BKN025 M10/M11 A2964 RMK AO2 SLP104 T11031110 $ CERM 271000Z AUTO 15004KT M08/M12 RMK AO1 SOG 62 1002 SLP144 T10841116 50002 K1EN 271056Z AUTO 36006KT 10SM FEW011 SCT031 BKN070 BKN100 M11/M12 A2976 RMK AO2 SHSNE0958 SLP129 T11141117 $ K1DW 270958Z AUTO 23006KT 10SM CLR M11/M14 A2974 RMK AO2 SLP122 T11121138 $ K0R0 271055Z AUTO 15004KT 10SM BKN033 BKN075 OVC090 16/ A3008 RMK AO2 K1FM 270958Z AUTO 01007KT 10SM -SN SCT017 SCT019 BKN029 BKN090 M14/M16 A2961 RMK AO2 CIG 017V029 SLP121 T11441158 $ MPTO 271100Z 28004KT 9999 FEW020 24/22 Q1012 NOSIG K1FN 271056Z AUTO 01006KT 10SM SCT010 SCT060 OVC070 M11/M13 A2968 RMK AO2 SLP130 T11141130 $ K1EW 270958Z AUTO 21012KT 10SM CLR M10/M13 A2970 RMK AO2 SLP114 T10961129 $ K0R4 271055Z AUTO 16007KT 10SM SCT022 16/14 A3001 RMK AO2 T01600136 NGTT 271100Z 08015KT 9999 SCT019TCU 28/23 Q1009 K1J0 270958Z AUTO 00000KT 10SM CLR 08/06 A3017 RMK AO2 SLP200 T00780056 $ YIVO 271030Z AUTO 13007KT //// // ////// 28/06 Q1017 RMK LYTV 271030Z VRB01KT 9999 FEW030 18/08 Q1018 NOSIG K1GM 271058Z AUTO 34005KT 10SM -SN FEW030 BKN048 M15/M16 A2960 RMK AO2 SLP109 T11461157 $ K1GN 271056Z AUTO 00000KT 10SM M M14/M16 A2976 RMK AO2 SLP135 T11411156 $ K1FW 271058Z AUTO 22011KT 10SM CLR M12/M16 A2970 RMK AO2 SLP103 T11241161 TSNO $ LZKZ 271030Z 20008KT 170V250 CAVOK 09/M03 Q1017 NOSIG K0S9 271055Z AUTO 00000KT 10SM CLR M02/M02 A2977 RMK AO2 K1K1 271055Z AUTO 10004KT 10SM CLR M01/M03 A2996 RMK AO2 T10141030 K1HN 271056Z AUTO 03006KT 10SM OVC055 M11/M12 A2980 RMK AO2 SLP135 T11061122 $ LYUZ 271030Z 21005KT 160V280 9999 FEW020 12/05 Q1017 R10/////// LYVR 271030Z 17009KT 150V210 CAVOK 15/06 Q1018 NOSIG K1L0 271035Z AUTO 14009KT 10SM SCT013 OVC024 20/19 A3002 RMK AO2 T01980185 GVAC 271000Z 04016KT 9999 FEW015 SCT100 21/15 Q1017 NOSIG K36U 271038Z AUTO 21017G22KT 4SM -SN SCT008 BKN019 OVC026 01/M04 A2958 RMK AO2 K1IM 271058Z AUTO M 3SM -SN OVC018 M11/M12 A2966 RMK AO2 SLP121 P0001 T11111119 $ K1IN 271056Z AUTO 35006KT 10SM BKN065 BKN075 M13/M14 A2977 RMK AO2 SLP131 T11291144 $ K1HW 271058Z AUTO 18012KT 10SM CLR M08/M12 A2973 RMK AO2 SLP111 T10821125 $ SOCA 271030Z AUTO 00000KT 1700 1000 R08/1600D BR VV/// 23/23 Q1012 TEMPO 3000 SHRA SCT010TCU GVBA 271000Z 03017KT 9000 FEW015 22/16 Q1018 NOSIG K2C8 271055Z AUTO 21005KT 10SM M11/M13 A2986 RMK AO2 K40B 271016Z AUTO 21008G18KT 190V270 M05/M08 A2990 RMK AO1 SLP158 T10511082 57010 K1JM 271058Z AUTO 06005KT 10SM -SN FEW014 BKN095 M13/M14 A2964 RMK AO2 SHSNE08SNB08 SLP119 T11271143 $ ZBHH 271000Z VRB01MPS 5000 HZ FEW040 02/M05 Q1019 NOSIG K1JN 271056Z AUTO 32008KT 10SM OVC080 M13/M16 A2976 RMK AO2 SLP126 T11271158 $ K1IW 271058Z AUTO 17008KT 10SM CLR M06/M12 A2972 RMK AO2 SLP094 T10621121 $ K1M4 271056Z AUTO 08005KT 10SM BKN065 OVC090 09/00 A3014 RMK AO2 SLP231 T00890000 K0V4 271055Z AUTO 00000KT 10SM SCT120 M03/M05 A3036 RMK AO1 T10311050 K1M5 271055Z AUTO 21004KT 10SM OVC041 08/06 A3019 RMK A01 P0002 K40J 271055Z AUTO 09006KT 10SM CLR 12/05 A3023 RMK AO2 T01150050 K1KM 271058Z AUTO 03010KT 3SM -SN OVC013 M10/M11 A2958 RMK AO2 SHSNE12SNB12 SLP085 T10961112 $ K1KN 271056Z AUTO 32008KT 10SM BKN065 M13/M17 A2976 RMK AO2 SLP127 T11311166 $ K1JW 271058Z AUTO M 10SM CLR M10/M13 A2974 RMK AO2 SLP113 T10971128 TSNO $ YKII 271030Z AUTO 09015KT 9000 // NCD 17/16 Q1022 RMK LZPP 271030Z 12012KT CAVOK 09/M01 Q1015 HLLM 271050Z 31010KT 280V340 6000 FEW015 BKN025 17/12 Q1018 K1LM 270958Z AUTO 34011KT 4SM -SN OVC023 M11/M13 A2957 RMK AO2 SLP097 T11131129 $ K1LN 271056Z AUTO 31012KT 10SM BKN070 M13/M16 A2980 RMK AO2 SLP131 T11321162 $ K1KW 270958Z AUTO 07008KT 10SM CLR M11/M14 A2970 RMK AO2 SLP107 T11121138 $ AYGN 270600Z 25005KT 9999 SCT020 BKN140 29/24 Q1006 K2F5 271055Z AUTO 01003KT 10SM BKN100 BKN120 05/M05 A2991 RMK AO2 K0VG 271030Z AUTO 00000KT 10SM SCT075 OVC090 00/M02 A3030 RMK AO2 YLBD 271030Z AUTO 25002KT 9999 // NCD 29/25 Q1008 RMK K42J 271055Z AUTO 08005KT 10SM CLR 13/11 A3023 RMK AO1 TSNO MSAC 262250Z 25003KT 9999 SCT037 31/24 Q1009 A2981 K1P1 271055Z AUTO 00000KT 10SM OVC080 M08/M09 A3019 RMK AO2 T10831090 K1MM 271058Z AUTO 05006KT 2SM -SN OVC017 M10/M11 A2960 RMK AO2 SLPNO T10981110 $ TFFF 271030Z AUTO 09009KT CAVOK 24/21 Q1015 NOSIG K1MN 271056Z AUTO 29007KT 10SM SCT085 M13/M16 A2980 RMK AO2 SLP133 T11341159 $ K1LW 270958Z AUTO M 10SM CLR M07/M12 A2973 RMK AO2 SLP106 T10741121 $ K2G4 271040Z AUTO 21006KT 10SM SCT065 BKN085 00/M12 A3024 RMK AO1 K2G9 271055Z AUTO 20005KT 10SM OVC080 00/M11 A3025 RMK AO2 LZSL 271045Z VRB01KT CAVOK 10/M02 Q1016 K1NM 270958Z AUTO 08007KT 4SM -SN BKN007 BKN020 M09/M10 A2960 RMK AO2 SLP089 P0001 T10941101 $ K1NN 271056Z AUTO 30008KT 10SM FEW070 SCT110 BKN160 BKN180 M14/M16 A2982 RMK AO2 SLP135 T11361165 $ K1MW 271058Z AUTO 28004KT 10SM CLR M12/M14 A2973 RMK AO2 SLP111 T11211141 $ TFFR 271030Z AUTO VRB02KT 9999 FEW027 21/21 Q1016 TEMPO 09015G25KT MRLB 270600Z 09004KT CAVOK 25/16 A2988 NOSIG K2I0 271055Z AUTO 00000KT 10SM RA SCT038 OVC046 07/06 A3017 RMK AO2 P0003 T00710060 K1OM 270958Z AUTO M 5SM -SN FEW005 BKN017 M09/M10 A2965 RMK AO2 SLP095 T10951101 $ K1ON 271056Z AUTO 29008KT 10SM M M14/M15 A2982 RMK AO2 SLP137 T11371153 $ K1NW 271058Z AUTO 34004KT 10SM FEW250 M10/M14 A2969 RMK AO2 SLP090 T11051136 TSNO $ YLEC 271030Z AUTO 09008KT //// // ////// 31/07 Q1014 RMK K1R7 271055Z AUTO 16007KT 10SM BKN014 OVC019 A3006 RMK AO2 LZTT 271030Z VRB03KT CAVOK 06/M04 Q1014 NOSIG MRLM 270000Z 14006KT 9999 FEW020 SCT110 27/23 A2988 YKMP 271030Z AUTO 28003KT //// // ////// 19/18 Q1021 RMK SMZO 271100Z 08003KT 9999 FEW015 26/24 Q1012 NOSIG K46D 271055Z AUTO 20005KT 10SM CLR M13/M15 A2986 RMK AO2 K1OW 270958Z AUTO 29003KT 10SM CLR M10/M14 A2969 RMK AO2 SLP107 T11021137 $ K1S5 271055Z AUTO 00000KT 1SM BR OVC003 00/M01 A2974 RMK AO2 T10051006 YLEO 271030Z AUTO 24004KT 9999 // NCD 36/04 Q1011 RMK YKNT 271100Z AUTO 17006KT //// // ////// 30/09 Q1011 MROC 271000Z 10011KT CAVOK 20/09 A3000 NOSIG K46U 271040Z AUTO 20003KT 9SM FEW018 BKN031 OVC048 M07/M08 A2960 RMK A01 AYMO 270600Z 36004KT 9999 BKN018 OVC140 29/26 QNIL YKOW 271030Z AUTO 06006KT 9999 // ////// 26/22 Q1009 RMK K3D2 271055Z AUTO 00000KT 10SM CLR M06/M12 A3008 RMK AO2 T10641120 YLHI 271100Z AUTO 09020KT 9999 // SCT025 24/19 Q1021 K1V4 271054Z AUTO M08/M09 A3009 RMK AO1 SLP207 T10781094 K1V6 271050Z AUTO 28009KT 10SM CLR M01/M16 A2970 RMK AO2 SPCL 271000Z 00000KT 9999 BKN010 BKN070 22/21 Q1012 RMK PP000 K3AU 271035Z AUTO 09003KT 10SM CLR 00/M02 A2996 RMK AO2 YLHR 271030Z AUTO 00000KT //// // SCT020 SCT025 SCT031 26/24 Q1008 LZZI 271030Z VRB01KT CAVOK 08/M03 Q1014 YKSC 271030Z AUTO 19010KT 9999 // NCD 18/16 Q1017 RMK AYNZ 270200Z 00000KT 9999 FEW018 SCT040 OVC120 28/24 Q1007 MRPV 270000Z 09011KT 9999 FEW045 22/12 A3002 NOSIG K3F3 271035Z AUTO 00000KT 10SM OVC011 18/16 A3002 RMK AO2 LTG DSNT N T01760161 PWINO YMBA 271100Z AUTO 17004KT //// // ////// 23/19 Q1013 YLIS 271030Z AUTO 00000KT //// BKN063 OVC074 18/18 Q1019 RMK ZBSJ 271000Z 14001MPS CAVOK 14/M07 Q1018 NOSIG OAHR 271055Z 02010KT 9999 5000E DU NSC 17/M02 Q1019 RMK WHT YMBD 271030Z AUTO 25012KT 9999 // NCD 22/15 Q1017 RMK YKRY 271030Z AUTO 11007KT 9999 // NCD 20/15 Q1018 RMK K2P2 271055Z AUTO 00000KT 10SM CLR M10/M13 A3008 RMK AO2 T11031128 ZBTJ 271030Z 22002MPS CAVOK 13/M09 Q1019 NOSIG AYPY 270900Z 00000KT 9999 SCT040 OVC140 28/24 Q1007 YMAV 271030Z AUTO 14005KT 9999 // NCD 22/15 Q1020 RF00.0/000.0 OAKB 271050Z 29003KT CAVOK 14/M10 Q1021 NOSIG RMK BLU BLU YLLE 271100Z AUTO 11010KT 9999 // NCD 33/06 Q1011 OAJL 271055Z VRB02KT 9999 BKN250 23/M09 A3004 RMK AO2A SLP162 T02321086 $ YMAY 271030Z AUTO 33003KT 9999 // NCD 25/09 Q1020 RMK GVNP 271000Z 03016KT 9999 FEW016 SCT100 23/16 Q1016 NOSIG OBBI 271000Z 31012KT CAVOK 21/07 Q1017 NOSIG K54J 271035Z AUTO 14005KT 10SM CLR 11/05 A3017 RMK AO2 T01060045 SPGM 261900Z /////KT 9999 SCT040 28/22 Q1012 RMK BIRD HAZARD RWY19 PP000 YMCO 271030Z AUTO 01006KT //// // ////// 19/16 Q1025 NIUE 271000Z AUTO 10011KT //// // ///////// 26/25 Q1015 YMDG 271030Z AUTO 16007KT 9999 // NCD 21/11 Q1023 RMK K3I2 271055Z AUTO 00000KT 10SM CLR 03/M01 A3032 RMK AO2 T00251012 OAKN 271055Z 17011G16KT 9999 VCSH FEW020 BKN080 OVC100 16/02 A3003 RMK FU FEW020 SLP143 Q1017 DA4206 SPHI 271000Z 17004KT CAVOK 24/24 Q1012 RMK PP000 SPHO 271000Z 00000KT 6000 -RA BCFG FEW010 BKN040 OVC080 10/09 Q1028 RMK RA EN LA NOCHE PP224 MSLP 270950Z VRB02KT CAVOK 20/19 Q1012 A2988 NOSIG YMEK 271030Z AUTO 14014KT 9999 // SCT080 BKN120 29/15 Q1014 K4A6 271035Z AUTO 00000KT 10SM OVC034 07/01 A3020 RMK AO2 K3J7 271055Z AUTO 00000KT 10SM CLR 09/00 A3024 RMK AO2 SPJC 271100Z 16005KT 9999 SCT050 BKN100 25/22 Q1013 NOSIG RMK RAB10E45 PPTRZ MSLU 262250Z 00000KT CAVOK 34/19 Q1008 A2977 YMEN 271030Z AUTO 12008KT 9999 // NCD 27/12 Q1020 RMK K4A9 271055Z AUTO 00000KT 10SM CLR 08/M06 A3019 RMK AO2 K1YT 270958Z AUTO 12005KT 10SM BKN060 M02/M04 A2969 RMK AO2 SHSNE07SHRAB30E33SHSNB33E35SNB40E42SHSNB42E48 SLPNO T10221037 $ K57C 271055Z AUTO 00000KT 10SM CLR M05/M06 A3009 RMK AO2 T10521062 SPHY 271000Z /////KT 6000 1000NW -DZ BCFG SCT012 OVC040 05/05 Q1035 RMK BIRD HAZARD RWY03/21 RA NOCHE PP188 K3K3 271035Z AUTO 01003KT 10SM CLR M07/M09 A2982 RMK AO2 YMER 271030Z AUTO 27002KT //// // NCD 18/16 Q1025 RMK YMES 271030Z AUTO 14004KT 9999 // NCD 18/15 Q1023 YMGB 271100Z AUTO ///02KT //// // ////// 27/25 Q1008 OAMS 271050Z 27013KT 7000 SCT050 BKN180 BKN250 17/08 Q1021 WHT BLU+ YMGD 271030Z AUTO 18004KT 130V190 9999 -RA SCT059 BKN069 SPJL 270200Z 28006KT 9999 SCT010 OVC100 10/06 Q1037 RMK PP000 K3L4 271055Z AUTO 15007KT 5SM BR BKN006 OVC019 20/20 A2998 RMK A01 SPJR 271000Z VRB02KT 9000 -RA BKN043 11/10 Q1029 RMK PP002 YMHB 271030Z AUTO 02007KT 9999 // NCD 20/13 Q1023 RF00.0/000.0 ZBYN 271030Z 03001MPS CAVOK 08/M06 Q1018 NOSIG AYWK 270600Z 31010KT 9999 FEW020 BKN300 31/24 Q1005 YMIA 271030Z AUTO 11006KT 9999 // NCD 29/08 Q1017 RMK K2V6 271049Z AUTO 19004KT 10SM CLR M10/M13 A2977 RMK AO2 YLRE 271030Z AUTO 10007KT 9999 // NCD 29/13 Q1010 RMK SPME 270300Z VRB02KT 9999 OVC011 24/23 Q1012 RMK BIRD HAZARD RWY 32/14 PP000 K4BM 271056Z AUTO 22017G24KT 10SM CLR M13/M18 A2964 RMK AO2 GVSV 270900Z 07017KT 9000 FEW022 21/15 Q1016 NOSIG K3LF 271055Z AUTO 13005KT 10SM OVC075 03/01 A3011 RMK AO2 T00330013 K2W6 271041Z AUTO 00000KT 7SM SCT110 00/M01 A3039 RMK AO1 YMHU 271100Z AUTO 01004KT 9999 // NCD 30/23 Q1009 K3N8 271055Z AUTO 14004KT 10SM CLR M10/M13 A2989 RMK AO2 T11051127 YMIN 271030Z AUTO 15014KT //// // ////// 22/16 Q1016 RMK SPMS 262300Z 00000KT 9999 SCT013 BKN100 25/23 Q1013 RMK BIRD HAZARD RWY 09/27 PP000 YNAR 271030Z AUTO 10008KT //// // ////// 25/09 Q1020 RMK YLST 271030Z AUTO 03005KT 9999 // NCD 35/00 Q1012 RMK YLTN 271030Z AUTO 16003KT //// // ////// 36/06 Q1013 MSSM 262250Z 20007KT CAVOK 33/19 Q1008 A2979 DAAD 271000Z 04004KT CAVOK 11/05 Q1022 DAAE 271000Z 25014KT CAVOK 15/07 Q1020 YNBR 271030Z AUTO 15007KT 9999 // SCT075 22/12 Q1019 RMK YMMB 271030Z AUTO 11010KT 9999 // NCD 25/16 Q1020 RMK DAAG 271030Z 26003KT 180V300 9000 FEW020 17/11 Q1021 MSSS 270550Z 00000KT 9999 FEW023 22/17 Q1016 A3001 YLTV 271030Z AUTO 08005KT 9999 // NCD 20/14 Q1023 RMK DAAJ 271000Z 00000KT CAVOK 22/M02 Q1019 MUCC 270950Z 08011KT 9000 FEW020 25/21 Q1019 DABB 271030Z 16003KT 120V240 9999 FEW023 16/10 Q1020 DABC 271030Z 24005KT 190V280 9999 FEW023 11/06 Q1020 K4I3 271057Z AUTO 17003KT 10SM BKN070 BKN090 02/M06 A3024 RMK AO2 MUCF 270958Z AUTO 07007KT 22/20 Q1019 K2WX 271056Z AUTO 16006KT M06/M07 A2961 RMK AO1 SLP059 T10611072 DAAP 271000Z 08006KT 9000 NSC 17/04 Q1020 YMLT 271030Z AUTO 34009KT 9999 // NCD 16/11 Q1026 RF00.0/000.0 YMML 271030Z 11009KT CAVOK 27/11 Q1020 NOSIG K3R7 271055Z AUTO 16009G14KT 10SM BKN009 BKN014 OVC021 20/19 A2997 RMK AO2 T01950187 YMNE 271030Z AUTO 34013KT 9999 // NCD 33/11 Q1013 RMK MUCL 271005Z AUTO 09014KT 25/19 Q1018 DAAS 271000Z 24008KT 9999 FEW030 08/05 Q1021 DAAT 271030Z 29012KT CAVOK 24/M06 Q1021 MUCM 270950Z 06008KT 9000 FEW020 21/20 Q1019 YMNG 271030Z AUTO 00000KT 9999 // NCD 20/10 Q1020 RMK DAAV 271000Z 32005KT CAVOK 15/09 Q1020 TGPY 271000Z 00000KT 9999 FEW020 23/22 Q1013 NOSIG DAAY 271000Z 21012KT CAVOK 13/04 Q1024 K5A6 271055Z AUTO 35012G22KT 3SM TSRA SCT008 OVC029 07/07 A3015 RMK AO2 LTG DSNT ALQS P0023 T00730070 AZUH 270950Z 00000KT 3000 BR NSC 00/M03 Q1023 SPQT 271000Z 31003KT 9999 BKN006 BKN100 22/21 Q1012 NOSIG RMK BIRD HAZARD PP000 K65S 271055Z AUTO 00000KT 10SM BKN020 OVC041 M05/M07 A2963 RMK AO2 SPQU 271025Z 27003KT 3000 -DZ BR OVC002 11/10 Q1027 DABS 271000Z 28004KT 9999 FEW040 11/06 Q1021 MUCU 270951Z 01007KT 9000 FEW020 22/17 Q1017 DABT 271030Z 33002KT 6000 SCT006 05/05 Q1021 YMOG 271030Z AUTO 22009KT //// // ////// 36/09 Q1012 RMK K3T5 271055Z AUTO 00000KT 2 1/2SM BR BKN012 BKN018 OVC046 19/19 A2992 RMK AO2 T01940191 K66R 271055Z AUTO 14003KT 5SM BR BKN009 OVC013 20/19 A2994 RMK AO2 T01970188 SPRU 271000Z 00000KT 8000 SCT030 OVC150 26/21 Q1012 RMK PP000 K5C1 271055Z AUTO 18004KT 7SM OVC010 17/16 A2994 RMK AO1 SPSO 271000Z 35004KT 9999 BKN086 25/24 Q1012 RMK PP000 YMOR 271030Z AUTO 11012KT 9999 // NCD 22/13 Q1018 RMK SPST 270300Z 33010KT 9999 SCT025 SCT070 25/19 Q1013 RMK BIRD HAZARD RWY 17/35 PP000 SPTN 271000Z VRB02KT 9999 BKN100 23/17 Q1015 RMK PP000 YMRB 271030Z AUTO 07011KT 9999 // NCD 27/18 Q1013 RMK YNHL 271030Z AUTO 08008KT //// // ////// 27/07 Q1018 RMK DAFH 271000Z 00000KT CAVOK 14/02 Q1023 MUHA 270955Z 09006KT 9000 FEW035 22/19 Q1019 SPTU 262300Z 02003KT 9999 SCT010 BKN030 OVC080 25/24 Q1009 RMK BIRD HAZARD RWY 01/19 PP000 K4M9 271055Z AUTO 10005KT 10SM BKN036 OVC050 08/08 A3009 RMK AO2 MUGM 271056Z 33003KT 9999 FEW028 22/19 A3007 RMK SLP182 T02220194 MTPP 270000Z 28009KT 9000 FEW025 BKN060 27/21 Q1015 A2986 MUHG 270951Z 08007KT CAVOK 23/20 Q1018 K4O4 271055Z AUTO 05007KT 10SM 10/08 A2999 RMK AO2 YMRY 271030Z AUTO 23005KT 9999 // SCT028 20/15 Q1025 RMK YMTG 271030Z AUTO 15005KT 9999 // NCD 23/12 Q1019 RMK YMTI 271030Z AUTO 02005KT //// // ////// 27/// Q1009 RMK K4MR 271058Z AUTO 23008KT 10SM CLR 03/M04 A2990 RMK AO2 SLP108 T00261043 $ K5H4 271035Z AUTO 22008KT 10SM M15/M16 A2985 RMK AO2 PWINO PNO SPYL 262300Z 30009KT CAVOK 28/23 Q1009 RMK SCT100 BIRD HAZARD RWY 17/35 PP000 DBBB 271000Z 21007KT 8000 SCT014 31/25 Q1009 NOSIG K4R5 271055Z AUTO 00000KT OVC070 M11/M13 A3000 RMK AO2 T11131131 PWINO K6A1 271055Z AUTO 18004KT 10SM 11/01 A3024 RMK AO2 T01130010 K74V 271055Z AUTO 34003KT 10SM BKN085 M03/M07 A2969 RMK AO2 K6A2 271055Z AUTO 17004KT 10SM CLR 11/00 A3024 RMK AO2 SPZO 271030Z VRB02KT 9000 -RA SCT020 SCT040 BKN080 08/06 Q1031 NOSIG RMK VIS 8000 QUAD E BIRD HAZARD RWY 28 UAAA 271030Z 05007MPS 9999 SCT100 09/M03 Q1023 R88/CLRD65 NOSIG K6B0 271035Z AUTO 15007KT 10SM SCT060 M01/M14 A3016 RMK AO2 T10101141 UAAH 271030Z 10008MPS 9999 SCT007 BKN200 M01/M02 Q1027 R05/710150 NOSIG RMK QFE732/0977 YMYB 271100Z AUTO 17007KT 9999 // NCD 22/18 Q1016 K6B9 271055Z AUTO 22012G19KT 10SM FEW050 01/M08 A3016 RMK AO2 UACC 271030Z 22012MPS 5000 -SN BKN011 OVC030 M02/M03 Q1021 R22/1/0060 TEMPO 22012G17MPS 3000 SHSN BKN020CB RMK QFE734/0979 K4V0 271055Z AUTO 17012G15KT 10SM OVC090 01/M06 A2966 RMK AO2 T00091061 DAOB 271000Z 27014KT CAVOK 13/08 Q1021 TJBQ 271050Z 10011KT 10SM BKN065 OVC075 22/19 A3009 DAOF 271000Z 15011KT 8000 NSC 20/M02 Q1020 YNRC 271030Z AUTO 16011KT //// // ////// 25/12 Q1018 RMK UACK 271030Z 26013G18MPS 9999 BKN020CB M02/M07 Q1015 R20/190060 NOSIG RMK QFE738/0984 DAOI 271000Z 00000KT 5000 FEW020 SCT026 12/11 Q1020 K79J 271056Z AUTO 11005KT 10SM CLR 11/03 A3018 RMK AO2 SLP216 T01110028 $ UADD 271030Z 23002MPS 200V260 9999 NSC 14/M08 Q1020 R13/0///65 NOSIG RMK QFE708/0945 K5M9 271055Z AUTO 10004KT 10SM -RA OVC043 06/06 A3014 RMK AO2 T00560056 DAOL 271000Z 00000KT 4000 BR BKN013 13/13 Q1021 UACP 271030Z 24013G18MPS 9999 BKN016 BKN026CB M02/M04 Q1010 R23/1/0057 NOSIG RMK QFE745/0993 DAON 271030Z VRB01KT 8000 FEW010 SCT026 16/11 Q1021 DAOO 271030Z 22006KT 9000 BKN026 15/11 Q1020 YPAD 271030Z 13011KT CAVOK 28/12 Q1015 NOSIG DAOR 271000Z 16002KT CAVOK 19/04 Q1022 K82C 271055Z AUTO 00000KT 10SM CLR M05/M06 A3004 RMK AO2 T10541065 YPAG 271030Z AUTO 13018KT 9999 NCD 26/08 Q1013 RMK DAOV 271000Z 00000KT 8000 NSC 15/08 Q1020 DAOY 271000Z 27003KT 260V340 CAVOK 12/03 Q1022 YNSM 271030Z AUTO 17010KT //// // ////// 24/17 Q1014 RMK OEAB 271000Z 22012KT 9999 BKN020 20/10 Q1022 NOSIG MUSC 270951Z 08004KT 9000 FEW035 20/19 Q1020 OEAH 271000Z 34012KT CAVOK 22/M05 Q1018 NOSIG YPCC 271100Z AUTO 12014KT 9999 // SCT023 SCT030 BKN036 29/24 Q1009 OEBA 271000Z 12006KT 9999 BKN030 21/14 Q1019 NOSIG YOLD 271030Z AUTO 20006KT 9999 // NCD 32/00 Q1012 RMK YNTN 271100Z AUTO 18001KT 9999 // ////// 29/25 Q1008 YPBO 271030Z AUTO 10009KT 9999 // NCD 30/17 Q1011 RMK K82V 271055Z AUTO 19006KT 10SM CLR M13/M16 A2969 RMK AO2 PWINO OEAO 271000Z 18010KT CAVOK 25/00 Q1018 OEBH 271000Z 09007KT 9999 FEW030 24/12 Q1017 NOSIG OEAR 271000Z 22003KT 9999 SCT040 32/16 Q1011 MWCB 270000Z 08003KT CAVOK 26/21 Q1016 K6I2 271050Z AUTO 00000KT 5SM BR SCT020 OVC033 05/04 A3025 RMK AO2 P0003 YPEA 271030Z AUTO 21010KT 9999 // NCD 24/15 Q1014 YPED 271030Z AUTO 11010KT 9999 NCD 30/11 Q1015 RMK K5R8 271055Z AUTO 00000KT 10SM OVC006 18/17 A2999 RMK AO2 T01800172 YOLW 271030Z AUTO 23007KT 170V270 //// // ////// 30/22 Q1010 YPDN 271053Z 33002KT 9999 SHRA VCTS FEW022CB BKN250 28/25 Q1008 DAUA 271000Z 06012KT CAVOK 20/02 Q1021 DAUB 271000Z 30006KT CAVOK 16/03 Q1022 DATM 270700Z 35010KT CAVOK 18/02 Q1015 TJIG 271055Z 00000KT 10SM SCT025 SCT040 SCT070 23/22 A3010 OEDF 271000Z 32013KT CAVOK 24/M04 Q1017 NOSIG DAUE 271000Z 00000KT CAVOK 17/04 Q1023 UAII 271030Z VRB01MPS CAVOK 18/M04 Q1021 R10/0///70 NOSIG RMK QFE730/0973 DAUG 271000Z 00000KT CAVOK 17/M01 Q1022 MWCR 270450Z 07006KT CAVOK 24/23 Q1016 NOSIG DAUH 271030Z 26006KT CAVOK 18/03 Q1022 YOOD 271030Z AUTO 14007KT //// // ////// 30/M02 Q1012 RMK YNWN 271030Z AUTO 09008KT 9999 // BKN096 BKN120 29/16 Q1013 DAUK 271000Z 25004KT CAVOK 16/05 Q1021 OEDM 271000Z 15005KT CAVOK 23/M04 Q1019 DAUL 271000Z 00000KT CAVOK 13/03 Q1022 DAUO 271000Z 24005KT CAVOK 16/04 Q1021 MUVR 270950Z 09004KT 9000 NSC 22/20 Q1019 OEDR 271000Z 32012KT CAVOK 26/M06 Q1016 NOSIG UBBB 271030Z 14017KT 9999 OVC039 07/M01 Q1026 R88/CLRD// NOSIG YOOM 271030Z AUTO 12007KT 9999 NCD 34/05 Q1009 RMK K5T9 271055Z AUTO 09003KT 10SM OVC018 18/16 A2986 RMK A01 DAUT 271000Z 08008KT CAVOK 20/M02 Q1022 DAUU 271000Z 00000KT CAVOK 17/01 Q1022 ZGGG 271030Z 36004MPS 9999 BKN060 19/06 Q1021 NOSIG UBBG 271030Z VRB04KT 9999 SCT100 07/M03 Q1025 R30/CLRD// NOSIG K6L4 271055Z AUTO 00000KT 10SM SCT070 OVC090 05/M08 A3030 RMK AO2 ZGHA 271000Z 29002MPS 260V330 CAVOK 18/01 Q1022 NOSIG DAUZ 271000Z 04005KT 350V110 CAVOK 14/04 Q1020 UAKK 271030Z 19012MPS 3900 BLSN NSC M01/M04 Q1022 R23/550547 NOSIG RMK QFE720/0960 TIST 271053Z 08005KT 10SM FEW075 OVC100 23/22 A3006 RMK AO2 RAE0957 SLP179 P0000 T02330217 UBBL 271000Z 00000KT 9999 BKN027 09/04 Q1028 R33/CLRD// RMK MT OP UBBN 271030Z 23004KT 4000 BR OVC005 M04/M05 Q1024 R14R/CLRD// NOSIG RMK MT OBSC QFE692 TISX 271053Z 06008KT 10SM FEW022 SCT080 24/21 A3006 RMK AO2 SLP176 T02390211 UBBQ 271000Z 27007KT 230V340 9999 OVC200 08/M06 Q1025 R34/CLRD// NOSIG RMK MT OP YPGV 271030Z AUTO 16005KT 8000 // NCD 27/25 Q1008 YORG 271030Z AUTO 09015KT 9999 // NCD 16/11 Q1025 RMK OEGN 271000Z 21013KT 180V260 9999 FEW030 31/23 Q1011 NOSIG K7BM 271054Z AUTO 27006G14KT 230V300 10SM CLR M05/M16 A2970 RMK AO2 UBBY 271100Z 29005KT 9999 FEW100 08/M07 Q1027 R33/////// NOSIG RMK MT OP OEGS 271000Z 09005KT CAVOK 22/00 Q1019 OEGT 271000Z 10008KT CAVOK 20/M13 Q1018 NOSIG OEHL 271000Z 17004KT CAVOK 21/M09 Q1019 NOSIG UBEE 271100Z 35006KT CAVOK 09/M02 Q1026 R30/CLRD// NOSIG YPKA 271030Z AUTO 05013KT 9999 // SCT019 30/25 Q1008 RMK OEJB 271000Z AUTO 36014KT CAVOK 23/02 Q1018 NOSIG YPKG 271100Z AUTO 14006KT 9999 // NCD 30/11 Q1012 TJNR 271053Z AUTO 05006KT 10SM SCT050 BKN065 OVC090 25/22 A3010 RMK AO2 SLP191 T02500222 $ YPJT 271030Z AUTO 23011KT 9999 // NCD 24/17 Q1014 RF00.0/000.0 YPLC 271030Z AUTO 25005KT 9999 // NCD 18/13 Q1017 RMK ZHCC 271000Z 18003MPS CAVOK 15/M02 Q1021 NOSIG ZGKL 271000Z 30001MPS 6000 SCT050 OVC066 13/10 Q1023 NOSIG K6P9 271035Z AUTO 20006KT 3/4SM BR OVC002 15/15 A2992 RMK AO2 UAOO 271030Z 35007MPS 9999 BKN011 04/02 Q1022 R23/CLRD70 NOSIG RMK QFE754/1006 OEJN 271000Z 21011KT 8000 SKC 32/11 Q1009 NOSIG YPKS 271030Z AUTO 08013KT 9999 // NCD 25/09 Q1020 RMK YPKT 271030Z AUTO 00000KT //// // ////// 26/23 Q1007 RMK YPKU 271030Z AUTO 07003KT 9999 // NCD 28/23 Q1007 RF00.0/000.0 OEKJ 271000Z 02009KT CAVOK 21/01 Q1022 YPLM 271030Z AUTO 25014KT 9999 // NCD 30/23 Q1008 OEKK 271000Z 27008KT CAVOK 22/06 Q1020 NOSIG OEKM 271000Z 24010KT 9999 BKN020 21/08 Q1021 NOSIG K6R3 271035Z AUTO 00000KT 5SM BR OVC008 19/18 A2996 RMK AO2 T01920183 K6R6 271053Z AUTO 25006KT 12/08 A2990 RMK AO1 SLP099 T01220083 TJPS 270850Z 00000KT 10SM FEW025 BKN050 22/20 A3006 OEMA 271000Z 09012KT 9999 FEW045 25/07 Q1017 NOSIG K6S0 271055Z AUTO 03008KT 10SM FEW035 BKN043 OVC065 M08/M09 A2958 RMK A01 K8A0 271035Z AUTO 09004KT 10SM CLR 08/00 A3016 RMK AO2 YPMQ 271030Z AUTO 26004KT 9999 // SCT019 SCT040 20/19 Q1021 SUAA 271000Z 03010KT CAVOK 23/22 Q1011 YPOD 271030Z AUTO 07005KT 9999 // NCD 19/14 Q1020 RMK OEMK 271000Z 06004KT 9999 SCT040 34/17 Q1010 ZGNN 271000Z 10003MPS 070V180 CAVOK 18/06 Q1021 NOSIG K8B0 271055Z AUTO 27007KT 10SM BKN075 M06/M09 A3002 RMK AO2 SUAG 261200Z 11005KT CAVOK 25/22 Q1012 OENG 271000Z 11006KT 8000 SKC 22/08 Q1019 NOSIG UARR 271030Z 22010MPS 9999 FEW010 SCT100 M00/M03 Q1018 R22/710360 NOSIG RMK QFE760/1014 TJSJ 271056Z 00000KT 10SM SCT021 SCT040 BKN110 24/23 A3008 RMK AO2 SLP183 VCSH SE NW T02390233 UASK 271030Z 00000MPS 9999 SCT230 M01/M08 Q1031 R30/810150 NOSIG RMK QFE747/0997 YPPD 271100Z AUTO 01009KT 9999 // NCD 30/// Q1009 YPPF 271030Z AUTO 11015KT 9999 // NCD 29/13 Q1014 RMK UATE 271030Z 19005MPS 160V230 9999 BKN036CB BKN160 07/M02 Q1028 R12/0///70 NOSIG RMK QFE769/1025 K7L2 271035Z AUTO 07004KT 10SM M13/M13 A2984 RMK AO2 YPPH 271030Z 22013KT CAVOK 25/15 Q1014 NOSIG UATG 271030Z 23006MPS 9999 SCT033CB 03/M04 Q1026 R32/CLRD70 NOSIG RMK QFE771/1029 UASP 271030Z 16006MPS CAVOK M02/M05 Q1025 R21/0///60 NOSIG RMK QFE757/1010 SUCA 271000Z XXXXXKT CAVOK 23/21 Q1008 UASS 271030Z 13005MPS CAVOK M01/M03 Q1030 R08/82//50 NOSIG RMK QFE751/1002 OEPA 271000Z 30006KT CAVOK 22/07 Q1019 NOSIG ZGOW 271000Z 11005MPS 080V140 CAVOK 17/07 Q1022 NOSIG ZHHH 271000Z 14002MPS 070V160 CAVOK 17/M01 Q1022 NOSIG K8D3 271056Z AUTO 32003KT M08/M08 A2987 RMK AO1 SLP145 T10781083 UATT 271030Z 25008MPS 9000 BKN011 M04/M06 Q1022 R31/19//50 NOSIG RMK QFE746/0995 K7N0 271056Z AUTO 16007KT 10SM 19/17 A3005 RMK AO2 SLP177 T01940167 PNO $ CMGB 271045Z AUTO 20006G16KT M00/M06 RMK AO1 SLP163 T10031059 55001 CMFM 271000Z AUTO 22007KT M09/M09 RMK AO1 7PAST HR SOG 91 5007 SLP112 P0003 T10871094 50023 UAUU 271030Z 24009MPS CAVOK M03/M06 Q1016 R33/550132 NOSIG RMK QFE747/0996 OERF 271000Z 06002KT CAVOK 21/M12 Q1019 SUDU 271000Z 00000KT 8000 NSC 21/20 Q1010 OERK 271000Z 35004KT CAVOK 21/M07 Q1021 NOSIG OESH 271000Z 06009KT CAVOK 24/10 Q1018 NOSIG OERR 271000Z 17006KT CAVOK 23/01 Q1019 NOSIG OETB 271000Z 09008KT CAVOK 24/M08 Q1016 NOSIG OESK 271000Z 12008KT CAVOK 23/M12 Q1019 NOSIG UCFL 270900Z 12005MPS 9999 SCT030 03/M07 Q1024 R07/CLRD70 RMK V/G/CH/Z YPTN 271030Z AUTO 12003KT 9999 // NCD 29/23 Q1008 UCFM 271030Z 01003MPS CAVOK 08/M02 Q1021 R08/CLRD70 NOSIG UCFO 271030Z 31003MPS 9000 NSC 11/01 Q1023 R12/CLRD70 NOSIG OETF 271000Z 09005KT 9999 SCT030 23/11 Q1018 NOSIG ZGSZ 271000Z 25003MPS CAVOK 18/09 Q1021 NOSIG TKPK 271000Z 06012KT 9999 FEW022 25/21 Q1017 TKPN 262200Z 09010KT 9999 VCSH BKN020 26/22 Q1016 OETR 271000Z 15008KT CAVOK 20/M08 Q1019 NOSIG K9A5 271055Z AUTO 00000KT 10SM CLR 04/03 A3025 RMK AO2 T00420025 YREN 271030Z AUTO 03002KT 9999 // BKN115 30/11 Q1015 RMK OEWD 271000Z 10010KT 9999 SCT030 BKN080 20/16 Q1018 NOSIG YPWR 271030Z AUTO 20007KT 9999 // NCD 30/M05 Q1014 OEWJ 271000Z 28008KT CAVOK 29/14 Q1011 NOSIG YPXM 271100Z AUTO 16005KT 9999 // SCT016 SCT020 26/23 Q1010 SVBM 270300Z 02002KT 9999 FEW016 21/20 Q1018 MYGF 270000Z 04015KT 9999 FEW015 SCT030 23/19 A3011 HTAR 271000Z 11510KT 9999 SCT025 BKN300 26/18 Q1015 OEYN 271000Z 06010KT CAVOK 32/13 Q1009 NOSIG K7W4 271055Z AUTO 00000KT 10SM CLR M03/M04 A3036 RMK AO1 T10291044 K7W6 271050Z AUTO 04003KT 10SM CLR 00/00 A3041 RMK AO2 T00040004 SULS 271000Z 03005KT 360V060 CAVOK 23/21 Q1011 HTDA 270900Z 00000KT 9999 FEW017 BKN080 27/24 Q1010 NOSIG HTBU 271000Z 00000KT 9999 SCT018 FEW020CB BKN080 21/18 Q1017 SUMU 271100Z 01008KT CAVOK 23/20 Q1011 NOSIG HTDO 271000Z 00000KT 9999 RA SCT018 FEW019CB BKN080 19/18 Q1016 NOSIG YSBK 271100Z AUTO 20004KT 9999 // NCD 20/16 Q1023 YSCB 271030Z AUTO 14007KT 9999 // NCD 16/11 Q1026 TLPC 271000Z 08020KT 9999 FEW025 BKN040 26/21 Q1014 NOSIG HSOB 270500Z 33010KT CAVOK 16/M05 Q1013 HSNN 270500Z 36004KT CAVOK 16/M08 Q1013 YRMD 271030Z AUTO 15011KT //// // ////// 30/15 Q1009 RMK TLPL 270900Z 08016KT 9999 FEW023 26/22 Q1014 NOSIG YSCN 271030Z AUTO 00000KT 9999 // NCD 19/15 Q1024 RMK YSCO 271030Z AUTO 16010KT //// // ////// 19/17 Q1022 RMK YSCR 271030Z AUTO 17014KT 170V290 //// // ////// 29/14 Q1013 HSPN 270500Z 28007KT 8000M 22/13 Q1013 MZBZ 271100Z 10002KT 9999 FEW016 25/23 A2995 Q1014 NOSIG HRYR 271000Z 08007KT 040V100 8000 -TSRA FEW020CB BKN021 BKN080 17/16 Q1021 NOSIG YSDU 271030Z AUTO 06014KT 9999 // NCD 25/10 Q1020 RF00.0/000.0 YROM 271030Z AUTO 15004KT 9999 // NCD 23/11 Q1015 RMK YSGE 271100Z AUTO 11009KT //// // ////// 25/12 Q1016 SUSO 271000Z 06005KT CAVOK 22/20 Q1010 MYNN 271100Z 05008KT 9999 FEW020 25/19 A3021 K9L2 271013Z AUTO 22013KT 10SM BKN031 06/02 A2986 RMK AO2 TNCA 271000Z 08014KT 9999 FEW019 26/21 Q1013 A2993 NOSIG HTIR 271000Z 18011KT 9999 TSRA BKN020 FEW021CB BKN070 20/18 Q1019 TNCB 270955Z AUTO 08011KT 9999 FEW019/// 26/22 Q1013 HTKA 271000Z 27005KT 9999 SCT024 FEW025CB 29/20 Q1017 TNCC 271000Z 08010KT 9999 SCT016 26/22 Q1014 NOSIG TNCE 270955Z AUTO 07012KT 030V100 //// // ///////// 25/20 Q1017 RE// DFFD 271000Z 11009KT 080V170 8000 NSC 35/M03 Q1013 NOSIG YSHK 271030Z AUTO 21014KT //// // ////// 26/19 Q1010 RMK ZJHK 271000Z 04004MPS 6000 SCT013 OVC023 17/14 Q1019 NOSIG HTKJ 271000Z 00000KT 9999 SCT036 BKN250 29/18 Q 1012 NOSIG HSSS 271030Z 07005KT CAVOK 32/00 Q1010 NOSIG TNCM 271000Z 08010KT 050V110 9999 FEW018 25/21 Q1017 A3004 NOSIG K8W2 271055Z AUTO 00000KT 10SM OVC080 M01/M06 A3034 RMK AO1 T10151057 SVMG 271100Z /////KT 9999 FEW010 27/24 Q1013 SVMI 271100Z 00000KT 9999 SCT016 26/15 Q1012 YSHT 271030Z AUTO 00000KT //// NCD 23/11 Q1020 RMK YSHW 271030Z AUTO 23004KT 9999 // NCD 19/16 Q1023 RMK UEEE 271030Z 01001MPS CAVOK M31/M34 Q1023 R23L/490150 NOSIG RMK QFE758 HTMG 271000Z 00000KT 9999 BKN026 29/22 Q1013 OIAA 271000Z 32004KT CAVOK 25/M06 Q1016 OIAD 271000Z 00000KT 7000 NSC 25/08 Q1017 A3004 K9MN 271053Z AUTO 17007KT 10SM CLR M07/M08 A2999 RMK AO1 T10741080 YTAR 271030Z AUTO 12006KT //// // ////// 30/M05 Q1014 RMK YRTI 271030Z AUTO 19019KT //// // ////// 21/17 Q1014 RMK OIAG 271000Z 27006KT CAVOK 25/04 Q1017 OIAH 271000Z 27008KT CAVOK 21/03 Q1014 OIAI 271000Z 31004KT CAVOK 23/05 Q1015 OIBA 271000Z 26010KT 6000 NSC 22/10 Q1015 OIBB 271000Z 32008KT 7000 NSC 20/13 Q1016 A3001 HTMT 271000Z 34010KT 6000M RA BKN019 FEW021CB BKN280 25/24 Q1009 DGAA 271000Z 26006KT 220V300 8000 NSC 29/22 Q1010 NOSIG HTMU 271000Z 27010KT 9999 FEW022 FEW023CB 26/17 Q1017 OIAM 271000Z 24008KT CAVOK 24/03 Q1016 HTMW 271000Z 20014KT 9999 -RA BKN020 FEW021CB SCT090 21/19 Q1017 NOSIG HUEN 271000Z 23010KT 7000 -RA BKN018 FEW020CB OVC110 22/19 Q1017 OIBJ 271000Z 06004KT 7000 NSC 21/12 Q1017 OIBK 271000Z 25010KT 4500 HZ FEW025 23/16 Q1015 OICC 271030Z 00000KT CAVOK 16/M18 Q1019 A3011 NOSIG OIBL 271000Z 24012KT 4000 HZ NSC 24/14 Q1015 OIAW 271030Z 23004KT CAVOK 26/M03 Q1015 YSMH 271030Z AUTO 11007KT 9999 // NCD 25/20 Q1014 RMK YSMI 271100Z AUTO 07014KT //// // ////// 17/16 Q1024 OIBP 271030Z 28006KT 7000 NSC 24/14 Q1013 A2993 OIBQ 271000Z 30008KT CAVOK 19/15 Q1016 OICI 271000Z 09004KT CAVOK 17/M11 Q1021 A3015 OICJ 270952Z 15004KT CAVOK 13/M06 Q1021 OIBS 271000Z 23010KT CAVOK 22/11 Q1018 OICK 270950Z 28006KT CAVOK 17/M06 Q1019 YTEE 271030Z AUTO 36013KT 9999 // NCD 29/15 Q1010 RMK KMG 271030Z AUTO 14013KT 9999 // NCD 23/10 Q1023 YTEF 271030Z AUTO 07013KT 9999 // SCT105 28/19 Q1012 RMK OICM 271000Z 25004KT CAVOK 24/M02 Q1016 OIBV 271000Z 33008KT 5000 HZ FEW030 22/16 Q1015 YSNF 271030Z AUTO 08016KT 9999 // BKN021 23/19 Q1022 OICS 271000Z 07002KT CAVOK 12/M07 Q1020 YTEM 271030Z AUTO 10008KT //// // ////// 25/09 Q1021 RMK CPBT 271000Z AUTO 15002KT M15/M16 RMK AO1 T11481159 UDSG 271030Z 15001KT 7000 FEW049 M01/M08 Q1022 R02/CLRD70 NOSIG YSNW 271030Z 22006KT 9999 FEW027 18/16 Q1024 CPEH 271000Z AUTO 18003KT M15/M17 RMK AO1 T11521169 YTGM 271100Z AUTO 11008KT //// // ////// 33/05 Q1013 OIFK 271000Z 01004KT CAVOK 17/M08 Q1019 HTTB 271000Z 12005KT 9999 SCT022 FEW023CB BKN070 26/18 Q1018 OIFM 271030Z 14004KT CAVOK 15/M09 Q1019 A3011 HTSO 271000Z 00000KT 5000M TSRA BKN022 FEW025CB BKN080 20/18 Q1016 OIGG 271030Z 00000KT 9999 FEW015CB BKN020 BKN080 09/06 Q1027 YTIB 271030Z AUTO 11011KT //// // ////// 32/03 Q1014 RMK SVVA 271000Z /////KT SCT016 BKN100 23/21 Q1015 OIFS 271000Z 18006KT CAVOK 11/M12 Q1021 CPFI 271000Z AUTO 20005KT M17/M18 RMK AO1 T11681175 OIGK 270950Z 00000KT CAVOK 05/M06 Q1021 K9V9 271055Z AUTO 00000KT 10SM BKN120 M06/M09 A2983 RMK AO2 T10611086 HTSU 271000Z 00000KT 9999 RA SCT018 FEW019CB BKN080 20/14 YSRI 271030Z AUTO 19005KT 9999 SCT056 21/16 Q1023 RF00.0/000.2 PRESENT WEATHER SENSOR US DFOO 270800Z 22006KT 6000 NSC 27/18 Q1011 OIHH 271000Z 33006KT CAVOK 09/M05 Q1021 YSRN 271030Z AUTO 34005KT 9000 // NCD 15/11 Q1023 RMK OIHM 271000Z 30004KT CAVOK 11/M05 Q1020 OIIE 271030Z 00000KT CAVOK 14/M08 Q1020 NOSIG OIII 271030Z 18006KT CAVOK 14/M09 Q1020 A3012 NOSIG OIIK 271000Z 25004KT CAVOK 12/M02 Q1021 PAAD 271055Z AUTO 06014KT 10SM M25/M27 A3006 RMK AO2 T12481275 YSTH 271100Z AUTO 00000KT 9999 // ////// 16/13 Q1027 OIIP 271000Z 32004KT 8000 NSC 10/M07 Q1021 OJAI 271100Z 09012KT 7000 NSC 20/M06 Q1017 NOSIG OIIS 271000Z 16002KT 9999 FEW035 15/M08 Q1021 PABA 271052Z AUTO 07014KT 10SM BKN110 M27/M29 A3009 RMK AO2 SLP174 T12671294 FZRANO TSNO OIKB 271030Z 21012KT 4500 HZ FEW025TCU FEW200 24/17 Q1014 A2997 PAAK 271056Z 00000KT 6SM SCT009 OVC022 08/02 A3050 RMK AO1 OJAM 271100Z 09004KT 5000 HZ NSC 20/M08 Q1018 NOSIG YSSY 271030Z 20011KT 9999 -SHRA FEW015 BKN020 22/18 Q1023 TEMPO 1030/1330 4000 SHRA BKN010 ZJSY 271000Z 26004MPS 9999 FEW019 BKN040 23/18 Q1017 NOSIG PABE 271053Z 26011KT 10SM BKN055 M04/M04 A3032 RMK AO2 SLP269 T10391044 $ PAAQ 271053Z AUTO 00000KT 1/2SM FZFG OVC003 M07/M07 A3010 RMK AO2 SLP197 I1001 T10671067 TSNO $ OJAQ 271000Z 36008KT 7000 NSC 26/M00 Q1013 NOSIG PABI 271053Z AUTO 22012KT 10SM BKN060 OVC075 M06/M11 A3000 RMK AO2 SLP188 T10611106 TSNO CPIR 271000Z AUTO 16003KT M15/M17 RMK AO1 T11491166 OIKK 271000Z 32008KT 9999 FEW035CB SCT040 SCT100 14/M05 Q1020 A3012 YSTW 271030Z AUTO 11008KT 9999 // NCD 21/12 Q1021 RF00.0/000.0 PABL 271056Z AUTO 02006KT 1SM -SN BR OVC009 M07/M08 A3001 RMK AO2 SLP163 P0000 T10721083 FZRANO PACD 271053Z 25014KT 5SM BR FEW005 BKN020 OVC027 02/02 A3047 RMK AO2 SLP321 T00220022 $ OIKO 270950Z 22004KT 5000 HZ FEW025TCU SCT030 23/15 Q1015 OIKQ 271000Z 21012KT 6000 FEW025 22/17 Q1015 PABR 271053Z 05015KT 7SM OVC100 M23/M26 A3019 RMK AO2 SLP227 T12281261 $ HTZA 271000Z 26005KT 9999 BKN020 FEW022CB 30/24 Q1009 NOSIG OIMB 271000Z 28010KT 9999 SCT035 FEW040CB 15/M09 Q1018 PABT 271053Z 20007KT 10SM BKN070 M08/M11 A2988 RMK AO2 SLP134 T10831111 $ OIMC 271000Z 29022KT 7000 BKN025 OVC080 10/04 Q1027 YTMO 271030Z AUTO 02011KT //// // ////// 30/16 Q1010 RMK OIMD 271000Z 09010KT 9999 FEW035 18/M03 Q1015 PACM 271056Z AUTO 24023G28KT 9SM FEW011 SCT024 BKN060 M03/M05 A3030 RMK AO2 PK WND 25029/0959 SNB22E55 SLP255 P0000 T10281050 FZRANO PABV 271056Z AUTO 04005KT 10SM OVC003 M05/M06 A3012 RMK AO2 SNE20 SLP209 P0000 T10501056 FZRANO $ YTNG 271100Z AUTO 11006KT 9999 // NCD 24/17 Q1016 YSWG 271030Z AUTO 06008KT 9999 // NCD 25/09 Q1021 RMK PADE 271053Z AUTO 32009KT -SN OVC025 M09/M11 A3012 RMK AO2 SLP200 P0000 T10891111 TSNO $ YSWH 271030Z AUTO 11005KT 9999 // NCD 26/06 Q1019 RMK PADG 262200Z 21007G20KT 1/2SM SN BLSN VV001 M15/M15 A2991 UDYZ 271030Z 00000KT 1400 1300 R09/1500N BR BKN005 M03/M04 Q1025 R09/0///70 NOSIG YTNK 262230Z AUTO 09008KT 9999 // NCD 27/05 Q1013 OINB 271000Z 03006KT 9999 SCT020 OVC090 10/07 Q1026 PADK 271056Z AUTO 04011KT 8SM BKN007 OVC014 03/M01 A3057 RMK AO1 P0001 PAEC 270146Z 00000KT 8SM BKN006 BKN020 M03/M06 A3011 RMK NOSPECI LAST PADL 271056Z AUTO VRB03KT 9SM -SN FEW003 OVC007 00/M01 A3023 RMK AO2 SLP243 P0000 T00001006 OIMM 271030Z 10010KT 9999 FEW040 12/04 Q1022 A3020 PACV 271053Z 00000KT 10SM CLR M07/M09 A3000 RMK AO2 SLP159 T10721089 PADM 271056Z AUTO 21005KT 10SM BKN006 OVC060 M04/M04 A3029 RMK AO2 SLP265 T10391044 FZRANO PAED 271048Z 00000KT 1SM R06/5000FT BR VV004 M05/M05 A3009 RMK AO2A VISNO RWY24 CHINO RWY24 $ OIMN 271000Z 05004KT 9999 SCT035 08/M01 Q1024 OINE 271000Z 26004KT 8000 SCT030TCU 12/06 Q1025 OING 271000Z 00000KT 8000 BKN015 OVC090 10/05 Q1028 PAEG 271053Z AUTO 31007KT 10SM SCT060 OVC075 M03/M12 A2989 RMK AO2 SLP135 T10281117 TSNO OIMQ 271000Z 16010KT 9999 FEW035 17/M07 Q1019 PADQ 271053Z 29015KT 10SM FEW038 FEW060 05/M01 A3018 RMK AO2 SLP219 T00501006 $ PACZ 271055Z AUTO 31011G18KT 290V360 10SM -SHSN OVC003 M05/M05 A3026 RMK AO2 SHSNB0957 SLP259 P0000 T10461045 PAEH 271055Z AUTO 32018KT 1/2SM -SHSN FZFG VV002 M01/M01 A3036 RMK AO2 SNB0855E1032SHSNB1032 SLP292 P0000 T10121011 PAEI 271058Z AUTO 24004KT 10SM -SN FEW013 BKN023 BKN029 BKN037 M03/M05 A3000 RMK AO2 CIG 023V029 BKN023 V SCT SLP169 P0000 T10311050 CHINO RWY14 $ NSFA 271000Z 11003KT 9999 FEW023 26/23 Q1012 PAFA 271053Z VRB04KT 6SM -SN BR BKN020 BKN030 OVC050 M03/M04 A3000 RMK AO2 SLP168 P0001 T10281044 VISNO NE $ OINK 271000Z 00000KT 7000 SCT030 BKN090 12/05 Q1025 PAFB 271058Z AUTO 25012G17KT 1 5/8SM R25R/3000FT -SN BR FEW004 OVC016 M03/M05 A3000 RMK AO2 VIS 1 3/8V1 7/8 UPB01E14UPB18E38SNB38 CIG 011V016 SLP167 P0000 $ PADU 271056Z AUTO 20003KT 10SM BKN038 03/01 A3056 RMK AO2 SLP347 T00330006 OINN 271000Z 07010KT 9999 FEW021CB SCT026 10/08 Q1026 PAEN 271053Z AUTO 00000KT 3SM BR OVC006 M04/M05 A3011 RMK AO2 SNB15E51 SLP200 P0000 I1000 T10441050 TSNO PAFE 271056Z 00000KT 10SM CLR M03/M09 A2994 RMK AO1 OINR 271000Z 36004KT 7000 BKN008 FEW020CB BKN090 09/08 Q1025 PAGA 271057Z AUTO 23008KT 10SM FEW034 BKN075 OVC090 M03/M04 A3005 RMK AO2 SNE10 SLP184 P0000 T10281044 FZRANO PAFM 271056Z AUTO 30004KT 10SM BKN055 M09/M11 A3002 RMK AO2 SNE47 SLP181 P0000 T10941106 FZRANO YTRA 271030Z AUTO 12004KT 9999 // NCD 34/M02 Q1012 RMK OINZ 271000Z 02008KT 9999 SCT020 BKN027 OVC080 11/06 Q1026 PAGH 271057Z AUTO 34003KT 6SM -SN BR SCT020 BKN029 BKN060 M08/M09 A3002 RMK AO2 SLP196 P0000 T10831094 FZRANO PAFR 271054Z AUTO 03004KT 1/2SM OVC001 M06/M06 A3009 RMK AO1 SYCJ 271000Z 31002KT 9999 BKN014 BKN036 23/23 Q1012 NOSIG PAFS 271040Z AUTO 25004KT 1 3/4SM -SN BR BKN013 OVC020 M03/M04 A3013 RMK AO2 P0000 FZRANO PAGK 271053Z AUTO 30005KT 10SM OVC003 M17/M19 A3005 RMK AO2 SLP225 T11721189 TSNO $ PAGL 262116Z AUTO 22007KT 10SM CLR M02/M07 A3021 RMK AO1 YTRE 271030Z AUTO 24001KT //// SCT020 21/19 Q1020 RMK PAHC 271056Z AUTO 24009G15KT 10SM OVC060 M02/M03 A3021 RMK AO2 SLP235 T10171033 FZRANO PNO $ PAGM 271056Z AUTO 29020KT 3SM -SN BR FEW008 SCT036 SCT044 M08/M10 A3025 RMK AO2 PK WND 30026/1034 SNB34 SLP250 P0000 T10831100 FZRANO PAGN 271056Z AUTO 00000KT 10SM CLR M03/M04 A2996 RMK AO2 SLP134 T10331039 FZRANO PAGS 271056Z AUTO 00000KT 10SM CLR M10/M11 A2998 RMK AO2 SLP153 T11001111 FZRANO SYEC 271000Z 19004KT 9999 SCT014 24/23 Q1012 RESH PAHL 271056Z AUTO 15004KT 10SM SCT031 BKN100 M09/M11 A3003 RMK AO2 SLP179 T10941111 FZRANO PAHN 271054Z AUTO 33008KT 10SM CLR M01/M10 A2998 RMK AO2 SLP153 T10061100 TSNO PAHO 271053Z AUTO 00000KT 10SM BKN018 02/M02 A3012 RMK AO2 SLP200 T00171022 TSNO PAIG 271056Z AUTO 20010KT 2SM -RA OVC003 A3021 RMK AO2 VIS 1 1/2V2 1/2 UPE53RAB53 SLPNO P0000 FZRANO $ PAGY 271053Z AUTO 04003KT 10SM CLR M05/M09 A3000 RMK AO2 SLP159 T10501094 TSNO PAHP 271056Z AUTO 28018KT 10SM CLR M04/M05 A3031 RMK AO2 SLP301 T10441050 FZRANO PAII 271036Z AUTO 25014G19KT 1SM BR OVC003 00/00 A3029 RMK AO2 UPE06RAB06E07 P0000 FZRANO NTAA 271030Z 08003KT 9999 FEW025 SCT280 27/23 Q1013 NOSIG OISA 271000Z 14006KT CAVOK 13/M14 Q1020 PAIK 271001Z AUTO 32006KT 8SM -SN SCT043 OVC055 M11/M12 A3005 RMK AO2 SLP220 P0000 T11061122 FZRANO PAIL 271053Z AUTO 25007KT 3SM BR OVC003 00/00 A3018 RMK AO2 SLP225 T00000000 TSNO PAJC 271056Z AUTO 24010KT 10SM SCT080 BKN110 04/M01 A3040 RMK AO2 SLP295 T00391011 PAIN 271056Z AUTO 00000KT 10SM OVC050 M06/M08 A2999 RMK AO1 OISF 271000Z 22006KT 9999 SCT040 18/M00 Q1015 PAHX 271056Z AUTO 26008KT 10SM FEW014 OVC065 M02/M04 A3019 RMK AO2 SLP225 T10171039 FZRANO YTTI 271030Z AUTO 26006KT //// // ////// 30/26 Q1008 RMK PAHY 270956Z AUTO 00000KT 10SM CLR A2986 RMK AO2 SLPNO FZRANO $ YTST 271100Z AUTO 00000KT 9999 // NCD 29/23 Q1008 OISL 271000Z 00000KT 9999 FEW040 20/10 Q1015 PAJN 271053Z 00000KT 10SM FEW095 M07/M08 A2996 RMK AO2 SLP145 I1000 T10671078 PAIW 270958Z AUTO 28006KT 10SM OVC065 M09/M13 A3013 RMK AO2 UPE0859 SLP202 T10941128 FZRANO DIAD 271000Z ///// 8000 NSC 29/22 Q1010 NOSIG PAKF 271036Z AUTO 00000KT 10SM OVC029 01/M01 A3051 RMK AO2 FZRANO $ CPRO 271000Z AUTO 19005KT M17/M19 RMK AO1 T11711188 PAKH 271056Z AUTO 31015KT FEW016 03/M01 A3031 RMK AO2 SLP266 T00331006 PWINO $ OISR 271000Z 00000KT 5000 DU NSC 22/12 Q1016 ZLLL 271000Z 03006MPS CAVOK 05/M16 Q1018 NOSIG OISS 271030Z 11004KT 8000 FEW040 17/M07 Q1018 A3007 OITK 271000Z 07002KT 2000 HZ NSC 01/M04 Q1022 OKBK 271100Z 35011KT CAVOK 24/M03 Q1017 NOSIG PAKK 271056Z AUTO 25011G16KT 10SM CLR A2998 RMK AO1 OITL 271030Z 20008KT 9999 FEW010 06/01 Q1021 OITM 271000Z 14004KT 7000 NSC 09/M02 Q1021 PAKN 271054Z 24014KT 9SM OVC005 01/01 A3021 RMK AO2 SLP231 T00060006 OISY 271000Z 02006KT 9999 FEW040 15/M10 Q1021 OITP 271000Z 05006KT 9999 BKN035 OVC080 07/00 Q1023 PALG 271056Z AUTO 00000KT 9SM BKN006 OVC060 M03/M03 A3025 RMK AO2 SLP249 T10281033 PWINO FZRANO $ PAKP 271056Z AUTO 05017KT 1 1/4SM BKN017 OVC023 M11/M16 A2975 RMK AO1 PALH 271053Z 04003KT 1/2SM FZFG VV003 M05/M06 A3011 RMK AO2 TWR VIS 1 SLP198 I1000 T10501056 PAJZ 271056Z AUTO 23006KT 8SM OVC060 M02/M02 A3024 RMK AO2 SLP247 T10171022 FZRANO $ YTWB 271030Z AUTO 09015KT 9999 // NCD 18/14 Q1020 RMK CPRY 271000Z AUTO 11002KT M14/M15 RMK AO1 T11351153 OITR 271030Z 10004KT 9000 NSC 07/M02 Q1021 DIAP 271030Z 20006KT 9999 FEW012 29/24 Q1010 NOSIG OITT 271030Z 10004KT 7000 NSC 08/M03 Q1022 A3019 PAKT 271053Z AUTO 30009KT 10SM CLR M01/M03 A2984 RMK AO2 SLP107 T10061028 TSNO $ PAMB 271056Z AUTO 26009KT 10SM 01/00 A3024 RMK AO2 SLP247 T00060000 FZRANO $ OITU 270950Z 00000KT CAVOK 03/M05 Q1022 PAMC 271053Z VRB03KT 10SM OVC070 M02/M06 A3013 RMK AO2 SNE0955 SLP210 P0000 T10221056 PAKU 270545Z 07022KT 2SM R06/P6000FT BLSN FEW006 SCT045 SCT090 BKN120 M25/M27 A3003 DIBK 271000Z 24010KT CAVOK 27/22 Q1014 NOSIG CPST 271000Z AUTO 21007KT M15/M17 RMK AO1 T11541168 50005 PAKV 271053Z AUTO 23009KT 5SM -SN BKN020 BKN033 OVC048 M02/M06 A3009 RMK AO2 UPB38E44SNE38B44 SLP193 P0000 T10221056 TSNO PAMD 271056Z AUTO 28003KT 10SM CLR 03/M01 A2999 RMK AO1 P0010 PAKW 271053Z AUTO 00000KT 10SM CLR M01/M06 A2987 RMK AO2 SLP115 T10111056 TSNO $ CPSV 271000Z AUTO 03001KT M17/M18 RMK AO1 T11701175 PALP 270145Z 07020G28KT 5/8SM -SN BLSN OVC011 M23/M26 A3004 OITZ 271000Z 28006KT 9000 FEW035 07/M03 Q1021 PAMH 271056Z AUTO 00000KT 9SM -SN FEW042 SCT050 OVC065 M04/M06 A3006 RMK AO2 SLP203 P0000 T10391061 FZRANO PANA 271056Z AUTO 27008KT 10SM BKN060 M04/M04 A3032 RMK AO2 SLP266 T10441044 FZRANO PAMK 271056Z AUTO 22012KT 7SM -SN SCT032 BKN041 OVC095 M05/M06 A3016 RMK AO2 SNB17 SLP219 P0000 T10501061 FZRANO $ PANC 271053Z 05003KT 1/2SM R07R/2600V4500FT FZFG VV002 M04/M05 A3010 RMK AO2 SLP196 I1000 T10441050 DIBU 271000Z 20005KT 8000 FEW012 FEW020CB 28/25 Q1010 NOSIG PAMO 271056Z AUTO 26009KT 10SM BKN013 M06/M06 A3024 RMK AO2 SLP255 T10561061 FZRANO PAMR 271053Z 35003KT 1SM BR OVC002 M05/M06 A3010 RMK AO2 SLP197 T10501056 $ PANI 271056Z AUTO 00000KT 10SM SCT043 OVC065 M02/M03 A3024 RMK AO1 UHBB 271030Z 21005MPS 9000 NSC M03/M07 Q1008 R18/090060 NOSIG RMK QFE741/0988 DIDK 271000Z ///// 999 SCT013 28/24 Q1011 NOSIG DIDL 271000Z ///// CAVOK 25/22 Q1013 NOSIG PANN 271053Z AUTO 27006KT 10SM OVC070 M02/M06 A3001 RMK AO2 SLP173 T10221061 TSNO PAMY 271056Z AUTO 26011KT 9SM -SN SCT044 OVC070 M03/M04 A3036 RMK AO2 SNB53 SLP284 P0000 T10331044 FZRANO PAOH 271056Z AUTO 00000KT 10SM CLR M08/M08 A2997 RMK AO2 SLP151 T10781083 FZRANO PANT 271053Z AUTO 34004KT 10SM CLR 01/M05 A2982 RMK AO2 SLP101 T00061050 TSNO PAPB 271053Z AUTO 32008KT 10SM BKN060 01/M03 A3055 RMK AO2 SLP335 T00061028 TSNO $ PAOM 271053Z 25007KT 2 1/2SM -SN BR BKN016 OVC033 M08/M09 A3010 RMK SNB32 SLP192 P0000 T10781089 VIA AUTODIAL PANV 271056Z AUTO 26006KT 10SM FEW019 OVC060 M03/M05 A3017 RMK AO1 PANW 271056Z AUTO 26007KT 9SM OVC002 M01/M01 A3020 RMK AO2 SLP245 T10061006 FZRANO UGKO 271030Z 10018KT 9999 SCT025 BKN046 12/01 Q1021 R07/09//70 NOSIG PAOO 271056Z AUTO 25012KT 10SM CLR M03/M05 A3035 RMK AO2 SLP288 T10331050 FZRANO PAPG 271056Z 16003KT 10SM CLR M06/M08 A2987 RMK AO1 PAPH 271056Z AUTO 24017KT 5SM -SN BR OVC004 00/00 A3040 RMK AO2 SLP297 P0000 T00000000 FZRANO PAOR 271053Z 03003KT 10SM BKN045 OVC055 M11/M14 A2996 RMK AO2 SLP188 T11111139 OIZB 271000Z 31004KT 9999 FEW040 BKN090 23/M04 Q1016 PAOT 271053Z 03004KT 9SM BKN060 OVC080 M12/M18 A3004 RMK AO2 SLP174 T11221178 $ DIGA 271000Z 24008KT 8000 SCT013 28/24 Q1012 NOSIG OIZC 271000Z 21012KT 5000 HZ NSC 26/14 Q1013 A2992 PAOU 271056Z AUTO 22012KT 5SM BR OVC005 02/02 A3045 RMK AO2 SLP312 T00220017 FZRANO PAPM 271056Z AUTO RMK AO2 SLPNO PWINO FZRANO $ CPXL 271000Z AUTO 17002KT M16/M19 RMK AO1 T11631186 PAPN 271056Z AUTO 25020KT 3SM UP BR OVC003 00/00 A3033 RMK AO2 PK WND 25028/1013 SLP272 P0000 T00000000 FZRANO PAPO 271056Z AUTO 26008KT 3SM -SN BKN023 OVC040 M17/M20 A3008 RMK AO2 SLP184 P0000 T11721200 FZRANO OIZH 271030Z 02008KT 9999 FEW035CB FEW040 BKN080 12/03 Q1018 A3009 OIZI 271030Z 25006KT 9999 BKN035TCU 21/11 Q1015 OIZJ 271000Z 27014KT 8000 NSC 24/19 Q1013 PAPT 270150Z 32003KT 25SM FEW080 M02/M02 A3012 RMK NOSPECI LAST PARC 261735Z AUTO 31005KT 1 3/4SM -SN BR OVC002 M18/M20 A2972 RMK AO2 VIS 1/2V5 P0000 FZRANO OIYY 271000Z 03004KT 9999 FEW040 17/M08 Q1020 PASA 271056Z AUTO 24020KT 10SM CLR M09/M13 A3024 RMK AO2 SLP241 T10941128 FZRANO $ PAQT 270953Z AUTO 06013KT 8SM M24/M27 A3010 RMK SLP195 T12441267 TSNO $ VIA AUTODIAL PASC 271053Z 06018KT 5SM BLSN BR OVC005 M24/M27 A3007 RMK AO2 SLP185 T12441272 PASD 271056Z AUTO 00000KT 10SM CLR 02/M01 A3047 RMK AO1 YWCA 271030Z AUTO 13007KT //// // ////// 30/05 Q1016 RMK PASH 271056Z 30011KT 10SM OVC055 M12/M17 A3014 RMK AO1 PNO PASI 271053Z 10004KT 10SM CLR M03/M04 A2993 RMK AO2 SLP135 I1001 T10281044 YWBL 271030Z AUTO 11005KT 9999 // NCD 23/12 Q1020 RMK OLBA 271000Z 30004KT 270V340 7000 BKN180 18/11 Q1017 PATA 271052Z AUTO 29003KT 10SM OVC090 M08/M09 A3004 RMK AO2 SLP178 T10831089 TSNO PNO $ PARS 271056Z AUTO 25005KT 10SM OVC007 M03/M04 A3025 RMK AO2 SLP248 T10281039 FZRANO $ PASK 271056Z AUTO 00000KT 2SM -SN BR BKN021 BKN035 M10/M11 A3004 RMK AO2 SLP171 P0000 T11001111 FZRANO $ PASL 271056Z AUTO 5SM FEW033 M01/M03 A3023 RMK AO1 PATC 271055Z AUTO 28012KT 10SM OVC060 M11/M14 A3010 RMK AO2 SNB0911E1007SHSNB1022E1048 SLP199 T11071138 PASM 271056Z AUTO 23009KT M1/4SM FZFG FEW025 BKN055 M06/M06 A3025 RMK AO2 SLP262 T10561061 PWINO FZRANO $ PATE 271015Z AUTO 27011KT 9SM -SN SCT022 OVC060 M09/M10 A3008 RMK AO2 P0000 FZRANO PASN 270953Z 28006KT 10SM CLR M02/M02 A3053 RMK AO2 SLP339 T10171022 $ PASO 271053Z AUTO VRB03KT 10SM CLR 02/M02 A3012 RMK AO2 SLP201 T00171017 TSNO YWBR 271100Z AUTO 18007KT //// // ////// 33/05 Q1012 PATG 270956Z AUTO 28015KT 10SM OVC060 01/M01 A3027 RMK AO2 SLP348 T00061006 FZRANO PARY 271056Z AUTO 25004KT 1 1/2SM -SN BR SCT014 BKN020 OVC032 M04/M06 A3003 RMK AO2 SLP200 P0000 T10441061 FZRANO PATK 271053Z AUTO 00000KT 10SM BKN016 OVC022 M07/M10 A3011 RMK AO2 SLP203 T10671100 TSNO $ PATL 271055Z AUTO VRB05KT 10SM BKN070 OVC120 M04/M04 A3013 RMK AO2 SLP221 T10371045 $ PASV 271055Z AUTO 24004KT 3SM -SN BR BKN006 M03/M03 A3008 RMK AO2 SNB0855 SLP212 P0000 T10281028 MUI 271030Z AUTO 13015KT //// // SCT027 BKN040 OVC046 18/13 PATO 271053Z AUTO 30006KT 10SM OVC006 M04/M06 A3010 RMK AO2 SLP192 T10441056 TSNO PASX 271056Z AUTO 00000KT 1 3/4SM OVC003 M04/M11 A3010 RMK AO1 UHHH 271030Z 07002MPS CAVOK M09/M16 Q1021 R23L/090060 NOSIG RMK QFE759/1012 PASY 271056Z 08020G27KT 10SM FEW022 BKN032 01/M02 A3050 RMK AO2 SLP329 WND DATA ESTMD T00101020 $ PATQ 271056Z AUTO 08016KT 3SM -SN BR BKN050 OVC060 M22/M24 A3013 RMK AO2 SLP209 P0000 T12221244 FZRANO TSNO PAVA 271056Z AUTO 27016KT 10SM FEW070 M04/M06 A3029 RMK AO2 SLP272 T10441061 FZRANO PAVC 271056Z AUTO 27012G17KT 10SM BKN020 OVC026 04/01 A3049 RMK AO2 SLP330 T00390011 NSTU 271050Z 10012KT 10SM SCT019 BKN038 BKN090 28/28 A2986 RMK SHRAB05E26 SLP112 T02840275 403150275 PAVD 271056Z 00000KT 10SM CLR M04/M12 A3003 RMK AO1 PAUN 271056Z AUTO 24014KT 10SM FEW060 BKN080 OVC090 M04/M07 A3015 RMK AO2 SLP215 T10441067 FZRANO $ DIKO 271000Z 24008KT 8000 NSC 29/20 Q1013 NOSIG UIAA 271030Z 30011MPS 9999 NSC M06/M19 Q1013 R29/490160 NOSIG RMK QFE701 UGSB 271030Z 35008KT 9999 SCT100 09/06 Q1022 R13/CLRD70 NOSIG PAUT 271055Z AUTO 00000KT 10SM OVC037 M02/M03 A3054 RMK AO2 T10211030 PAVL 271053Z AUTO 04004KT 6SM BR SCT019 SCT025 OVC039 M16/M17 A3006 RMK AO2 SLP179 T11561172 TSNO $ PAWD 271053Z AUTO 01018G23KT 10SM CLR 01/M04 A3005 RMK AO2 SLP174 T00061039 TSNO PAWG 271056Z AUTO 30006KT 10SM CLR M01/M07 A2990 RMK AO1 PAWI 271053Z AUTO 06018KT 1 1/4SM -SN BR OVC019 M22/M24 A3012 RMK AO2 SLP200 P0000 T12171239 TSNO $ UIBB 271030Z 33003MPS 9999 NSC M12/M22 Q1028 R30/420245 NOSIG RMK QFE727/0970 UGTB 271030Z 25005KT 190V320 CAVOK 07/M03 Q1027 R31L/CLRD70 NOSIG PAWM 270958Z AUTO 25016KT 9SM CLR M07/M08 A3007 RMK AO2 SNB07E43 SLP193 P0000 T10721083 FZRANO PAWN 271056Z AUTO 31003KT 7SM -SN BKN023 BKN055 M19/M21 A3007 RMK AO2 SNB39 SLP197 P0000 T11891211 FZRANO DIMN 271000Z 20004KT 8000 SCT013 25/22 Q1014 NOSIG YWHA 271030Z AUTO 20012KT 9999 // NCD 25/16 Q1014 RMK PAWS 271056Z AUTO 00000KT 3/4SM OVC003 M06/M06 A3018 RMK AO1 PAYA 271053Z 00000KT 10SM CLR M07/M09 A2996 RMK AO2 SLP145 T10721089 ZLXY 271000Z 11002MPS 060V160 8000 NSC 13/M02 Q1019 NOSIG DIOD 271000Z 08002KT 8000 NSC 29/20 Q1010 NOSIG YWGT 271030Z AUTO 00000KT 9999 // NCD 23/10 Q1020 RMK UHMA 270800Z 29009G12MPS 9999 DRSN NSC M15/M17 Q1023 RMK QFE764/1018 YVRD 271100Z AUTO 06004KT //// // ////// 30/22 Q1008 UHMD 270400Z 25007MPS 9999 BKN046 M07/M11 Q1019 RMK QFE763/1018 PAZK 271056Z AUTO 26006KT 10SM FEW004 M11/M12 A2990 RMK AO1 UHMM 271000Z 00000MPS 9999 BKN028 M19/M24 Q1020 RMK QFE750 YWIS 271030Z AUTO 10007KT //// // ////// 26/20 Q1013 RMK OMAA 271000Z 30008KT 270V350 9999 FEW035 22/13 Q1016 NOSIG OMAD 271000Z 29008KT 260V330 9999 FEW026 21/13 Q1016 NOSIG ZMUB 271100Z 33002MPS CAVOK M07/M12 Q1018 NOSIG RMK QFE655.8 65 OMAL 271000Z 32007KT 270V360 9999 FEW025 21/13 Q1017 NOSIG YWLG 271030Z AUTO 07013KT 9999 // NCD 27/12 Q1017 RMK TQPF 262100Z 07011KT 9999 FEW019 27/20 Q1017 YWLM 271030Z AUTO 15009KT 9999 -SHRA BKN025 BKN078 21/19 Q1021 DITB 271000Z 00000KT CAVOK 23/22 Q1012 RERA UHPP 271000Z 15007MPS 0600 0500SE R16/0600 +SHSN BLSN VV005 M02/M02 Q1015 R16R/492032 NOSIG RMK QFE758/1011 EBBE 271025Z 20019KT 9999 BKN030 BKN038 11/04 Q0999 BLU BLU BECMG WHT DISP 271000Z 28004KT 6000 TSRA FEW005 SCT011CB 23/23 Q1011 NOSIG OMDB 271000Z 27010KT 240V320 CAVOK 23/11 Q1016 NOSIG DISS 271000Z ///// 9999 -TS SCT013 FEW020CB 25/24 Q1011 NOSIG EBBL 271053Z 21015G28KT 9999 FEW035 BKN045 12/04 Q0999 BLU BLU TEMPO WHT EBAW 271050Z 20016G28KT 170V230 9999 SCT022 BKN026 11/05 Q0997 NOSIG UIII 271030Z 32004MPS CAVOK M07/M14 Q1026 R30/910350 NOSIG RMK QFE724/0966 EBCI 271050Z 20021KT 9999 FEW018 BKN026 10/05 Q0999 NOSIG EBBR 271050Z 19019KT 9999 FEW032 BKN045 11/05 Q0997 TEMPO 20020G32KT CTCK 271000Z AUTO 22009G17KT 02/M04 RMK AO1 SOG 11 3005 PK WND 21020/0935 SLP154 T00151038 VAAH 271030Z 09003KT 8000 NSC 36/04 Q1011 NOSIG YWOL 271030Z AUTO 20006KT 9999 // SCT040 BKN048 BKN054 22/18 VABB 271030Z 29009KT 3000 FU NSC 33/18 Q1009 NOSIG KA08 271035Z AUTO 11004KT 10SM SCT100 10/01 A3009 RMK AO2 T00970006 OMDW 271000Z 29006KT 250V330 9999 FEW035 21/13 Q1017 NOSIG EBCV 271025Z AUTO 19021KT 9999 OVC038/// 10/05 Q0998 BLU UHSS 271030Z 08001MPS 9999 NSC M16/M20 Q1026 R19/810270 NOSIG RMK QFE768/1024 OMFJ 271000Z 06010KT 030V100 7000 NSC 23/14 Q1015 RMK A2998 VAAU 271000Z 13003KT 6000 NSC 35/13 Q1013 NOSIG EBDT 271046Z 19016G29KT 9999 BKN033 11/04 Q0998 BLU BLU BECMG WHT VABO 271000Z 16003KT 6000 NSC 37/07 Q1010 NOSIG VABP 271000Z 07004KT 6000 NSC 32/04 Q1015 NOSIG VABV 270500Z 31003KT 3000 FU NSC 29/07 Q1014 EBFN 271025Z 17015KT 9999 FEW014 BKN042 09/07 Q0994 RERA BLU BLU TEMPO WHT KA39 271055Z AUTO 14009KT 10SM SCT110 09/02 A2999 RMK AO2 EBFS 271025Z 19016KT 9999 SCT021 BKN025 09/05 Q1000 WHT BLU TEMPO WHT DIYO 271000Z 28006KT 9999 SCT013 OVC100 27/22 Q1012 NOSIG YWUD 271100Z AUTO 20006KT //// // ////// 23/03 Q1016 YWTN 271030Z AUTO 06006KT //// // ////// 33/14 Q1009 RMK UHWW 271030Z 07001MPS 9999 SCT030 M04/M07 Q1025 R25L/0///70 NOSIG RMK QFE767 TRPG 271000Z 11015KT 9999 BKN017 24/21 Q1017 VAID 270900Z 02003KT 6000 NSC 33/07 Q1016 NOSIG EBLB 271041Z AUTO 21016G28KT 9999 -RA OVC014/// 06/04 Q1001 GRN EBLG 271050Z 19018KT 9999 SCT025 BKN030 10/04 Q0999 TEMPO 20020G33KT YWWL 271030Z AUTO 10010KT //// // ////// 26/09 Q1020 RMK VAJB 270900Z 36004KT 6000 NSC 29/03 Q1016 VAJJ 271030Z 30011KT 260V340 5000 FU SKC 35/28 Q1008 NOSIG UKBB 271030Z 26004MPS 9999 FEW024 BKN031 07/02 Q1014 R88/290050 NOSIG CTNK 271000Z AUTO 26003KT M01/M03 RMK AO1 SOG 38 3025 SLP146 T10141030 50011 UKDD 271030Z 25006MPS 210V270 9999 BKN009 OVC050 04/02 Q1017 R26/220356 NOSIG UKDE 271030Z 20005MPS 9999 BKN007 04/02 Q1018 R20/290357 NOSIG YWYY 271030Z AUTO 11008KT 9999 // NCD 17/15 Q1025 RMK TTCP 271000Z 00000KT 9999 VCSH FEW016 24/20 Q1013 NOSIG UIUU 271030Z 28003MPS 9999 FEW044CB M06/M16 Q1022 R26/851095 NOSIG RMK QFE722/0963 EBOS 271050Z 17014KT 9999 -RA FEW012 BKN034 08/06 Q0994 TEMPO 4000 RA BKN012 TEMPO FM1200 19025G40KT UKDR 271030Z 22007MPS 9999 OVC018 06/03 Q1017 R18/19//63 NOSIG OMRK 271100Z 30007KT 260V330 9999 FEW040 24/14 Q1016 A3000 VANP 271030Z 35007KT 5000 HZ NSC 36/08 Q1012 NOSIG NVSG 262100Z 07008KT 9999 SCT022 BKN300 29/26 Q1010 RMK RESH OMSJ 271000Z 30010KT 9999 SCT035 22/12 Q1016 EDAC 261550Z 22011KT CAVOK 11/05 Q1011 NVSS 262100Z 08009KT 9999 SCT020 FEW025CB BKN110 28/25 Q1010 RMK RESH EDAH 271050Z 20009KT 170V230 CAVOK 09/04 Q1004 UKHH 271030Z 26006MPS 9999 BKN009 OVC020 02/01 Q1014 R25/290064 NOSIG PFCL 271056Z AUTO 25010KT OVC003 00/M01 A3025 RMK AO2 SLPNO T00001006 PWINO FZRANO $ YYNG 271030Z AUTO 10012KT //// // ////// 22/11 Q1022 RMK ULAA 271030Z 32005MPS 280V340 2500 -SHSN OVC007CB M05/M05 Q0994 R26/590537 TEMPO 0600 +SHSN BKN003CB RMK QFE744/0992 VARK 271000Z 00000KT 6000 NSC 27/05 Q1011 EDDB 271050Z 22014KT 9999 BKN040 12/03 Q1006 TEMPO 20015G25KT EDDC 271050Z 22011KT 9999 FEW037 11/02 Q1007 NOSIG EDDE 271050Z 21017KT 190V250 9999 SCT033 12/03 Q1005 TEMPO 21015G25KT EDDF 271050Z 18013KT 150V220 9999 FEW038 13/03 Q1005 BECMG 20015G25KT EDDG 271050Z 19013KT 160V230 9999 SCT035 BKN046 12/05 Q1000 NOSIG EDDH 271050Z 18012KT 9999 BKN045 11/05 Q1000 TEMPO 20015G25KT KC07 271054Z AUTO 21010G18KT 180V240 10SM BKN034 BKN040 OVC048 M11/M13 A2962 RMK AO2 KAAA 271035Z AUTO 00000KT 10SM BKN038 M03/M04 A3013 RMK AO2 T10311037 KC09 271055Z AUTO 00000KT 10SM SCT075 BKN085 M01/M04 A3011 RMK AO2 T10121036 PFEL 270958Z AUTO 21008KT 180V250 10SM SCT011 M06/M08 A3007 RMK AO2 SNE27 SLP186 P0000 T10611083 FZRANO NVVV 271000Z 09005KT 9999 SCT020 BKN110 25/25 Q1011 RMK RESH EDDK 271050Z 20014KT 9999 BKN038 12/04 Q1002 NOSIG EDDL 271050Z 19017KT 9999 SCT034 BKN040 12/05 Q1000 NOSIG EDDM 271050Z VRB02KT CAVOK 08/M00 Q1009 NOSIG KAAF 271053Z AUTO 12006KT 10SM CLR 17/15 A3018 RMK AO2 SLP219 T01720150 $ EDDN 271050Z 15006KT 120V200 9999 FEW040 11/M00 Q1008 NOSIG VCBI 271010Z 16004KT 120V190 9000 FEW014 SCT016 FEW018CB 29/22 Q1008 NOSIG RMK NE/E/SE EDDP 271050Z 21016KT 9999 BKN036 13/04 Q1006 TEMPO 19015G25KT UKKK 271030Z 27005MPS 9999 BKN034 07/02 Q1014 R26/190055 NOSIG EDDR 271050Z 21017KT 9999 FEW028 BKN042 10/04 Q1005 BECMG 21015G25KT VAUD 271000Z 00000KT 6000 NSC 33/05 Q1014 NOSIG EDDS 271050Z 19006KT 140V240 CAVOK 12/03 Q1007 NOSIG UKKM 271030Z 25006MPS 9999 BKN026 07/01 Q1014 R33/19//55 NOSIG EDDT 271050Z 21011KT 160V240 9999 SCT040 SCT300 13/03 Q1005 NOSIG ZPPP 271000Z 22005MPS 6000 SCT016 09/06 Q1019 NOSIG KABE 271051Z 00000KT 10SM CLR M03/M08 A3036 RMK AO2 SLP284 T10331083 EDDV 271050Z 18013KT 150V210 9999 BKN042 12/04 Q1002 NOSIG EDFE 271050Z 20009KT 9999 FEW043 13/03 Q1005 EDDW 271050Z 19014KT 9999 BKN043 12/06 Q1000 TEMPO 20015G25KT KAAO 271054Z AUTO 12003KT 10SM CLR M02/M03 A2995 RMK AO2 SLP149 T10171028 $ UKLI 271030Z VRB02MPS CAVOK 14/M03 Q1016 R28/090070 NOSIG EDFH 271050Z 21017KT 9999 BKN030 09/03 Q1003 KABI 271052Z 14007KT 10SM CLR 10/10 A2990 RMK AO2 SLP111 T01000100 UKLL 271030Z 25004MPS 220V280 CAVOK 11/M02 Q1015 R31/CLRD// NOSIG KAAT 271055Z AUTO 00000KT 6SM BR SCT003 BKN030 OVC070 M09/M11 A2972 RMK AO2 SLP088 T10891106 TSNO $ KACB 271055Z AUTO 00000KT 10SM BKN035 M04/M08 A3010 RMK AO2 T10411083 KC29 271055Z AUTO 00000KT 10SM CLR M04/M05 A3007 RMK AO1 T10431051 UKLN 271030Z VRB02MPS CAVOK 13/M05 Q1016 R15/09//70 NOSIG EDFM 271050Z 21007KT 160V250 9999 BKN045 14/03 Q1006 KC35 271055Z AUTO 00000KT 10SM CLR M06/M06 A3005 RMK AO2 T10591062 UKLR 271030Z 26005MPS 9999 BKN028 06/00 Q1015 NOSIG KABQ 271052Z 09003KT 10SM FEW060 00/M05 A2992 RMK AO2 SLP129 T00001050 KABR 271053Z AUTO 03006KT 10SM OVC110 M06/M08 A2985 RMK AO2 SLP124 T10561078 KACJ 271035Z AUTO 00000KT 10SM CLR 09/M01 A3025 RMK AO2 UKLU 271030Z 15003MPS 100V230 9999 SKC 09/M05 Q1018 R10/090070 NOSIG KACK 271053Z 26009KT 10SM CLR 02/M05 A3035 RMK AO2 SLP276 T00171050 KADC 271053Z AUTO 09004KT 10SM UP BKN032 OVC070 M09/M12 A2988 RMK AO2 KADF 271056Z 00000KT 10SM OVC007 09/09 A3004 RMK AO2 RAE07 CIG 004V008 SLP178 P0001 T00940089 KADG 271053Z AUTO 24005KT 10SM CLR M01/M04 A3017 RMK AO2 SLP226 T10111044 KABY 271053Z AUTO 11004KT 10SM CLR 06/01 A3025 RMK AO2 SLP242 T00610011 KACP 271035Z AUTO 00000KT 10SM BKN012 OVC018 17/16 A2998 RMK AO2 T01680158 KACQ 271054Z AUTO 18009KT 10SM CLR M06/M08 A2997 RMK AO2 KADH 271055Z AUTO 13007KT 10SM SCT007 OVC012 10/04 A2994 RMK AO2 EDHI 271050Z 19012KT 150V220 9999 FEW040 BKN046 11/05 Q1000 EDGS 271050Z 21014KT 160V230 9999 BKN022 08/03 Q1003 KACT 271051Z AUTO 14007KT 9SM SCT009 OVC026 17/16 A2992 RMK AO2 SLP126 T01670161 $ EDHK 271050Z 19010KT 150V220 9999 SCT031 BKN042 10/06 Q0999 EDHL 271050Z 20010KT 9999 BKN040 11/05 Q1001 KACV 271053Z AUTO 00000KT 10SM -RA FEW021 OVC030 03/03 A2992 RMK AO2 RAB12 SLP140 P0004 T00330028 KADM 271035Z AUTO 12005KT 10SM OVC015 12/07 A2994 RMK AO2 T01150067 UKOH 271030Z 23006MPS 200V280 9999 BKN009 OVC018 06/04 Q1019 R03/CLRD65 NOSIG KAEG 271055Z AUTO 19005KT 10SM OVC050 M01/M05 A2991 RMK AO2 T10151051 KACY 271054Z 20004KT 10SM CLR 00/M04 A3040 RMK AO2 SLP295 T00001044 KAEJ 271055Z AUTO 12003KT 10SM BKN070 M05/M17 A2974 RMK AO2 T10471167 KADS 271035Z AUTO 15004KT 10SM OVC010 16/15 A2994 RMK AO2 T01600145 DNAA 270900Z 20008KT 8000 NSC 29/19 Q1013 NOSIG EDJA 271050Z 19005KT 120V230 CAVOK 11/M02 Q1008 KAEL 271053Z AUTO 17004KT 10SM CLR M08/M08 A2997 RMK AO2 KADU 271055Z AUTO 00000KT 10SM CLR M07/M09 A2998 RMK AO2 UKON 271000Z 21004MPS 9999 OVC006 05/03 Q1019 NOSIG UKOO 271030Z 19003MPS 9999 BKN010 06/03 Q1019 R16/090060 NOSIG KC62 271055Z AUTO 21005KT 10SM CLR 00/M05 A3016 RMK AO2 T10051048 KADW 271058Z AUTO 17004KT 10SM SCT100 01/00 A3036 RMK AO2 SLP290 T00141001 $ CWAE 270100Z 05005KT 15SM FEW075 M00/M14 A2973 RMK AC1 LAST OBS/NEXT 271500UTC WND ESTD SLP090 KAFF 271058Z AUTO 35007KT 10SM CLR M05/M19 A2966 RMK AO2 SLP051 T10471186 CWAF 271000Z AUTO 20030G36KT M02/M04 RMK AO1 PK WND 20038/0902 T10241035 KAFJ 271055Z AUTO 00000KT 10SM SCT070 OVC090 01/M08 A3029 RMK AO1 CWBA 271000Z AUTO 27003KT M03/M06 RMK AO1 SOG 35 T10311064 50012 CWAJ 271000Z AUTO RMK AO1 KAFK 271055Z AUTO 14003KT 10SM CLR M02/M08 A2998 RMK AO2 T10221082 KAGC 271053Z 19008KT 10SM BKN070 OVC100 02/M11 A3025 RMK AO2 SLP259 T00171111 TTPP 271000Z 00000KT 9999 FEW016 22/21 Q1013 NOSIG KAFN 271052Z AUTO 00000KT 10SM CLR M06/M08 A3021 RMK AO2 SLP249 T10561083 CWBE 271000Z AUTO 28014KT M05/M08 RMK AO1 PK WND 28022/0905 SLP189 T10481075 53042 KAEX 271053Z 00000KT 10SM BKN014 OVC019 16/14 A2999 RMK AO2 SLP160 T01610139 KAFO 271055Z AUTO 34005KT 1 1/2SM -SN BKN012 OVC017 M08/M09 A2956 RMK AO2 KAFP 271050Z AUTO 00000KT 10SM CLR M01/M03 A3036 RMK AO2 T10131030 KC75 271035Z AUTO 15007KT 10SM CLR M01/M03 A3011 RMK AO2 T10091027 CWAQ 271000Z AUTO 32003KT M16/M18 RMK AO1 SOG 00 0000 SLP124 T11591180 CWAR 271000Z AUTO 00/M02 RMK AO1 SOG 00 3042 SLP038 T00001017 PFKT 271002Z AUTO 32005KT 6SM -SN BR FEW010 BKN041 OVC055 M08/M10 A3010 RMK AO2 P0000 FZRANO CWCA 271000Z 28014G25KT 260V320 15SM SCT020 BKN070 M08/M14 A2933 RMK SC4AC2 PRESRR SLP934 CWBK 271000Z AUTO 30020KT M03/M08 RMK AO1 SOG 01 1046 PK WND 30029/0909 SLP178 T10331084 PFKW 271056Z AUTO 28008KT 10SM BKN060 BKN080 M03/M03 A3030 RMK AO2 SLP262 T10281033 FZRANO CWAV 271000Z AUTO 24002KT M27/M30 RMK AO1 SOG 17 8022 SLP118 T12681296 50002 KAFW 271053Z 00000KT 9SM OVC008 16/13 A2991 RMK AO2 SLP125 T01560133 CWCF 271000Z AUTO 31003KT M17/M19 RMK AO1 2PAST HR SOG 04 3011 SLP118 P0001 T11721193 50002 CWBO 271000Z AUTO 19003KT M16/M18 RMK AO1 8013 SLP122 T11601181 50002 CWCI 271000Z AUTO 32013G18KT M05/M08 RMK AO1 PK WND 33018/0923 SLP169 T10471082 51018 KAIA 271053Z AUTO 16012KT 10SM CLR M09/M13 A2971 RMK AO2 SLP103 T10941133 KAGS 271053Z AUTO 29003KT 10SM CLR 02/01 A3028 RMK AO2 SLP255 T00220006 CWDA 271000Z AUTO 30024G31KT M05/M07 RMK AO1 PRESRR PK WND 31031/0943 SLP970 T10501069 53042 CWCJ 271000Z AUTO 05003KT M20/M22 RMK AO1 SOG 42 1019 SLP172 T11981216 CWBS 271000Z AUTO 20017KT M00/M04 RMK AO1 PK WND 21023/0904 T10011041 EDMA 271050Z 16004KT 120V250 CAVOK 12/M00 Q1009 KAIB 271055Z AUTO 11004KT 10SM OVC040 02/M06 A2981 RMK AO2 CWBT 271000Z AUTO 27007KT M09/M14 RMK AO1 SLP092 T10901142 51029 CWDC 271000Z AUTO 05004KT M34/M37 RMK AO1 SOG 48 3006 SLP162 T13381373 CWBU 271000Z AUTO 29006KT M19/M23 RMK AO1 SOG 17 8002 SLP141 T11931228 CWBV 271000Z AUTO 30013KT M03/ RMK AO1 PK WND 30023/0914 SLP191 T1026 51049 KAHN 271051Z AUTO 06003KT 10SM CLR 05/M02 A3028 RMK AO2 SLP256 T00501022 EDLN 271050Z 19010KT 130V240 9999 BKN037 12/06 Q1000 CWCO 271000Z AUTO 26006KT 03/M04 RMK AO1 PK WND 27019/0918 SLP170 T00251038 53021 KAIG 271035Z AUTO 16003KT 10SM OVC037 M07/M12 A3001 RMK AO2 T10741121 CWBY 271000Z AUTO 28007KT M08/M13 RMK AO1 SOG 35 1024 PK WND 29017/0917 SLP093 T10801134 EDLP 271050Z 19011KT 9999 BKN036 12/03 Q1002 KAHQ 271055Z AUTO 14003KT 10SM CLR M05/M06 A2996 RMK AO2 T10501060 CWBZ 271000Z AUTO 23016G23KT 03/M05 RMK AO1 PK WND 23025/0900 SLP161 T00291049 53003 UMBB 271030Z 24004G07MPS 9000 OVC031 07/02 Q1013 R29/CLRD// NOSIG KD07 271056Z AUTO 11007KT M05/M06 A2972 RMK AO1 SLP093 T10501056 OOMS 270950Z 01008KT 340V060 9999 FEW025 24/16 Q1015 NOSIG CWDJ 271000Z AUTO 30007KT M16/M19 RMK AO1 SOG 01 0004 SLP142 T11631193 KAIK 271055Z AUTO 10003KT 10SM CLR 01/00 A3031 RMK AO2 KBAB 271058Z AUTO 15007KT 10SM OVC080 06/03 A2987 RMK AO2 SLP118 T00590033 $ CWCT 271000Z AUTO 20008KT M20/M22 RMK AO1 SLP129 T12011215 56015 CWDK 271000Z AUTO 15006KT M16/M18 RMK AO1 SOG 01 8018 SLP121 T11611178 50002 CWEB 271000Z AUTO 35005KT 01/M01 RMK AO1 SLP073 T00111008 56004 KBAC 271055Z AUTO 00000KT 10SM BKN015 BKN023 M07/M07 A2989 RMK AO2 KBAD 271045Z AUTO 08004KT 10SM BKN004 OVC014 14/14 A3000 RMK AO2 RAB20E45 SLP161 EDLV 271050Z 19014G25KT 160V220 9999 BKN038 12/05 Q0999 PFNO 270958Z AUTO 00000KT 6SM -SN BR OVC070 M11/M12 A3004 RMK AO2 SLP176 P0000 T11111117 FZRANO CWEE 271000Z AUTO M06/M06 RMK AO1 SLP036 T10551058 55005 KBAF 271053Z AUTO 00000KT 10SM CLR M06/M08 A3029 RMK AO2 SLP264 T10611078 EDLW 271050Z 20014KT 9999 BKN037 11/03 Q1000 KAIO 271055Z AUTO 00000KT 10SM CLR M06/M06 A2999 RMK AO2 EDMO 271050Z VRB03KT CAVOK 10/M02 Q1009 CWEF 271000Z AUTO 29031G37KT M04/M09 RMK AO1 PK WND 28040/0934 SLP120 T10361086 53043 CWDO 271000Z AUTO 25024G37KT M03/M07 RMK AO1 SOG 49 1036 PK WND 25040/0930 SLP983 T10281066 KAJG 271055Z AUTO 16007KT 10SM OVC044 07/00 A3016 RMK AO2 T00670000 CWEH 271000Z AUTO 03002KT M19/M20 RMK AO1 SOG 29 8010 SLP113 T11901195 CWDQ 271000Z AUTO 18009G16KT M06/M08 RMK AO1 SOG 53 5003 SLP112 T10571082 EEEI 271050Z 17006KT 140V200 9999 SCT013 OVC015 M00/M03 Q1006 R24/190072 NOSIG KBAK 270245Z 15004KT 10SM OVC110 05/M07 A3015 RMK LAST KAIT 271053Z AUTO 00000KT 10SM SCT030 BKN040 OVC075 M07/M12 A2990 RMK AO2 KBBB 271054Z AUTO 12004KT 10SM CLR M04/M08 A2989 RMK AO2 CWDT 271000Z AUTO 10002KT M09/M11 RMK AO1 SLP060 T10931108 56009 CWEK 271000Z AUTO 34014KT 02/M05 RMK AO1 PK WND 34019/0900 SLP089 T00241051 56011 CWEL 271000Z AUTO 29006KT 03/M04 RMK AO1 SLP074 T00321037 57003 NWWW 271030Z AUTO 12002KT 9999 FEW050/// SCT096/// ///CB 25/20 Q1014 BECMG SCT055 CWDV 271000Z AUTO 21002KT M22/M24 RMK AO1 SOG 33 1009 SLP157 T12191241 CWFD 271000Z AUTO 01028G39KT ////SM //// OVC002 M26/M29 A2890 KBAN 271052Z AUTO 24009G18KT 3SM -SN M04/M09 A2961 RMK AO2 SLP033 P0000 T10391094 $ KAJO 271056Z AUTO 08004KT BKN048 OVC060 07/06 A2994 RMK AO2 SLP154 T00670056 PWINO $ KBBF 271055Z AUTO 19023KT 1 1/2SM HZ BKN014 BKN019 OVC033 23/21 A2986 RMK A01 ULLI 271030Z 29002MPS 9999 SCT026 M01/M05 Q1006 R28L/510350 R28R/190055 NOSIG CWFF 271000Z AUTO 28005KT M21/M24 RMK AO1 2PAST HR SOG 02 0003 SLP149 P0001 T12131239 50002 KBBG 271055Z AUTO 00000KT 10SM CLR 03/M01 A3004 RMK AO2 KD25 271035Z AUTO 00000KT 10SM OVC055 M15/M16 A2996 RMK AO2 T11481157 CWEP 271000Z AUTO 28023G30KT M03/M09 RMK AO1 SOG 15 1041 PK WND 29031/0947 SLP169 T10331087 KAKH 271054Z AUTO 00000KT 10SM CLR 06/M04 A3032 RMK AO2 SLP270 T00561039 KAIZ 271056Z AUTO 00000KT 2 1/2SM BR CLR M02/M02 A3006 RMK AO2 VIS 3/4V5 SLP966 T10171022 FZRANO CWDZ 271000Z AUTO 15006KT M17/M19 RMK AO1 T11721192 CWEQ 271000Z AUTO 23001KT M16/M18 RMK AO1 SOG 03 1008 SLP137 T11571179 KAJR 271035Z AUTO 05008KT 10SM CLR 06/M06 A3028 RMK AO2 T00601059 CWER 271000Z AUTO 27007KT RMK AO1 CWFJ 271000Z AUTO 17001KT M15/M17 RMK AO1 3PAST HR M P0001 T11521171 50007 KALB 271051Z 16009KT 10SM FEW080 M02/M08 A3024 RMK AO2 SLP245 T10171083 KBCB 271055Z AUTO 00000KT 10SM BKN110 00/M05 A3036 RMK AO2 T00001048 CWGB 271000Z AUTO 23011KT 03/M04 RMK AO1 SLP071 T00261037 56003 CWEU 271000Z 36003KT 340V050 15SM SCT100 M34/M39 A2980 RMK AC3 SLP097 CWGD 271000Z AUTO 21012KT 02/M02 RMK AO1 PK WND 22020/0904 SLP178 T00151020 53011 KBCE 271053Z AUTO 14008G17KT 10SM OVC025 M03/M07 A2972 RMK AO2 SLP032 T10281067 TSNO CWEW 271000Z AUTO 22011KT 01/M05 RMK AO1 SOG 13 5002 PK WND 21018/0915 SLP160 T00051054 KAKO 271053Z AUTO 24007KT 10SM CLR M08/M12 A2972 RMK AO2 SLP090 T10781122 KBAX 271057Z AUTO 24004KT 10SM BKN050 00/M04 A3010 RMK AO2 T00001037 EDOP 271050Z 18011KT CAVOK 11/05 Q1003 EDNY 271050Z VRB02KT CAVOK 12/04 Q1009 KBAZ 271051Z AUTO 18003KT 5SM BR OVC022 19/18 A2991 RMK AO2 SLP123 T01940178 KAJZ 271055Z AUTO 34005KT 10SM OVC060 04/M09 A2976 RMK AO2 T00381088 KAKQ 271054Z AUTO 00000KT 10SM CLR M01/M01 A3040 RMK AO2 SLP295 I1000 T10061011 CWFQ 271000Z AUTO 18009G16KT M02/M07 RMK AO1 SOG 01 5001 PK WND 20017/0943 SLP169 T10191067 CWEZ 271000Z AUTO 09006KT 03/M05 RMK AO1 SLP080 T00331049 53001 KALI 271053Z AUTO 18010KT 9SM OVC008 21/19 A2987 RMK AO2 CIG 007V012 SLP112 T02060194 KAKR 271054Z AUTO 20007KT 10SM SCT080 OVC100 02/M08 A3022 RMK AO2 SLP240 T00221078 TSNO KAMA 271053Z AUTO 22008KT 10SM CLR M01/M06 A2987 RMK AO2 SLP104 T10111056 ULMM 271030Z 27002MPS 240V310 9000 -SHSN BKN007 BKN013CB M04/M06 Q0995 R31/450534 NOSIG RMK OBST OBSC QFE739 KD39 271051Z AUTO 00000KT 10SM CLR M08/M09 A2989 RMK AO2 T10771086 KBCK 271055Z AUTO 00000KT 7SM CLR M11/M11 A3002 RMK AO2 T11091114 KALK 271056Z AUTO 24007KT 10SM CLR 07/M03 A3001 RMK AO2 SLP102 T00721028 CWGL 271000Z AUTO 22012KT M00/M03 RMK AO1 SLP168 T10041028 53021 KALM 271055Z AUTO 22007KT 10SM CLR 07/M06 A2995 RMK AO2 CWGM 271000Z AUTO 00000KT M16/M18 RMK AO1 7PAST HR M P0003 T11631175 50007 KBDE 271053Z AUTO 19005KT 10SM CLR M16/M18 A2987 RMK AO2 SLP142 T11561178 KBBW 271053Z AUTO 00000KT 10SM CLR M11/M13 A2986 RMK AO2 SLP141 T11111133 KALN 271035Z AUTO 09003KT 10SM OVC075 04/02 A3010 RMK AO2 T00370015 KALO 271054Z AUTO 14003KT 7SM CLR M05/M07 A3004 RMK AO2 SLP181 I1000 T10501067 $ KAMG 271053Z AUTO 09004KT 10SM CLR 08/05 A3025 RMK AO2 SLP243 T00780050 KBDG 271055Z AUTO 15007KT 10SM SCT050 OVC060 00/M04 A2986 RMK AO1 T00001043 KBDH 271055Z AUTO 00000KT 10SM BKN090 M02/M03 A2989 RMK AO2 NZAA 271030Z AUTO 08004KT 9999 NCD 19/17 Q1030 NOSIG OOSA 270950Z 13012KT 7000 NSC 29/19 Q1013 NOSIG CWHI 270900Z AUTO 27002KT M17/M19 RMK AO1 T11681189 CWGR 271000Z AUTO 28019G24KT M05/M10 RMK AO1 PK WND 28027/0902 SLP146 T10481099 51044 ZSAM 271000Z 09006MPS CAVOK 16/03 Q1023 NOSIG KALS 271052Z AUTO 16011KT 10SM CLR M05/M08 A2981 RMK AO2 SLP101 T10501083 $ KBEA 271055Z AUTO 17006KT 10SM SCT010 BKN015 OVC022 21/21 A2990 RMK AO2 T02100210 KBCT 270347Z 09012G19KT 10SM BKN030 OVC036 24/18 A3018 RMK LAST KANB 271053Z AUTO 10004KT 10SM CLR 11/M03 A3019 RMK AO2 SLP223 T01111028 KD50 271035Z AUTO 33007KT 10SM OVC032 M13/M17 A2984 RMK AO2 CWGT 271000Z AUTO 30011KT 04/M04 RMK AO1 SLP072 T00411035 56005 KBDL 271051Z 19008KT 10SM CLR M02/M08 A3031 RMK AO2 SLP265 T10171078 CWHL 271000Z AUTO 04005KT 01/M01 RMK AO1 SLP088 T00091013 56012 KAND 271056Z AUTO 03006KT 10SM CLR 06/M04 A3031 RMK AO2 SLP262 T00561039 KBED 271056Z AUTO 22008KT 10SM CLR M02/M09 A3027 RMK AO2 SLP268 T10221089 EDQM 271050Z 21015KT 9999 BKN033 08/00 Q1007 CWID 271000Z AUTO 07002KT M28/M32 RMK AO1 SLP149 T12751323 57002 KANE 271054Z AUTO 17005KT 10SM CLR M04/M06 A2993 RMK AO2 KALW 271053Z AUTO 24005KT 1/4SM R20/2600V3500FT -SN FG VV002 00/00 A2971 RMK AO2 SLP070 P0001 T00000000 $ KBDN 271055Z AUTO 22004KT 10SM SCT055 M03/M07 A2967 RMK AO2 KAMN 271056Z AUTO 27005KT 10SM CLR 00/M04 A3012 RMK AO2 T00041040 CWGW 271000Z AUTO 02008KT M17/M19 RMK AO1 SOG 34 7006 SLP114 T11661194 CWHN 271050Z AUTO 21004KT 180V250 4SM -SN OVC025 M20/M24 A2964 KALX 271055Z AUTO 00000KT 10SM CLR 09/01 A3018 RMK AO2 T00870005 CWGX 271000Z AUTO 27005KT M31/M34 RMK AO1 SOG 27 2005 SLP116 T13071338 CWHO 271000Z AUTO 00002KT M12/M17 RMK AO1 SLP918 T11201169 51034 PFSH 270958Z AUTO 25020KT 10SM CLR M06/M08 A3011 RMK AO2 PK WND 25029/0914 SNB08E36 SLP211 P0000 T10561078 FZRANO CWHP 271000Z AUTO 27020KT M07/M12 RMK AO1 PK WND 26025/0946 SLP102 T10741117 51044 CWIG 271000Z AUTO 22009KT RMK AO1 PK WND 23018/0902 CWGY 271000Z AUTO 21005KT M20/M23 RMK AO1 SLP145 T12021233 58010 KBEH 271053Z AUTO 22005KT 10SM CLR 01/M03 A3014 RMK AO2 SLP210 T00111028 CWHQ 271000Z AUTO 24004KT M02/M04 RMK AO1 T10211035 ULPB 271000Z AUTO 25004MPS 9999 // NCD M07/M11 Q1002 RMK QFE748/0997 KBDR 271052Z AUTO 24006KT 10SM CLR 03/M05 A3036 RMK AO2 SLP280 T00281050 KD57 271055Z AUTO 08003KT 8SM SCT050 OVC060 M09/M12 A2978 RMK AO2 CWII 271000Z AUTO 10002KT M15/M17 RMK AO1 T11541172 KANJ 271055Z AUTO 30005KT 10SM UP BKN038 M05/M10 A3003 RMK AO2 UPB07 SLP178 P0000 T10501100 CWIJ 271000Z AUTO M36/M41 RMK AO1 SOG 71 6004 T13621406 KANK 271055Z AUTO 23011G19KT 10SM CLR M02/M15 A2983 RMK AO1 T10221153 OPKC 271000Z 25007KT 7000 FEW030 32/14 Q1012 NOSIG KD60 271035Z AUTO 05003KT 10SM BKN050 M13/M13 A2979 RMK AO2 CWHT 271000Z AUTO 34001KT M15/M17 RMK AO1 SOG 44 8003 SLP181 T11531170 CWJB 271000Z AUTO 23008G15KT M03/M03 RMK AO1 SOG 77 T10301034 CWIK 271000Z AUTO 30004KT M16/M18 RMK AO1 SOG 13 1012 SLP127 T11571176 EDSB 271050Z 19012KT 9999 FEW047 14/04 Q1007 KBDU 271056Z AUTO 00000KT 10SM CLR M06/M11 A2970 RMK AO2 UKWW 271030Z 29004MPS 9999 SCT030 BKN100 07/M01 Q1016 NOSIG ULOO 271030Z 33005MPS P5000 OVC020 00/M02 Q1007 R19/990137 NOSIG RMK QFE751 CWIL 271000Z AUTO 30013KT M38/ A2991 RMK SLP142 KBFD 271053Z AUTO 23007KT 200V260 10SM CLR M01/M11 A3018 RMK AO2 SLP242 T10111106 TSNO CWJD 271000Z AUTO 32003KT M21/M24 RMK AO1 SOG 26 1009 SLP143 T12141235 CWHV 271000Z AUTO 19004KT M05/ RMK AO1 SLP151 T1052 55006 UMGG 271030Z 24007MPS 7000 OVC008 04/03 Q1011 R28/290050 NOSIG KAMW 271053Z AUTO 00000KT 1SM BR CLR M05/M06 A3001 RMK AO2 SLP171 T10501056 $ NZAP 271000Z 08005KT 15KM VCSH SCT022 17/16 Q1031 RMK ALT VATSIM USE ONLY KBFF 271053Z AUTO 09009KT 10SM CLR M09/M14 A2972 RMK AO2 SLP101 T10941144 CXAF 271000Z AUTO 16002KT M25/M27 RMK AO1 T12471272 TUPJ 271050Z 10011KT 9999 SCT017CB 25/21 Q1018 RMK A3007 CB SW & NW CXAG 271000Z AUTO 20004KT M19/M22 RMK AO1 T11931216 CWIP 271000Z AUTO 23005KT M07/ RMK AO1 T1069 KAOH 271053Z AUTO 20006KT 10SM FEW070 OVC090 04/M04 A3019 RMK AO2 SLP232 T00391044 KANQ 271055Z AUTO 21003KT 10SM FEW050 00/M04 A3015 RMK CWJH 271000Z AUTO M33/M36 RMK AO1 SOG 42 8002 SLP145 T13341364 KBFI 271053Z 14006KT 10SM -RA SCT015 BKN035 OVC080 03/03 A2977 RMK AO2 RAB46UPB48E53 SLP082 P0000 T00280028 $ OPLA 270955Z 31005KT 8000 NSC 29/05 Q1015 A29.99 NOSIG CWJI 271000Z AUTO 28003KT M16/M18 RMK AO1 SOG 04 0000 SLP138 T11561184 KAPA 271053Z 27005KT 10SM CLR M03/M15 A2968 RMK AO2 SLP064 T10281150 PHBK 271056Z AUTO 09003KT 10SM FEW080 33/16 A3001 RMK AO2 SLP164 T03330161 $ CXBA 271000Z AUTO 19002KT M22/M24 RMK AO1 T12171242 CXAJ 271000Z AUTO 22005KT M19/M21 RMK AO1 SOG 03 T11861208 CWIS 271000Z AUTO 24008G16KT M08/M09 RMK AO1 SOG 130 6003 PK WND 23019/0937 SLP105 T10841091 50007 EEKA 271050Z 17005KT 9999 OVC017 01/M01 Q1005 CXAK 271000Z AUTO 20009KT M16/M19 RMK AO1 T11621186 KAPC 271054Z AUTO 25007KT 10SM BKN080 OVC095 06/04 A2991 RMK AO2 SLP119 T00560039 KBFL 271054Z AUTO 06003KT 10SM OVC043 10/06 A2990 RMK AO2 SLP121 T01000056 KBFM 271053Z AUTO 12013KT 10SM CLR 16/14 A3010 RMK AO2 SLP192 T01610139 KBGD 271051Z AUTO 25004KT 10SM CLR 02/M02 A2986 RMK AO2 SLP103 T00171022 CWKD 271000Z AUTO 01003KT M15/M16 RMK AO1 SLP042 T11491163 56012 KANW 271055Z AUTO 19008KT 10SM CLR M08/M11 A2982 RMK AO2 T10781115 KBGE 271055Z AUTO 12005KT 10SM CLR 10/00 A3020 RMK AO2 PWINO CWIW 271000Z AUTO 29007KT M21/M24 RMK AO1 SOG 03 8003 SLP147 T12141235 KAPF 271053Z 07007KT 10SM CLR 18/17 A3017 RMK AO2 SLP214 T01780172 $ KAOO 271053Z AUTO 00000KT 10SM BKN100 M01/M10 A3027 RMK AO2 SLP268 T10061100 EEKE 271050Z AUTO 15007KT 9999NDV OVC017 00/00 Q1005 KBGF 271055Z AUTO 00000KT 10SM CLR 10/M05 A3019 RMK CWIX 271000Z AUTO 22021KT M04/M08 RMK AO1 32 6015 SLP060 T10361076 CWJO 271000Z AUTO 23016G26KT M03/M06 RMK AO1 PK WND 22026/0958 SLP087 T10291060 56013 NZCH 271030Z AUTO 04004KT 020V080 9999 NCD 14/12 Q1033 NOSIG KAPG 270958Z AUTO 00000KT 10SM OVC100 M05/M06 A3039 RMK AO2 SLP295 T10471058 NZCI 271000Z 09006KT 25KM SCT013 20/16 Q1032 RMK ALT NZNR VATSIM USE ONLY CWKG 271000Z AUTO 35002KT M06/M09 RMK AO1 SOG 21 3032 SLP215 T10571092 CWKH 271000Z AUTO M00/M07 RMK AO1 SLP063 T10021073 56003 CWIZ 271000Z AUTO 19010KT M00/M04 RMK AO1 T10021040 CXBI 271000Z AUTO 25007KT 02/M04 RMK AO1 SOG 09 3019 SLP175 T00191035 CWJR 271000Z AUTO 04005KT M04/M09 RMK AO1 SOG 28 8001 SLP071 T10401086 CXCA 271000Z AUTO 00000KT M19/M20 RMK AO1 SOG 08 1014 SLP173 T11861200 KBHB 271056Z AUTO 18004KT 10SM SCT100 BKN120 M03/M08 A3018 RMK AO2 SLP225 T10331078 FZRANO NZCM 270855Z 00000KT 9999 -SN BKN035 M10/M21 A2912 RMK SNB0750 SLP867 FATA MORGANA S-W-NW CWKK 271000Z AUTO 22006KT M15/M17 RMK AO1 SOG 06 1009 SLP145 T11491172 CXAT 271000Z AUTO 14003KT M38/M43 RMK AO1 SOG 03 8020 T13811434 CWJT 271000Z AUTO 21004KT M02/M05 RMK AO1 SLP142 T10171046 55000 CXBK 271000Z AUTO 29007KT M18/M20 RMK AO1 SOG 11 0003 SLP127 T11791201 CWLB 271000Z AUTO 18004KT M16/M19 RMK AO1 SOG 04 8022 SLP094 T11561192 KBHC 271055Z AUTO 00000KT 10SM CLR 08/08 A3025 RMK AO2 PNO CWLC 271000Z AUTO 33017KT 03/M03 RMK AO1 PK WND 33022/0941 T00281033 CWJU 271000Z AUTO 34016G22KT 02/01 RMK AO1 5006 PK WND 35022/0955 SLP110 T00240008 50004 KBGM 271053Z AUTO 22009KT 10SM CLR M02/M10 A3019 RMK AO2 SLP242 T10171100 EDTL 271050Z 19010KT 9999 FEW045 14/04 Q1007 CXCD 271000Z AUTO 24004KT M17/M19 RMK AO1 T11711190 CWJV 271000Z AUTO 11006KT M10/M11 RMK AO1 7003 SLP089 T11011114 50002 CWKM 271000Z AUTO 09024KT A3002 KAPN 271054Z AUTO 00000KT 10SM FEW041 SCT055 M05/M08 A3009 RMK AO2 SLP201 T10501078 KBFW 271054Z AUTO 00000KT 10SM OVC055 M13/M16 A2994 RMK AO2 CWLE 271000Z AUTO 24004KT M20/M22 RMK AO1 SOG 01 8001 SLP146 T12001221 CWJW 271000Z AUTO 19003KT M18/M20 RMK AO1 SOG 15 6012 SLP099 T11771200 CWKO 271000Z AUTO 01004KT M16/M18 RMK AO1 SOG 07 6001 SLP132 T11611183 VCRI 271010Z 05013KT 020V080 9999 SCT018 31/19 Q1007 NOSIG CWJX 271000Z AUTO 20005KT M20/M23 RMK AO1 SOG 01 8008 SLP145 T12011229 CXBO 271000Z AUTO 27002KT RMK AO1 6PAST HR M P0006 50030 UMII 271030Z 30005G08MPS 9999 BKN018CB 03/M01 Q1007 R23/690422 TEMPO 2000 SHSNRA BKN005 UNAA 271030Z 11003MPS 9000 NSC 01/M02 Q1030 R02/090065 NOSIG RMK QFE750 CWKP 271000Z AUTO 27009KT M29/ A2991 RMK SLP186 CXCH 271000Z AUTO M04/M10 RMK AO1 SOG 13 T10391101 KBGR 271053Z 21005KT 10SM FEW090 FEW120 M06/M11 A3014 RMK AO2 SLP211 T10561111 CXBR 271000Z AUTO 21001KT M14/M15 RMK AO1 T11381154 50005 CWLI 271000Z AUTO ///// M1/4SM //// VV000 M34/M37 A3007 KARA 271053Z AUTO 16008KT 9SM SCT010 BKN014 OVC021 20/18 A3001 RMK AO2 SLP161 T02000178 KARB 271053Z AUTO 00000KT 10SM CLR M02/M05 A3015 RMK AO2 SLP217 T10171050 $ KBHK 271051Z AUTO 12014KT 10SM SCT065 OVC085 M06/M08 A2965 RMK AO2 SLP073 T10561078 CXDB 271000Z AUTO 10004KT M15/M17 RMK AO1 T11541171 50004 CXCK 271000Z AUTO 34001KT M12/M15 RMK AO1 SOG 40 6005 SLP155 T11231149 NZDN 271000Z 27002KT 25KM SCT090 11/10 Q1032 RMK ALT VATSIM USE ONLY KBHM 271053Z 15006G14KT 10SM FEW120 13/M04 A3015 RMK AO2 SLP205 T01331044 KBID 271056Z AUTO 24011KT 10SM CLR 02/M04 A3036 RMK AO2 SLP286 T00221044 FZRANO CWLM 271000Z AUTO 01006KT 01/M04 RMK AO1 SLP078 T00111039 56002 KBIE 271055Z AUTO 12003KT 10SM CLR M07/M09 A2996 RMK AO2 T10701090 EDVE 271050Z 20010KT 160V250 9999 BKN036 12/04 Q1003 KBIF 270955Z 16006KT 10SM CLR 07/M09 A2994 RMK A02A SLP103 T00681088 CXBW 270900Z AUTO 11004KT M14/M16 RMK AO1 4PAST HR M P0002 T11441155 50004 CWME 271000Z AUTO 16001KT M00/M05 RMK AO1 T10011051 CXDE 271000Z AUTO 32006KT M30/M33 RMK AO1 SOG 12 3017 PK WND 32017/0929 SLP185 T12991333 CWKW 271000Z AUTO ///// A2854 KAQO 271030Z AUTO 00000KT 5SM BR SCT012 BKN025 18/17 A2994 RMK AO2 CWKX 271000Z AUTO 00000KT M14/M16 RMK AO1 SOG 19 2001 SLP130 T11361158 KAQP 271055Z AUTO 00000KT 10SM SCT095 M06/M07 A2988 RMK AO2 KARG 271055Z AUTO 08004KT 10SM CLR 08/05 A3007 RMK AO1 KD95 271051Z AUTO 24007KT 10SM SCT027 02/M03 A3011 RMK AO2 T00201035 KAPY 271055Z AUTO 12004KT 7SM CLR 19/18 A2984 RMK AO2 T01930190 OPNH 271000Z 23006KT 6000M NSC 35/07 Q1011 NOSIG EDTY 271050Z 23006KT 190V270 CAVOK 12/02 Q1007 CXCP 271000Z AUTO 15002KT M17/M18 RMK AO1 T11711175 50004 CWLP 271000Z AUTO 33015KT 05/M03 RMK AO1 PK WND 32021/0919 SLP076 T00471027 58005 KBIH 271056Z AUTO 05005KT 10SM CLR M01/M06 A2965 RMK AO2 SLP030 T10061056 UNBB 271030Z 18004MPS 9999 BKN040 01/M04 Q1029 R24/590530 NOSIG RMK QFE749 KAQR 271055Z AUTO 10005KT 10SM OVC021 11/06 A2996 RMK AO2 CXDI 271000Z AUTO 23008G16KT 02/M04 RMK AO1 SOG 00 3007 PK WND 25017/0904 SLP201 T00221040 KBIJ 271055Z AUTO 00000KT 10SM CLR 08/02 A3022 RMK AO2 OPMT 270955Z 09004KT 4000 HZ BKN120 28/07 Q1013 NOSIG CXCS 271000Z AUTO 23009KT M22/M24 RMK AO1 T12181242 50006 CWMJ 271000Z AUTO 22008KT M00/M04 RMK AO1 SOG 37 3011 PK WND 25017/0949 SLP127 T10021042 CXEA 271000Z AUTO 24001KT M14/M16 RMK AO1 SOG 18 1002 SLP121 T11401157 CWLS 271000Z AUTO 24010G17KT 01/M05 RMK AO1 PK WND 24017/0953 SLP177 T00081046 52012 EDVK 271050Z 19018G32KT 9999 BKN030 10/04 Q1003 CXDK 271000Z AUTO 11009KT M15/M20 RMK AO1 PK WND 12017/0939 SLP117 T11541195 51032 KBIL 271053Z 01006KT 10SM SCT009 M07/M09 A2959 RMK AO2 SLP053 T10721089 $ KBJC 271054Z AUTO 34008KT 10SM CLR M06/M11 A2968 RMK AO2 KE11 271035Z AUTO 26003KT 10SM CLR 08/M02 A2991 RMK AO2 T00761022 CXEC 271000Z AUTO 22005KT M16/M19 RMK AO1 SOG 15 6016 SLP105 T11611187 CWNC 271000Z AUTO 25018G26KT 04/M02 RMK AO1 PK WND 24027/0900 SLP180 T00361016 53014 KASD 271053Z AUTO 15008KT 10SM FEW024 BKN075 OVC120 19/17 A3005 RMK AO2 RAB0954E04 SLP175 P0000 T01890167 KCAD 271055Z AUTO 34003KT 10SM CLR M06/M07 A3006 RMK AO2 T10651076 KAQV 271056Z AUTO 00000KT 10SM OVC010 18/16 A2999 RMK AO2 SLP155 T01780156 $ KARM 271035Z AUTO 16004KT 7SM BKN008 BKN013 OVC019 21/19 A2994 RMK AO2 T02060193 CWND 272020Z M01/M01 RMK SOG 00 6003 T10121013 CWMM 271000Z AUTO 15001KT M03/M05 RMK AO1 SLP080 T10281047 55001 KASE 271053Z AUTO 00000KT 10SM OVC075 M07/M13 A2969 RMK AO2 SLP057 T10721133 KAQW 271052Z AUTO 11004KT 10SM FEW075 M04/M08 A3024 RMK AO2 SLP248 T10441083 KCAE 271056Z 00000KT 10SM CLR 01/M01 A3031 RMK AO2 SLP265 T00111011 CWNE 271000Z AUTO 25013KT M05/M09 RMK AO1 PK WND 25018/0907 SLP165 T10531089 51033 KAQX 271055Z AUTO 00000KT 10SM CLR 05/04 A3028 RMK AO2 KASG 270248Z 11005KT 10SM FEW040 OVC050 09/M01 A3002 CWLX 271000Z AUTO 05014KT M28/ A2936 RMK SLP971 KCAG 271053Z AUTO 10004KT 10SM OVC065 M02/M09 A2967 RMK AO2 SLP065 T10171094 CWLY 261900Z AUTO 02006KT 360V070 9SM FEW060 02/M05 A2990 RMK SLP133 CXDP 271000Z AUTO 13004KT M21/M23 RMK AO1 T12121232 CXEG 271000Z AUTO M19/M21 RMK AO1 SOG 06 T11931211 KASH 271056Z AUTO 00000KT 10SM CLR M03/M07 A3027 RMK AO2 SLP261 T10331067 KE16 271055Z AUTO 00000KT 10SM BKN043 OVC060 06/05 A2994 RMK AO2 PWINO PNO CWMQ 271000Z AUTO 19001KT M18/M20 RMK AO1 SOG 04 8008 SLP143 T11821204 UMKK 271030Z 20004MPS 8000 OVC029 07/07 Q1008 R24/29//60 NOSIG RMK QFE755/1007 CWNH 271000Z AUTO 20009G18KT M05/M08 RMK AO1 SOG 33 6011 PK WND 20018/0908 SLP113 T10481075 VEAT 271030Z 00000KT 6000 NSC 29/14 Q1011 NOSIG ZSHC 271030Z 10003MPS CAVOK 10/M01 Q1026 NOSIG KARR 271052Z AUTO 00000KT 10SM OVC090 M02/M04 A3011 RMK AO2 SLP202 T10221044 KBJI 271054Z AUTO 00000KT 10SM CLR M18/M20 A2989 RMK AO2 T11801201 PFWS 271056Z AUTO 24017KT 2 1/2SM UP BR OVC002 00/00 A3024 RMK AO2 VIS 1 3/4V3 UPE04B23 SLP247 P0000 T00000000 FZRANO KASJ 271050Z AUTO 00000KT 10SM M01/M03 A3041 RMK AO2 T10141030 KBIS 271052Z AUTO 06004KT 10SM FEW090 M12/M14 A2984 RMK AO2 SLP137 T11221139 KBJJ 271056Z AUTO 21006KT 10SM BKN080 OVC100 02/M07 A3023 RMK AO2 SLP246 T00171072 VECC 271030Z 33005KT 4000 HZ NSC 31/11 Q1011 NOSIG KCAK 271051Z 20006KT 10SM BKN090 BKN250 02/M08 A3022 RMK AO2 SLP244 T00171083 $ KBKB 271054Z AUTO 00000KT 10SM OVC009 18/16 A2998 RMK AO2 SLP177 T01780156 $ KART 271056Z AUTO 20013G19KT 10SM BKN070 02/M06 A3010 RMK AO2 SLP197 T00171056 $ VEBN 271030Z 24005KT 6000 NSC 28/07 Q1013 CWMT 271000Z AUTO 14005KT M27/M31 RMK AO1 SLP147 T12731307 55008 CWNK 271000Z AUTO 23004KT M16/M18 RMK AO1 T11641181 CWOB 271000Z AUTO 04037G48KT 360V070 ////SM //// OVC002 ///// A2868 KASL 271055Z AUTO 09004KT 1 3/4SM BKN002 OVC012 13/12 A3001 RMK AO1 P0011 T01270116 CWNL 271000Z AUTO 32008G15KT M03/M09 RMK AO1 SLP183 T10341088 53031 CWOC 271000Z AUTO 26006KT M07/M11 RMK AO1 SLP140 T10661108 51020 KBIV 271053Z AUTO 20003KT 10SM CLR M01/M03 A3013 RMK AO2 SLP208 T10061033 KARV 271035Z AUTO 13003KT 10SM BKN050 BKN070 M11/M13 RMK AO2 T11111130 KBKD 271035Z AUTO 19008KT 2SM BR OVC003 15/15 A2990 RMK AO2 T01530153 CWOD 271000Z AUTO 22009KT M07/M10 RMK AO1 SOG 69 6010 SLP046 T10731097 50010 CWNM 271000Z AUTO 29006KT M03/M07 RMK AO1 SOG 23 8002 SLP063 T10291070 KCBE 271042Z AUTO 00000KT 10SM CLR M03/M05 A3039 RMK AO1 ZSFZ 271000Z 02003MPS 5000 HZ NSC 12/05 Q1025 NOSIG KBKE 271053Z AUTO 00000KT 10SM OVC008 M05/M05 A2963 RMK AO2 SLP055 T10501050 KARW 271055Z AUTO 10005KT 7SM CLR 11/06 A3030 RMK AO2 KASN 271055Z AUTO 00000KT 10SM CLR 07/01 A3018 RMK AO2 T00670012 CWOE 270900Z AUTO 05006KT M15/M17 RMK AO1 SOG 05 8005 SLP124 T11481172 50002 CXDW 271000Z AUTO 23012KT M12/M14 RMK AO1 SOG 19 0000 PK WND 25017/0923 SLP120 T11161137 KCBF 271055Z AUTO 14007KT 10SM CLR M03/M05 A2997 RMK AO2 KCAO 271055Z AUTO 24008KT 10SM CLR M03/M09 A2978 RMK AO2 SLP079 T10331094 KBIX 271058Z AUTO 16004KT 10SM BKN085 19/16 A3007 RMK AO2 SLP186 T01880159 KBKF 270958Z 19005KT 10SM FEW200 M05/M17 A2969 RMK AO2A SLP059 T10481167 KCBG 271055Z AUTO 00000KT 10SM CLR M03/M08 A2991 RMK AO2 CWNP 271000Z AUTO 06001KT M08/M10 RMK AO1 SOG 42 5000 SLP080 T10801098 VEBS 271030Z 15009KT 4000 HZ FEW020 34/17 Q1010 NOSIG CWMZ 271000Z AUTO 32021KT 00/M04 RMK AO1 PK WND 31026/0902 SLP169 T00001036 53031 CWNQ 271000Z AUTO 21012G17KT M01/M05 RMK AO1 PK WND 21017/0947 SLP139 T10071053 55002 KCAR 271054Z AUTO 17006KT 10SM BKN030 M07/M12 A2995 RMK AO2 SLP155 T10721117 KCCA 271055Z AUTO 00000KT 10SM BKN040 BKN048 02/02 A3007 RMK AO2 KAST 271055Z AUTO 13005KT 10SM OVC035 01/M01 A2979 RMK AO2 SLP087 T00061011 KCBK 271035Z AUTO 21005KT 10SM CLR M05/M08 A2984 RMK AO2 CXET 271000Z AUTO 23007KT 02/M04 RMK AO1 SOG 00 3015 SLP173 T00191044 KBKL 271053Z AUTO 19012KT 10SM SCT070 SCT100 04/M08 A3021 RMK AO2 SLP233 T00441078 KATL 271052Z 08006KT 10SM BKN150 08/M02 A3024 RMK AO2 SLP240 T00831022 EFET 271050Z AUTO 20001KT 9999 OVC024 M07/M09 Q0998 CWPC 271000Z AUTO 24024KT 03/M04 RMK AO1 PK WND 24029/0921 SLP208 T00331040 53010 KCAV 271055Z AUTO 16008KT 10SM CLR M07/M07 A3000 RMK AO2 PWINO KCBM 271058Z AUTO 12008KT 10SM SCT055 BKN140 11/04 A3005 RMK AO2 CIG 055 RWY31C SLP178 T01140039 $ CXFM 271000Z AUTO 16002KT M19/M20 RMK AO1 T11851203 CWPD 271000Z AUTO 18003KT M10/M10 RMK AO1 6007 SLP107 T10961100 50020 VEDG 270700Z 29004KT 4500 HZ NSC 31/07 Q1014 NOSIG UMMG 271030Z 24004MPS 6000 OVC006 06/04 Q1010 R17/290060 NOSIG RMK QBB180 KASW 271016Z AUTO 00000KT 10SM CLR 01/M06 A3015 RMK AO2 CWPE 271000Z AUTO 27006KT M03/M09 RMK AO1 SOG 01 3023 SLP216 T10251086 KASX 271053Z AUTO 00000KT 10SM OVC060 M09/M12 A3000 RMK AO2 SLP174 T10891122 KBLF 271052Z AUTO 35006KT 10SM OVC090 02/M11 A3030 RMK AO2 SLP273 T00171111 KAUG 271053Z AUTO 20007KT 10SM CLR M06/M12 A3016 RMK AO2 SLP217 T10561117 CWPF 271045Z AUTO 35004KT 01/M02 RMK AO1 T00061020 KATP 271055Z AUTO 13018KT 9SM 23/21 A3004 RMK A01 PHHI 271058Z 00000KT 10SM CLR 17/15 A3003 RMK AO2A SLP162 T01710154 $ KBLH 271052Z AUTO 16009KT 10SM CLR 11/03 A2987 RMK AO2 SLP110 T01060033 KAUH 271055Z AUTO 18005KT 10SM CLR M02/M08 A2992 RMK AO2 T10251085 NZGS 271000Z 15002KT 20KM SCT012 20/17 Q1031 RMK ALT VATSIM USE ONLY CXGH 271000Z AUTO 25002KT M13/M15 RMK AO1 T11331147 CWNZ 271000Z AUTO 26005KT M16/M18 RMK AO1 SOG 52 2030 SLP154 T11551175 KBLI 271053Z AUTO 01004KT 10SM CLR M01/M07 A2974 RMK AO2 SLP080 T10111067 OPPS 271000Z 31008KT 8000 HZ FEW100 SCT200 26/01 Q1015 NZHK 271000Z 19004KT 15KM SKC 15/14 Q1031 RMK ALT VATSIM USE ONLY ULWC 271030Z 26003MPS 9999 SCT026 M04/M09 Q1002 R03/490535 NOSIG RMK QFE742/0990 CXFR 271000Z AUTO 14002KT M13/M16 RMK AO1 T11301161 KATS 271055Z AUTO 00000KT 10SM CLR 01/M04 A2991 RMK AO2 KCDA 271055Z AUTO 13006KT 10SM CLR M05/M09 A3009 RMK AO2 T10531087 KBKS 271055Z AUTO 16003KT 5SM OVC011 19/19 A2986 RMK AO1 T01930187 KE38 271055Z AUTO 23006KT 10SM CLR 07/M07 A3002 RMK AO2 T00741072 PFYU 270350Z 25013G23KT 10SM SCT060 BKN120 M02/M05 A2989 UMMM 271000Z 28003MPS 3200 BR OVC006 04/04 Q1009 RMK QFE737 QBB180 CXHA 271000Z AUTO 22008KT 02/M03 RMK AO1 SLP216 T00201034 53012 EFHA 271050Z 14006KT 9999 -SN OVC008 M08/M08 Q1003 KATT 271051Z AUTO 14003KT 6SM BR FEW016 OVC028 19/18 A2994 RMK AO2 SLP130 T01940183 UNEE 271030Z 19005MPS 9999 OVC012 M00/M03 Q1028 R23/552034 NOSIG RMK QFE747 CWPK 271000Z AUTO 22007G17KT M04/M06 RMK AO1 SOG 70 3004 PK WND 22017/0954 SLP076 T10431064 50007 KCDC 271053Z AUTO 20015G24KT 10SM OVC036 02/M04 A2967 RMK AO2 PK WND 19026/1007 SLP031 T00221044 KAVC 271056Z AUTO 00000KT 10SM SCT120 00/M01 A3043 RMK AO2 T10021012 KBMC 271055Z AUTO 34007KT 1SM 00/M01 A2964 RMK AO1 T10051015 NZHN 271000Z 14001KT 25KM SCT060 20/18 Q1031 RMK ALT NZTG VATSIM USE ONLY KBKV 271053Z AUTO 10003KT 10SM CLR 12/10 A3022 RMK AO2 SLP231 T01220100 KCDD 271049Z AUTO 00000KT 10SM CLR M22/M24 A2995 RMK AO2 KAUM 271056Z AUTO 16003KT 10SM CLR M09/M10 A2998 RMK AO2 KBLM 271056Z AUTO 21005KT 10SM CLR M03/M07 A3039 RMK AO2 SLP298 T10281072 FZRANO $ CXHD 271000Z AUTO 20008KT M22/M24 RMK AO1 T12151236 KBKW 271051Z AUTO 11003KT 10SM BKN075 OVC090 02/M06 A3030 RMK AO2 SLP281 T00171061 KATW 271055Z AUTO 17003KT 10SM SCT065 M06/M08 A3005 RMK AO2 KAUN 271055Z AUTO 17004KT 10SM BKN015 BKN100 04/02 A2987 RMK AO1 EDXW 271050Z 19014KT 5000 BR BKN018 07/07 Q0997 KAUO 271056Z AUTO 13007KT 10SM CLR 10/M03 A3023 RMK AO2 SLP258 T01001028 KBKX 271056Z AUTO 16004KT 10SM CLR M05/M08 A2986 RMK AO2 SLP144 T10501078 FZRANO KCCO 271035Z AUTO 11003KT 10SM CLR 09/00 A3022 RMK AO2 T00891002 DNPO 270900Z 23009KT 7000 SCT011 30/24 Q1010 NOSIG CXHF 271000Z AUTO M01/M05 RMK AO1 T10131047 CWPO 271000Z AUTO 19005KT M17/M19 RMK AO1 SOG 25 0001 SLP131 T11701186 KBMG 271053Z AUTO 15005KT 10SM SCT049 OVC060 06/M02 A3018 RMK AO2 SLP222 T00561022 KATY 271053Z AUTO 17007KT 10SM CLR M06/M08 A2983 RMK AO2 SLP124 T10611078 EFHF 271050Z 17007KT 9999 SCT005 BKN008 M02/M04 Q1005 CWOY 270900Z AUTO 32002KT M19/M21 RMK AO1 SOG 08 1005 SLP141 T11851214 50002 UMMS 271030Z 23004MPS 3100 BR OVC002 04/04 Q1009 R31/290057 NOSIG RMK QBB080 KCDH 271035Z AUTO 00000KT 5SM -RA BKN003 BKN017 OVC080 10/09 A3002 RMK AO2 P0002 NZHS 271000Z 09006KT 25KM SCT013 20/16 Q1032 RMK ALT NZNR VATSIM USE ONLY CWQH 271000Z AUTO 23007KT M04/M06 RMK AO1 SOG 02 T10381055 KCCR 271053Z 17008KT 10SM BKN075 07/06 A2991 RMK AO2 SLP115 T00670056 KCDI 271052Z AUTO 00000KT 10SM OVC075 00/M02 A3028 RMK AO2 T00001022 KBMI 271056Z AUTO 18006KT 10SM CLR M03/M04 A3013 RMK AO2 SLP230 T10331044 NZHT 271000Z 16002KT 20KM SKC 11/10 Q1031 RMK ALT VATSIM USE ONLY CWPR 271000Z AUTO 31001KT M14/M15 RMK AO1 SOG 38 8005 SLP097 T11371146 KBNA 271053Z 14003KT 10SM BKN055 OVC070 08/03 A3021 RMK AO2 RAE0958B32E49 SLP228 P0000 T00780033 KAUS 271053Z 11003KT 5SM BR FEW018 SCT024 OVC029 19/18 A2992 RMK AO2 SLP127 T01940183 KCDJ 271052Z AUTO 00000KT M04/M04 A3006 RMK AO1 SLP189 T10391044 CWPS 271000Z AUTO 17026KT 03/M04 RMK AO1 PK WND 18031/0946 SLP199 T00341044 51011 CWRA 271000Z AUTO 27025G32KT RMK AO1 PK WND 28033/0948 52041 KAVK 271050Z AUTO 05005KT 10SM CLR M02/M03 A2992 RMK AO2 CXIB 271000Z AUTO 28007G17KT M04/M10 RMK AO1 SOG 50 1038 PK WND 26023/0949 SLP142 T10381095 CWQK 271000Z AUTO 36003KT 04/M04 RMK AO1 SLP079 T00401039 55002 KBML 271052Z AUTO 00000KT 10SM BKN070 M08/M11 A3006 RMK AO2 SLP201 T10831111 KBLU 271052Z AUTO 20005KT 1 1/4SM -SN BR OVC004 M04/M04 A2975 RMK AO2 SLP095 P0000 T10441044 TSNO EFHK 271050Z 20006KT 9999 -SG BKN004 M03/M04 Q1005 BECMG BKN006 KAVL 271054Z AUTO 14003KT 10SM CLR 01/M05 A3030 RMK AO2 SLP262 T00111050 KCCU 271055Z AUTO 2 1/2SM -SN CLR M11/M18 A2965 RMK AO2 VIS 1 1/2V5 KCEC 271056Z AUTO 16013KT 10SM BKN037 BKN044 OVC090 06/03 A2990 RMK AO2 RAB0957E34 SLP126 P0001 T00560033 EEPU 271050Z 19006KT 140V230 9999 OVC016 01/M02 Q1006 KBLV 271058Z AUTO 00000KT 10SM OVC070 05/01 A3010 RMK AO2 SLP198 T00490012 $ OPRN 271000Z 23008KT 6000 FEW100 BKN200 27/05 Q1016.0/30.00 CXHM 271000Z AUTO 25005KT 03/M03 RMK AO1 SLP185 T00291027 51010 PGRO 270950Z 09011KT 7SM SCT013 BKN075 26/22 A2991 RMK LAST KAUW 271054Z AUTO 12003KT 10SM BKN027 OVC065 M06/M08 A3001 RMK AO2 SLP182 T10561078 KCDN 271055Z AUTO 00000KT 10SM CLR 02/M01 A3033 RMK AO2 KCEF 271058Z AUTO 17004KT 10SM CLR M06/M10 A3028 RMK AO2 SLP263 T10601096 PHJH 270345Z 05010KT 15SM FEW030 FEW040 BKN200 23/17 A3001 RMK LAST CWQO 271000Z AUTO 22024G32KT M03/M08 RMK AO1 PK WND 21033/0937 T10301079 CWPX 271022Z AUTO 33021KT 3/4SM //// VV005 M34/M39 A2982 CWRF 271000Z AUTO ///// A2956 KCCY 271055Z AUTO 17006KT 5SM BR CLR M06/M06 A3002 RMK AO2 KAVP 271054Z 20003KT 10SM CLR M02/M08 A3029 RMK AO2 SLP264 T10171078 KAWG 271055Z AUTO 17008KT 10SM OVC075 M01/M01 A3006 RMK AO2 CWQP 271000Z AUTO 24024KT 03/M01 RMK AO1 SOG 00 3015 PK WND 24029/0925 SLP189 T00311013 CXHP 271000Z AUTO 15002KT M16/M19 RMK AO1 T11611186 KBMQ 271053Z AUTO 18005KT 2 1/2SM BR FEW003 OVC020 18/17 A2994 RMK AO2 RAE0954 SLP128 P0001 T01780172 KAVQ 271055Z AUTO 00000KT 10SM CLR 07/00 A2998 RMK AO2 T00711001 CWPZ 271000Z AUTO 34001KT M13/M15 RMK AO1 SOG 25 7009 SLP073 T11341153 CWRH 271000Z AUTO ///// M14/ A2870 RMK SLP754 KCDR 271053Z AUTO 23015KT 10SM CLR M03/M10 A2968 RMK AO2 SLP092 T10281100 CXHR 271000Z AUTO 18009KT M18/M20 RMK AO1 T11801195 CWQR 271000Z AUTO 27024G30KT M07/ RMK AO1 PK WND 28031/0916 T1071 KCDS 271053Z AUTO 34006KT 10SM BKN011 04/00 A2990 RMK AO2 SLP119 T00390000 OPSK 271100Z 09006KT 4000 HZ BKN100 31/13 Q1010 NOSOG KAXA 271055Z AUTO 18009KT 10SM CLR M09/M08 A2996 RMK AO2 CWQS 271000Z AUTO 36008KT 04/03 RMK AO1 6018 PK WND 34017/0902 SLP095 T00400028 50010 CWRJ 271000Z AUTO 24003KT M20/M22 RMK AO1 SLP146 T12011222 58007 CWSA 271000Z AUTO 29018G26KT 9SM OVC040 01/M06 A3005 RMK SLP176 EGAA 271050Z 19006KT 160V230 9999 SCT011 04/01 Q0983 KBMT 271035Z AUTO 15004KT 7SM OVC006 21/20 A2997 RMK AO2 T02100196 KBNL 271055Z AUTO 00000KT 10SM CLR 03/02 A3029 RMK AO2 ORBD 271055Z 33009KT 9999 BKN300 23/M03 A3005 RMK SLP173 WND DATA/ALSTG/SLP ESTMD EGAC 271050Z 19005KT 160V230 9999 FEW019 05/01 Q0983 UMOO 271000Z 26005G08MPS 6000 -SHRA BKN017CB BKN/// Q1009 R31/290063 NOSIG KAWM 271053Z AUTO 15012KT 10SM BKN120 09/08 A3005 RMK AO2 RAE03 SLP174 P0000 T00890083 PGSN 271054Z 08012KT 10SM SCT021 SCT046 BKN110 26/24 A2994 RMK AO2 RAB35E44 SLP159 P0000 T02610239 KCFD 271055Z AUTO 14004KT 7SM SCT008 OVC035 19/19 A2995 RMK AO2 T01870187 CWSD 271000Z AUTO 26010KT M05/M09 RMK AO1 SOG 17 1031 SLP180 T10501094 CWRM 271000Z AUTO 14002KT M25/M27 RMK AO1 SOG 19 7018 SLP110 T12491272 CWQV 271000Z AUTO 08006KT M07/M09 RMK AO1 T10701091 KCDW 271053Z AUTO 20003KT 10SM CLR M01/M08 A3037 RMK AO2 SLP292 T10061083 TSNO KCFE 271054Z AUTO 00000KT 10SM CLR M04/M06 A2992 RMK AO2 T10401056 EGAE 271050Z 19007KT 140V210 9999 FEW014 04/01 Q0982 CWRN 271000Z AUTO 30023G28KT M03/M09 RMK AO1 PK WND 30031/0901 SLP175 T10301086 51048 KBNO 271053Z AUTO 25005KT 10SM OVC065 M09/M11 A2965 RMK AO2 SLP071 T10891111 KAVX 271051Z AUTO 12006KT 1/4SM FG VV003 08/08 A2989 RMK AO2 RAE48 SLP124 P0002 T00830083 TSNO KAWO 271055Z AUTO 15003KT 4SM FEW002 M01/M06 A2977 RMK AO1 CWRO 271000Z AUTO 35011KT 03/M02 RMK AO1 T00291020 CWSF 271000Z AUTO 18007KT M07/M14 RMK AO1 SOG 29 1009 SLP102 T10671135 NZKI 271000Z 05006KT 15KM SKC 15/14 Q1031 RMK ALT VATSIM USE ONLY CWSG 271000Z AUTO 19007KT M08/M12 RMK AO1 SLP100 T10751119 56010 PHJR 271053Z AUTO 04005KT 10SM -RA CLR 20/16 A3004 RMK AO2 SLP178 P0000 T02000161 TSNO ORBI 271100Z 27007KT 240V340 CAVOK 24/M00 Q1017 NOSIG KAXH 271055Z AUTO 00000KT 7SM SCT005 BKN016 OVC026 20/19 A2995 RMK AO2 T02000193 KBOI 271053Z 15005KT 4SM -SN BR OVC026 M02/M04 A2966 RMK AO2 SNB18 SLP055 P0000 T10171039 $ CYAH 271000Z AUTO 23010G15KT 9SM -SN CLR M19/M22 A2952 RMK SLP031 PGUA 271028Z AUTO 08012KT 10SM BKN014 BKN023 26/24 A2994 RMK AO2 $ NZKK 271000Z 04006KT 20KM SKC 21/16 Q1030 RMK ALT NZAA VATSIM USE ONLY OPST 271100Z 23008KT 5000 HZ FEW100 26/07 Q1014 NOSIG RH30 CXKA 271000Z AUTO 28011KT M13/M14 RMK AO1 SOG 58 3036 PK WND 32018/0919 SLP146 T11301135 50002 KBOK 271056Z AUTO VRB03KT 10SM FEW020 SCT030 OVC038 02/01 A2989 RMK AO2 UPB20E43SNE20 SLP138 P0005 T00220011 CWSK 271000Z AUTO 04001KT M03/M08 RMK AO1 SOG 00 6001 SLP083 T10281081 CWRT 271000Z AUTO 09001KT M16/M18 RMK AO1 T11571178 CYBB 270500Z 23013KT 15SM SKC M38/M42 A2986 RMK SLP117 EGBB 271050Z 19009KT 9999 -DZ SCT017 BKN028 08/06 Q0985 KCEU 271054Z AUTO 00000KT 10SM CLR 06/M01 A3032 RMK AO2 SLP266 T00611011 KBPC 271055Z AUTO 00000KT 10SM CLR 01/M01 A2986 RMK AO2 KCGC 271055Z AUTO 07003KT 10SM CLR 09/08 A3021 RMK AO2 CWRU 271000Z AUTO 35021G26KT 04/ RMK AO1 PK WND 34027/0914 SLP068 T0040 56004 CWSL 271000Z AUTO 04001KT M12/M12 RMK AO1 SOG 23 1001 SLP098 T11161124 CYBC 271030Z AUTO 28005KT 9SM BKN020 BKN150 M10/M12 A2980 RMK SLP093 CYBD 270100Z 15005KT 15SM SCT210 SCT240 04/M13 A2990 RMK CC3CI1 LAST STFD OBS/NEXT 271500 UTC SLP127 VDPP 271030Z 04007KT 020V080 9999 FEW017 34/19 Q1008 CYAM 271000Z 30008KT 10SM -SN BKN034 BKN170 M06/M11 A3002 RMK SC5AC1 SLP178 KAXN 271053Z AUTO 11007KT 10SM SCT055 M06/M08 A2987 RMK AO2 SLP139 T10611078 KCEW 271053Z AUTO 00000KT 10SM CLR 05/04 A3018 RMK AO2 SLP219 T00500039 EFIV 271050Z 33004KT 270V010 9999 OVC011 M04/M06 Q0998 PHKO 271053Z AUTO 08003KT 10SM CLR 21/13 A3000 RMK AO2 SLP160 T02060133 TSNO $ KBNW 271055Z AUTO 00000KT 10SM CLR M04/M05 A2999 RMK AO2 KCGE 271040Z AUTO 13004KT 10SM CLR M01/M03 A3039 RMK A01 KCGF 270345Z 20014KT 10SM FEW100 03/M07 A3014 EGBE 271050Z 18015KT 9999 -RA FEW012 SCT022 09/06 Q0985 CXKE 271000Z AUTO 22007KT M00/M04 RMK AO1 SOG 00 3009 SLP161 T10021044 EFKE 271050Z AUTO 17002KT CAVOK M12/M14 Q1002 KCEY 271055Z AUTO 17010G16KT 130V200 10SM FEW060 08/07 A3009 RMK AO1 CWRX 271000Z AUTO 35013KT ////SM //// OVC002 ///// A//// EFJO 271050Z AUTO 22004KT 170V260 9999 FEW010 BKN043 M09/M11 Q1004 KBPG 271055Z AUTO 25003KT 10SM CLR 10/01 A2992 RMK AO2 T00980010 CWTG 271000Z AUTO 24021G31KT M04/M06 RMK AO1 PK WND 23031/0955 SLP090 T10411064 57010 CWSP 271000Z AUTO 00000KT 04/M02 RMK AO1 SLP080 T00401018 57002 CWRY 271000Z AUTO 09004KT M14/M15 RMK AO1 SOG 02 8012 SLP109 T11401152 50002 CYBG 271000Z 23009G16KT 6SM -SN FEW030 OVC050 M03/M06 A2976 RMK SC2SC6 SLP087 ZSNB 271000Z 01002MPS 350V050 CAVOK 10/M06 Q1027 NOSIG KCEZ 271053Z AUTO 18004KT 10SM OVC050 02/M06 A2983 RMK AO2 SLP084 T00171056 PHLI 271053Z 09011KT 10SM FEW025 FEW034 22/17 A3004 RMK AO2 SLP170 T02220172 CWRZ 271000Z AUTO 25012KT M06/M12 RMK AO1 SLP127 T10611120 51023 VEGT 271030Z 00000KT 3000 HZ FEW100 27/14 Q1011 NOSIG KBPI 271053Z AUTO 36003KT SN OVC009 M12/M14 A2955 RMK AO2 SLP065 P0005 T11221139 $ KCGI 271053Z AUTO 12004KT 10SM OVC041 07/04 A3011 RMK AO2 SLP195 T00720044 TSNO CXKI 271000Z AUTO M09/M11 RMK AO1 PRESRR SOG 24 3063 SLP133 T10911110 50002 CWSR 271000Z AUTO 25006KT M20/M24 RMK AO1 SOG 05 8011 SLP124 T11951235 KCHA 271053Z 00000KT 10SM CLR 06/02 A3024 RMK AO2 SLP240 T00560017 EFKI 271050Z 27004KT CAVOK M12/M14 Q1002 KBOS 270954Z 23013KT 10SM FEW250 M01/M07 A3028 RMK AO2 SLP252 T10061072 KCFS 271054Z AUTO 23007KT 10SM SCT047 SCT060 01/M03 A3010 RMK AO2 T00101035 KAXS 271055Z AUTO 08005KT 10SM OVC007 07/04 A2990 RMK AO2 T00730035 NZMC 271000Z 16002KT 20KM SKC 11/10 Q1031 RMK ALT NZHT VATSIM USE ONLY EGBJ 271050Z 24009KT 210V270 9999 -SHRA SCT015CB 07/06 Q0986 CWSS 271000Z AUTO 00000KT M10/M11 RMK AO1 SOG 08 2020 SLP213 T11011112 KBPK 271053Z AUTO 12003KT 10SM CLR 04/M01 A3004 RMK AO2 SLP174 T00391011 KE80 271055Z AUTO 00000KT 10SM CLR M03/M06 A2992 RMK AO2 T10341060 CXLB 271000Z AUTO 27008KT M03/M09 RMK AO1 SLP214 T10321088 53040 CWST 271000Z AUTO 23013G20KT M03/M06 RMK AO1 SOG 30 7016 PK WND 24020/0900 SLP113 T10341056 CYCB 271000Z 31011KT 8SM IC FEW060 M37/M41 A2996 RMK SC1 AURBO SLP153 CYAT 271000Z AUTO 26009KT 9SM CLR M22/M24 A2982 RMK SLP099 CYBK 271000Z 32019KT 10SM IC DRSN SKC M38/M42 A2985 RMK SLP113 EFKK 271050Z 11006KT 080V140 CAVOK M09/M10 Q1002 PGUM 271054Z 09008KT 10SM FEW018 SCT023 27/24 A2994 RMK AO2 SLP130 T02670244 KAZC 271055Z AUTO 15006KT 10SM BKN050 OVC055 04/M01 A2981 RMK AO2 KCHD 270347Z 18003KT 10SM FEW070 14/02 A2990 CXLC 271000Z AUTO 05007KT M38/M42 RMK AO1 SOG 41 8003 SLP163 T13801419 CYBL 270500Z 29005KT 15SM SKC M03/M06 A2978 RMK LAST OBS/NEXT 271400 UTC SLP091 KCFV 271052Z AUTO 00000KT 6SM BR CLR M01/M02 A3000 RMK AO2 SLP163 I1001 T10111017 EGCC 271050Z AUTO 15004KT 090V200 9999 -RA SCT027 BKN035 BKN046 05/04 Q0985 TEMPO SHRA BKN014 KAXV 271054Z AUTO 19007KT 10SM OVC048 04/M08 A3020 RMK AO2 NZMF 271000Z 05001KT 20KM SCT090 16/09 Q1030 RMK ALT NZQN VATSIM USE ONLY CXKM 271000Z AUTO 21006KT M19/M21 RMK AO1 T11871209 CYCD 270500Z 24003KT 180V250 15SM FEW050 M00/M04 A2978 RMK SC1 SLP088 VEGY 271000Z 33007KT 7000 NSC 29/05 Q1013 KBOW 271055Z AUTO 07005KT 10SM CLR 15/13 A3021 RMK AO2 KAZE 271055Z AUTO 13004KT 10SM CLR 12/06 A3024 RMK AO2 T01160062 CWSW 270000Z 15010KT 130V190 15SM FEW040 SCT055 BKN080 M07/M17 A2967 RMK CF1CU2AC4 LAST STFD OBS/NEXT 271400Z SLP108 CWTN 271000Z AUTO 28003KT M05/M06 RMK AO1 0PAST HR 6010 SLP137 P0008 T10501055 50020 CYBN 271000Z AUTO 23007KT 9SM BKN049 BKN062 OVC074 03/M04 A3003 RMK SLP179 EETN 271050Z 20004KT 9999 FEW013 OVC019 M00/M02 Q1005 R08/520295 NOSIG KAXX 271055Z AUTO 24025G32KT 5SM -SN SCT016 SCT022 OVC030 M04/M08 A2983 RMK AO2 T10401077 ZSNJ 271000Z 10004MPS 6000 NSC 13/01 Q1025 NOSIG CYCG 270100Z 36007KT 320V020 15SM VCSH FEW040 SCT100 BKN260 00/M06 A2967 RMK SC2AC2CI2 LAST OBS/NEXT 271400 UTC SLP068 TVSA 271000Z 06013KT 9999 SCT015 26/22 Q1014 CYAY 271029Z AUTO 26018G23KT 9SM -SN OVC028 M06/M10 A2942 RMK ICG PRESRR SLP967 EFJY 271050Z 16006KT 9999 BKN014 M06/M09 Q1003 CYAZ 270100Z 29011KT 15SM FEW024 FEW085 FEW130 07/M02 A2977 RMK CF1AC1CC1 CF TR AC TR CC TR LOAST STFD OBS/NEXT 271500UTC SLP084 CYBQ 271000Z AUTO 34008KT 7SM -SN OVC065 M32/M36 A2974 RMK SLP115 CYBR 271000Z 23009KT 15SM BKN062 M15/M17 A2978 RMK SC5 SLP121 PHMK 271054Z AUTO 03004KT 10SM CLR 21/16 A3004 RMK AO2 SLP173 T02060156 TSNO KAYS 271055Z AUTO 00000KT 10SM CLR 08/08 A3025 RMK AO2 T00760076 KCGS 271041Z AUTO 00000KT 10SM CLR M02/M05 A3037 RMK AO1 CYDA 270000Z VRB02KT 20SM BKN046 OVC073 M04/M05 A2992 RMK SC7AC1 CLIMAT -2.7/-11.8/1.7CM/0.8MWE LAST STFD OBS/NXT 271500Z SLP165 VEIM 271030Z 29009KT 5000 HZ FEW020 23/05 Q1014 NOSIG KBPT 271053Z AUTO 15005KT 6SM BR OVC005 20/19 A2996 RMK AO2 SLP145 T02000189 PWINO $ EFKS 271050Z 29005KT 270V330 9999 OVC033 M06/M09 Q0998 EFMA 271050Z 15010KT 9999 -SN OVC012 01/M01 Q1001 KBQK 271055Z AUTO 05003KT 10SM CLR 10/08 A3027 RMK AO2 KCHK 271055Z AUTO 00000KT 04/03 A2990 RMK AO2 SKY OBSCURED PWINO KF00 271055Z AUTO 00000KT 10SM OVC013 10/09 A2996 RMK AO2 CXKT 271000Z AUTO 26006KT M05/M10 RMK AO1 SOG 19 1033 SLP207 T10461101 CWTT 271000Z AUTO 21010KT M02/M07 RMK AO1 T10211067 CYDB 271054Z AUTO VRB02KT 7SM -SN SCT030 BKN070 M09/M10 A2991 RMK SLP189 ZSOF 271000Z 14003MPS 7000 NSC 14/00 Q1024 NOSIG CYCK 271034Z AUTO 24011KT 9SM CLR 01/M03 A3015 RMK ICG PAST HR SLP220 EFKT 271050Z 28007KT 250V320 9999 BKN025 M04/M09 Q0999 KCIC 271055Z AUTO 00000KT 10SM BKN031 OVC060 06/02 A2990 RMK AO1 CYDC 270100Z 35007KT 310V030 15SM FEW040 SCT055TCU SCT080 SCT250 SCT260 M02/M10 A2974 RMK SC1TCU4AC1CC1CI1 SC TR AC TR CC TR CI TR LAST STFD OBS/NEXT 271500UTC SLP100 CXLL 271000Z AUTO 36002KT M22/M25 RMK AO1 SOG 43 2026 SLP144 T12191246 CWTU 271000Z AUTO ///// M11/ A2897 RMK SLP847 CYBU 271000Z AUTO 26008KT 8SM BKN036 BKN060 M19/M22 A2985 RMK SLP145 KBRD 271053Z AUTO 00000KT 10SM BKN070 OVC100 M08/M12 A2991 RMK AO2 SLP150 T10831117 EETU 271050Z 00000KT 9999 OVC018 01/M04 Q1006 KCID 271052Z 11004KT 9SM FEW075 M05/M06 A3003 RMK AO2 SLP179 T10501056 EFKU 271050Z 25004KT CAVOK M09/M11 Q1004 CXMD 271000Z AUTO 26007KT M11/M14 RMK AO1 SOG 01 0000 SLP122 T11121138 CWVD 271000Z AUTO 35010KT M26/ A2915 RMK SLP953 CYBW 271000Z AUTO 16005KT 9SM FEW170 SCT200 M19/M21 A2960 RMK SLP115 PHNG 270857Z VRB05KT 7SM FEW025 22/18 A3004 RMK SLP166 6//// T02170183 50004 KAZO 271053Z 22005KT 10SM CLR 01/M06 A3013 RMK AO2 SLP211 T00061056 KCHO 271053Z 26003KT 10SM CLR M02/M07 A3037 RMK AO2 SLP285 T10171067 EGCN 271050Z 23010KT 3200 -RA SCT012 BKN025 06/05 Q0986 CYBX 271000Z 28022G33KT 15SM FEW020 M09/M15 A2945 RMK SC1 PRESRR SLP976 CYCO 271027Z 23014KT 12SM IC DRSN FEW100 M35/M39 A3009 RMK AS1 SLP197 CYDF 271000Z 26015G31KT 10SM -SN OVC033 M04/M10 A2964 RMK SC8 PRESRR SLP040 CWVF 271045Z AUTO 25008KT 04/ RMK AO1 T0042 KF05 271055Z AUTO 04003KT 10SM OVC006 08/03 A2989 RMK AO1 T00780029 KBQP 271035Z AUTO 07006KT 3SM +RA SCT004 BKN034 OVC040 11/11 A3007 RMK AO2 LTG DSNT E W AND NW P0019 T01100107 CYCP 270000Z 05006KT 010V070 15SM FEW065 M02/M17 A2976 RMK CU2 LAST OBS/NEXT 271400Z SLP116 CXMG 271000Z AUTO 02006KT M14/M16 RMK AO1 T11401155 CWTY 271000Z AUTO 21016KT M01/M04 RMK AO1 5000 PK WND 21022/0943 SLP138 T10051035 50010 CWUP 271000Z AUTO 36022KT M25/ A2928 RMK SLP969 EFLP 271050Z AUTO 00000KT CAVOK M09/M10 Q1005 CYCQ 270000Z 21008KT 180V250 35SM DRSN SCT040 BKN100 BKN160 OVC200 M03/M14 A2978 RMK SC3AC2AS1CI2 VIRGA SW DIST PCPN S LAST STFD OBS/NEXT 271400Z SLP125 CWVH 271000Z AUTO 12005KT A3000 CWVI 271000Z AUTO 22005KT M18/M20 RMK AO1 SLP118 T11801203 58014 CXMI 271000Z AUTO 30009G15KT M03/M08 RMK AO1 PK WND 31017/0904 SLP204 T10341084 51042 ZSPD 271030Z 11003MPS 060V140 CAVOK 08/02 Q1028 NOSIG EFMI 271050Z AUTO 09001KT 9999 OVC007 M08/M08 Q1005 KCHS 271056Z 05003KT 8SM FEW200 06/04 A3032 RMK AO2 SLP266 T00560039 KDAA 271058Z AUTO 00000KT 10SM OVC100 M02/M04 A3038 RMK AO2 SLP291 T10161040 CYCS 262100Z 01013KT 15SM IC DRSN FEW130 BKN260 M26/M29 A2972 RMK AC2CI3 -22.2/-26.4/TR/37 TRACE LOOSE LAST STFD OBS NXT 271300Z SLP068 CWWA 271000Z AUTO 00000KT M01/M07 RMK AO1 SLP072 T10101069 56002 CWUS 271000Z AUTO 28005KT M06/M12 RMK AO1 SLP089 T10581124 57006 KDAB 271053Z 09004KT 10SM CLR 18/14 A3023 RMK AO2 SLP236 T01780139 $ PHNL 271053Z 03004KT 10SM FEW027 22/16 A3003 RMK AO2 SLP167 T02170161 $ CWWB 271000Z AUTO 21009KT 04/M05 RMK AO1 SLP191 T00411046 51011 KBRL 271053Z AUTO 17004KT 3SM BR CLR M02/M02 A3007 RMK AO2 SLP188 I1000 T10171022 $ EGEC 271050Z VRB10KT 9999 FEW019 05/02 Q0982 CYDL 271000Z AUTO VRB02KT 9SM SCT040 BKN050 OVC100 M14/M15 A2973 RMK SLP114 CXMM 271000Z AUTO 08006KT M20/M23 RMK AO1 SOG 15 7012 SLP098 T12021228 50002 EGDM 270950Z 19015KT 9999 FEW010 SCT040 OVC090 07/05 Q0988 BLU TEMPO 5000 SHRA SCT015 WHT CYED 271000Z AUTO 22007KT 9SM CLR M16/M20 A2968 RMK SLP103 KCIN 271055Z AUTO 00000KT 10SM CLR M06/M06 A2998 RMK AO2 NZNP 271000Z 15006KT 25KM SKC 18/15 Q1030 RMK ALT VATSIM USE ONLY CWVN 271000Z AUTO 07003KT M15/M17 RMK AO1 SOG 04 8002 SLP127 T11541173 CWWE 271000Z AUTO 26005KT M05/M08 RMK AO1 SOG 10 3038 SLP227 T10541080 CWUW 271038Z AUTO 08024G36KT ////SM //// SCT002 BKN024 BKN040 M24/M26 A2909 CYDN 271000Z AUTO 03011KT 4SM -SN OVC030 M14/M16 A2983 RMK SLP128 KBRO 271053Z AUTO 16006KT 10SM FEW017 21/19 A2987 RMK AO2 SLP115 T02060194 PHOG 271054Z AUTO 07007KT 10SM CLR 17/14 A3002 RMK AO2 SLP171 T01720139 TSNO KBQX 271055Z AUTO 16014KT 3SM BR FEW012 SCT023 BKN028 22/21 A2991 RMK A01 NZOH 271000Z 11011KT 35KM SCT065 18/14 Q1030 RMK ALT NZPM VATSIM USE ONLY CXMO 271000Z AUTO 19008KT M16/M18 RMK AO1 T11621183 CWWF 271000Z AUTO 31006KT M17/M19 RMK AO1 SOG 05 1004 SLP137 T11651193 CWUX 271000Z AUTO 05002KT M06/M08 RMK AO1 SLP085 T10591083 56011 VDSR 271030Z 22005KT 190V250 9999 SCT017 31/20 Q1008 CYCX 271000Z 21008KT 15SM SKC M07/M12 A3010 RMK DA-2772FT SLP197 KDAG 271050Z AUTO 28014KT 10SM CLR 06/02 A2983 RMK AO2 SLP095 T00610017 NZNR 271000Z 09006KT 25KM SCT013 20/16 Q1032 RMK ALT VATSIM USE ONLY VEJS 271000Z 16004KT 4500 HZ NSC 33/03 Q1011 CYDP 271000Z 29032G43KT 12SM DRSN FEW018 FEW220 M14/M17 A2917 RMK CF1CI1 PRESRR SLP879 CWVP 271000Z AUTO 35002KT M19/M22 RMK AO1 SOG 06 8010 SLP101 T11921219 50002 CYEG 271000Z 19007KT 15SM FEW110 SCT150 M19/M22 A2968 RMK AC2AS1 SLP111 CYCY 271001Z AUTO 31015G20KT 3SM -SN OVC039 M30/M34 A2963 RMK SLP042 ORER 271000Z VRB03KT 7000 NSC 21/03 Q1020 NOSIG NZNS 271000Z 15002KT 45KM SKC 17/13 Q1031 RMK ALT VATSIM USE ONLY CWVQ 271000Z AUTO 23011G19KT 02/M05 RMK AO1 SOG 02 3002 PK WND 24022/0913 SLP154 T00201047 CYDQ 271000Z AUTO 00000KT 9SM OVC075 M11/M14 A2957 RMK SLP061 KCIR 271055Z AUTO 09004KT 10SM OVC043 07/05 A3011 RMK AO2 T00710054 KF17 271035Z AUTO 12006KT 10SM OVC011 20/19 A2998 RMK AO2 T01950187 UNKL 271030Z VRB01MPS 6000 SCT029CB M03/M05 Q1029 R29/810260 NOSIG RMK QFE746 ZSQD 271000Z 17004MPS CAVOK 08/M01 Q1023 NOSIG EGDR 271050Z 26016KT 9999 SCT012 FEW016CB SCT030 06/02 Q0988 GRN TEMPO 3500 SHRAGS FEW006 BKN012 YLO1 PGWT 270950Z 07010KT 7SM SCT016 BKN120 26/23 A2991 RMK LAST KBTA 271055Z AUTO 15006KT 10SM CLR M02/M06 A2996 RMK AO2 T10211056 CWXA 271000Z AUTO 00000KT M23/M26 RMK AO1 6017 SLP096 T12341262 50002 KCKB 271053Z AUTO 00000KT 10SM BKN080 OVC095 M01/M05 A3030 RMK AO2 SLP264 T10061050 NZNV 271000Z 28007KT 10KM SHRA SCT017 13/11 Q1032 RMK ALT VATSIM USE ONLY CWWK 271000Z AUTO 36002KT M01/M08 RMK AO1 SLP083 T10091077 53001 CWVT 271000Z AUTO 14003KT M26/M28 RMK AO1 SOG 31 8014 SLP138 T12571275 KDAL 271053Z 15007KT 10SM FEW006 OVC010 17/15 A2991 RMK AO2 SLP125 T01720150 $ CYFB 271000Z 07009G16KT 6SM -SN DRSN VV040 M13/M17 A2893 RMK SN8 SLP802 KCIU 271056Z AUTO 23006KT 10SM CLR M12/M13 A3005 RMK AO2 SLP204 T11171128 FZRANO KCKC 271053Z AUTO 00000KT 10SM CLR M18/M22 A2990 RMK AO2 CYEK 271058Z AUTO 35015KT 6SM -SN CLR M33/M37 A2978 RMK SLP088 VEKO 271000Z 05008KT 6000 NSC 29/03 Q1014 CWVU 271000Z AUTO 31009KT M02/M08 RMK AO1 PK WND 30020/0906 SLP240 T10161084 52029 CWXC 271000Z AUTO 00000KT M07/M07 RMK AO1 1PAST HR 6012 SLP061 P0004 T10701072 50013 CYFC 271000Z AUTO 18007KT 9SM CLR M08/M11 A3010 RMK SLP196 CXNM 271000Z AUTO 30027G37KT RMK AO1 SOG 201 PK WND 30038/0907 KDAN 271053Z AUTO 00000KT 10SM CLR M01/M02 A3035 RMK AO2 SLP274 T10061022 CYEN 271000Z 29007KT 15SM FEW055 BKN220 M17/M19 A2981 RMK SC1CI4 SLP142 PHNY 271056Z AUTO 04005KT 10SM 17/16 A3008 RMK AO2 SLP169 T01670156 $ KCKF 271055Z AUTO 17004KT 10SM CLR 12/05 A3026 RMK AO2 T01240046 EGEO 271020Z 15006KT 9999 FEW014 SCT024 05/01 Q0983 EGDX 271050Z 25013KT 9999 -SHRA FEW015 BKN022 06/04 Q0985 WHT EGFF 271050Z AUTO 25013KT 9999 BKN017/// //////TCU 06/04 Q0986 CXNP 271000Z AUTO 22005KT M05/M10 RMK AO1 SOG 38 1035 SLP202 T10521096 50002 CXMY 271000Z AUTO M04/M09 RMK AO1 T10411092 EGDY 271050Z 23012KT 9999 FEW020 SCT040 BKN110 09/04 Q0986 BLU TEMPO 6000 SHRA SCT020 WHT KCKI 271055Z AUTO 00000KT 10SM CLR 00/00 A3033 RMK AO2 KCJR 271035Z AUTO 00000KT 10SM OVC090 M02/M04 A3038 RMK AO2 T10251042 CWXI 271000Z AUTO 28029G35KT M06/M10 RMK AO1 PRESRR SOG 21 3067 PK WND 27036/0917 SLP978 T10611098 CYER 271000Z AUTO 26007KT 9SM CLR M29/M32 A2977 RMK SLP086 KDCA 271052Z VRB03KT 10SM SCT140 SCT160 BKN250 03/00 A3038 RMK AO2 SLP286 T00280000 CXPA 271000Z AUTO 06004KT M15/M16 RMK AO1 T11461162 CWWS 271000Z AUTO 35006KT M21/M24 RMK AO1 SOG 47 3010 SLP135 T12121238 NZPM 271000Z 11011KT 35KM SCT065 18/14 Q1030 RMK ALT VATSIM USE ONLY CYET 271000Z AUTO 25005KT 220V290 9SM OVC130 M20/M22 A2960 RMK SLP097 KBTL 271053Z 23008KT 10SM CLR 00/M04 A3013 RMK AO2 SLP209 T00001044 CWWU 271000Z 25014G20KT 15SM BKN050 01/M02 A2961 RMK SC5 SLP027 CXOL 271000Z AUTO 22008KT M18/M19 RMK AO1 T11831193 CXPC 271000Z AUTO M01/M05 RMK AO1 SOG 09 3037 SLP164 T10061053 CWXL 270800Z AUTO 05003KT M16/M18 RMK AO1 T11591175 KBTM 271053Z AUTO 14003KT 10SM CLR M10/M14 A2951 RMK AO2 SLP044 T11001144 $ CYEV 271000Z 07005KT 15SM BKN140 M31/M35 A3009 RMK AC5 SLP204 VELP 270900Z 27005KT 5000 HZ FEW020 29/08 Q1011 NOSIG EGGD 271050Z AUTO 21012KT 190V250 9999 NCD 06/03 Q0986 KCLE 271051Z 20008KT 10SM FEW070 OVC250 03/M08 A3023 RMK AO2 SLP244 T00331078 KDAW 271051Z AUTO 00000KT 10SM CLR M04/M09 A3021 RMK AO2 SLP233 T10441089 KCKN 271055Z AUTO 18005KT 10SM CLR M12/M13 A2991 RMK AO2 KDBN 271035Z AUTO 00000KT 10SM CLR 04/03 A3028 RMK AO2 NZPP 271000Z 23003KT 45KM SKC 17/15 Q1031 RMK ALT VATSIM USE ONLY CYGE 270000Z 36003KT 300V040 20SM FEW065TCU BKN190 BKN220 M03/M12 A2969 RMK TCU2AC3CI1 TCU N-E SH DIST N-E LAST STFD OBS/NEXT 271400Z SLP098 KBUF 271054Z 22016G24KT 10SM FEW095 03/M08 A3013 RMK AO2 PK WND 23027/1002 SLP212 T00331078 $ CYFO 270000Z 34006KT 15SM -SN DRSN BKN030 M15/M21 A2979 RMK SC5 SNW CVR/MUCH LOOSE LAST OBS/NEXT 271200UTC SLP121 VELR 270900Z 05005KT 3000 HZ SCT018 BKN100 23/15 Q1014 CWWX 271000Z AUTO 34018KT M02/M07 RMK AO1 PK WND 34025/0921 SLP177 T10191066 53035 KBTP 271055Z AUTO 19004KT 10SM SCT100 01/M10 A3026 RMK AO1 KCKP 271055Z AUTO 00000KT 10SM CLR M11/M12 A2996 RMK AO2 T11121116 KDAY 271056Z 23003KT 10SM OVC055 04/M06 A3022 RMK AO2 SLP239 T00441061 KDBQ 271053Z AUTO 00000KT 10SM FEW050 M04/M06 A3005 RMK AO2 SLP189 T10391056 CYGH 261900Z 04006KT 010V070 1 1/2SM -SN VV018 M22/M25 A2988 RMK SN8 -22.0/-24.4/1.6/50 SNW CVR/MUCH LOOSE/LAST STFD OBS/NXT 271400UTC SLP131 CWWZ 271000Z AUTO 23009KT 04/M03 RMK AO1 PK WND 21018/0913 SLP198 T00361026 53009 KBTR 271053Z AUTO 09004KT 10SM -RA OVC016 18/16 A3002 RMK AO2 RAB48 SLP165 P0000 T01780161 KCLI 271055Z AUTO 00000KT 10SM OVC070 M05/M07 A3006 RMK AO2 CWXR 271000Z AUTO 27007KT M32/ A3006 RMK SLP197 KCMA 271055Z 08006KT 10SM SCT040 BKN070 OVC085 11/07 A2991 RMK AO2 SLP138 T01110072 NZRC 271000Z 28007KT 10KM SHRA SCT017 13/11 Q1032 RMK ALT NZNV VATSIM USE ONLY CWZA 271000Z AUTO 03005KT M00/M08 RMK AO1 SLP083 T10031081 55001 CWYJ 271000Z AUTO 32003KT M02/M04 RMK AO1 SLP079 T10211042 56001 CYFS 271000Z VRB02KT 3SM -SN VV025 M22/M25 A2992 RMK SN8 SLP156 KCLK 271115Z AUTO 04005KT 10SM BKN009 02/00 A2991 RMK AO2 CYGK 270400Z 21012G18KT 15SM SCT054 OVC075 01/M04 A3004 RMK SC4AC4 LAST STFD OBS/NEXT 271100 UTC SLP177 CYFT 271000Z 27029G39KT 15SM FEW025 M12/M19 A2925 RMK SC1 TR SC /S02/ AFT 18 UTC PRESRR SLP913 VEMN 270900Z 36005KT 3000 HZ SCT020 BKN100 22/13 Q1014 NOSIG CWYK 271000Z AUTO ///// M21/ A2866 RMK SLP764 KDDC 271052Z AUTO 14008KT 9SM CLR M04/M06 A2986 RMK AO2 SLP117 T10391061 KCLL 271053Z AUTO 15006KT 6SM BR FEW019 OVC038 19/19 A2994 RMK AO2 SLP135 T01940189 NZQN 271000Z 05001KT 20KM SCT090 16/09 Q1030 RMK ALT VATSIM USE ONLY EGHC 271050Z 25016KT 9999 VCSH FEW008 SCT015 06/03 Q0988 CXPL 271000Z AUTO 20004KT M19/M20 RMK AO1 T11861200 CWYL 271000Z AUTO 10001KT M20/M21 RMK AO1 SOG 82 6008 SLP065 T11951214 CYGL 271000Z 24010KT 15SM -SN BKN011 M21/M24 A2962 RMK SC6 SLP056 KCLM 271053Z AUTO 24005KT 10SM CLR M01/M01 A2975 RMK AO2 SLP077 T10061011 KCKV 271052Z AUTO 15006KT 7SM -RA OVC055 07/06 A3018 RMK AO2 SLP220 P0005 T00720056 EFOU 271050Z AUTO 12004KT CAVOK M11/M13 Q1003 R12/35//95 KBTV 271054Z 18012G20KT 10SM BKN060 M01/M08 A3010 RMK AO2 SLP197 T10061078 KCMD 271055Z AUTO 00000KT 10SM SCT090 10/M04 A3017 RMK AO2 T01001040 KDCM 271055Z AUTO 00000KT 10SM CLR 02/M03 A3034 RMK AO2 KBVE 271051Z AUTO 14010KT 10SM CLR 19/18 A3007 RMK AO2 SLP180 T01940178 $ CWYM 271000Z AUTO ///// M19/ A2870 RMK SLP788 CYHD 271034Z AUTO 21008KT 9SM CLR M13/M15 A2982 RMK SLP136 EGHE 271050Z 25024G35KT 9999 FEW010CB 07/02 Q0989 CYHE 271000Z AUTO 08006KT 040V110 9SM CLR M02/M06 A2981 RMK SLP098 CXOX 271000Z AUTO 26002KT M24/M27 RMK AO1 SOG 21 8006 SLP133 T12421269 EFPO 271050Z AUTO 12009KT 9999 FEW013/// BKN084/// M08/M09 Q1003 CXOY 271000Z AUTO 22006KT M20/M22 RMK AO1 T11981217 CWZG 271000Z AUTO 00000KT M21/M22 RMK AO1 SOG 16 6014 SLP097 T12081215 CYGP 271000Z 29004KT 15SM SKC M09/M16 A2987 RMK SLP119 EGGP 271050Z 19008KT 140V210 9999 -SHRA FEW014 OVC029 06/04 Q0984 KCMH 271051Z 17003KT 10SM OVC065 06/M06 A3023 RMK AO2 SLP242 T00561061 KDDH 271054Z AUTO 17003KT 10SM FEW070 M04/M09 A3021 RMK AO2 SLP240 T10391089 KCKZ 271055Z AUTO 00000KT 10SM OVC100 M03/M07 A3036 RMK AO2 KF46 271055Z AUTO 14004KT 10SM OVC010 16/15 A2993 RMK AO2 T01570153 KBVI 262147Z 25009G15KT 10SM CLR 03/M10 A3013 RMK LAST EGHH 271050Z 20013KT 9999 -RA FEW010 SCT039 BKN044 08/06 Q0988 CYGQ 271000Z 21004KT 15SM SKC M19/M22 A2990 RMK SLP159 KCMI 271053Z AUTO 12004KT 10SM BKN032 OVC055 02/M02 A3013 RMK AO2 SLP207 T00221017 KBUR 271053Z 15005KT 10SM BKN036 OVC060 10/04 A2991 RMK AO2 SLP121 T01000044 CYHI 262000Z 02006KT 15SM FEW070 FEW170 FEW210 M30/M34 A3014 RMK AS1AS1CI1 AS TR AS TR CI TR -30.1/-31.4/S0.0/DD/HARD PACK/LST STFD OBS/NXT 271500Z SLP216 CYGR 271000Z 28017G26KT 15SM SCT033 M04/M10 A2996 RMK SC3 SLP147 EGHI 271050Z 22011KT 9999 VCSH FEW022 SCT032 07/04 Q0988 KCLS 271055Z AUTO 19004KT 10SM BKN007 OVC013 03/03 A2978 RMK AO2 KCLT 271052Z 35003KT 10SM BKN160 04/M04 A3033 RMK AO2 SLP271 T00441039 KCNB 271054Z AUTO 23009KT 10SM CLR M02/M05 A2987 RMK AO2 T10181055 CXRB 271000Z AUTO 00000KT M36/M40 RMK AO1 SOG 01 6007 SLP076 T13551404 KDCU 271053Z AUTO 08006KT 10SM CLR 08/03 A3017 RMK AO2 SLP216 T00780033 $ CYHK 271050Z AUTO 29005KT 1 1/4SM HZ CLR M40/M45 A2983 RMK SLP114 KDEC 271054Z AUTO 15005KT 10SM OVC040 02/01 A3013 RMK AO2 UPE0958 SLP207 P0000 T00220011 KCNC 271055Z AUTO 19006KT 10SM CLR M02/M02 A3002 RMK AO2 KBUU 271055Z AUTO 00000KT 10SM CLR M04/M04 A3010 RMK AO2 T10451045 CWZL 271000Z AUTO 29003KT 03/M00 RMK AO1 SLP102 T00311002 56016 KBWD 271035Z AUTO 14004KT 3SM BR BKN006 OVC012 16/16 A2991 RMK AO2 KDED 271055Z AUTO 00000KT 10SM CLR 10/08 A3023 RMK AO2 NZRO 271000Z 14001KT 25KM SCT060 20/18 Q1031 RMK ALT NZTG VATSIM USE ONLY CYGV 271000Z AUTO 27015G20KT 9SM SCT240 M09/M15 A2977 RMK SLP085 CYHM 271000Z 23017KT 15SM FEW070 02/M04 A3007 RMK AC1 SLP195 KCLW 271055Z AUTO 09005KT 10SM CLR 16/12 A3019 RMK AO2 KBVN 271055Z AUTO 00000KT 10SM CLR M08/M11 A2991 RMK AO2 T10841106 PHSF 271056Z AUTO 00000KT 4SM M CLR 07/05 A3030 RMK AO2 SLP164 T00690049 $ CWZN 271000Z AUTO 27040G47KT M02/M06 RMK AO1 PK WND 27047/0934 SLP039 T10231055 53048 KBVO 271053Z AUTO 00000KT 9SM CLR M02/M04 A3000 RMK AO2 SLP157 T10221044 TSNO EGGW 271050Z AUTO 18013KT 150V220 9999 OVC011/// //////CB 08/06 Q0987 CYGW 271037Z AUTO 24016G24KT 5SM BR FEW025 M20/M22 A2957 RMK SLP018 CWZO 271000Z AUTO 34008KT RMK AO1 CYGX 271000Z 28005KT 15SM SKC M31/M35 A2981 RMK SLP117 ZSSS 271030Z 11004MPS 080V150 CAVOK 11/M05 Q1027 NOSIG KBWG 271053Z AUTO 12004KT 10SM -RA OVC046 07/06 A3021 RMK AO2 SLP232 P0004 T00720056 KBUY 271054Z AUTO 27003KT 10SM CLR 01/M03 A3035 RMK AO2 PRESRR SLP278 T00061033 TSNO $ KDCY 271035Z AUTO 17008KT 10SM BKN048 OVC065 06/M01 A3018 RMK AO2 T00631011 CWYY 271000Z AUTO 01007KT M02/M08 RMK AO1 SOG 00 6003 SLP084 T10171075 KDEH 271055Z AUTO 17003KT 10SM CLR M05/M06 A3001 RMK AO2 EGHQ 271020Z 23010KT 9999 SCT015 SCT028 05/03 Q0988 CWZQ 271040Z AUTO 29015G20KT M03/M08 RMK AO1 T10251076 UNNT 271030Z 17004MPS CAVOK 02/M01 Q1026 R25/290150 R16/290150 NOSIG RMK QFE760/1013 CXRH 271000Z AUTO 27014G23KT M05/M10 RMK AO1 28 0942Z T10521097 KBWI 271054Z 00000KT 10SM FEW100 FEW250 M03/M05 A3037 RMK AO2 SLP285 T10281050 KCMR 271055Z AUTO 19014G22KT 10SM BKN021 OVC026 00/M04 A2985 RMK AO2 KCNI 271055Z AUTO 09003KT 10SM CLR 08/M12 A3026 RMK AO2 KBXA 271055Z AUTO 16003KT 10SM SCT023 BKN034 OVC120 17/14 A3006 RMK AO2 T01720143 KBVS 271055Z AUTO 00000KT 10SM CLR M02/M04 A2975 RMK A01 EGJA 271050Z 23019KT 9999 -SHRA SCT017 06/06 Q0990 CWZS 271000Z AUTO 14007KT M10/M12 RMK AO1 SLP111 T10951115 58004 EFSA 271050Z AUTO 28005KT 250V320 9999 BKN009 M07/M09 Q1005 KCNK 271055Z AUTO 11003KT 10SM CLR M03/M07 A2992 RMK AO2 SLP141 T10331072 CYIK 262200Z 01024KT 1SM -SN BLSN BKN012 OVC019 M15/M17 A2911 RMK SN4SC3SC1 SN MUCH LOOSE LAST OBS/NEXT 271300UTC SLP865 EGJB 271050Z 22021G34KT 190V260 9999 4500W SHRAGS FEW007 BKN013CB BKN029 05/05 Q0991 KBVU 271055Z AUTO 20007KT 10SM 09/01 A2979 RMK AO2 CXSC 271000Z AUTO 21003KT M20/M22 RMK AO1 T11951224 UNOO 271030Z 19010G16MPS 9999 BKN017 BKN033CB 01/M03 Q1013 R25/150055 TEMPO 17018MPS RMK QFE751 CXRL 271000Z AUTO 18003KT M18/M18 RMK AO1 T11781175 CYHU 271000Z AUTO 23015G24KT SCT075 OVC110 02/M05 A2998 RMK WX MISG VIS MISG PCPN MISG SLP156 KCNM 271053Z AUTO 10SM CLR 04/M05 A2990 RMK AO2 SLP098 T00391050 PWINO $ KCOD 271056Z AUTO 35003KT 10SM CLR M06/M12 A2953 RMK AO2 SLP038 T10611117 FZRANO CWZV 271000Z AUTO 31018KT 04/02 RMK AO1 6023 PK WND 30023/0924 SLP091 T00400021 50001 KDEN 271053Z 21011KT 10SM FEW220 M04/M14 A2968 RMK AO2 SLP054 T10441144 KCOE 271056Z AUTO 00000KT 3SM -SN BR BKN003 OVC007 M02/M03 A2964 RMK AO2 CIG 002V006 SLP075 P0000 T10221028 FZRANO NZTG 271000Z 14001KT 25KM SCT060 20/18 Q1031 RMK ALT VATSIM USE ONLY NZSP 270550Z 02012KT 1600 IC BR SCT015 OVC070 M45/ A2882 RMK CLN AIR 01012KT ALL WNDS GRID SDP/HDP CXSE 270700Z AUTO 27011KT M38/M42 RMK AO1 T13781419 CWZW 271000Z AUTO 26007KT M08/M12 RMK AO1 SOG 28 1001 SLP143 T10751116 CYIN 271000Z AUTO VRB02KT 9SM BKN150 BKN170 M23/M25 A2959 RMK SLP099 KCNO 271053Z AUTO 00000KT 7SM BKN060 08/06 A2994 RMK AO2 SLP138 T00780061 KCMX 271053Z AUTO 00000KT 10SM CLR M12/M17 A2997 RMK AO2 SLP172 T11221167 KBVX 271055Z AUTO 00000KT 10SM CLR 06/04 A3007 RMK AO1 KCOF 271058Z AUTO 10010KT 10SM CLR 22/18 A3021 RMK AO2 SLP234 T02170178 CYIO 271057Z AUTO 18004KT 6SM HZ CLR M42/M46 A2969 RMK SLP069 KBVY 271053Z AUTO 23007KT 10SM CLR M02/M07 A3027 RMK AO2 SLP247 T10171072 $ EFRO 271050Z 20005KT 9999 SCT034 BKN200 M09/M11 Q1000 KCMY 271055Z AUTO 00000KT 10SM CLR M09/M10 A3004 RMK AO2 T10921100 KBWP 271035Z AUTO 09004KT 10SM M06/M10 A2990 RMK AO1 CYHY 271000Z 07006KT 15SM BKN085 BKN230 M34/M37 A2990 RMK AC5CI2 SLP155 ZUCK 271000Z VRB01MPS CAVOK 12/04 Q1022 NOSIG KDEQ 271056Z AUTO 14006KT 4SM -TSRA BR BKN007 BKN032 OVC080 11/11 A3000 RMK AO2 LTG DSNT E AND W TSE55B56 P0003 T01060106 CXSH 271000Z AUTO 22011KT M03/M04 RMK AO1 SLP132 T10261041 55000 CWZZ 271000Z AUTO 27045G54KT ////SM //// BKN034 BKN044 OVC055 M18/M20 A2860 CYHZ 271000Z 31012KT 15SM SKC M05/M09 A3009 RMK SLP199 KDFI 271053Z AUTO 20004KT 10SM CLR M02/M07 A3019 RMK AO2 SLP230 T10171067 EFSI 271050Z AUTO 13007KT CAVOK M08/M11 Q1002 EGKA 271050Z 22012KT 9999 -RA FEW009 SCT013 BKN032 08/07 Q0990 CYKA 271000Z 26008KT 40SM SKC M06/M12 A2977 RMK SLP100 KDET 271053Z 22007KT 10SM CLR 01/M05 A3016 RMK AO2 SLP218 T00111050 EGJJ 271050Z 23026KT 9999 FEW010 FEW013CB SCT028 07/06 Q0992 TEMPO 4000 SHRAGS BKN012CB KF70 271035Z AUTO 00000KT 10SM SCT021 OVC026 07/06 A2994 RMK AO1 KBXK 271035Z AUTO 15005KT 10SM BKN075 09/04 A2993 RMK AO1 EGKB 271050Z 19017KT 3000 SHRA SCT015 BKN020 08/07 Q0989 KCNU 271052Z AUTO 08004KT 6SM BR CLR M05/M06 A3000 RMK AO2 SLP162 I1000 T10501056 KCPC 271050Z AUTO 05003KT 10SM CLR 01/00 A3036 RMK AO2 T00110002 EHAK 271055Z AUTO 18019KT 9000 BKN003/// BKN006/// 06/05 Q0990 CXSL 271000Z AUTO 15005KT M21/M23 RMK AO1 T12051234 KCOM 271055Z AUTO 00000KT 1/4SM FG OVC003 12/12 A2991 RMK AO2 T01210118 CYKD 262000Z 33008KT 12SM -SN BKN035 M24/M29 A3015 RMK SC5 0.2/SNWCVR/MUCHLOOSE LAST STFD OBS/NEXT 271400Z SLP211 CXTD 271000Z AUTO 29011G19KT M04/M10 RMK AO1 SOG 00 1047 PK WND 30023/0904 SLP191 T10421103 CYIV 271000Z 00000KT 15SM FEW250 M28/M31 A2980 RMK CI1 SLP123 KDEW 271053Z AUTO 31005KT 5SM BR OVC004 M05/M07 A2965 RMK AO2 SLP061 T10501067 KCON 271051Z AUTO 17005KT 10SM CLR M05/M09 A3023 RMK AO2 SLP241 T10501089 KCNW 270455Z 00000KT 10SM OVC020 18/15 A2992 KBWW 271055Z AUTO 12008KT 10SM OVC007 M06/M07 A2960 RMK AO2 PHTO 271053Z 27006KT 10SM -RA SCT023 BKN040 OVC055 20/19 A3005 RMK AO2 RAB30 SLP174 P0011 T02000189 EHAM 271055Z 19018KT 9999 -RADZ FEW012 SCT015 BKN022 09/07 Q0996 TEMPO 7000 BKN014 CZBF 271000Z 21009KT 15SM FEW020 M08/M13 A2995 RMK SC1 SLP147 CYKF 271000Z AUTO 22012KT 9SM CLR 00/M05 A3004 RMK SLP187 KBYG 271053Z AUTO VRB04KT 10SM CLR M05/M17 A2953 RMK AO2 SLP032 T10501172 KCNY 271053Z AUTO 18008KT 10SM OVC075 04/M07 A2968 RMK AO2 SLP044 T00441067 CXSP 271000Z AUTO 21006KT M17/M20 RMK AO1 T11691198 50008 KCOQ 271055Z AUTO 00000KT 10SM OVC044 M09/M13 A2992 RMK AO2 CXTH 271000Z AUTO 19007KT M19/M21 RMK AO1 T11891213 VEPT 271030Z 30005KT 6000 NSC 28/06 Q1012 NOSIG KBYI 271053Z AUTO 23006KT 10SM CLR M02/M05 A2960 RMK AO2 SLP030 T10171050 CXSR 271000Z AUTO 24006KT M12/M14 RMK AO1 SOG 40 6010 SLP038 T11191135 VERC 271030Z 33013KT 6000 NSC 29/04 Q1015 NOSIG KCOS 271054Z 03011KT 10SM CLR M07/M18 A2969 RMK AO2 SLP081 T10721183 NZTU 271000Z 23001KT 10KM SHRA SCT100 12/11 Q1032 RMK ALT VATSIM USE ONLY KCOT 271053Z AUTO 11006KT 5SM BR OVC016 19/17 A2987 RMK AO2 SLP106 T01940172 $ CYKJ 271010Z AUTO 21003KT 3SM -SN BKN038 M38/M42 A2973 RMK SLP140 KCPK 271055Z AUTO 00000KT 10SM CLR 00/M01 A3041 RMK AO2 T10031013 KCQB 271055Z AUTO 00000KT 10SM BKN020 04/02 A2994 RMK AO2 CYJT 271000Z 28016G29KT 15SM BKN018 M04/M09 A2977 RMK SC7 SLP084 EGKK 271050Z 22012G22KT 9999 -SHRA SCT014 BKN032 08/07 Q0989 RESHRA KCOU 271054Z AUTO 11007KT 10SM CLR 01/00 A3005 RMK AO2 SLP181 I1000 T00060000 EHBK 271055Z AUTO 21021KT 9999 FEW034 OVC038 11/05 Q0999 NOSIG KCQC 271053Z AUTO 28016KT 10SM CLR M03/M07 A2988 RMK AO2 SLP123 T10331072 KBYL 271035Z AUTO 14005KT 10SM CLR 04/M03 A3026 RMK AO1 EGLC 271050Z 24019G30KT 6000 RA FEW014CB SCT024 BKN036 09/07 Q0989 CYKL 271054Z AUTO 26016G24KT 6SM -SN FEW018 M19/M22 A2930 RMK SLP972 CYLD 270200Z 21005KT 12SM -SN SCT012 BKN025 BKN035 M05/M06 A2959 RMK SF3SC2SC1 LAST OBS/NEXT 27 1100Z SLP055 KDFW 271053Z 00000KT 10SM OVC008 17/15 A2990 RMK AO2 SLP121 T01670150 CXTN 271000Z AUTO 00000KT M35/M38 RMK AO1 SLP181 T13491382 55002 KCQF 271035Z AUTO 00000KT 10SM SCT065 10/09 A3012 RMK AO2 CYKO 262200Z 03024G30KT 1/4SM +BLSN OVC088 M14/M16 A2898 RMK BLSN4AC4 SN CVR MEDIUM PACK LAST STFD OBS/NXT 271300UTC SLP817 EGLF 271050Z 20015KT 9999 VCSH FEW032 08/07 Q0988 CXTO 271000Z AUTO 04/M05 RMK AO1 SLP185 T00351046 51011 CXTP 271000Z AUTO 28014G23KT M02/M06 RMK AO1 PRESRR SOG 51 3039 PK WND 29024/0900 SLP003 T10241056 CYKP 271000Z AUTO 25006KT 9SM FEW042 M19/M21 A2986 RMK SLP135 EFTP 271050Z 15006KT CAVOK M06/M09 Q1004 OSDI 271100Z 32004KT CAVOK 19/M10 Q1018 CYKQ 262200Z 23007KT 15SM FEW040 SCT100 BKN110 M10/M18 A2968 RMK SC2AC2AS3 LAST STFD OBS/NEXT 271400 UTC SLP055 CYLH 271000Z AUTO 23004KT 9SM FEW046 M24/M26 A2982 RMK SLP127 KCPR 271053Z AUTO 24009KT 10SM OVC065 M06/M11 A2959 RMK AO2 SLP054 T10561111 NZWB 271000Z 15002KT 45KM SKC 17/13 Q1031 RMK ALT NZNS VATSIM USE ONLY KCPS 271053Z AUTO 00000KT 10SM OVC070 04/01 A3010 RMK AO2 SLP195 T00390006 TSNO KBYS 271055Z AUTO 21014G23KT 10SM CLR 06/00 A2983 RMK AO2 SLP112 WND DATA ESTMD T00600001 CYLJ 270000Z 29007KT 15SM OVC015 M15/M21 A2987 RMK SC8 LAST STFD OB/NXT 27 1200UTC SLP156 CYMA 271000Z 22007KT 15SM BKN110 M04/M10 A2979 RMK AS5 SLP123 EFVA 271050Z AUTO 14004KT 9999 FEW084/// M09/M10 Q1002 R16/0/0095 KCPT 271055Z AUTO 16006KT 3SM BR FEW004 SCT014 15/15 A2993 RMK AO2 CYLK 270100Z 07003KT 25SM SKC M29/M33 A3003 RMK -26.0/-29.0/TR/17 MEDUIMPACK/LAST STFD OBS/NXT 271500Z SLP200 CZDB 271000Z AUTO 25006KT M05/M10 RMK AO1 SOG 27 1043 SLP202 T10531098 ORMM 271000Z 29010KT CAVOK 24/M01 Q1017 NOSIG KCPU 271035Z AUTO 00000KT 10SM OVC021 05/04 A2989 RMK AO2 T00460036 CYLL 271000Z AUTO 21008KT 9SM CLR M20/M22 A2972 RMK SLP127 EGMC 271050Z 18014KT 9999 SCT018 BKN021 09/06 Q0989 EFTU 271050Z AUTO 12005KT 090V150 9999 OVC003/// M05/M06 Q1004 EGLL 271050Z AUTO 20014KT 180V240 9999 -RA SCT023/// BKN039/// //////CB 08/06 Q0988 TEMPO SHRA KCQM 271055Z AUTO 00000KT 10SM CLR M22/M24 A2992 RMK AO2 VERP 271030Z 34006KT 6000 NSC 34/05 Q1012 NOSIG CXTV 271000Z AUTO 09001KT M36/M40 RMK AO1 SLP203 T13621402 56007 KDHN 271053Z AUTO 11004KT 10SM CLR 10/00 A3022 RMK AO2 SLP232 T01000000 KDGW 271053Z AUTO 15005KT 10SM BKN070 OVC100 M07/M12 A2963 RMK AO2 SLP077 T10721122 KCRE 271053Z AUTO 07003KT 10SM CLR 06/04 A3035 RMK AO1 SLP278 T00560044 EGMD 271050Z 20020KT 9999 FEW014 BKN019 09/08 Q0991 KCPW 271052Z AUTO 19025G36KT 1/4SM +SN OVC001 M12/M13 A2979 RMK AO2 KBZN 271056Z AUTO 20005KT 10SM OVC065 M08/M10 A2957 RMK AO2 SLP054 T10781100 KCRG 271053Z AUTO 09003KT 10SM CLR 14/12 A3024 RMK AO2 SLP240 T01390117 KBYY 271055Z AUTO 17006KT 5SM BR OVC003 21/21 A2993 RMK AO2 T02110211 CZCP 271015Z AUTO 28006KT ////SM //// FEW006 BKN017 OVC130 M31/M35 A3007 CYKY 271000Z 16004KT 15SM SKC M20/M22 A2978 RMK SLP142 ORNI 271000Z 34006KT CAVOK 24/M08 Q1018 NOSIG CYKZ 271000Z 23007KT 15SM FEW050 02/M05 A3005 RMK SC1 SLP186 CYMH 271000Z AUTO 29014G21KT 9SM OVC080 M06/M11 A2933 RMK SLP933 NZWK 271000Z 14001KT 25KM SCT060 20/18 Q1031 RMK ALT NZTG VATSIM USE ONLY CZCR 271000Z AUTO 27004KT M08/M12 RMK AO1 SOG 53 2004 SLP139 T10841122 KDIJ 271056Z AUTO 17005KT 10SM BKN026 OVC032 M07/M09 A2955 RMK AO2 SLP052 T10671089 CYMJ 271000Z 29005KT 15SM BKN250 M17/M19 A2985 RMK CI6 FST OBS SLP150 CYNA 271000Z AUTO 28018G27KT 9SM CLR M08/M15 A2973 RMK SLP071 KDHT 271053Z AUTO 25005KT 10SM CLR M06/M10 A2983 RMK AO2 SLP098 T10561100 KCQT 271047Z AUTO VRB03KT 10SM BKN035 BKN043 12/06 A2993 RMK AO2 SLP133 T01170056 KDIK 271056Z AUTO 16008KT 3SM -SN BR OVC042 M08/M09 A2972 RMK AO2 SNB32 SLP099 P0000 T10781094 CXWB 270000Z AUTO RMK AO1 EFUT 271050Z 21004KT 170V240 9999 OVC006 M05/M07 Q1005 CYNC 262200Z 23005KT 10SM IC BKN020 BKN300 M14/M18 A2965 RMK SC5CS2 LAST STFD OBS/NEXT 271400Z SLP043 CYLU 262200Z 29017G24KT 3SM -SN FEW010 OVC024 M10/M13 A2901 RMK SC2SC6 LAST STFD OBS/NEXT 271300UTC SLP830 EGNC 271050Z 16003KT 9999 FEW020 SCT030 05/03 Q0984 NZWN 271030Z AUTO 06001KT 9999 OVC080/// 17/14 Q1031 NOSIG TXKF 270955Z 03012KT 9999 FEW023 SCT036 19/13 Q1026 EHDL 271055Z AUTO 19016KT 140V240 9999 OVC032 11/04 Q0997 BLU CYND 270200Z 23011G17KT 15SM BKN200 M01/M07 A2998 RMK CI5 LAST STFD OBS/NEXT 271200 UTC SLP156 CXVM 271000Z AUTO 22002KT M19/M22 RMK AO1 T11921216 CYMM 271048Z AUTO 09005KT 6SM -SN OVC070 M20/M23 A2973 RMK SLP106 KCQW 271055Z AUTO 00000KT 10SM CLR 00/M02 A3036 RMK AO2 NZWP 271000Z 04006KT 20KM SKC 21/16 Q1030 RMK ALT NZAA VATSIM USE ONLY CXVN 271000Z AUTO 21010KT 03/M04 RMK AO1 SOG 01 1011 PK WND 23019/0902 SLP192 T00291035 CYLW 271000Z AUTO 00000KT 9SM CLR M11/M11 A2974 RMK SLP095 CYNE 271000Z AUTO 30004KT 9SM CLR M25/M27 A2984 RMK SLP132 KCQX 271052Z AUTO 25004KT 10SM CLR 01/M07 A3034 RMK AO2 SLP275 T00111067 $ CYMO 271035Z AUTO 25007KT 9SM OVC060 M17/M19 A2990 RMK SLP126 KCSG 271051Z AUTO 09004KT 10SM CLR 09/M03 A3023 RMK AO2 SLP236 T00941033 KCRP 271051Z 17007KT 8SM BKN020 BKN250 20/19 A2988 RMK AO2 SLP117 T02000194 NZWR 271000Z 04006KT 20KM SKC 21/16 Q1030 RMK ALT NZAA VATSIM USE ONLY KCRQ 271053Z AUTO 04003KT 2SM -RA BR OVC019 10/09 A2991 RMK AO2 RAE07B17 SLP127 P0004 T01000094 NZWS 271000Z 21006KT 15KM VCSH SCT085 15/14 Q1031 RMK ALT VATSIM USE ONLY EGNH 271050Z 17011KT 9999 FEW016 SCT025 06/04 Q0984 EHEH 271055Z AUTO 20018KT 170V230 9999 OVC032 12/05 Q0998 BLU 20015G25KT 9999 FEW025 BKN035 KCRS 271053Z AUTO 14007KT 10SM OVC019 17/16 A2994 RMK AO2 SLP135 T01670161 KEBA 271055Z AUTO 36004KT 10SM CLR 03/01 A3032 RMK AO2 T00250014 NZWU 272000Z 03002KT 0600 FG BKN001 03/01 Q1018 RMK FOG DRIFTING OVER FROM RIVER CZFA 262300Z 28011G20KT 2 1/2SM -SN DRSN OVC023 M04/M08 A2980 RMK SN4SC4 CLIMAT -3.3/-10.9/TRCM/0.2MWE LAST STFD OBS/NXT 271500Z SLP143 CYOA 270000Z 29003KT 15SM FEW230 M33/M37 A2989 EGNJ 271050Z 18016KT 9999 FEW012 SCT035 09/06 Q0986 KCTB 271056Z AUTO 08004KT 4SM -SN BR BKN031 BKN075 OVC090 M13/M15 A2964 RMK AO2 SNB54 SLP096 P0000 T11331150 KDKB 271055Z AUTO 17006KT 10SM CLR M03/M05 A3011 RMK AO2 T10351047 CYMT 271023Z AUTO 34014G25KT 1SM -SN VV015 M10/M12 A2961 RMK PRESRR SLP058 CYOC 262100Z 07006KT 15SM -SN VCFG FEW016 BKN024 BKN033 OVC120 M21/M25 A2999 RMK SF2ST3SC2AS1 VIS NW 2 CLIMAT -18.1/-22.6/0.8 CM 0.4 MWE LAST STFD OBS/NXT 271400Z SLP190 CZEL 271000Z AUTO 24013KT M00/M05 RMK AO1 1011 PK WND 24021/0922 SLP182 T10021047 50008 KCSM 271053Z AUTO 01006KT 10SM CLR 01/M01 A2989 RMK AO2 SLP123 T00111011 CZEM 262000Z 22012G17KT 15SM FEW090 SCT230 M13/M18 A2967 RMK AC2CI1 LAST STFD OBS/NEXT 271400 UTC SLP048 CXWM 271000Z AUTO 12004KT M17/M19 RMK AO1 T11721186 CYOD 271000Z 17002KT 15SM FEW080 M20/M25 A2973 RMK AC2 SLP119 EGNM 271050Z 19005KT 140V240 9000 -RA SCT009 BKN014 04/03 Q0984 CYNM 271000Z AUTO 31006KT 9SM SCT055 BKN071 OVC091 M14/M16 A2979 RMK SLP112 KCRW 271054Z 00000KT 10SM -RA BKN048 OVC060 05/01 A3033 RMK AO2 SLP274 P0001 T00500006 EHDV 271055Z AUTO 18018KT 9999 FEW002/// SCT004/// 07/06 Q0989 EHFD 271055Z AUTO 20026KT 5000 BR SCT002/// BKN003/// BKN008/// 07/06 Q0991 REDZ KEAN 271035Z AUTO 21006G10KT 10SM CLR M10/M15 A2965 RMK AO2 T11031150 EGMW 270820Z 18016KT 4000 -RA BKN011 07/07 Q0993 CXVW 271000Z AUTO 16009KT M16/M18 RMK AO1 T11591180 CXWN 271000Z AUTO 20002KT M12/M14 RMK AO1 SLP122 T11181144 51006 KCRX 271055Z AUTO VRB05KT 4SM -RA SCT034 BKN041 OVC060 10/07 A3018 RMK AO2 P0002 EGNO 271050Z 17008KT 9999 FEW010 06/04 Q0984 CYMX 271000Z 23007KT 25SM FEW040 BKN088 M00/M05 A2996 RMK SC2AC5 SLP151 KEBG 271035Z AUTO 16006KT 10SM SCT012 21/20 A2986 RMK AO2 T02140195 KCSQ 271055Z AUTO 18003KT 10SM CLR M02/M05 A3000 RMK AO2 UNTT 271030Z 18005MPS 9999 OVC009 00/M02 Q1026 R21/590140 NOSIG RMK QFE754 KEAR 271055Z AUTO 15003KT 10SM CLR M05/M11 A2990 RMK AO1 EGNR 271050Z 17007KT 9999 -SHRA FEW010 SCT024 06/04 Q0985 KCTJ 271035Z AUTO 00000KT 10SM CLR 07/00 A3024 RMK AO2 T00720000 CYPA 271011Z 00000KT 15SM IC BKN250 M23/M25 A2983 RMK CI5 SLP148 CYOJ 271000Z AUTO 12004KT 9SM CLR M20/M23 A2976 RMK SLP114 KDKK 271053Z AUTO 20013KT 10SM CLR 02/M07 A3018 RMK AO2 SLP226 T00221072 KCUB 271053Z AUTO 00000KT 10SM CLR 03/01 A3033 RMK AO2 SLP269 T00330006 EGNS 271050Z 16010KT 9999 FEW010 SCT015 BKN030 05/04 Q0983 NOSIG EGPA 271050Z 20012KT 9999 FEW018 05/01 Q0982 KEAT 271055Z AUTO 05003KT 10SM FEW001 M04/M05 A2970 RMK AO2 SLPNO T10391050 $ EGPB 271050Z 21018KT 9999 SCT023 05/00 Q0981 EGNT 271050Z 17005KT 120V210 9999 SCT023 07/03 Q0984 KEAU 271056Z AUTO 17004KT 9SM FEW075 M05/M07 A2998 RMK AO2 SLP163 T10501067 CYPC 261900Z 27005KT 15SM FEW130 M34/M38 A3020 RMK AC1 AC TR -31.0/-35.4/0/42 MUCH LOOSE LAST STFD OB/NEXT 271400 UTC SLP228 ZUGY 271000Z 13002MPS 080V180 9999 SCT023 OVC036 08/03 Q1021 NOSIG KCSV 271053Z AUTO 02003KT 10SM CLR 04/M02 A3023 RMK AO2 SLP238 T00441017 EGPC 271050Z 19011KT 9999 FEW018CB 04/00 Q0982 CZFM 262000Z 33009KT 15SM -SN OVC036 M22/M26 A3010 RMK NS8 -21.6/-22.6/1.0/SNWCVR/MUCH LOOSE LAST OBS/NEXT 271400Z SLP201 EGNV 271050Z 19008KT 9999 FEW018 SCT030 05/03 Q0985 CZEV 271000Z AUTO 09004KT M32/M36 RMK AO1 SOG 46 7007 SLP206 T13191355 EGOM 271050Z 22007KT 9999 FEW009 BKN100 04/02 Q0982 BLU CYPD 271000Z AUTO 30017G28KT 9SM CLR M05/M12 A3001 RMK SLP171 EGPD 271050Z AUTO 19011KT 9999 NCD 05/M01 Q0983 NOSIG CYPE 271000Z 22002KT 15SM SCT050 M13/M17 A2959 RMK SC4 SLP067 EGPE 271050Z 23007KT 9999 FEW014 04/01 Q0983 KDLF 270958Z 06003KT 10SM FEW200 13/13 A2985 RMK AO2A SLP100 T01340133 CYOO 271000Z AUTO 23008KT 9SM FEW095 03/M05 A3006 RMK SLP185 EGNX 271050Z 21013KT 190V270 9999 FEW013 BKN016 06/04 Q0985 EGPF 271050Z AUTO 22006KT 9999 BKN023 06/01 Q0984 KECG 271054Z AUTO 15004KT 10SM CLR 05/02 A3042 RMK AO2 SLP299 T00500017 EGOP 271050Z 24011KT 9999 SCT013 BKN040 06/04 Q0985 GRN EHGG 271055Z AUTO 20014KT 170V230 9999 OVC030 11/05 Q0997 NOSIG KDLH 271055Z 00000KT 10SM OVC049 M08/M13 A2992 RMK AO2 SLP159 T10831133 KCUH 271055Z AUTO 00000KT 10SM OVC023 04/01 A2994 RMK AO2 T00410009 CXYH 271000Z AUTO M18/M21 RMK AO1 SOG 36 3027 SLP120 T11841211 CYPH 271029Z AUTO 30023G29KT 1 1/4SM -SN BLSN OVC035 M18/M21 A2923 RMK SLP901 EGPH 271050Z 22005KT 9999 FEW030 05/M01 Q0984 KDKR 271035Z AUTO 14004KT 7SM SCT008 BKN018 BKN032 18/17 A2998 RMK AO2 EGPI 271050Z 16010KT 9999 SCT015 03/01 Q0982 KEBS 271055Z AUTO 14007KT 7SM CLR M08/M09 A2998 RMK AO2 KDMA 271058Z AUTO 12006KT 10SM CLR 06/00 A2998 RMK AO2 SLP136 T00570003 CHINO RWY30 $ EGQA 270950Z 23008KT 9999 FEW017 04/// Q0983 BLU CZFS 272200Z AUTO 11005KT M19/M23 RMK AO1 SOG 18 7030 SLP161 T11871232 50002 EGOS 271050Z 19010KT 9999 FEW020 BKN030 05/03 Q0984 BLU TEMPO 7000 SHRA SCT018 WHT CYQA 271054Z AUTO 25004KT 230V300 9SM -RA BKN016 OVC030 00/M02 A3000 RMK SLP175 KCVB 271055Z AUTO 10005KT 5SM BR OVC011 19/18 A2992 RMK AO2 T01850184 EHFS 271025Z AUTO 20022KT 4800 RA FEW012/// BKN017/// BKN021/// 08/07 Q0996 CYQB 271045Z 24012KT 10SM FEW010 OVC028 M03/M05 A2992 RMK SF2SC6 SLP138 EGPK 271050Z 19005KT 140V220 9999 FEW025 06/00 Q0984 KEDC 271055Z AUTO 16003KT 10SM OVC028 19/19 A2994 RMK AO2 KCUL 271055Z AUTO 12007KT 10SM SCT037 OVC044 06/03 A3015 RMK AO2 T00560032 KDLL 271035Z AUTO 17004KT 10SM CLR M05/M07 A3005 RMK AO2 T10551068 KCVC 271035Z AUTO 00000KT 10SM CLR 07/00 A3025 RMK AO2 CYPL 270200Z 26006KT 12SM -SN OVC040 M14/M20 A2971 RMK SC8 LAST STFD OBS/NEXT 271100Z SLP100 CXZC 271000Z AUTO 24004KT M18/M20 RMK AO1 SOG 68 3030 SLP122 T11781197 EGPL 271050Z 17009KT 9999 VCSH FEW012CB SCT040 05/03 Q0981 VGEG 271000Z 27012KT 4000 HZ NSC 28/17 Q1011 NOSIG CYQD 271000Z 00000KT 15SM FEW025 M26/M29 A2985 RMK SC2 SLP141 KDLN 271053Z AUTO 21009KT 10SM CLR M09/M14 A2952 RMK AO2 SLP045 T10941139 EGPM 271050Z 19018KT 9999 FEW016 FEW020CB 04/02 Q0979 NOSIG KEDE 271050Z AUTO 00000KT 10SM CLR 03/01 A3042 RMK AO2 T00280014 EGOV 270950Z 16016KT 9999 FEW012 SCT060 06/04 0984 BLU TEMPO 7000 SHRA SCT012CB WHT EGOW 271050Z 18010KT 9999 -RA FEW018 SCT040 05/04 Q0985 BLU EGPN 271050Z 23006KT 9999 FEW015 06/02 Q0984 CYOW 271000Z 21011G17KT 15SM BKN096 00/M04 A2997 RMK AC7 SLP155 KDLO 271055Z AUTO 00000KT 10SM SCT060 OVC070 07/03 A2991 RMK AO2 CYQF 271000Z 22006KT 15SM BKN150 M18/M20 A2966 RMK AC5 SLP118 KCVG 271052Z 20006KT 10SM -RA FEW037 SCT045 OVC060 07/M01 A3022 RMK AO2 RAB46 CIG 048 36R SLP234 P0000 T00671011 EGPO 271050Z 19017KT 9999 FEW008 FEW015CB 05/03 Q0981 KECP 271053Z AUTO 06004KT 10SM CLR 10/06 A3016 RMK AO2 SLP223 T01000056 KCTY 271055Z AUTO 00000KT 10SM CLR 09/05 A3022 RMK AO2 KDLP 271055Z AUTO 16018G26KT 7SM CLR 21/20 A3003 RMK A01 CYOY 271041Z AUTO 25002KT 8SM OVC010 M05/M07 A2990 CYQG 271000Z 22009KT 15SM FEW100 01/M04 A3014 RMK AC1 SLP213 KCVH 271055Z AUTO 00000KT 10SM FEW039 SCT060 BKN080 04/04 A2993 RMK AO1 KCTZ 271050Z AUTO 00000KT 10SM CLR 02/M01 A3037 RMK AO2 T00221006 KDMH 271054Z AUTO 03/M04 A3038 RMK AO1 SLP286 T00281044 CYPQ 271000Z AUTO 24011G17KT 9SM FEW085 02/M04 A3003 RMK SLP180 CYQH 271000Z 32008KT 20SM SKC M10/M14 A2969 RMK SLP104 EHFZ 271055Z AUTO 19029KT 4400 -RA FEW002 BKN003 BKN004 07/06 Q0991 KEDJ 271030Z AUTO 23008KT 10SM SCT029 OVC046 03/M04 A3022 RMK AO1 CYQI 271000Z 33005KT 15SM SKC M03/M09 A3021 RMK SLP233 CYPR 271000Z AUTO 07004KT 9SM FEW055 M01/M02 A2979 RMK SLP090 KDLS 271053Z AUTO 00000KT 10SM FEW065 00/M02 A2978 RMK AO2 SLP086 T00001022 EHGR 271055Z AUTO 19016KT 140V230 9999 BKN029 OVC034 11/05 Q0997 BLU 20015G25KT 9999 FEW025 BKN030 KECS 271055Z AUTO 13008KT 10SM CLR M06/M12 A2965 RMK AO2 KCWA 271055Z AUTO 09003KT 10SM OVC065 M05/M05 A3002 RMK AO2 CYRA 270100Z 27002KT 15SM SCT070 BKN210 M29/M34 A2999 RMK AC3CI4 -28.2/-37.0/0/34.0 SNW CVR/MUCH LOOSE LAST STFD OBS/NEXT 271500 UTC SLP196 KCUT 271053Z AUTO 25007KT 10SM CLR M07/M17 A2957 RMK AO2 SLP060 T10721172 EGQK 271050Z 21010KT 9999 FEW030 ///// Q//// BLU CYQK 271000Z 20006KT 15SM -SN OVC070 M13/M15 A2982 RMK AC8 SLP131 CYRB 271000Z 34002KT 15SM IC FEW140 M36/M41 A2974 RMK AS1 SLP088 KCWC 271055Z AUTO 12007KT 7SM OVC007 11/11 A2989 RMK AO2 T01120105 KECU 271035Z AUTO 16007KT 2SM BR OVC002 17/17 A2993 RMK AO2 CYQL 271000Z AUTO 16006KT 9SM CLR M17/M18 A2972 RMK SLP132 EGPU 271020Z VRB03KT 9999 VCSH SCT021CB 04/02 Q0981 KEED 271056Z AUTO 31003KT 10SM CLR 11/03 A2984 RMK AO2 SLP089 T01110033 $ EGQL 271050Z 26005KT 9999 FEW024 05/01 Q0984 BLU CYQM 271000Z 24012KT 15SM SKC M06/M11 A3008 RMK SLP192 KDMN 271053Z AUTO 27005KT 10SM CLR 00/M04 A2996 RMK AO2 SLP115 T00001044 KCVN 271055Z AUTO 27005KT 10SM CLR M02/M07 A2989 RMK AO1 KEDN 271055Z AUTO 12003KT 10SM CLR 11/01 A3019 RMK AO2 T01120008 EGQM 271050Z AUTO 16005KT 9999 BKN110/// 06/04 Q0984 CYPW 270300Z 00000KT 20SM SKC M01/M03 A2977 RMK LAST STFD OBS/NEXT271500UTC SLP089 KDMO 271053Z AUTO 00000KT 1/4SM FZFG VV002 M02/M03 A3006 RMK AO2 SLP184 T10171028 $ KCVO 271055Z 22003KT 2SM 01/M01 A2983 RMK AO1 KCWF 271035Z AUTO 14003KT 7SM OVC006 19/18 A2997 RMK AO2 T01900185 CYPX 271048Z AUTO 30030G35KT 1/4SM +SN BLSN OVC037 M17/M19 A2905 RMK SLP842 CYPY 271000Z AUTO 08002KT 9SM CLR M36/M39 A2988 RMK SLP153 KDLZ 271057Z AUTO 21005KT 10SM BKN065 OVC085 03/M03 A3023 RMK AO2 CYQQ 271000Z 29004KT 20SM FEW150 SCT210 M01/M07 A2976 RMK AC1CI2 SLP080 KCWI 271056Z AUTO 11005KT 10SM CLR M04/M06 A3008 RMK AO2 SLP215 T10441056 FZRANO CYQR 271000Z 30008KT 15SM BKN026 M17/M19 A2983 RMK SC7 SLP146 KCVS 270958Z 28006KT 10SM CLR 01/M05 A2990 RMK AO2A SLP112 T00071052 $ CYRJ 271000Z 22018G28KT 20SM -SN OVC078 M05/M09 A2968 RMK AC8 SLP065 EGQS 271050Z 23011KT 9999 FEW025CB 05/M02 Q0983 BLU NOSIG EHJA 271055Z AUTO 18023KT 8000 SCT002/// OVC003/// 07/07 Q0990 CYSB 271000Z 28008KT 15SM BKN033 M06/M12 A2993 RMK SC6 SLP157 CYQT 271000Z VRB02KT 15SM SKC M17/M19 A2999 RMK SLP175 KDNL 271053Z AUTO 00000KT 10SM CLR 07/01 A3029 RMK AO2 SLP256 T00720011 KEDU 271100Z AUTO 18006KT 10SM CLR 04/03 A2992 RMK AO1 OTBD 271000Z 30007KT 250V350 CAVOK 25/02 Q1017 NOSIG CYRL 271000Z 18004KT 15SM -SN FEW070 M15/M17 A2975 RMK AC2 FROIN SLP110 EGSC 271050Z 19013KT 9999 FEW018 SCT032 10/06 Q0988 CYQU 271034Z 20004KT 15SM -SN OVC029 M11/M14 A2958 RMK SC8 SLP065 CYSC 271000Z AUTO 22004KT 180V250 9SM BKN050 OVC080 M03/M07 A2999 RMK SLP171 KEFD 271050Z 16003KT 10SM BKN008 OVC012 21/19 A2996 CXZV 271000Z AUTO 00000KT M18/M19 RMK AO1 2PAST HR SOG 86 3007 SLP092 P0001 T11771192 50002 CYQV 271000Z AUTO 29005KT 9SM CLR M20/M22 A2980 RMK SLP137 KCVW 271105Z AUTO 15005KT 3SM BR OVC002 19/19 A2996 RMK A01 KEEN 271056Z AUTO 00000KT 10SM CLR M06/M08 A3024 RMK AO2 SLP264 T10611078 FZRANO KCXE 271035Z AUTO 00000KT 10SM CLR 01/M03 A3036 RMK AO1 T00111033 KEDW 271043Z AUTO 26012KT 10SM FEW034 06/03 A2984 RMK AO2 KCWN 270958Z AUTO 18005KT 10SM CLR M02/M18 A2963 RMK AO2 SLP957 T10181180 KDNN 271035Z AUTO 00000KT 10SM CLR 03/00 A3025 RMK AO2 KDMW 271040Z AUTO 00000KT 10SM OVC100 03/M03 A3033 RMK AO2 CYQW 271000Z AUTO 20003KT 9SM FEW037 M22/M25 A2983 RMK SLP155 KEEO 271053Z AUTO 07003KT 10SM FEW034 BKN090 M02/M08 A2967 RMK AO2 SLP051 T10221083 KCVX 271054Z AUTO 30004KT 10SM CLR M04/M10 A3012 RMK AO2 T10421105 EHHW 271055Z AUTO 20025KT 9999 FEW001/// SCT016/// BKN020/// 07/06 Q0995 REDZ OTBH 270958Z 32013KT 9000 HZ CLR 23/00 A3006 RMK AO2A SLP181 T02311005 CYSF 271043Z AUTO 00000KT 6SM -SN SCT020 BKN090 BKN110 M32/M36 A2989 RMK SLP160 CYQX 271000Z 26021G28KT 15SM FEW022 BKN030 M03/M08 A2952 RMK SC1SC6 SLP006 CZHY 271000Z AUTO 00007KT M33/M35 RMK AO1 SOG 51 5005 SLP151 T13261354 CYQY 271000Z 29011G22KT 260V330 15SM BKN030 M04/M10 A2996 RMK SC6 SLP150 CYQZ 271000Z AUTO VRB02KT 9SM CLR M13/M16 A2972 RMK SLP101 CYRQ 271000Z AUTO 22011G17KT 9SM SCT039 BKN050 M02/M05 A2993 RMK SLP141 EGSH 271050Z 19013KT 160V230 9999 SCT014 BKN018 09/07 Q0989 NOSIG KDPA 271052Z 14004KT 10SM SCT090 M02/M05 A3010 RMK AO2 SLP199 T10221050 KDNS 271055Z AUTO 00000KT 10SM CLR M07/M08 A2996 RMK AO2 CYSJ 271000Z 22004KT 140V240 15SM SKC M08/M11 A3012 RMK SLP207 OSKL 271100Z 18006KT 8000 20/M00 Q1018 KEET 271053Z AUTO 11004KT 9SM CLR 09/M01 A3013 RMK AO2 SLP199 T00941011 ORSU 271100Z 12004KT CAVOK 17/M02 Q1020 KEFK 271035Z AUTO 17009KT 10SM SCT047 BKN055 OVC110 M03/M08 A3005 RMK AO2 T10271078 CYSK 262200Z 24023KT 2SM IC DRSN BKN014 BKN030 M18/M20 A2931 RMK SC5SC1 CALL OUT LAST MANNED OB/NEXT 271300UTC SLP932 CYRT 271000Z 35008KT 10SM IC FEW250 M35/M39 A2973 RMK CI2 SLP073 EGTC 271050Z 18014KT 9999 SCT020 09/07 Q0986 KDNV 271055Z AUTO 14003KT 10SM SCT034 OVC090 01/M01 A3013 RMK AO2 T00121015 KCWV 271035Z AUTO 00000KT 10SM CLR A3028 RMK AO2 CZKD 271000Z AUTO 25002KT M33/M36 RMK AO1 SLP116 T13261358 51007 CYSM 271000Z 00000KT 15SM SKC M34/M38 A2990 RMK WND ESTD SLP158 CYRV 271000Z AUTO 01004KT 310V020 9SM CLR M08/M12 A2974 RMK SLP095 EHKD 271055Z AUTO 18019KT 9999 +DZRA FEW014 FEW015CB SCT017 BKN041 09/07 Q0994 WHT 19018KT 9999 SCT015 BKN018 TEMPO 4000 RA FEW008 SCT012 BKN016 KEGE 271056Z AUTO 08009KT 10SM CLR M07/M14 A2974 RMK AO2 SLP111 T10671139 FZRANO PNO $ CYSN 270200Z 21016G23KT 15SM BKN085 02/M05 A3005 RMK AC7 LAST STFD OBS/NEXT 27 1200UTC SLP181 EGTE 271050Z 25008KT 9999 FEW015 SCT026 06/04 Q0987 CYTE 271048Z AUTO 02024G34KT 1SM -SN BLSN OVC020 M17/M19 A2907 RMK SLP852 KCXO 271053Z AUTO 00000KT 5SM -RA BR BKN008 BKN023 OVC032 19/18 A2996 RMK AO2 RAB49 SLP141 P0000 T01890183 KCXP 271055Z AUTO 00000KT 10SM -SN SCT033 BKN055 OVC070 M01/M05 A2970 RMK AO2 CYSP 262200Z 27007KT 1/2SM SN SCT008 BKN013 OVC035 M06/M07 A2957 RMK SC3SC3SC2 /S02/ CIG RAG LAST STFD OBS/NEXT 271300UTC SLP038 CYTH 271000Z 29003KT 15SM IC SKC M34/M37 A2982 RMK SLP131 KEGI 271058Z AUTO 10005KT 10SM CLR 12/07 A3015 RMK AO2 SLP212 T01240067 $ EHJR 271025Z AUTO 19033G38KT //// ///////// 08/06 Q0991 W///H23 OSLK 271100Z 26004KT 9999 FEW030 SCT100 21/09 Q1016 KEHA 271048Z AUTO 24004KT M06/M11 RMK AO1 /PK WND 08 M T10611111 CYUA 271035Z AUTO 10006KT ////SM //// FEW003 BKN055 OVC065 M32/M37 A3004 EGSS 271050Z AUTO 19013KT 9999 FEW014/// BKN026/// //////CB 09/07 Q0989 KEFT 271035Z AUTO 10004KT 10SM SCT055 M03/M04 A3007 RMK AO2 EGTK 271050Z 19013KT 9999 FEW018 SCT024 BKN030 08/07 Q0986 EGUB 271050Z 18016KT 9999 FEW019 BKN042 BKN100 08/05 Q0987 BLU TEMPO 7000 SHRA SCT014TCU GRN CYUB 270600Z VRB02KT 15SM SKC M39/M43 A3019 RMK TRACE LOOSE SLP226 KDPL 271050Z AUTO 00000KT 10SM CLR M02/M03 A3039 RMK AO2 KEHC 271055Z AUTO 15017KT 5SM HZ SCT019 23/20 A2997 RMK A01 CYTL 271000Z AUTO 24003KT 9SM CLR M26/M28 A2978 RMK SLP114 KDOV 271058Z AUTO 16006KT 10SM CLR 00/M04 A3038 RMK AO2 SLP291 T10011040 $ KCXY 271056Z AUTO 00000KT 10SM OVC120 M01/M06 A3035 RMK AO2 SLP281 T10111061 VGHS 271030Z 30012KT 4000 HZ NSC 30/08 Q1011 NOSIG KDQH 271035Z AUTO 00000KT 10SM CLR 08/04 A3025 RMK AO2 CYTQ 262100Z 26023KT 6SM DRSN SCT012 M16/M19 A2903 RMK SC4 LAST STFD OBS NEXT/271300 UTC SLP838 CYTR 271000Z 24015G22KT 15SM SKC 03/M04 A3005 RMK SLP181 KCYS 271053Z AUTO 24007KT 10SM CLR M14/M17 A2965 RMK AO2 SLP104 T11391167 $ KDRA 271055Z AUTO 19019G26KT 10SM FEW055 07/M03 A2970 RMK AO2 PK WND 19030/1033 SLP039 T00671028 CYTS 271000Z 26004KT 15SM -SN FEW018 OVC048 M11/M13 A2989 RMK SC2SC6 SLP143 EHMA 271055Z AUTO 20030KT 9999 FEW010 BKN023 OVC026 08/06 Q0995 EGVA 271053Z AUTO 21018G25KT 9999 -RA FEW013 SCT021 OVC029 07/07 A2911 RMK AO2 DZB10E19RAB33 CIG 019V029 CIG 021 RWY27 EICK 271030Z 23010KT 9999 FEW016CB 03/01 Q0983 TEMPO 4000 KCZL 271035Z AUTO 00000KT 10SM CLR 04/00 A3024 RMK AO2 T00350000 CYVC 271000Z 23002KT 15SM BKN029 BKN110 M24/M26 A2981 RMK SC5AC2 SLP137 CYUL 271000Z 23020G25KT 15SM FEW060 BKN100 02/M06 A2998 RMK SC2AC3 SLP156 EGUL 271033Z AUTO 20012G17KT 9999 FEW028 OVC039 09/09 A2918 RMK AO2 RAB0958E12DZB23E33 KEGV 271035Z AUTO 00000KT 10SM OVC060 M16/M18 A2998 RMK AO2 T11581183 CZMD 271000Z AUTO 21002KT 9SM CLR M29/M32 A2977 RMK SLP118 EHKV 271055Z AUTO 19032KT 9999 FEW005 SCT006 BKN008 08/06 Q0991 KEHO 271055Z AUTO 04004KT 10SM CLR 01/M03 A3033 RMK AO2 T00091035 EGUN 271037Z AUTO 19014G20KT 9999 FEW027 SCT043 09/09 A2918 RMK AO2 RAE07 EHMG 271055Z AUTO 19037KT 9999 FEW005 SCT007 BKN010 08/06 Q0993 CYTZ 271000Z AUTO 24014KT 9SM BKN095 03/M02 A3008 RMK SLP189 KEHR 271055Z 10005KT 10SM OVC040 07/03 A3016 RMK AO1 P0001 KDRI 271055Z AUTO 00000KT 7SM OVC008 18/18 A3001 RMK AO2 T01820175 CZMJ 271000Z AUTO 29007KT M17/M20 RMK AO1 SOG 01 0002 SLP154 T11701199 CYUS 271000Z AUTO 11015KT ////SM //// NCD M48/// A2981 CYWA 271000Z AUTO 24005KT 9SM FEW065 OVC075 00/M03 A2992 RMK SLP139 KEIK 271054Z AUTO 27004KT 10SM CLR M10/M12 A2971 RMK AO2 T11051124 KCZT 271055Z AUTO 11003KT 7SM OVC013 17/17 A2985 RMK AO2 CYUT 262000Z 35022KT 2 1/2SM IC BLSN SKC M31/M35 A2975 RMK CALLOUT OBS SLP082 EIDL 271030Z 17013KT 9999 FEW027 03/01 Q0981 EGWC 270950Z 17003KT 9999 FEW015 BKN030 05/03 Q0986 BLU CYVL 271000Z AUTO 34005KT 9SM CLR M34/M37 A2997 RMK SLP198 KDRM 271056Z AUTO 00000KT 10SM CLR M09/M11 A3006 RMK AO2 T10861111 CYVM 271054Z AUTO 07009KT 2 1/2SM -SN OVC022 M23/M26 A2943 RMK VIS VRB 1 3/4-3 SLP969 CYWE 271000Z AUTO 05003KT 9SM FEW120 M39/M42 A2988 RMK SLP184 KDRO 271053Z AUTO 00000KT 10SM BKN043 OVC070 M02/M09 A2985 RMK AO2 SLP118 T10221089 EHLW 271055Z AUTO 19016KT 140V220 9999 DZ FEW018 BKN033 BKN039 08/07 Q0995 BLU 20012KT 9999 BKN023 TEMPO 3500 -RADZ SCT010 BKN018 EGVN 271050Z 19013KT 9999 FEW020 OVC100 08/04 Q0986 TEMPO 5000 -SHRA EGUW 271050Z 20012KT 9999 SCT010 SCT017 BKN035 09/07 Q0989 GRN BECMG SCT025 BLU KFAF 271058Z AUTO 12003KT 10SM OVC120 04/01 A3038 RMK AO2 SLP291 T00350014 CYVO 271027Z AUTO 26012G23KT 220V310 9SM FEW031 OVC055 M05/M08 A2977 RMK SLP107 CYUX 271000Z 33015KT 3SM BLSN SKC M39/M43 A2961 RMK CALL OUT SLP031 EGVO 271050Z 20016KT 9999 -SHRA FEW018 SCT070 BKN120 08/05 Q0988 BLU TEMPO 6000 SHRA SCT010TCU GRN KEHY 271035Z AUTO 20029G38KT 10SM CLR M02/M11 A2953 RMK AO2 EGVP 271050Z 19013KT 9999 FEW015 BKN050 BKN100 08/05 Q0987 BLU TEMPO 6000 SHRA SCT012 GRN CYUY 271009Z 32010G16KT 3SM -SN DRSN OVC045 M09/M11 A2983 RMK SN4SC4 PRESRR SLP125 CYVP 271000Z 23019G28KT 15SM DRSN FEW018 FEW040 SCT240 M19/M23 A2916 RMK SC1SC1CI1 SLP880 CYWG 271000Z 21005KT 15SM FEW080 M13/M15 A2983 RMK AC1 FROIN SLP124 KCZZ 271052Z AUTO 23004KT 08/08 A2987 RMK AO1 SLP103 P0004 T00780078 CYVQ 271000Z 29003KT 30SM IC SKC M27/M30 A3010 RMK SLP206 CYWH 270500Z VRB02KT 15SM FEW070 04/M02 A2977 RMK AC1 LAST STFD OBS/NEXT 271400 UTC SLP082 KEIR 271055Z AUTO 18005KT 5SM BR OVC055 22/21 A3004 RMK A01 CYVR 271000Z 08007KT 20SM FEW150 SCT220 M02/M06 A2975 RMK AC1CI3 SLP077 KDTA 271035Z AUTO 18015G22KT 10SM OVC075 02/M02 A2965 RMK AO1 CYWJ 262300Z 09017G22KT 3SM -SN SCT020 OVC030 M24/M28 A2982 RMK SC3SC5 OCNL BLSN -24.6/-27.1/0/50 MUCH LOOSE LAST STFD OB/NXT 271400UTC SLP134 KDRT 271053Z AUTO 17003KT 10SM OVC007 14/13 A2985 RMK AO2 SLP097 T01390128 CZMT 270200Z 30012G19KT 15SM SCT030 OVC090 04/M03 A2999 RMK SC4AC4 SH N LAST STFD OBS/NEXT 271500 UTC SLP156 CYVT 270400Z 25002KT 15SM BKN110 OVC220 M22/M25 A2983 RMK AC5CI3 LAST STFD OBD/NEXT 271200 UTC SLP150 CYWK 271000Z 23007KT 15SM SKC M19/M22 A2945 RMK SLP026 CZMU 271000Z AUTO 22004KT M20/M22 RMK AO1 SOG 01 T11961220 CYXC 271000Z 00000KT 25SM BKN051 BKN080 M13/M14 A2963 RMK SC6AC1 FROIN SLP085 CYWL 271000Z 00000KT 15SM SCT130 M16/M19 A2962 RMK AC3 SLP091 KDSM 271054Z 10004KT 10SM CLR M03/M07 A3001 RMK AO2 SLP171 T10281067 KFAM 271056Z AUTO 00000KT 10SM CLR 03/01 A3009 RMK AO2 SLP196 T00330006 EGXC 271050Z 19015KT 9999 BKN015 BKN028 09/06 Q0986 WHT TEMPO 7000 -SHRA WHT CYVV 271000Z 29011G17KT 15SM OVC020 00/M04 A3003 RMK SC8 SLP179 EGXE 271050Z 16007KT 9999 -RA FEW021 BKN032 BKN060 05/03 Q0985 BLU TEMPO 6000 RA SCT021 WHT CYXE 271000Z 25005KT 15SM SKC M22/M25 A2985 RMK SLP159 EIDW 271030Z 24009KT 210V270 9999 FEW012 SCT200 04/01 Q0983 NOSIG KFBG 271056Z AUTO 00000KT 10SM SCT140 00/M01 A3034 RMK AO2 SLP278 T00041008 $ CYXH 271000Z AUTO 00000KT 9SM CLR M19/M21 A2979 RMK SLP140 KFAR 271053Z 00000KT 10SM OVC033 M06/M09 A2991 RMK AO2 SLP144 T10561094 $ KELA 271035Z AUTO 00000KT 5SM BR BKN010 OVC016 21/21 A2993 RMK AO2 T02100208 KDUA 271035Z AUTO 12005KT 10SM OVC016 10/07 A2996 RMK AO2 CYXJ 271000Z 29002KT 15SM BKN080 M10/M14 A2957 RMK AC5 SLP061 KFAT 271053Z 11004KT 10SM SCT050 OVC100 08/04 A2990 RMK AO2 SLP126 BINOVC T00830044 KDUB 271035Z AUTO 00000KT 10SM BKN048 OVC070 M10/M14 A2948 RMK AO2 KFBL 271054Z AUTO 17005KT 10SM CLR M07/M09 A2996 RMK AO2 CYYB 271000Z AUTO 28012G18KT 9SM FEW022 SCT029 BKN036 M04/M07 A2990 RMK SLP149 KDTL 271054Z AUTO 00000KT 10SM SCT034 BKN050 M07/M10 A2989 RMK AO2 KDUC 271055Z AUTO 12003KT OVC008 10/08 A2991 RMK AO2 PWINO TSNO KEKM 262252Z 22008KT 10SM CLR 07/M07 A2999 RMK AO2 CZOL 271000Z AUTO 23002KT M16/M18 RMK AO1 T11621175 EGWU 271050Z 20011KT 9999 FEW014 BKN060 08/05 Q0988 RESHRA TEMPO 7000 SHRA SCT014 CYXL 271000Z 20003KT 170V240 5SM -SN FEW032 OVC045 M13/M16 A2982 RMK SC2SC6 SLP133 CYYC 271000Z 17006KT 15SM FEW210 M16/M18 A2964 RMK CI1 CI TR FROIN SLP118 CZPC 271033Z AUTO 17003KT 6SM -SN SCT032 BKN080 BKN110 M15/M16 A2963 RMK SLP115 KELD 271053Z AUTO 12006KT 5SM VCTS -RA BR SCT003 SCT021 OVC043 11/11 A3004 RMK AO2 LTG DSNT NE AND E AND SW RAB0955E05B29 TSB30E45 SLP169 P0011 T01060106 $ KDSV 271054Z AUTO 13006KT 10SM CLR M03/M08 A3018 RMK AO2 SLP236 T10331078 EGYD 271050Z 18017KT 9999 SCT018 BKN250 09/05 Q0986 WHT TEMPO SCT012 GRN CYYD 271000Z AUTO VRB02KT 9SM BKN095 M08/M10 A2969 RMK SLP081 KEKN 271051Z AUTO 00000KT 10SM BKN065 OVC080 M02/M06 A3031 RMK AO2 SLP287 T10221056 KDTN 271053Z AUTO 05005KT 10SM VCTS SCT004 OVC013 13/12 A3000 RMK AO2 LTG DSNT NE RAB07E41 SLP158 P0001 T01330122 CYXN 262100Z 36015KT 10SM FEW240 M25/M28 A2970 RMK CI2 -23.7/-26.4/0/0.0 LAST STFD OB/NXT 271300Z SLP060 EGYE 270950Z 19017KT 9999 BKN013 ///// Q0987 GRN CYYE 271000Z 32002KT 2SM BR BKN002 OVC190 M13/M14 A2967 RMK FG5ST2AS1 SLP077 KDTO 271053Z AUTO 11004KT 10SM OVC010 15/14 A2992 RMK AO2 SLP126 T01500144 $ KEKO 271056Z AUTO 22005KT 10SM FEW027 BKN032 OVC055 M03/M04 A2960 RMK AO2 SNE03 SLP033 P0000 T10281044 CYYF 271000Z 35006KT 15SM FEW095 M05/M11 A2976 RMK AC2 SLP094 KFAY 271053Z AUTO 10SM RMK AO2 SLPNO PWINO FZRANO RVRNO $ KDUG 271056Z AUTO 28003KT 10SM CLR 06/M03 A3000 RMK AO2 SLP126 T00611033 OTHH 271000Z 34009KT CAVOK 23/00 Q1017 NOSIG CYXP 262100Z 25008KT 15SM OVC035 M21/M27 A2959 RMK SC8 CIG ESTD -21.1/-33.1/0.0/29 SNOW COVER/MUCH LOOSE LAST STFD OBS/NEXT 271200Z SLP025 EGXP 271050Z 19012KT 9999 FEW010 SCT015 BKN022 08/05 Q0985 WHT CYYG 271000Z 29009KT 15SM SKC M05/M12 A3006 RMK SLP183 KDUH 271054Z AUTO 21005KT 10SM CLR 01/M05 A3018 RMK AO2 T00131051 KEKQ 271056Z AUTO VRB04KT 10SM BKN070 OVC080 06/02 A3028 RMK AO2 SLP282 T00560022 KFCH 271055Z AUTO 00000KT 10SM FEW043 BKN050 OVC090 08/05 A2990 RMK A01 EHPG 271055Z AUTO 18032KT 140V220 7000 -RA FEW009 BKN016 BKN020 08/06 Q0991 RERA REDZ CYXQ 262300Z 28006KT 210V300 10SM BKN070 M03/M09 A3005 RMK AC7 CLIMAT -2.8/ -12.0/ TR CM/ TR MWE/ LAST STFD OBS/NXT 271700Z SLP224 CYYH 270300Z 14005KT 15SM IC SKC M41/M46 A2990 RMK LAST OBS/NEXT 1600Z. SLP132 EGYH 270950Z 20016KT 9999 FEW025 SCT150 08/06 Q0989 KFCI 271055Z 00000KT 10SM FEW120 M01/M12 A3039 RMK AO1 KFBR 271055Z AUTO 00000KT 10SM CLR M12/M14 A2956 RMK AO2 T11211139 CYXR 271053Z AUTO 30013KT 9SM -SN OVC025 M08/M12 A2994 RMK SLP158 KDTS 271053Z AUTO 15008KT 10SM CLR 19/18 A3015 RMK AO2 SLP209 T01940178 KDUJ 271053Z AUTO 22003KT 10SM CLR M01/M12 A3021 RMK AO2 SLP251 T10111117 KEKS 271055Z AUTO 17007KT 10SM CLR M07/M14 A2957 RMK A01 EGXS 270950Z 18010KT 9999 SCT012 BKN180 08/07 Q0988 GRN CYXS 271000Z AUTO /////KT 9SM OVC065 M09/M14 A2963 RMK WND MISG SLP076 CYYJ 271000Z 29004KT 20SM FEW060 FEW180 SCT210 M01/M03 A2977 RMK SC1AC1CI2 SLP082 KELK 271035Z AUTO 00000KT 10SM CLR 00/M01 A2988 RMK AO2 T00011014 EGXT 271050Z 19017KT 9999 SCT014 BKN100 08/06 Q0986 GRN CYXT 271000Z VRB02KT 15SM FEW090 M05/M08 A2977 RMK AC1 SLP093 EGXU 271050Z 17003KT 9999 RA SCT012 OVC018 05/04 Q0985 GRN TEMPO 7000 GRN CYXU 271000Z 23013G18KT 15SM FEW100 01/M05 A3009 RMK AC1 SLP202 CYYL 271044Z AUTO 29006KT 9SM CLR M33/M36 A2978 RMK SLP135 KELM 271053Z 00000KT 10SM CLR M06/M09 A3021 RMK AO2 SLP244 T10611094 KFCM 271053Z AUTO 18007KT 10SM CLR M04/M07 A2993 RMK AO2 SLP145 T10441072 EGYM 270950Z 18013KT 9999 FEW012 SCT070 BKN180 09/06 Q0989 BLU TEMPO SCT018 WHT KDTW 271053Z 20007KT 10SM FEW200 00/M04 A3017 RMK AO2 SLP222 T00001044 $ KELN 271053Z AUTO 03005KT 10SM BKN035 OVC046 M03/M07 A2968 RMK AO2 SLP067 T10281072 EGXV 271050Z AUTO 19008KT 9999 SCT014/// BKN050/// 08/06 Q0985 RERA CYZE 271000Z AUTO VRB02KT 9SM CLR M10/M11 A3003 RMK SLP184 CYYN 271000Z AUTO 25003KT 9SM CLR M18/M20 A2975 RMK SLP132 KEKX 271055Z AUTO 15004KT 7SM -RA OVC030 06/04 A3023 RMK AO2 P0002 T00550043 KELO 271053Z AUTO 00000KT 10SM CLR M22/M24 A2993 RMK AO2 EGXW 271050Z 19017KT 9999 BKN017 BKN038 08/05 Q0986 WHT TEMPO 20015G25KT 7000 SHRA SCT012 GRN EHQE 271055Z AUTO 18034KT 9999 FEW009 SCT011 BKN016 08/06 Q0993 CYZF 271000Z 07005KT 15SM SCT110 M33/M37 A2993 RMK AC4 SLP172 CYXX 271000Z 02005KT 15SM FEW100 M01/M08 A2975 RMK AC1 SLP078 KELP 271051Z 13006KT 10SM FEW250 07/M08 A2994 RMK AO2 SLP099 T00671083 $ KEKY 271056Z AUTO 13007KT 10SM FEW080 11/M02 A3012 RMK AO2 SLP219 T01061022 CYZG 262200Z 03027KT 0SM SN BLSN VV003 M15/M17 A2894 RMK BLSN8 SNW CVR MUCH LOOSE LAST STFD OBS/NEXT 271300 UTC SLP828 CYXY 271000Z 00000KT 15SM SCT070 M12/M16 A2986 RMK AC3 SLP168 EGYP 271050Z 27013KT CAVOK 10/07 Q1006 BLU NOSIG CYXZ 270000Z 24012G23KT 200V270 6SM -SN DRSN SCT011 BKN021 OVC051 M02/M04 A2959 RMK SC3SC4SC1 LAST OBS/NEXT 271100UTC SLP043 EGXZ 271050Z 16006KT 9999 SCT021 BKN070 05/04 Q0985 WHT CYZH 271000Z AUTO 14004KT 110V190 9SM SCT095 M20/M23 A2963 RMK SLP088 CYYQ 271000Z 29007KT 15SM IC FEW130 M34/M38 A2978 RMK AC1 SLP090 CYYR 271000Z 26017G22KT 15SM VCSH SCT042 BKN085 M11/M16 A2947 RMK SC4AC1 SLP984 KFCS 271058Z AUTO 32004KT 10SM CLR M07/M18 A2968 RMK AO2 SLP092 T10691184 $ CZPS 271000Z AUTO 22008KT M17/M18 RMK AO1 T11671182 KEMK 271055Z AUTO 17030KT 5SM BR FEW012 23/21 A2991 RMK A01 KDVK 271035Z AUTO 00000KT 10SM RA SCT045 BKN050 OVC060 05/00 A3025 RMK AO2 KFDK 271035Z AUTO 00000KT 10SM OVC100 M03/M03 A3039 RMK AO2 CYYT 271000Z 26015G23KT 15SM FEW006 BKN030 M00/M02 A2955 RMK SF2SC4 CIG ESTD SLP012 KDVL 271056Z AUTO 21004KT 10SM CLR M12/M14 A2984 RMK AO2 SLP152 T11221139 FZRANO KEMM 262350Z AUTO 00000KT 10SM M06/M13 A2971 RMK AO2 CYYU 271023Z 31007KT 15SM BKN034 M13/M15 A2992 RMK SC5 SLP152 KEND 271058Z AUTO 09006KT 10SM BKN120 01/00 A2991 RMK AO2 SLP134 T00111000 $ KDVN 271052Z AUTO 15004KT 10SM CLR M03/M04 A3008 RMK AO2 SLP192 T10281044 EHRD 271055Z AUTO 18013KT 150V210 8000 FEW014 SCT023 BKN027 09/07 Q0996 TEMPO 7000 CYYW 271000Z AUTO 20003KT 9SM OVC044 M18/M20 A2986 RMK SLP153 KDVO 271055Z AUTO 00000KT 10SM FEW075 BKN090 05/05 A2993 RMK AO2 KDUX 271055Z AUTO 21008KT 10SM CLR M01/M08 A2983 RMK AO2 T10101077 KDVP 271055Z AUTO 19007KT 10SM CLR M04/M06 A2989 RMK AO2 T10371060 KELY 271053Z AUTO 15009KT 10SM OVC046 M01/M06 A2961 RMK AO2 SLP019 T10111056 KEMP 271053Z AUTO 14003KT 1/4SM FZFG VV001 M04/M04 A2999 RMK AO2 SLP165 I1000 T10441044 CYYY 271000Z 20017G22KT 30SM SCT140 M05/M11 A2981 RMK AC3 SLP099 CYZP 271056Z AUTO 32010KT 9SM -RA OVC018 03/01 A2981 RMK SLP097 KDWH 271053Z AUTO 00000KT 9SM -RA BKN012 BKN018 OVC024 20/19 A2995 RMK AO2 RAB50 SLP140 P0000 T02000189 KELZ 271056Z AUTO 22008KT 10SM CLR 00/M11 A3016 RMK AO2 SLP240 T00001106 $ CYYZ 271000Z 23010G15KT 15SM FEW075 02/M06 A3006 RMK AC1 SLP188 KFDR 271053Z AUTO 05008KT 10SM OVC005 08/05 A2985 RMK AO2 SLP103 T00830050 CYZR 271000Z AUTO 20008KT 9SM CLR 01/M04 A3010 RMK SLP202 KEMT 270345Z 16004KT 10SM OVC029 M/M A2999 EHSA 271025Z AUTO 17027G33KT 8000 ///////// 08/06 Q0993 W05/H18 CYZS 271000Z 34025G33KT 1/8SM IC +BLSN SKC M27/M30 A2936 RMK BLSN4 SLP954 KDVT 271053Z AUTO 08007KT 10SM FEW080 10/03 A2993 RMK AO2 SLP124 T01000028 CYZT 271000Z 26006KT 15SM SKC 02/M05 A2977 RMK SLP082 KFFC 271053Z AUTO 00000KT 10SM CLR 04/02 A3024 RMK AO2 SLP242 T00440022 KENL 271055Z AUTO 10003KT 10SM BKN039 OVC060 06/02 A3011 RMK AO2 T00610018 CYZU 270500Z 23006KT 15SM SKC M16/M19 A2973 RMK LAST OBS/NEXT 271300Z SLP132 EHSC 271025Z AUTO 20028G33KT 4400 ///////// 08/06 Q0994 W05/H12 KEMV 271035Z AUTO 00000KT 10SM SCT120 M02/M03 A3041 RMK AO2 KEOD 271058Z AUTO 14004KT 4SM -RA BR FEW037 OVC055 07/07 A3017 RMK AO2 SLP220 P0005 T00720065 CYZV 271050Z 33004KT 15SM -SN BKN040 M17/M20 A2978 RMK SC7 SLP092 KFDW 271055Z AUTO 12006KT 10SM CLR 06/01 A3031 RMK AO1 CYZW 270100Z 29007KT 30SM SCT060 M06/M12 A2983 RMK SC4 CLIMAT -4.5/-12.6/0.0/44021/LAST STFD OBS/NXT 271700Z SLP159 CYZX 271000Z 26006KT 15SM SKC M04/M06 A3015 RMK WNDY HILL UNAVBL SLP210 KFDY 271053Z AUTO 19007KT 10SM CLR 01/M06 A3019 RMK AO2 SLP226 T00061056 KFEP 271055Z AUTO 12003KT 10SM SCT032 M05/M06 A3010 RMK AO2 T10501061 CYZY 271000Z AUTO VRB02KT 9SM BKN085 M12/M14 A2962 RMK SLP077 KDYA 271055Z AUTO 12003KT 10SM 12/06 A3009 RMK AO2 T01180058 CZSJ 271042Z AUTO 00000KT 8SM OVC050 M25/M27 A2976 RMK SLP113 KDYB 271055Z AUTO 10003KT 10SM CLR 02/02 A3033 RMK AO1 KEOK 271055Z AUTO 13004KT 1/2SM FZFG VV005 M00/M00 A3007 RMK AO2 KFET 271055Z AUTO 14003KT 10SM CLR M03/M06 A2996 RMK AO2 T10301056 CZTB 271000Z AUTO 22004KT M17/M19 RMK AO1 SOG 00 1015 SLP172 T11681187 KDWU 271055Z AUTO 00000KT 10SM BKN033 OVC041 06/02 A3029 RMK AO1 P0001 KFFL 271055Z AUTO 19007KT 10SM SCT003 BKN080 M00/M01 A3005 RMK AO2 PWINO KFFM 271055Z AUTO 29003KT 10SM OVC050 M07/M11 A2994 RMK AO2 KENV 271055Z AUTO 21009KT 10SM FEW060 BKN085 BKN100 00/M04 A2963 RMK AO1 CZSM 271000Z AUTO 00000KT M33/ RMK AO1 SOG 56 0000 SLP156 T1325 KENW 271053Z AUTO 20005KT 9SM CLR M04/M06 A3011 RMK AO2 SLP204 I1000 T10441056 $ KFEW 271058Z AUTO 00000KT 10SM CLR M16/M20 A2968 RMK AO2 SLP127 T11611198 $ VHHH 271030Z 10011KT 9999 FEW045 18/07 Q1021 NOSIG KFFO 271058Z AUTO 20005KT 10SM OVC055 05/M05 A3022 RMK AO2 SLP241 T00471048 KDWX 271035Z AUTO 19018G26KT 10SM M01/M10 A2965 RMK AO2 T10111096 PLCH 271100Z 09006KT 9999 FEW020 26/24 Q1009 CZSP 271000Z AUTO 28012G19KT M04/M10 RMK AO1 SOG 06 1040 PK WND 28022/0929 SLP182 T10441099 KEPH 271053Z AUTO 34005KT 10SM FEW049 M03/M09 A2969 RMK AO2 SLP066 T10281094 ZUUU 271000Z VRB02MPS 9999 SCT040 13/04 Q1022 NOSIG KDXR 271053Z AUTO 00000KT 10SM CLR M06/M08 A3034 RMK AO2 SLP280 T10561078 KH78 261539Z 07024KT 12SM SKC 20/13 A3018 RMK SEAS 5-7 KEQA 271055Z AUTO 11008KT 10SM CLR 01/00 A2996 RMK AO2 KFFT 271053Z AUTO 14004KT 8SM -RA SCT026 BKN033 OVC047 06/03 A3024 RMK AO2 SLP243 P0003 T00610033 KDZB 271055Z AUTO 00000KT 5SM BR 19/18 A2993 RMK AO2 T01850177 KFHB 271015Z AUTO 08011KT 10SM CLR 18/12 A3023 RMK AO1 CZST 270100Z 19004KT 15SM SCT120 BKN220 02/M07 A2995 RMK AS4CC3 LAST STFD OBS/NEXT 271500Z/ SLP143 KDYL 271054Z AUTO 18003KT 10SM BKN120 M03/M07 A3036 RMK AO2 SLP287 T10281072 TSNO FABL 271000Z 35010KT 320V030 9999 SCT025TCU 25/17 Q1020 NOSIG KFGN 271053Z AUTO 19004KT 10SM CLR M14/M17 A2985 RMK AO2 EIKN 271030Z 19007KT 160V220 9999 BKN002 BKN026 00/M01 Q0981 TEMPO 0400 KDXX 271054Z AUTO 00000KT 10SM CLR M03/M03 A2988 RMK AO2 KFFX 271052Z AUTO 00000KT 10SM CLR M02/M04 A3010 RMK AO2 T10171041 KFFZ 270247Z 26005KT 50SM SCT120 SCT200 A2987 PKMJ 270650Z 07012KT 15SM FEW015 BKN050 BKN120 OVC300 28/24 A2974 KDYS 271058Z AUTO 17005KT 10SM CLR 10/10 A2989 RMK AO2 SLP100 T01030103 $ KDYT 271054Z AUTO 00000KT 10SM OVC055 M08/M13 A2998 RMK AO2 VIAG 271030Z 24005KT 6000 NSC 29/07 Q1014 NOSIG CZUM 271000Z AUTO 26010G17KT 240V300 9SM OVC030 M16/M19 A2940 RMK SLP993 EIME 271030Z 22008KT 9999 FEW018 SCT250 05/01 Q0983 KFGX 271035Z AUTO 22006KT 10SM RA BKN042 OVC055 05/04 A3029 RMK AO2 T00480037 KFIG 271054Z AUTO A3026 RMK AO2 SLPNO PWINO FZRANO $ EIKY 271030Z 22007KT 9999 -RASN SCT010CB BKN020 02/00 Q0984 PKMR 270853Z 06005KT 15SM FEW015 SCT050 BKN120 OVC300 28/24 A2978 RMK SLP086 8/878 T02840242 52020 KERI 271051Z 21012KT 10SM CLR 03/M08 A3019 RMK AO2 SLP232 T00331078 KFHR 271053Z AUTO 28003KT 10SM CLR M01/M07 A2976 RMK AO2 SLP078 T10061072 FACT 271000Z 21010KT 180V240 CAVOK 27/11 Q1011 NOSIG EHVK 271055Z AUTO 20021KT 160V240 9999 BKN034 OVC040 12/05 Q0998 BLU 21018G28KT 9999 BKN035 TEMPO SCT018 BKN025 KESC 271056Z AUTO 00000KT 10SM CLR M14/M17 A3009 RMK AO2 SLP215 T11441167 FZRANO KFHU 271058Z AUTO 00000KT 9SM CLR 04/M05 A3000 RMK AO2 SLP128 T00421047 CZVL 271000Z AUTO 21005KT 9SM FEW140 M15/M19 A2967 RMK SLP100 EHVL 271055Z AUTO 18019KT 9999 -DZRA BKN015 OVC018 08/07 Q0994 WHT KGAD 271056Z AUTO 05005KT 10SM CLR 07/01 A3020 RMK AO2 SLP247 T00720006 KFIN 262050Z 07008KT 10SM CLR 18/06 A3020 FACV 270953Z 06011KT CAVOK 32/M00 Q1014 KGAF 271055Z AUTO 17008KT 10SM CLR M13/M15 A2990 RMK AO2 KESF 271053Z AUTO 00000KT 10SM OVC015 16/14 A3000 RMK AO2 SLP158 T01560139 VIAR 271030Z 33005KT 290V020 6000 FEW100 26/09 Q1014 BECMG 5000 HZ KEQY 271053Z AUTO 00000KT 10SM CLR 03/M02 A3031 RMK AO2 SLP280 T00331022 KGAG 271053Z AUTO 16008KT 10SM CLR 03/M02 A2987 RMK AO2 SLP112 T00281017 TSNO KI16 271055Z AUTO 10SM BKN055 OVC075 02/M04 A3036 RMK AO2 T00151044 KGAI 271055Z AUTO 00000KT 10SM CLR M03/M07 A3040 RMK AO1 KFKA 271054Z AUTO 21007KT 10SM CLR M07/M08 A3000 RMK AO2 T10691080 KFIT 271052Z AUTO 13003KT 10SM CLR M02/M08 A3027 RMK AO2 SLP256 T10171078 KI19 271049Z AUTO 00000KT 10SM OVC065 A3023 RMK AO2 KETB 271035Z AUTO 00000KT 10SM CLR M05/M05 A3008 RMK AO2 FAEL 271000Z 10011KT CAVOK 25/14 Q1016 KGBD 271056Z AUTO 13007KT 10SM CLR M03/M06 A2990 RMK AO2 SLP136 T10281056 FZRANO KERV 271055Z AUTO 13005KT 7SM OVC011 18/17 A2993 RMK AO2 T01760166 VICG 271030Z 30013KT 6000 SKC 26/09 Q1014 NOSIG KESN 271056Z AUTO 00000KT 10SM CLR M01/M03 A3042 RMK AO2 T10131033 EINN 271030Z 21011KT 9999 FEW009 FEW018CB 04/02 Q0983 NOSIG KGAO 271055Z AUTO 15006KT 10SM SCT021 SCT029 OVC085 21/18 A3003 RMK AO2 T02060175 VIBR 270600Z 00000KT 8000 NSC 16/03 Q1019 KERY 271055Z AUTO 23004KT 10SM CLR M13/M14 A3004 RMK AO2 T11331137 EHWO 271055Z AUTO 19009KT 100V240 9999 FEW022 OVC026 11/05 Q0996 BLU 19014G28KT 9999 FEW012 SCT020 BKN030 OVC035 TEMPO 4000 RA SHRA SCT012 SCT015CB BKN025 KGBG 271055Z AUTO 16003KT 10SM CLR M01/M02 RMK AO2 T10151023 FADY 270841Z 07004KT CAVOK 24/07 Q1020 KETH 271056Z AUTO 00000KT 10SM CLR M08/M09 A2991 RMK AO2 VIDD 271030Z 29006KT 4000 HZ NSC 28/10 Q1014 NOSIG KEST 271052Z AUTO 18010KT 10SM CLR M10/M11 A2993 RMK AO2 SLP156 T11001111 KGBK 271055Z AUTO 11011G20KT 050V130 10SM FEW024 SCT030 SCT034 23/22 A3000 RMK A01 KGCC 271053Z AUTO 00000KT 10SM CLR M06/M12 A2957 RMK AO2 SLP045 T10611117 $ KFKL 271055Z 22007KT 10SM CLR M01/M11 A3023 RMK AO1 KFLD 271053Z AUTO 17004KT 10SM CLR M06/M08 A3008 RMK AO2 SLP195 T10561083 KGCD 271035Z AUTO 00000KT 10SM SCT002 SCT048 OVC060 M04/M05 A2965 RMK AO2 T10451053 KFKN 271035Z AUTO 00000KT 10SM CLR M01/M02 A3040 RMK AO2 T10101020 KEUF 270958Z AUTO 15005KT 10SM CLR 12/M01 A3019 RMK AO2 SLP220 I1000 T01171011 KEUG 271054Z AUTO 20006KT 10SM OVC011 02/01 A2984 RMK AO2 SLP108 T00170011 $ KFLG 271057Z 22015KT 10SM OVC018 M01/M04 A2986 RMK AO2 SLP094 T10111044 KI35 271035Z AUTO 00000KT 10SM SCT065 OVC085 01/M02 A3028 RMK AO1 FAGG 271000Z 14008KT 100V170 CAVOK 24/13 Q1014 KFKR 271055Z AUTO 20004KT 10SM SCT028 OVC034 04/01 A3018 RMK AO2 T00370005 KFKS 271054Z AUTO 00000KT 10SM SCT028 M06/M08 A3010 RMK AO2 T10561083 KEVB 270247Z 04012KT 10SM SKC 18/12 A3023 RMK LAST KGDB 271052Z AUTO 19005KT 10SM CLR M03/M05 A2990 RMK AO2 T10311052 KGCK 271054Z AUTO 13008KT 10SM CLR M04/M07 A2983 RMK AO2 SLP109 T10391067 VIDN 271000Z 22007KT 6000 NSC 27/05 Q1014 KFLL 271053Z 12013KT 10SM SCT025 24/19 A3016 RMK AO2 SLP211 T02390189 KEUL 271056Z AUTO 00000KT 10SM OVC034 M01/M03 A2967 RMK AO2 SLP061 T10111028 FZRANO KGCM 271055Z AUTO 06003KT 10SM CLR 00/M01 A3000 RMK AO2 FAGM 261600Z 18007KT CAVOK 23/09 Q1022 VIDP 271030Z 28008KT 4000 HZ NSC 28/05 Q1015 NOSIG KFME 271039Z AUTO 00000KT 10SM CLR M05/M05 A3039 RMK AO1 KGCN 271054Z AUTO 20014G22KT 10SM FEW018 BKN032 M01/M03 A2981 RMK AO2 SLP076 T10061033 KFLO 271053Z AUTO 00000KT 10SM CLR 02/01 A3035 RMK AO2 SLP275 T00220011 KFLP 271055Z 00000KT 10SM CLR 02/M03 A3003 RMK AO1 KFMH 271055Z 10SM SKC 00/M06 A3034 RMK AO2 PWINO FZRANO TSNO WEA KGDJ 271055Z AUTO 00000KT 7SM SCT007 BKN012 16/14 A2992 RMK AO2 T01550142 CZZJ 271000Z AUTO 26004KT M19/M21 RMK AO1 SOG 13 7020 SLP098 T11941210 KFNB 271053Z AUTO 15005KT 10SM CLR M05/M07 A2999 RMK AO2 SLP162 T10501067 $ KEWB 271053Z AUTO 22004KT 10SM CLR M02/M08 A3033 RMK AO2 SLP271 T10171078 URFF 271030Z 26005MPS 9999 FEW044 09/M03 Q1020 R19/010095 NOSIG KEVM 271054Z AUTO 00000KT 10SM OVC050 M15/M18 A2994 RMK AO2 T11551185 KGED 271054Z AUTO 00000KT 10SM CLR M02/M04 A3041 RMK AO2 SLP297 T10171044 KFMM 271055Z AUTO 06004KT 10SM CLR M10/M13 A2973 RMK AO2 T10991127 KFMN 271053Z AUTO 07006KT 10SM BKN065 00/M07 A2983 RMK AO2 SLP102 T00001072 KGEG 271053Z 24003KT 1SM R21/P6000FT BR BCFG SCT004 BKN009 OVC042 M03/M04 A2963 RMK AO2 SFC VIS 6 SLP056 BCFG SE-SW I1000 T10331039 $ KGDP 270951Z AUTO 25018KT 10SM CLR 06/M08 RMK AO2 SLPNO T00611078 PWINO $ KFLY 271035Z AUTO 03004KT 10SM CLR M06/M19 A2968 RMK AO2 T10631190 KGFA 271058Z AUTO 04008KT 5SM -SN BKN022 M11/M12 A2967 RMK AO2 SLP118 T11131120 TSNO $ KFOA 271055Z AUTO 14004KT 10SM OVC060 06/02 A3014 RMK AO2 T00560019 FAHS 271000Z AUTO 18010KT //// // ////// 27/15 Q1019 KEWK 271056Z AUTO 11007KT 10SM CLR M02/M03 A2995 RMK AO2 SLP148 T10221033 FZRANO TSNO FAJB 271100Z AUTO 34001KT //// // ////// 23/14 Q1022 KFNL 271056Z AUTO 00000KT 10SM CLR M07/M11 A2971 RMK AO2 SLP077 T10721106 FZRANO KEVU 271055Z AUTO 15004KT 2SM BR CLR 00/00 A3000 RMK AO2 KEVV 271054Z 00000KT 10SM OVC034 07/04 A3018 RMK AO2 RAE46 SLP221 P0002 T00670039 KFOD 271055Z AUTO 00000KT 1/4SM VV002 M10/M12 A3000 RMK AO1 KGDV 271056Z AUTO 05009KT 1 1/2SM -SN BR BKN018 OVC026 M07/M08 A2973 RMK AO2 SLP101 P0000 T10721083 FZRANO DRRM 271000Z 10010KT CAVOK 31/M10 Q1014 VIGG 270900Z 23005KT 8000 FEW035 25/04 Q1017 KEVW 271053Z AUTO 22021KT 3/4SM -SN BR FEW010 OVC014 M04/M06 A2952 RMK AO2 PK WND 21033/1000 SNB0959 SLP013 P0000 T10391061 KFOE 271053Z AUTO 00000KT 1/4SM FZFG VV001 M04/M04 A3000 RMK AO2 SLP163 I1001 T10391044 RVRNO KEWN 271054Z 00000KT 10SM FEW002 01/01 A3042 RMK AO2 SLP299 T00110006 KI63 271035Z AUTO 14003KT 10SM OVC075 00/00 A3009 RMK AO2 T00021004 DRRN 271000Z 07012KT 6000 NSC 33/M14 Q1012 NOSIG KFMY 271053Z 08006KT 10SM CLR 17/16 RMK AO2 SLPNO T01720156 $ EISG 271030Z 18006KT 140V230 9999 BKN010 02/01 Q0981 KEWR 271051Z 21008KT 10SM CLR M01/M07 A3038 RMK AO2 SLP287 T10111072 $ EKAH 271050Z AUTO 18007KT 110V230 5000NDV -SHRA OVC003/// 08/07 Q0997 KI67 271055Z AUTO 00000KT 10SM OVC070 03/M02 A3023 RMK AO1 FAIR 270408Z 06004KT 7000 -RA BKN015 18/17 Q1023 KGFK 271053Z AUTO 19008KT 10SM CLR M12/M16 A2989 RMK AO2 SLP141 T11171156 KFNT 271053Z 23008KT 10SM CLR 01/M04 A3012 RMK AO2 SLP208 T00111044 $ KFOK 271053Z AUTO 00000KT 10SM CLR M08/M11 A3039 RMK AO2 SLP290 T10831111 TSNO $ KI69 271055Z AUTO 21006KT 10SM BKN036 BKN045 OVC060 06/M03 A3024 RMK AO2 T00621026 KGEU 270148Z 00000KT 10SM FEW080 FEW200 17/00 A2989 RMK LAST DRRT 271000Z 10008KT CAVOK 31/M08 Q1013 KGFL 271053Z AUTO 19005KT 10SM CLR M02/M08 A3021 RMK AO2 SLP237 T10221083 KGEV 271100Z AUTO 00000KT 10SM CLR 02/M10 A3028 RMK AO2 T00201101 KGGE 271055Z AUTO 00000KT 10SM CLR 03/02 A3035 RMK AO2 KEYE 271053Z AUTO 00000KT 10SM OVC045 05/01 A3018 RMK AO2 SLP222 T00500006 KEYF 271055Z AUTO 11004KT 10SM CLR 02/01 A3036 RMK AO2 T00160008 VIGR 270900Z 00000KT 5000 HZ NSC 31/07 Q1014 KGEY 271053Z AUTO 16003KT 10SM CLR M04/M11 A2957 RMK AO2 SLP048 T10441111 $ KGGG 271053Z AUTO 00000KT 10SM OVC011 17/17 A2997 RMK AO2 RAE36 SLP145 P0002 T01670167 KI75 271055Z AUTO 17006KT 10SM CLR 00/M02 A3001 RMK AO2 T10051016 KGEZ 271053Z AUTO 15006KT 10SM OVC055 05/M03 A3019 RMK AO2 SLP228 T00501028 KGGI 271055Z AUTO 09004KT 10SM CLR M03/M05 A3003 RMK AO2 T10271055 EKBI 271050Z 20011G21KT 170V240 7000 -RA BKN007 08/07 Q0996 FALA 271000Z 03007KT 340V060 9999 BKN020 22/14 Q1022 NOSIG KFPK 271055Z AUTO 21003KT 10SM CLR 00/M04 A3010 RMK AO2 T10021041 KGHB 271055Z AUTO VRB04KT 5SM BR SCT008 SCT017 BKN026 22/22 A3000 RMK A01 KFOT 271055Z AUTO 13005KT 10SM BKN050 02/02 A2994 RMK AO1 KFQD 271050Z AUTO 00000KT 3SM HZ CLR 01/M03 A3033 RMK AO2 T00111033 FAKM 271000Z 36006KT 9999 FEW050 27/15 Q1018 FALE 271000Z 08006KT 030V120 9999 SCT035 24/15 Q1018 NOSIG FAKN 271000Z AUTO 08004KT //// // ////// 22/15 Q1022 KEXX 271050Z AUTO 00000KT 10SM CLR M01/M03 A3034 RMK AO2 T10071030 KEZF 271035Z AUTO 00000KT 10SM CLR M01/M03 A3037 RMK AO2 T10111026 KGGP 271035Z AUTO 20004KT 10SM CLR 00/M03 A3017 RMK AO2 KGHG 271035Z AUTO 23009G14KT 200V260 10SM CLR M01/M08 A3030 RMK AO2 KFOZ 271052Z AUTO 00000KT 10SM CLR M21/M23 A2991 RMK AO2 WAAA 271030Z 14004KT 110V180 8000 FEW019 26/25 Q1009 NOSIG EKCH 271050Z 19013KT 9999 FEW025 BKN042 07/06 Q1001 NOSIG KFPR 271053Z AUTO 08009KT 10SM FEW035 22/18 A3019 RMK AO2 SLP223 T02220183 PKWA 271040Z AUTO 07014KT 10SM SCT023 SCT028 BKN037 28/23 A2985 RMK AO2 T02770232 KGIC 271055Z AUTO 00000KT 10SM BKN050 OVC065 M03/M05 A2958 RMK AO1 KEZM 271035Z AUTO 00000KT 10SM CLR 03/03 A3028 RMK AO2 T00340033 KGGW 271053Z AUTO 06008KT 2SM -SN BR OVC024 M09/M12 A2976 RMK AO2 SLP115 P0001 T10941117 FALM 270500Z 12010G15KT 4000 -RA OVC004 18/// Q1020 KEYW 271053Z AUTO 09010KT 10SM CLR 24/21 A3013 RMK AO2 SLP203 T02390206 KGIF 271053Z AUTO 08006KT 10SM CLR 16/13 A3022 RMK AO2 SLP231 T01610128 KFRG 271053Z AUTO 23005KT 10SM CLR 00/M06 A3038 RMK AO2 SLP287 T00001056 URKA 271030Z 22005MPS CAVOK 07/01 Q1022 R22/010070 RMK QFE762/1016 WABB 270800Z 30008KT 9999 FEW018 30/25 Q1006 NOSIG KFRI 271058Z AUTO 04005KT 10SM CLR M05/M08 A2996 RMK AO2 SLP150 T10491083 KEZS 271055Z AUTO 00000KT 10SM OVC060 M04/M09 A3008 RMK AO2 T10401095 EKEB 271050Z AUTO 21012G25KT 4300NDV -RA BR BKN002/// 07/06 Q0996 VIJO 271030Z 250008KT 8000 FEW250 33/04 Q1012 NOSIG KFRM 271056Z AUTO 18008KT 10SM CLR M09/M12 A2995 RMK AO2 SLP163 T10941117 FZRANO KFSD 271056Z 20004KT 10SM CLR M04/M07 A2989 RMK AO2 SLP140 T10391072 FAMM 271000Z 03011KT 9999 SCT030 24/17 Q1020 NOSIG VIJP 271030Z VRB03KT 7000 NSC 30/M02 Q1015 NOSIG KGHW 271053Z AUTO 06005KT 10SM CLR M08/M08 A2988 RMK AO2 KHAE 271055Z AUTO 09003KT 5SM BR CLR 00/M01 A3008 RMK AO2 KFSE 271054Z AUTO 15003KT 10SM CLR M14/M16 A2989 RMK AO2 FALW 271000Z AUTO 35001KT //// // ////// 33/02 Q1009 KHAF 271055Z AUTO 32003KT 10SM FEW019 SCT036 OVC042 07/05 A2992 RMK AO2 PMDY 271056Z AUTO 34003KT 10SM FEW029 16/11 A3003 RMK AO2 SLP169 T01560111 401940144 EIWF 271030Z VRB08KT 9999 FEW020 06/02 Q0984 R21/1///// URKK 271030Z 29003MPS CAVOK 09/M05 Q1022 R23C/CLRD60 NOSIG RMK QFE763 KHAI 271055Z AUTO 20005KT 10SM BKN085 00/M04 A3015 RMK AO2 T10051040 KFRR 271055Z AUTO 20003KT 10SM OVC090 00/M07 A3033 RMK AO1 KFSI 271034Z AUTO 02003KT 6SM BR OVC006 07/05 A2988 RMK AO2 SLP117 VIJU 270930Z 2005KT 8000 FEW200 25/09 Q1014 NOSIG USCC 271030Z 28007MPS 9999 SCT030CB M02/M10 Q1010 R27/690250 TEMPO 25015MPS 1100 SHSN BKN004 RMK QFE737 VILD 271000Z 32002KT 4000 HZ NSC 28/03 Q1014 FAOB 271000Z AUTO 17012KT //// // ////// 24/12 Q1014 KFSM 271053Z AUTO 07006KT 10SM CLR 06/02 A3001 RMK AO2 SLP162 T00560017 KHBE 271055Z AUTO 16005KT 10SM OVC060 05/M04 A3021 RMK AO2 VILH 271030Z 28008KT 6000 FEW070 04/-20 Q1026 NOSIG KHAO 271053Z AUTO 00000KT 10SM OVC070 04/M02 A3024 RMK AO2 SLP245 T00441022 KFSO 271055Z AUTO 19010G16KT 170V230 10SM BKN110 M01/M06 A3005 RMK AO2 T10071063 KFTG 271055Z AUTO 18006KT 10SM CLR M06/M12 A2969 RMK AO2 KHBG 271053Z AUTO 15005KT 10SM BKN060 16/12 A3007 RMK AO2 SLP181 T01560117 VILK 271030Z 29008KT 5000 HZ NSC 29/06 Q1013 NOSIG KHBI 271100Z AUTO 00000KT 10SM CLR 01/M04 A3038 RMK AO2 T00071039 KGKJ 271053Z AUTO 21009KT 10SM BKN070 01/M09 A3020 RMK AO2 SLP240 T00061094 $ KFTK 271058Z AUTO 16003KT 10SM -RA FEW028 OVC034 06/04 A3021 RMK AO2 SLP235 P0003 T00610041 WADD 271030Z 11007KT 9999 FEW016CB SCT017 29/25 Q1007 NOSIG RMK CB TO NE USCM 271030Z 25007MPS 9999 BKN030CB M04/M08 Q1013 R19/090060 TEMPO 24015MPS 1100 SHSN VV005 RMK QFE722 KGJT 271053Z AUTO 16016KT 10SM OVC100 04/M06 A2970 RMK AO2 SLP045 T00441061 KFST 271053Z AUTO 22009KT 10SM CLR 12/M03 A2992 RMK AO2 SLP095 T01171033 KGLD 271053Z AUTO 18011KT CLR M06/M09 A2979 RMK AO2 SLP102 T10561089 $ KHCD 271053Z AUTO 00000KT 10SM CLR M04/M05 A2991 RMK AO2 T10411047 URMG 271030Z 11006MPS CAVOK 10/M11 Q1021 R08/000070 NOSIG RMK QFE751/1001 KGLE 271055Z AUTO 12004KT 7SM OVC006 13/11 A2994 RMK AO2 T01250105 KFTN 271055Z AUTO 16005G11KT 10SM OVC008 19/18 A2985 RMK A01 FAPE 271000Z 06007KT 030V100 CAVOK 24/12 Q1015 NOSIG KGLH 271053Z AUTO 10008KT 10SM FEW004 BKN090 OVC110 09/08 A3005 RMK AO2 RAE46 TSE01 SLP182 P0010 T00940083 KHBR 271053Z AUTO 06004KT 10SM BKN012 04/02 A2989 RMK AO2 SLP122 T00440022 URML 271030Z 15012MPS 9999 NSC 07/M00 Q1023 R14/01//70 NOSIG RMK QFE767/1023 WADL 271100Z 00000KT 9999 SCT015 26/25 Q1009 NOSIG FAOR 271030Z 01004KT 320V080 9999 FEW021 BKN025 20/14 Q1023 NOS IG DRZA 271000Z 10008KT CAVOK 30/00 Q1015 URMM 271030Z 10008MPS 9999 NSC 08/M08 Q1020 R12/000070 NOSIG RMK QFE737/0983 KGKT 271055Z AUTO 00000KT 10SM CLR M01/M04 A3027 RMK URMN 271030Z 09004MPS 9999 NSC 08/M12 Q1019 R24/110060 NOSIG RMK QFE727 FBFT 271000Z 10014KT 9999 DZ OVC010 22/18 Q1018 KFUL 271053Z AUTO 07005KT 10SM BKN055 10/07 A2992 RMK AO2 SLP132 T01000067 KHDC 271055Z AUTO 00000KT 10SM BKN019 BKN024 OVC033 18/16 A3004 RMK AO2 URMO 271030Z 06005MPS 030V100 9999 NSC 07/M13 Q1019 R09/010070 NOSIG RMK QFE721/0961 KHBV 271035Z AUTO 18008KT 10SM BKN012 20/18 A2986 RMK AO2 T02020180 ZWSH 271000Z VRB01MPS 8000 NSC 08/M05 Q1021 NOSIG KFTW 271053Z 17004KT 10SM OVC006 17/14 A2990 RMK AO2 SLP122 T01670139 $ KFVE 271053Z AUTO 17008KT 10SM OVC023 M08/M13 A2988 RMK AO2 SLP133 T10781128 KHDE 271035Z AUTO 16006KT 10SM CLR M05/M12 A2989 RMK AO2 T10461116 FAPN 271000Z AUTO 06004KT //// // ////// 23/18 Q1019 KHCO 271054Z AUTO 20005KT 10SM OVC050 M11/M13 A2988 RMK AO2 KGKY 271053Z 18003KT 10SM OVC008 16/14 A2991 RMK AO2 SLP124 T01560144 $ KFTY 271053Z 06003KT 10SM CLR 07/01 A3024 RMK AO2 SLP239 T00720011 FAPP 271000Z 08007KT 9999 OVC020 19/14 Q1021 NOSIG URMT 271030Z 26001MPS CAVOK 05/M16 Q1020 R25/110055 NOSIG RMK QFE726 KGLR 271053Z AUTO 00000KT 10SM OVC030 M06/M10 A3004 RMK AO2 SLP192 T10561100 FAPR 270538Z 02003KT 8000 -DZ OVC008 16/16 Q1022 KGLS 271052Z AUTO 15006KT 6SM BR FEW019 OVC025 21/20 A2995 RMK AO2 SLP141 T02060200 KFWA 271054Z 23006KT 10SM FEW050 FEW090 BKN240 M01/M06 A3018 RMK AO2 SLP226 T10061056 $ KGNA 271056Z AUTO 32005KT M08/M17 A2999 RMK AO1 SLP171 T10831172 $ KGMJ 271055Z AUTO 00000KT 10SM CLR 01/00 A3001 RMK AO2 KFWB 271035Z AUTO 10006KT 10SM SCT029 04/M02 A3003 RMK AO2 KFWC 271035Z AUTO 12003KT 10SM OVC043 07/02 A3013 RMK AO1 T00650020 KGNC 271035Z AUTO 00000KT 10SM CLR 02/M05 A2992 RMK AO2 T00231051 KHDN 271055Z AUTO 08009KT 10SM SCT043 BKN048 BKN055 M07/M14 A2967 RMK AO1 KGLW 271030Z AUTO 00000KT 10SM -RA BKN041 OVC047 07/04 A3022 RMK AO2 T00710044 KHDO 271051Z AUTO 06005KT 2SM BR BKN011 OVC024 17/17 A2990 RMK AO2 SLP111 T01720167 $ KHEF 271056Z AUTO 23003KT 10SM OVC100 M03/M04 A3038 RMK AO2 SLP302 T10331044 FZRANO KGLY 271055Z AUTO 08003KT 1/4SM FZFG BKN039 M03/M03 A3005 RMK AO2 ZYCC 271000Z 19003MPS 150V220 CAVOK 04/M07 Q1017 NOSIG KHEI 271053Z AUTO 10006KT 4SM BR OVC041 M07/M09 A2974 RMK AO2 SNB40E53 SLP100 P0000 T10671089 DRZR 271000Z 08010KT CAVOK 31/M08 Q1013 FASB 270629Z 09006KT CAVOK 27/M03 Q1015 KGMU 271053Z AUTO 01006KT 10SM CLR 06/M05 A3032 RMK AO2 SLP269 T00611050 KHFD 271053Z 18006KT 10SM CLR M02/M08 A3034 RMK AO2 SLP273 T10171078 KFWN 271053Z AUTO 00000KT 10SM CLR M03/M07 A3033 RMK AO2 SLP273 T10331072 KFXE 271053Z 10011KT 10SM SCT027 BKN035 BKN055 25/18 A3016 RMK AO2 SLP216 T02500183 KFVX 271055Z AUTO 00000KT 10SM SCT120 M03/M03 A3036 RMK AO2 T10321035 KHFF 271056Z AUTO 34005KT 10SM FEW150 M02/M03 A3035 RMK AO2 SLP296 T10181028 $ KHEQ 271055Z AUTO 15006KT 10SM CLR M07/M11 A2979 RMK AO2 KGNR 271056Z AUTO VRB04KT M08/M12 A2998 RMK AO1 SLP178 T10781122 FASI 271100Z AUTO 09002KT //// // ////// 20/11 Q1025 KFWS 271055Z AUTO 18004KT 5SM BR SCT007 16/15 A2992 RMK AO2 T01620150 KHFJ 271030Z AUTO 12008KT 10SM CLR 02/M02 A3000 RMK AO2 DTKA 271000Z 29006KT 240V330 9999 SCT020 15/07 Q1021 NOSIG EKKA 271052Z 20008KT 160V230 9999 -RA FEW006 OVC007 07/07 Q0995 TEMPO 4000 RA BKN010 KGOK 271053Z AUTO 13005KT 10SM CLR 06/02 A2992 RMK AO2 SLP133 T00610017 KGNT 271055Z AUTO 16009KT 080V170 10SM CLR M03/M06 A2990 RMK AO2 T10351061 FCBB 271000Z 29005KT 230V350 9000 SCT016 BKN020 28/23 Q1012 NOSIG KGPC 271055Z AUTO 11004KT 10SM OVC048 03/01 A3018 RMK AO2 KGNV 271053Z AUTO 00000KT 10SM CLR 07/06 A3023 RMK AO2 SLP238 T00720056 KGON 271056Z AUTO 26006KT 10SM CLR 02/M06 A3036 RMK AO2 SLP279 T00221056 KFYE 271055Z AUTO 14011G18KT 100V160 4SM BR FEW029 SCT037 BKN055 09/08 A3008 RMK A01 USHH 271030Z 30002MPS 260V340 1200 1100NE R24/1100N SHSN BKN017CB M04/M05 Q0998 R24/590530 TEMPO 0800 +SHSN VV003 RMK QFE745 FBKE 271000Z 05009KT 020V080 9999 BKN030 27/19 Q1015 KGOO 271055Z AUTO 19003KT 10SM OVC003 00/00 A2982 RMK AO1 KGOP 271030Z AUTO 16006KT 4SM BR OVC003 18/18 A2994 RMK AO2 KHEY 271058Z AUTO 00000KT 10SM BKN160 OVC180 12/M03 A3018 RMK AO2 SLP221 T01231026 KFYG 271035Z AUTO 00000KT 10SM OVC060 01/01 A3008 RMK AO2 KGPH 271055Z AUTO 00000KT M1/4SM FZFG M02/M02 A3005 RMK AO2 KHEZ 271055Z AUTO 15008KT 10SM FEW017 FEW025 SCT031 16/12 A3002 RMK AO1 KFWZ 271055Z AUTO 23008KT 1 3/4SM -SN BKN006 BKN013 OVC018 M10/M10 RMK AO2 KGPI 271055Z AUTO 01010KT 10SM OVC055 M09/M13 A2963 RMK AO2 SNB20E49 SLP072 P0000 T10891128 $ KFYJ 271035Z AUTO 00000KT 10SM CLR M01/M02 A3041 RMK AO2 T10131022 KGOV 271055Z AUTO 00000KT 10SM OVC032 M04/M09 A3008 RMK AO2 T10381091 KGPM 271055Z AUTO 00000KT 10SM OVC010 17/17 A2993 RMK AO2 T01650165 KFYM 271055Z AUTO 01004KT 10SM SCT026 BKN032 BKN046 07/M01 A3018 RMK A01 KHHF 271055Z AUTO 00000KT 10SM CLR M01/M02 A2988 RMK AO2 T10101019 KFXY 271055Z AUTO 00000KT 1/4SM FZFG OVC002 M15/M17 A2999 RMK AO2 KHFY 271055Z AUTO 15003KT 10SM OVC050 06/00 A3020 RMK AO2 T00550004 KFZG 271035Z AUTO 00000KT 10SM CLR 09/05 A3026 RMK AO2 T00870054 KHHG 271035Z AUTO 00000KT 10SM CLR 01/M05 A3018 RMK AO2 T00111050 WAHS 271030Z 26003KT 7000 FEW013CB BKN014 29/25 Q1007 NOSIG UTAA 271000Z 32008KT 280V350 9999 OVC026 07/01 Q1027 R30L/CLRD70 NOSIG KHGR 271053Z AUTO 00000KT 10SM OVC095 01/M07 A3033 RMK AO2 SLP287 T00111072 KGPT 271053Z AUTO 15005KT 10SM OVC090 18/16 A3007 RMK AO2 SLP183 T01830161 $ KGRB 271053Z AUTO 10004KT 10SM CLR M06/M09 A3007 RMK AO2 SLP192 T10561089 $ KHIB 271053Z AUTO 00000KT 10SM OVC050 M16/M18 A2992 RMK AO2 SLP163 T11561183 DTMB 271030Z 30012KT 9999 FEW024 16/11 Q1019 NOSIG KFYV 271053Z AUTO 00000KT 10SM CLR M02/M02 A3001 RMK AO2 SLP168 T10171017 KGRD 271056Z AUTO 00000KT 10SM CLR 01/M03 A3032 RMK AO2 SLP269 T00061028 KK02 271035Z AUTO 12007KT 10SM CLR 04/01 A3009 RMK AO2 T00360007 KHIE 271052Z AUTO 00000KT 10SM SCT075 M07/M10 A3009 RMK AO2 SLP206 T10721100 KHIF 271044Z AUTO 00000KT 10SM FEW006 BKN015 BKN031 00/M01 A2961 RMK AO2 SNB13E34 CIG 015V032 BKN015 V SCT KGRF 270958Z AUTO 00000KT 10SM BKN060 OVC080 01/01 A2976 RMK AO2 SLP084 T00140014 $ URRR 271030Z 24005MPS 5000 -SHSNRA SCT007 BKN///CB 02/00 Q1021 R22/290049 TEMPO 0800 +SHSN SCT003 BKN020CB RMK QBB220 QFE758/1011 FAUP 271000Z 36005KT 9999 FEW040 33/07 Q1014 NOSIG KGPZ 271056Z AUTO 00000KT 10SM OVC048 M12/M14 A2993 RMK AO2 SLP164 T11171144 FZRANO WAJJ 271000Z 29009KT 9999 VCTS FEW012CB FEW013 29/21 Q1006 NOSIG UTAK 271000Z 14012KT CAVOK 09/M12 Q1027 R34L/CLRD70 NOSIG KGRI 271053Z AUTO 18006KT 10SM CLR M04/M08 A2992 RMK AO2 SLP150 T10441083 KHHR 271053Z AUTO 06003KT 10SM BKN041 BKN060 10/07 A2993 RMK AO2 SLP135 T01000067 $ KHII 271035Z AUTO 14011KT 10SM CLR 12/01 A2985 RMK AO2 ZWWW 271030Z VRB02MPS 1400 R25/1700N FU NSC M03/M09 Q1033 NOSIG VISM 270700Z 23006KT 7000 NSC 18/00 Q1021 UTAM 271100Z 33016G26KT 4700 BLDU SCT033 10/02 Q1026 NOSIG RMK SC07 KGSB 271058Z AUTO 09004KT 10SM CLR 01/M02 A3037 RMK AO2 SLPNO T00131018 $ KIAB 271058Z AUTO 11009KT 10SM CLR 01/M02 A2994 RMK AO2 SLP147 T00111023 $ KGRK 271048Z AUTO 16007KT 6SM BR OVC007 17/17 A2991 RMK AO2 SLP124 FAUT 271000Z 09005KT 9999 FEW020 25/14 Q1018 FAWB 271000Z AUTO 03004KT //// // ////// 26/17 Q1021 KIAD 271052Z 00000KT 10SM SCT100 M04/M07 A3036 RMK AO2 SLP284 T10391067 KHHV 271100Z AUTO 15021G29KT 3SM BR CLR 23/22 A2989 RMK A01 KHHW 271035Z AUTO 07004KT 10SM OVC019 10/08 A2997 RMK AO2 LTG DSNT E T01020083 FBMN 271000Z 08012KT 9999 BKN020 FEW030CB 27/20 Q1015 KHIO 271053Z AUTO 19004KT 9SM FEW006 OVC032 03/02 A2980 RMK AO2 SLP093 T00280022 $ VISR 271030Z 27004KT 8000 FEW025 SCT200 15/M05 Q1023 NOSIG KIAG 271053Z AUTO 23012G21KT 10SM BKN080 04/M05 A3013 RMK AO2 SLP217 T00391050 KFZY 271054Z AUTO 20009KT 10SM SCT075 02/M07 A3014 RMK AO2 SLP211 T00171072 URSS 271030Z 18002MPS 130V240 9999 NSC 14/M03 Q1021 R02/090070 R06/090070 NOSIG RMK R06/28002MPS QFE764 ZYHB 271000Z 19007MPS CAVOK 02/M04 Q1014 NOSIG KGSH 271053Z AUTO 21006KT 10SM CLR M01/M06 A3016 RMK AO2 SLP219 T10111061 KIAH 271053Z 11003KT 7SM BKN015 BKN025 OVC040 20/19 A2995 RMK AO2 SLP141 T02000189 KHJH 271055Z AUTO 00000KT 10SM CLR M05/M08 A2994 RMK AO2 T10481077 DTNH 271030Z AUTO 34015KT CAVOK 17/09 Q1019 UTAT 271000Z 36017KT CAVOK 06/M11 Q1027 R26/CLRD70 TEMPO 36024G34KT 2000 BLDU KGRR 271053Z 26006KT 10SM CLR M01/M03 A3011 RMK AO2 SLP204 T10061028 $ KHKA 271053Z AUTO 18006KT 10SM OVC048 09/07 A3008 RMK AO2 SLP186 T00940072 KGTB 271058Z AUTO 24013G22KT 10SM SCT070 02/M08 A3007 RMK AO2 PK WND 24028/33 SLP191 T00211076 UTAV 271000Z 30014KT CAVOK 13/04 Q1022 FAWK 271000Z AUTO 04004KT //// // ////// 25/18 Q1023 EKOD 271050Z 18012KT 6000 FEW007 SCT009 BKN015 08/07 Q0998 FAVV 271100Z AUTO /////KT //// // ////// 22/// Q1020 KGTF 271053Z AUTO 06007KT 1 1/4SM -SN BR OVC017 M11/M13 A2965 RMK AO2 SFC VIS 1 3/4 SLP104 P0001 T11111128 KHJO 271053Z AUTO 09003KT 7SM FEW055 BKN085 05/05 A2990 RMK AO2 SLP128 T00500050 KGSO 271054Z 27004KT 10SM BKN250 02/M04 A3035 RMK AO2 SLP279 T00221044 KGSP 271053Z 01004KT 10SM CLR 05/M04 A3031 RMK AO2 SLP263 T00501044 KGRY 271100Z AUTO 15017KT 4SM BR CLR 22/21 A3003 RMK A01 WALL 271030Z 05010KT 9999 FEW020CB FEW020 28/25 Q1007 RMK CB TO SW UTDD 271030Z 10007MPS 9999 NSC 19/M07 Q1020 R09/CLRD// NOSIG RMK QFE696/0928 KHLC 271053Z AUTO 00000KT 10SM CLR M10/M13 A2988 RMK AO2 SLP138 T11001133 TSNO $ KGUC 271056Z AUTO 00000KT 10SM CLR M16/M19 A2983 RMK AO2 SLP176 T11611189 FZRANO KIBM 271055Z AUTO 00000KT 10SM CLR M11/M13 A2970 RMK AO2 T11091128 KHLG 271053Z AUTO 16005KT 10SM OVC085 02/M10 A3026 RMK AO2 SLP258 T00221100 URWA 271030Z 24006MPS CAVOK 08/M08 Q1024 R27/010060 NOSIG RMK QFE770/1027 UTDK 271030Z VRB01MPS 9999 NSC 19/02 Q1020 R01/09//70 RMK QFE707/0943 KGTR 271055Z 14010KT 10SM BKN050 BKN080 11/01 A3002 RMK AO1 LTG DSNT W UTDL 271030Z 07008MPS 9999 FEW230 13/M05 Q1022 88CLRD70 NOSIG RMK QFE727/0970 KIDA 271053Z AUTO 00000KT 10SM OVC004 M06/M06 A2960 RMK AO2 SLP057 T10561056 KHKS 271053Z AUTO 17011KT 10SM FEW025 BKN042 OVC110 16/11 A3003 RMK AO2 LTG DSNT NW-NE SLP163 T01560111 WAMM 271030Z VRB01KT 9999 FEW022 26/23 Q1009 NOSIG KGTU 271055Z 00000KT 5SM BKN015 BKN025 19/17 A2993 RMK AO1 KICL 271055Z AUTO 00000KT 10SM CLR M06/M06 A3003 RMK AO2 PWINO KGUL 271055Z AUTO 17017KT 6SM BR CLR 23/21 A2996 RMK A01 KHME 270950Z 09010KT 9999 FEW035 17/M05 Q1020 KHLN 271053Z 26005KT 9SM OVC028 M12/M13 A2962 RMK AO2 SNE20 SLP099 P0000 T11171128 KGVE 271055Z AUTO 00000KT 10SM SCT100 M03/M05 A3036 RMK AO1 T10301047 URWI 271030Z 26005MPS CAVOK 04/M05 Q1022 KGUP 271053Z AUTO 23014KT 10SM OVC038 01/M06 A2987 RMK AO2 SLP101 T00111056 KHKY 271053Z AUTO 31004KT 10SM CLR 01/M03 A3033 RMK AO2 SLP263 T00111028 UTDT 271030Z 32002MPS 280V020 9999 SCT200 20/M04 Q1019 35CLRD70 RMK QFE724/0966 KICR 271053Z AUTO 21014KT 10SM SCT110 M05/M11 A2980 RMK AO2 SLP113 T10501111 KIDI 271055Z AUTO 00000KT 10SM BKN060 OVC070 M03/M07 A3028 RMK A01 KGUR 271035Z AUTO 00000KT 10SM CLR M10/M12 A2969 RMK AO2 T11011124 KHLR 271058Z AUTO 15006KT 8SM BKN005 17/17 A2989 RMK AO2 BKN V OVC SLP116 T01680168 TSNO $ KGUS 271058Z AUTO 00000KT 10SM CLR 00/M03 A3015 RMK AO2 SLP220 T10021035 $ KICT 271053Z 10006KT 10SM CLR 01/M03 A2994 RMK AO2 SLP143 T00061028 KHNB 271056Z AUTO 17005KT 10SM -RA SCT036 OVC050 06/03 A3020 RMK AO2 SLP245 P0001 T00610033 KGWB 271055Z AUTO 20004KT 10SM CLR 00/M06 A3018 RMK AO2 USNN 271030Z 16006MPS CAVOK 04/00 Q1004 R21/15//61 NOSIG RMK QFE748 KGVL 271053Z AUTO 04004KT 10SM CLR 06/M05 A3028 RMK AO2 SLP253 T00611050 UTFF 271000Z 33004KT 270V360 7000 NSC 12/M01 Q1023 R99/CLRD70 KHND 271056Z AUTO 22020G27KT 10SM CLR 08/M01 A2975 RMK AO2 PK WND 22028/1052 SLP072 T00831006 KHMN 271058Z AUTO 14008KT 10SM CLR 07/M07 A2998 RMK AO2 SLP110 T00651067 $ KHLX 271035Z AUTO 00000KT 10SM BKN120 02/M08 A3028 RMK AO2 T00231085 KGUY 271053Z AUTO 25007KT 10SM CLR M04/M08 A2982 RMK AO2 SLP097 T10441083 $ KHMP 271035Z AUTO 09003KT 10SM CLR 08/01 A3024 RMK AO2 T00800011 KIDP 271035Z AUTO 00000KT 7SM CLR M02/M02 A2999 RMK AO2 WBGB 271000Z 02008KT 340V060 9999 BKN014 BKN150 28/25 Q1007 KIFA 271055Z AUTO 12003KT 10SM CLR M04/M05 A3002 RMK AO2 T10451055 KHOB 271055Z AUTO 00000KT 10SM CLR 02/M08 A2992 RMK AO2 KGVT 271035Z AUTO 00000KT 7SM OVC011 14/13 A2994 RMK AO2 UTFN 271030Z 12004KT 9999 NSC 13/M02 Q1023 R28/CLRD70 NOSIG URWW 271030Z 24009MPS CAVOK 03/M02 Q1018 R24/220060 NOSIG EKRK 271050Z AUTO 20012KT 3400NDV -SHRA BR FEW006/// SCT011/// BKN015/// BKN019/// 08/07 Q1000 EKSB 271021Z 19009KT 150V230 9000 BKN022 10/07 Q0998 WAOO 271000Z 18006KT 9999 FEW019 30/25 Q1006 WBGG 271030Z 29005KT 9999 SCT020 BKN300 28/24 Q1008 NOSIG KIEN 271052Z AUTO 18025G31KT 10SM CLR M04/M10 A2968 RMK AO2 PK WND 19032/1036 WSHFT 1016 SLP083 T10391100 KHOE 271055Z AUTO 00000KT 10SM CLR 06/06 A3025 RMK AO2 EKRN 271050Z AUTO 19009KT 9999NDV OVC023/// 06/04 Q1004 KGWO 271053Z AUTO 04013KT 4SM +TSRA BR FEW007 SCT035 OVC055 08/07 A3012 RMK AO2 LTG DSNT E AND SW AND W TSB49 SLP199 P0031 T00830067 KHMZ 271035Z AUTO 00000KT 10SM OVC100 M05/M08 A3030 RMK AO2 T10501076 KGWR 271055Z AUTO 05006KT 10SM OVC041 M05/M07 A2987 RMK AO1 KHNR 271055Z AUTO 00000KT 9SM CLR M08/M08 A3002 RMK AO2 KIER 271055Z AUTO 15003KT 10SM OVC015 16/14 A3000 RMK AO2 T01560140 DTTA 271030Z 30009KT 270V340 9999 SCT023 16/11 Q1020 NOSIG KGYB 271055Z AUTO 00000KT 4SM HZ SCT013 SCT021 BKN036 A2994 RMK AO2 DTTB 271000Z 30010KT 9999 SCT020 16/11 Q1020 FBSK 271000Z 04010KT 020V080 9999 BKN020 23/17 Q1019 NOSIG WAPP 271030Z 34008KT 9999 FEW020 27/25 Q1007 NOSIG USPP 271030Z 20007MPS 4700 -SHSN BLSN BKN024CB M05/M07 Q1003 R21/420355 TEMPO 0500 +SHSN BLSN BKN015CB RMK QFE741 DTTD 271000Z 02006KT 9999 FEW026 15/07 Q1021 KGWW 271055Z AUTO 00000KT 10SM CLR 01/M03 A3039 RMK AO2 T00111030 KHON 271055Z AUTO 16004KT 10SM CLR M07/M08 A2985 RMK AO2 SLP122 T10671083 EKSN 271050Z 22013KT 9999 BKN023 08/04 Q0995 WBGR 271000Z 03009KT 9999 SCT014 FEW015CB BKN150 27/25 Q1007 DTTF 271000Z 01003KT 330V050 9999 FEW026 15/07 Q1020 NOSIG KIFP 271055Z AUTO 17010KT 10SM CLR 13/02 A2983 RMK AO2 KHOP 271058Z AUTO 14006KT 10SM -RA BKN043 OVC050 08/07 A3016 RMK AO2 RAE0958DZB0958E0959RAB0959E06DZB06E13RAB13E25DZB25E31RAB31E41DZB41E54RAB54 SLP216 P0005 T00750069 WBGS 271000Z 02005KT 9999 SCT018 BKN150 28/25 Q1007 DTTG 271000Z 31005KT 280V350 8000 SCT020 16/08 Q1021 NOSIG FBSP 271000Z 10008KT 9999 OVC020 21/17 Q1019 EKSP 271050Z 20012KT 2500 -RA BR SCT004 BKN007 08/08 Q0997 TEMPO 4000 KHNZ 271055Z AUTO 15005KT 10SM CLR 03/M06 A3035 RMK AO2 T00281062 KGYH 271055Z AUTO 01003KT 10SM CLR 07/M04 A3032 RMK AO2 KGYI 271055Z AUTO 09005KT 10SM OVC012 11/08 A2995 RMK AO2 T01080080 DTTJ 271030Z 30014KT CAVOK 16/09 Q1019 NOSIG KHOT 271053Z AUTO 00000KT 10SM OVC010 09/09 A3003 RMK AO2 SLP167 T00890089 DTTK 271000Z 35002KT CAVOK 16/08 Q1020 KHOU 271053Z 16003KT 10SM BKN008 OVC013 21/20 A2994 RMK AO2 SLP144 T02110200 KGYL 271056Z AUTO 16004KT 10SM CLR M03/M04 A2991 RMK AO2 T10331040 DTTL 271000Z 32009KT 270V020 9999 SCT020 17/11 Q1019 KIGM 271051Z AUTO VRB06KT 10SM CLR 06/M04 A2983 RMK AO2 SLP065 T00561044 WBGY 271000Z 30002KT 9999 FEW015CB BKN022 28/26 Q1006 KHPN 271056Z 26003KT 10SM CLR 00/M09 A3033 RMK AO2 SLP280 T00001089 WAQQ 270730Z 03006KT 9999 SCT015 31/24 Q1007 DTTN 271000Z 23003KT 9999 FEW020 15/11 Q1021 KGXY 271056Z AUTO 00000KT 10SM CLR M10/M12 A2973 RMK AO2 SLP102 T11001122 FZRANO KHQG 271035Z AUTO 15006KT 10SM CLR M04/M06 A2982 RMK AO2 T10431065 KGZH 271053Z AUTO 00000KT 10SM CLR 04/02 A3016 RMK AO2 SLP213 T00390022 KIGQ 271055Z AUTO 19003KT 10SM SCT090 M01/M03 A3014 RMK AO2 T10151030 KGYR 270347Z 22010KT 10SM FEW080 FEW250 15/01 A2991 RMK LAST KHQI 271055Z AUTO 14013G19KT 4SM BR FEW013 22/21 A2994 RMK A01 DTTR 270900Z 14002KT CAVOK 15/07 Q1022 KK88 271055Z AUTO 05005KT 1/4SM VV002 M04/M04 A3002 RMK AO1 T10441044 DTTS 270800Z 31003KT 9999 FEW030 14/06 Q1020 NOSIG KIIB 271055Z AUTO 14004KT 7SM SCT080 M05/M06 A3004 RMK AO2 KHQM 271053Z AUTO 06005KT 3SM BR BKN002 OVC060 01/01 A2977 RMK AO2 SLP084 T00110011 KGZN 271040Z AUTO 18006KT 1/4SM FG OVC002 15/15 A2991 RMK AO2 EKVD 271050Z 20014KT 4000 -RA BR SCT005 BKN007 08/08 Q0997 KIGX 271056Z AUTO 00000KT 10SM CLR 02/M02 A3036 RMK AO2 SLP280 T00221017 WARR 271030Z 21007KT 9000 SCT020CB 27/25 Q1007 NOSIG USRR 271030Z 16005MPS 7000 SCT021CB SCT031 02/01 Q1000 R07/620245 TEMPO 2000 SHSN RMK QFE745 DTTX 271000Z 33012KT 290V350 9999 FEW026 16/09 Q1019 NOSIG KGYY 271045Z 17004KT 10SM SCT085 01/M04 A3013 EKVG 271050Z AUTO 01021KT 9999NDV -RA BKN019/// 05/03 Q0972 DTTZ 271000Z 34003KT 290V020 9999 FEW030 17/05 Q1021 NOSIG KHRI 271053Z AUTO 00000KT 5SM BR OVC006 01/01 A2975 RMK AO2 RAE0954UPB0957E18SNB18E44 SLP077 P0001 T00060006 KHSA 270253Z 13004KT 10SM CLR 16/09 A3014 UUBC 271030Z 26005MPS 9999 BKN011 OVC020 03/01 Q1003 R31/610148 TEMPO 2000 SHRASN BKN005 BKN012CB RMK QFE736/0981 KHRJ 271050Z AUTO 15003KT 10SM CLR 03/M01 A3035 RMK AO2 T00251015 KGZS 271055Z AUTO 00000KT 10SM SCT025 BKN031 OVC043 05/02 A3019 RMK A01 EKVJ 270950Z 20016KT 6000 RA BKN003 06/05 Q0997 KHSB 271055Z AUTO 12006KT 10SM OVC045 06/03 A3014 RMK AO2 T00580025 KHRL 271052Z AUTO 17009KT 9SM CLR 21/21 A2986 RMK AO2 SLP109 T02060206 KJAC 271055Z AUTO 22010KT 8SM OVC031 M09/M09 A2952 RMK AO1 KHQU 271055Z AUTO 00000KT 10SM CLR 02/01 A3033 RMK AO1 T00200013 KIJD 271052Z AUTO 00000KT 10SM CLR M05/M07 A3034 RMK AO2 SLP277 I1000 T10501072 KHSD 271055Z AUTO 00000KT 10SM SCT012 SCT019 SCT027 04/02 A2991 RMK A01 KHSE 271051Z AUTO 05004KT 9SM CLR 07/03 A3040 RMK AO2 SLP294 T00720028 TSNO KHRO 271053Z AUTO 13006KT 10SM CLR 02/M01 A3003 RMK AO2 SLP173 T00171011 ELLX 271050Z 20013KT 9999 SCT025 BKN028 09/04 Q1004 NOSIG KHSG 271035Z AUTO 16012KT 10SM CLR M07/M14 A2955 RMK AO2 T10661139 USSS 271030Z 23007MPS 9999 BKN046CB M04/M11 Q1006 R26R/190050 NOSIG RMK QFE734/0979 KHQZ 271055Z AUTO 13004KT 10SM OVC012 16/15 A2993 RMK AO1 T01560146 WBKK 271030Z 02004KT 9999 FEW014 SCT140 BKN270 29/25 Q1007 NOSIG KHSI 271053Z AUTO 18004KT 10SM CLR M03/M09 A2992 RMK AO2 SLP145 T10281094 WBKL 271000Z 02009KT 9999 FEW013 BKN290 28/25 Q1007 KL18 271055Z AUTO 01003KT 3SM +DZ BKN022 OVC026 07/06 A2993 RMK AO2 KHRT 271058Z AUTO 15006KT 10SM CLR 10/08 A3013 RMK AO2 SLP205 T01040084 $ UUBP 271030Z 25005MPS 9999 OVC012 03/01 Q1007 R16/590145 NOSIG RMK QFE737/0983 KJAN 271054Z AUTO 17011KT 10SM BKN026 OVC036 16/12 A3003 RMK AO2 LTG DSNT N AND NW SLP167 T01610117 KHRX 271055Z AUTO 27008KT 10SM CLR M02/M05 A2990 RMK AO2 T10241054 USTR 271030Z 28008MPS 9999 DRSN FEW010 BKN036CB M04/M08 Q1005 R21/451037 TEMPO 29012MPS 2000 SHSN BLSN BKN007 RMK QFE744/0993 KIKG 271055Z AUTO 16006KT 7SM OVC007 21/21 A2988 RMK AO2 T02100210 KIIY 271055Z AUTO 01003KT 10SM CLR 04/00 A3028 RMK AO2 KHSP 271035Z AUTO 23008G14KT 10SM BKN045 BKN055 OVC070 02/M16 A3027 RMK AO2 WBKS 271000Z 06009KT 020V110 9999 SCT015 BKN270 27/25 Q1009 KJAQ 271035Z AUTO 00000KT 10SM SCT011 BKN018 OVC024 04/03 A2988 RMK AO1 T00350033 WATT 271030Z 14006KT 8000 FEW018 28/24 Q1009 NOSIG WBKT 271000Z 07010G20KT 9999 FEW014 SCT140 BKN270 28/24 Q1009 KJAS 271035Z AUTO 00000KT 7SM OVC006 19/18 A3000 RMK AO2 T01910180 KJCA 271035Z AUTO 05003KT 10SM CLR 05/M03 A3027 RMK AO2 KHUA 271058Z AUTO 00000KT 10SM OVC150 09/M01 A3016 RMK AO2 SLP214 T00901015 UUDD 271030Z 27005MPS 9999 -RA BKN007 02/00 Q1001 R88/550194 NOSIG KHST 271058Z AUTO 09008KT 10SM FEW031 23/21 A3015 RMK AO2 SLP213 T02310207 KIKK 271035Z AUTO 00000KT 10SM CLR M03/M05 A3014 RMK AO2 T10341054 UUBW 271030Z 25003MPS 9999 -SN OVC014 02/00 Q1001 R30/210050 NOSIG WBKW 271000Z 01005KT 9999 FEW016CB BKN140 28/24 Q1008 KHTL 271053Z AUTO 00000KT 10SM CLR M04/M08 A3007 RMK AO2 SLP199 T10441078 KJAU 271055Z AUTO 00000KT 10SM CLR 00/M01 A3030 RMK A01 KHSV 271053Z AUTO 10007KT 10SM CLR 11/M01 A3017 RMK AO2 SLP215 T01061011 KILE 271056Z AUTO 15009KT 7SM OVC030 18/17 A2992 RMK AO2 SLP144 T01780172 KHUF 271053Z 13005KT 10SM OVC055 05/01 A3016 RMK AO2 SLP217 T00500006 KJAX 271056Z 00000KT 10SM CLR 08/07 A3024 RMK AO2 SLP240 T00780067 $ KIJX 271035Z AUTO 10004KT 10SM BKN070 M01/M02 A3010 RMK AO2 T10061017 KHTO 271035Z AUTO 00000KT 10SM CLR M06/M09 A3036 RMK AO2 T10641090 KILG 271051Z AUTO 36003KT 10SM OVC110 M02/M05 A3039 RMK AO2 SLP291 T10171050 KL35 271035Z AUTO 24008G21KT 204V264 10SM BKN025 BKN034 00/M05 A2986 RMK AO2 KJBR 271053Z AUTO 09005KT 10SM OVC031 09/07 A3007 RMK AO2 SLP182 T00890072 UUDL 271030Z 03003MPS 9999 BKN011 M03/M06 Q1002 R23/490240 NOSIG RMK QFE743 KHTS 271051Z 21003KT 6SM -RA OVC036 06/03 A3031 RMK AO2 SLP265 P0002 T00560028 KL38 271035Z AUTO 16006KT 10SM -RA BKN017 BKN024 OVC038 19/18 A3001 RMK AO2 T01890179 KIKT 271055Z AUTO 16010G17KT 130V190 10SM CLR 22/16 A3009 RMK A01 UUEE 271030Z 26005MPS 9999 -SN OVC010 02/00 Q1001 R24R/510240 R24L/510245 NOSIG KHUL 271053Z AUTO 18007G17KT 10SM FEW040 SCT080 M07/M12 A3002 RMK AO2 SLP175 T10671122 KILM 271053Z 00000KT 10SM CLR 00/00 A3039 RMK AO2 SLP289 T00000000 KIKV 271055Z AUTO 00000KT 8SM CLR M06/M07 A3003 RMK AO2 KHUM 271055Z AUTO 14007KT 7SM OVC015 20/19 A3003 RMK AO2 T02030190 KJDD 271055Z AUTO 09003KT 3SM BR OVC012 14/14 A2996 RMK AO2 KIKW 271054Z AUTO 25004KT 10SM CLR 00/M04 A3011 RMK AO2 T00031042 KILN 271054Z AUTO 19004KT 10SM OVC060 04/M04 A3022 RMK AO2 SLP252 T00391039 KHVE 271055Z AUTO 21014G21KT 10SM BKN080 06/M05 A2972 RMK AO2 FCPP 271000Z 23008KT 9999 SCT016 BKN026 29/25 Q1010 NOSIG KHUT 271052Z AUTO 11005KT 10SM CLR M01/M04 A2994 RMK AO2 SLP136 T10061039 KJCT 271051Z AUTO 00000KT 10SM SCT005 OVC018 13/12 A2991 RMK AO2 SLP102 T01280117 UTNN 271030Z 01014KT CAVOK 05/M10 Q1028 R33/CLRD60 NOSIG EKYT 271050Z 20009KT 8000 BKN009 08/07 Q0995 KIML 271053Z AUTO 11003KT 10SM CLR M08/M13 A2982 RMK AO2 SLP127 T10831128 KHWD 271054Z 06004KT 10SM BKN048 OVC065 07/04 A2992 RMK AO2 RAB0958E32 SLP141 P0002 T00720039 KIND 271054Z 13005KT 10SM OVC050 04/01 A3019 RMK AO2 SLP226 T00440006 KJDN 271048Z AUTO 05009KT M08/M10 A2970 RMK AO1 SLP094 P0001 T10781100 KHVN 271053Z 23005KT 10SM CLR 02/M04 A3036 RMK AO2 SLP279 T00221044 KJEF 271053Z AUTO 00000KT 3/4SM BR VV002 M02/M02 A3007 RMK AO2 SLP178 I1000 T10221022 KINF 271055Z AUTO 00000KT 10SM CLR 10/10 A3022 RMK AO2 ZYTL 271030Z 15004MPS 100V180 8000 NSC 06/M01 Q1022 NOSIG KHVR 271053Z AUTO 06008KT 10SM OVC070 M12/M13 A2975 RMK AO2 SLP116 T11171133 UTNU 271030Z 35016KT 6000 NSC 06/M09 Q1026 R31/CLRD70 NOSIG KHVS 271055Z AUTO 00000KT 10SM CLR 02/00 A3033 RMK AO2 KIMS 271051Z AUTO 21005KT 10SM OVC037 06/00 A3024 RMK AO1 KINJ 271055Z AUTO 16005KT 7SM BKN009 OVC021 18/17 A2993 RMK AO2 T01750167 KIMT 271054Z AUTO 00000KT 10SM CLR M17/M19 A3001 RMK AO2 SLP188 I1000 T11671189 KINK 271053Z AUTO 35007KT 10SM CLR 04/M04 A2990 RMK AO2 SLP104 T00391044 PNO $ KINL 271055Z AUTO 00000KT 10SM CLR M17/M19 A2990 RMK AO2 SLP154 T11671194 KHXD 271035Z AUTO VRB07G12KT 080V140 10SM CLR 15/06 A3030 RMK AO2 KHWO 271053Z AUTO 11010KT 10SM FEW027 24/18 A3017 RMK AO2 SLP218 T02390183 KJER 271053Z AUTO A2962 RMK AO2 SLPNO PWINO FZRANO $ KHYA 271056Z 24008KT 10SM CLR M01/M06 A3032 RMK AO2 SLP268 T10061061 $ KJES 271035Z AUTO 00000KT 10SM CLR 04/02 A3026 RMK AO2 KINS 271058Z AUTO 00000KT 10SM CLR 03/M03 A2969 RMK AO2 SLP040 T00331027 $ KJFK 271051Z 24013KT 10SM CLR 02/M04 A3040 RMK AO2 SLP294 T00221039 KINT 271054Z AUTO 00000KT 10SM FEW120 03/M06 A3036 RMK AO2 SLP281 T00281061 ZYTX 271030Z 15003MPS CAVOK 05/M04 Q1019 NOSIG ENAL 271050Z 17010KT CAVOK 07/02 Q0986 KHWV 271056Z AUTO 24003KT 10SM CLR M02/M06 A3038 RMK AO2 SLP288 T10221056 TSNO KINW 271056Z AUTO 00000KT 10SM SCT041 01/M04 A2986 RMK AO2 SLP098 T00111044 ENAN 271050Z 14008KT CAVOK M03/M08 Q0995 KHWY 271055Z AUTO 00000KT 10SM OVC090 M02/M04 A3038 RMK AO2 T10221045 KJGG 271035Z AUTO 00000KT 10SM CLR 03/02 A3041 RMK AO1 KHYI 271055Z 14003KT 4SM OVC025 18/17 A2994 RMK AO1 FDJR 271000Z AUTO 19003KT //// // ////// 21/12 Q1021 KIPJ 271100Z AUTO 00000KT 10SM CLR 01/M03 A3033 RMK AO2 T00051031 FDLB 271000Z AUTO 23003KT //// // ////// 25/15 Q1021 ENAT 271050Z 12003KT 9999 VCSH FEW008 BKN029 M05/M07 Q1000 RMK WIND 700FT 18003KT KIPL 271053Z AUTO 13005KT 10SM FEW060 OVC080 12/02 A2986 RMK AO2 SLP113 T01170022 $ ENBL 271050Z 18009KT 9999 VCSH SCT030TCU BKN040 06/M01 Q0987 KHZD 271055Z AUTO 14009KT 130V190 6SM BR SCT047 OVC060 09/07 A3011 RMK A01 P0005 KIOW 271052Z AUTO 00000KT 10SM OVC080 M02/M04 A3007 RMK AO2 SLP188 T10171044 KHZE 271055Z AUTO 15004KT BKN048 OVC060 A2983 RMK AO2 ENBN 271050Z 11012KT 070V150 5000 -SN VV020 01/M02 Q0988 KJFX 271055Z AUTO 00000KT 10SM CLR 08/04 A3014 RMK AO2 PWINO ENBO 271050Z 09022KT 9999 FEW040 M02/M08 Q0990 NOSIG UTSA 271030Z 26007KT 210V300 9999 NSC 20/03 Q1020 R07/CLRD70 NOSIG KJFZ 271055Z AUTO 00000KT 10SM BKN095 BKN120 04/M10 A3028 RMK AO2 T00411100 UTSB 271030Z 30011KT CAVOK 18/05 Q1020 R01/CLRD70 NOSIG WBSB 271030Z 01008KT 9000 SCT015 FEW016CB BKN300 28/25 Q1008 NOSIG KHYR 271053Z AUTO 00000KT 5SM -SN OVC036 M06/M11 A2996 RMK AO2 SNB25 SLP165 P0000 T10611106 ENBR 271050Z 16014KT 9999 VCSH FEW015TCU FEW025 SCT040 06/02 Q0989 RMK WIND 1200FT 16019KT KHYS 271056Z AUTO 00000KT 10SM CLR M06/M11 A2990 RMK AO2 SLP138 T10611106 FZRANO ENBS 271050Z 05016KT 6000 -SHSN FEW015 SCT045 M01/M04 Q0997 KIPT 271054Z AUTO 03003KT 10SM CLR M05/M08 A3031 RMK AO2 SLP271 T10501083 TSNO KHZL 271055Z AUTO 00000KT 10SM CLR M06/M11 A3030 RMK AO2 ENBV 271050Z 05018KT 3000 -SHSN VV017 00/M02 Q0999 KHYW 271055Z AUTO 00000KT 7SM CLR 00/00 A3036 RMK AO2 KJHN 271055Z AUTO 00000KT 10SM CLR M08/M11 A2980 RMK AO2 T10761113 ENCN 271050Z 17005KT 9000 5000S FEW002 SCT010 06/05 Q0993 KHYX 271056Z AUTO 25005KT 10SM BKN030 01/M03 A3011 RMK AO2 UTSK 271030Z 24010KT CAVOK 21/01 Q1019 R16/CLRD70 KHZR 271035Z AUTO 09003KT 10SM OVC016 16/15 A3002 RMK AO2 T01600145 KM08 271055Z AUTO 14009KT 5SM BR BKN031 BKN042 OVC065 08/07 A3014 RMK A01 P0019 KIRK 271055Z AUTO 15005KT 1/4SM FZFG VV001 M04/M05 A3005 RMK AO2 SLP189 T10441050 KJHW 271055Z AUTO 19008KT 10SM CLR M01/M10 A3017 RMK AO1 KHZX 271054Z AUTO 00000KT 10SM OVC031 M07/M10 A2992 RMK AO2 KHZY 271053Z AUTO 21008KT 10SM OVC070 02/M08 A3021 RMK AO2 SLP239 T00171078 TSNO UTSS 271030Z 36006KT 9999 NSC 18/M05 Q1020 R09/CLRD70 NOSIG UTST 271030Z 27005KT 230V310 CAVOK 21/02 Q1020 R88/CLRD70 NOSIG VLLB 271000Z 09002KT 9999 FEW020 32/19 Q1011 NOSIG ENDR 271050Z AUTO 12006KT 04/M00 Q0986 KIRS 271054Z AUTO 21006KT 10SM CLR M01/M05 A3014 RMK AO2 T10131046 KJKA 271055Z AUTO 17007KT 10SM BKN060 17/15 A3013 RMK AO2 T01670148 FDMS 271000Z 09004KT 9999 BKN030 22/16 Q1020 NOSIG KM19 271056Z AUTO 10SM BKN038 08/07 A3007 RMK AO2 SLP190 T00830072 ENFB 271050Z AUTO 19028KT 9999NDV FEW021/// SCT028/// 05/02 Q0982 W///S6 ENEK 271020Z 17020KT 9999 BKN009 06/05 Q0989 W06/S4 KM21 271055Z AUTO 11004KT 10SM RA OVC047 06/06 A3017 RMK AO2 T00630055 ENDU 271050Z 00000KT 9999 FEW035 M13/M15 Q0997 NOSIG RMK WIND 1100FT 12012KT WIND 2200FT 09015KT KISM 271056Z AUTO 00000KT 10SM CLR 14/12 A3022 RMK AO2 SLP236 T01440122 FDMV 271000Z AUTO 17005KT //// // ////// 26/19 Q1025 KISN 271052Z AUTO 03008KT 2 1/2SM -SN OVC040 M11/M13 A2981 RMK AO2 SNB23 SLP132 P0001 T11061133 KISO 271050Z AUTO 00000KT 10SM CLR M01/M02 A3040 RMK AO2 T10061020 FEFF 271000Z 19006KT 9999 BKN026 34/23 Q1009 NOSIG KM25 271115Z AUTO 21003KT 10SM OVC060 08/06 A3013 RMK AO2 KISP 271056Z 23003KT 10SM CLR M01/M06 A3037 RMK AO2 SLP283 T10061056 LBBG 271030Z 22005KT 170V250 8000 NSC 14/08 Q1019 NOSIG ENFG 271050Z VRB02KT 9999 FEW/// SCT020 02/M03 Q0988 KISQ 271054Z AUTO 27003KT 10SM CLR M12/M14 A3007 RMK AO2 T11191136 KITH 271056Z AUTO 18008KT 10SM CLR M01/M08 A3020 RMK AO2 SLP238 T10061083 UTTT 271030Z 26006KT CAVOK 18/M01 Q1021 R08R/CLRD70 NOSIG KJKJ 271054Z AUTO 00000KT 10SM OVC035 M07/M11 A2991 RMK AO2 KM30 271035Z AUTO 00000KT 10SM OVC047 07/05 A3012 RMK AO2 P0001 T00660052 VLLN 271000Z 14006KT 9999 FEW020 27/20 Q1012 NOSIG KJKL 271053Z AUTO 00000KT 10SM SCT065 OVC090 04/M06 A3025 RMK AO2 SLP248 T00441061 ENGC 271020Z 22035KT 9999 VCSH SCT015CB SCT030 05/M01 Q0983 W07/S6 ENFL 271050Z 17026KT 9999 VCSH FEW015CB FEW020TCU SCT030 06/01 Q0986 ENEV 271050Z VRB03KT CAVOK M05/M11 Q0995 RMK WIND 1400FT 10016KT KISW 271054Z AUTO 16003KT 10SM OVC065 M06/M06 A3004 RMK AO2 SLP186 T10561061 KM33 271055Z AUTO 15006KT 10SM FEW035 SCT045 OVC050 08/06 A3023 RMK A01 KITR 271053Z AUTO 21010KT 10SM CLR M08/M12 A2978 RMK AO2 SLP100 T10831122 FEFT 271000Z 28016KT 9999 SCT023 31/22 Q1008 UUMO 271030Z 28006MPS 9999 -RA OVC009 02/00 Q1001 R26/290550 NOSIG RMK QFE736/0981 ENHD 271050Z 17015KT 9999 SCT016 08/04 Q0989 KJLN 271053Z AUTO 13005KT 10SM CLR 01/M02 A3001 RMK AO2 SLP165 T00111022 ENGM 271050Z 20003KT 0300 R19R/0450N R01R/0400N FG VV002 02/01 Q0992 NOSIG ENHE 271050Z 08017KT 9999 VCSH BKN019 02/M01 Q0986 W///S5 ENHF 271050Z 05005KT 9999 FEW012 SCT017 M02/M03 Q0999 RMK WIND 1254FT 10013KT FDPP 271000Z AUTO 11002KT //// // ////// M24/M26 Q1024 UUOB 271030Z 25006MPS 9999 OVC007 01/01 Q1012 R29/290055 NOSIG KIWA 271055Z AUTO 14007KT 10SM BKN065 07/02 A2996 RMK AO2 ENHK 270650Z VRB02KT 6000 -SN SCT011 BKN020 M00/M01 Q0998 KIWD 271056Z AUTO 14004KT 10SM OVC065 M11/M15 A2998 RMK AO2 SLP176 T11061150 FZRANO